ENHM 191020Z 26032KT 9999 8000NW VCSH FEW012 SCT030 BKN040 04/01 Q0984 W///S/ UUOK 191000Z 19006MPS 4000 BR OVC005 00/M01 Q1012 NOSIG RMK 12CLRD65 KIWI 190953Z AUTO 00000KT 10SM CLR M01/M06 A2983 RMK AO2 SLP102 T10111056 KJMR 191025Z AUTO 00000KT 10SM SCT070 M07/M09 A3025 RMK AO2 KJMS 190956Z AUTO 17010KT 3SM BR OVC004 M03/M04 A3002 RMK AO2 SLP188 T10331044 PPIT 190956Z AUTO 05015KT 10SM CLR M11/M12 A2922 RMK AO2 SLP896 T11061122 FZRANO KIXA 191015Z AUTO 00000KT 10SM CLR M01/M02 A3011 RMK AO2 UUOO 191030Z 21002MPS CAVOK M01/M02 Q1012 NOSIG RMK 30390240 KIXD 190953Z AUTO 00000KT 9SM OVC008 M01/M02 A3024 RMK AO2 SLP251 T10061022 KM63 191037Z AUTO 22002KT 1 1/4SM BCFG CLR 02/02 A3013 RMK AO2 VIS 1 1/8V3 RAB16E19SHRAB19E30RAB30E31 ENHV 190950Z 17010G20KT 9999 FEW039 M02/M11 Q0986 986 PPIZ 190956Z AUTO 18017KT 5SM HZ M19/M22 A2972 RMK AO2 TSNO T11941222 SNB0858E04B29E48 P0000 SLP070 $ KIYA 191015Z AUTO 00000KT 4SM BR OVC004 14/14 A3004 RMK AO2 T01410137 TSNO ENKB 191020Z 21010KT 150V250 9999 VCSH FEW010CB SCT016 SCT055 02/M00 Q0978 FDSK 191000Z VRB02KT 9999 BKN030 29/20 Q1014 NOSIG KJNX 191035Z AUTO 00000KT 10SM OVC065 03/03 A3011 RMK AO2 OYMB 190900Z 03005KT CAVOK 21/03 Q1022 KIZA 191015Z AUTO 10004KT 10SM CLR 09/08 A3019 RMK AO2 ENLA 191020Z AUTO 27043KT 9999NDV SCT033/// BKN057/// 07/00 Q0993 W///S6 KJOT 191015Z AUTO 00000KT 10SM OVC030 M03/M06 A3029 RMK AO2 T10351063 FDST 191000Z AUTO 35002KT //// // ////// 26/20 Q1015 LBGO 191000Z 00000KT CAVOK 10/03 Q1022 NOSIG KJQF 191035Z AUTO 00000KT 10SM CLR 00/M01 A3015 RMK AO2 KIZG 190954Z AUTO 00000KT 10SM CLR M04/M06 A2981 RMK AO2 SLP103 T10441061 ENKR 191020Z 15003KT 0800 FZFG VV002 M13/M14 Q0989 ARCTIC SEASMOKE RMK WIND 731FT 19002KT ENLK 190950Z 08008KT 9999 FEW030 M00/M05 Q0980 KM91 191035Z AUTO 04005KT 10SM OVC050 00/M01 A3022 RMK KN03 191035Z AUTO 31007KT 258V338 7SM -SN OVC013 M03/M05 A3002 RMK AO2 ENMH 190420Z 15013KT CAVOK M08/M11 Q0988 KLAA 190953Z AUTO 22003KT 5SM BR FEW080 M04/M05 A3009 RMK AO2 SLP201 T10441050 ENNA 191020Z 17012KT 9999 VCSH SCT050 BKN065 M06/M09 Q0986 RMK WIND 1800FT 18026KT ENML 191020Z VRB02KT 9999 FEW005 SCT012 BKN050 02/01 Q0979 ENNE 191020Z 14007KT 9999 VCSH FEW020CB SCT030 04/01 Q0975 W///S5 KLAF 190954Z AUTO 28003KT 7SM OVC032 M07/M08 A3028 RMK AO2 SLP261 I1000 T10721083 TSNO ENOA 191020Z 26024KT 9999 VCSH FEW030CB SCT093 05/00 Q0981 W///S6 ENMS 191020Z VRB01KT 9999 FEW030 BKN070 M06/M07 Q0980 RMK WIND 412FT VRB02KT KLBB 190953Z 08004KT 7SM OVC008 04/03 A3011 RMK AO2 RAE34 CIG 005V010 SLP183 BR ALQDS P0001 T00390028 KJTC 182240Z AUTO 34008KT 1SM -SN BKN002 OVC010 00/M01 A3011 RMK AO2 ENNK 190950Z 12006KT CAVOK M05/M10 Q0982 KLAL 190935Z AUTO 00000KT 10SM CLR 08/07 A3010 RMK AO2 KLAM 191015Z AUTO 00000KT 10SM CLR M03/M05 A3012 RMK AO2 T10301054 ENNM 191020Z 07012KT 9999 FEW025 BKN037 M02/M05 Q0979 KLAN 190953Z 02005KT 10SM OVC019 M03/M05 A3022 RMK AO2 SLP246 T10331050 KLBE 191035Z AUTO 23007KT 5SM BR OVC011 M03/M03 A3016 RMK AO2 KLBF 191001Z AUTO 00000KT 5SM HZ CLR M09/M13 A3009 RMK AO2 T10941128 KJSO 191035Z AUTO 01007KT 1SM RA OVC002 09/08 A3009 RMK AO2 LTG DSNT S P0002 T00920090 ENNO 190650Z VRB02KT 1000 FZFG VV002 M02/M02 Q0987 LATI 191020Z 00000KT CAVOK 15/06 Q1023 NOSIG KLAR 190953Z AUTO 24007KT 10SM CLR M10/M13 A3004 RMK AO2 SLP209 T11001128 VMMC 191030Z 35014KT 7000 -RA FEW015 SCT030 12/09 Q1022 NOSIG KLAS 190956Z 19007KT 10SM SCT250 06/02 A3019 RMK AO2 SLP222 T00560017 KJST 190954Z AUTO 27009KT 5SM BR OVC004 M05/M06 A3003 RMK AO2 SLP199 I1001 T10501061 KLBL 191035Z AUTO 00000KT 9SM FEW003 OVC012 02/00 A3015 RMK AO1 ENOL 191020Z 14008KT 9999 FEW015TCU SCT050 01/M01 Q0979 NOSIG KJSV 191035Z AUTO 07003KT 5SM BR SCT014 OVC024 05/03 A3021 RMK AO2 KLAW 191027Z AUTO 02008KT 6SM BR OVC005 06/04 A3018 RMK AO2 T00560044 KLAX 190953Z 00000KT 10SM FEW022 SCT200 11/08 A3021 RMK AO2 SLP227 T01060083 KLCG 191015Z AUTO 19007KT 10SM OVC013 M01/M03 A3017 RMK AO2 T10071029 KLCH 191025Z AUTO 5SM -RA BR FEW016 SCT033 OVC046 13/12 A3007 RMK AO2 LTG DSNT NE AND E TSB0954E21 PRESFR P0023 T01280122 $ KLCI 190235Z AUTO 27007KT 240V300 10SM BKN024 BKN032 OVC040 00/M04 A2981 RMK AO1 KN38 191035Z AUTO 33010G18KT 300V360 9SM OVC014 M03/M05 A3001 RMK AO2 ENQA 191020Z AUTO 24024KT 9999NDV -RA BKN022/// BKN080/// BKN160/// 04/01 Q0982 W06/S6 KLBT 190954Z AUTO 02003KT 8SM BKN065 03/01 A3009 RMK AO2 SLP190 T00280006 KLCK 191015Z AUTO 30004KT 10SM OVC019 M02/M06 A3022 RMK AO2 T10211060 ENQC 191020Z AUTO 22018KT 9999NDV -SHRA SCT014/// BKN042/// BKN059/// 04/01 Q0981 W///S6 ENOV 190950Z VRB04KT 9999 FEW010 SCT030 01/00 Q0980 RMK WIND 2175FT 20017KT KLBX 191034Z AUTO 06009KT 10SM SCT006 BKN014 OVC019 15/15 A3000 RMK AO2 RAB0958E08 P0000 T01500150 KLCQ 191015Z AUTO 00000KT 10SM CLR 07/07 A3010 RMK AO2 VLVT 191030Z 36002KT 7000 NSC 27/12 Q1015 NOSIG KLDJ 191035Z AUTO 31006KT 10SM OVC035 05/M02 A3001 RMK AO2 T00501021 KKLS 191035Z 15008KT 10SM FEW042 BKN050 OVC065 08/06 A2992 RMK AO1 ENRA 191020Z 36004KT 9999 FEW040 SCT065 BKN150 M06/M10 Q0980 KLEB 190953Z AUTO 34006KT 10SM OVC018 M01/M06 A2989 RMK AO2 SLP131 T10111056 KJVL 191035Z AUTO 00000KT 10SM OVC013 M02/M05 A3028 RMK AO2 OYRN 191000Z 13014KT CAVOK 29/12 Q1017 KLDM 191034Z AUTO 00000KT 10SM CLR M11/M13 A3027 RMK AO2 T11121130 KLEE 190953Z AUTO 00000KT 10SM CLR 10/08 A3011 RMK AO2 SLP194 T01000083 OYSH 190900Z 18006KT CAVOK 18/01 Q1029 KJWG 191035Z AUTO 02006KT 5SM BR OVC005 02/02 A3021 RMK AO2 T00150015 TSNO ENQR 191020Z AUTO 24012KT 9999NDV -SHRA SCT035/// BKN150/// 04/01 Q0979 W///S6 KN60 190952Z AUTO 12003KT M05/M06 A2993 RMK AO1 SLP163 T10501061 UUWW 191030Z 16004MPS 3000 -SN OVC005 M00/M01 Q1003 24510250 BECMG 1500 SN OVC004 ENSB 190950Z 11010KT 9999 FEW030 SCT057 M12/M17 Q0992 NOSIG RMK WIND 1400FT 06013KT OYSN 191000Z 06004KT 9999 FEW030 19/M03 Q1028 NOSIG ENSD 191020Z 06007KT 2000 SHSN VV008 01/M00 Q0981 RMK WIND 1138FT 08004KT UWGG 191030Z 19004MPS 9999 BKN013 00/M02 Q1009 NOSIG 18090050 RMK QFE750 KJVW 191015Z AUTO 10005KT 10SM BKN022 09/07 A3013 RMK AO2 LTG DSNT S ENRM 191020Z 13010KT 9999 VCSH FEW006 SCT013 BKN016 M00/M03 Q0978 LCEN 191020Z 05004KT 9999 FEW025CB SCT030 18/11 Q1017 NOSIG ENSE 191020Z AUTO 25011KT 9999NDV FEW056/// SCT076/// BKN150/// 04/01 Q0979 W///S7 OYSQ 191000Z 07014KT 9999 SCT018 SCT070 28/19 Q1015 ENRO 191020Z VRB01KT 9999 FEW007 M08/M10 Q0978 ENSG 190950Z 24007KT 6000 -SHSN FEW/// SCT008 BKN025 M01/M01 Q0980 RMK WIND 3901FT 22012KT ENSH 190950Z 06014KT CAVOK M00/M06 Q0980 KLFI 190958Z AUTO 36005KT 10SM OVC100 03/M02 A3011 RMK AO2 SLP203 KLGA 190951Z 30013KT 10SM BKN036 03/M04 A2997 RMK AO2 SLP149 T00281039 ENRS 190750Z 10015KT 9999 BKN040 02/M02 Q0978 KLFK 190945Z AUTO 01006KT 2 1/2SM RA BR OVC005 12/09 A3006 RMK AO2 CIG 004V008 P0013 T01170094 KLGB 190953Z 00000KT 8SM CLR 11/09 A3021 RMK AO2 SLP228 T01060094 ENSK 190950Z 04007KT CAVOK M05/M09 Q0981 KLGC 191015Z AUTO 00000KT 10SM CLR 02/01 A3014 RMK AO2 T00190012 LBPD 191000Z 29007KT CAVOK 12/02 Q1022 NOSIG ENTC 191020Z VRB02KT CAVOK M07/M09 Q0982 NOSIG RMK WIND 2600FT /////KT ENSL 191020Z 28048G65KT 9999 3000NE -SHRAGS SCT020CB BKN033 07/00 Q0988 W07/S6 KLGD 191035Z AUTO 20018G27KT 10SM SCT027 OVC090 06/M01 A2993 RMK AO1 KLEW 191035Z AUTO 00000KT 10SM CLR M01/M06 A2981 RMK AO1 KJXN 191023Z 02004KT 4SM BR BKN006 OVC016 M02/M03 A3020 RMK AO2 CIG 005V010 T10221028 ENSN 190950Z 19004KT 9999 VCFG FEW/// M01/M01 Q0987 OYSY 191000Z 06004KT 360V140 CAVOK 25/05 Q1021 KLEX 190954Z AUTO 36005KT 9SM OVC065 M02/M05 A3023 RMK AO2 SLP247 T10221050 ENSO 191020Z 22013G28KT 170V290 9999 SHRA SCT012TCU SCT017 BKN030 04/02 Q0985 KJYG 191035Z AUTO 14006KT 7SM BKN030 M03/M04 A3022 RMK AO2 KJWY 191035Z AUTO 34006KT 4SM BR OVC004 07/07 A3018 RMK AO2 T00730073 ENRY 191020Z 20007KT CAVOK 03/M01 Q0987 NOSIG ENSR 190950Z 22004KT 9999 FEW038 M06/M11 Q0983 RMK WIND 1119FT 16010KT ENSS 190950Z 22008KT 9999 NSC M06/M12 Q0988 RMK WIND 500FT 23009KT KLFT 190953Z 05003KT 4SM -RA BR OVC007 14/14 A3004 RMK AO2 LTG DSNT N AND NW RAE04B41 CIG 005V010 SLP171 P0001 T01440144 KLHB 191035Z AUTO 00000KT 7SM -TSRA BKN007 BKN027 OVC050 10/09 A3008 RMK AO2 LTG DSNT E THRU W P0010 T00980093 ENST 191020Z VRB02KT 9999 VCSH SCT040 BKN060 01/M04 Q0978 RMK WIND 300FT VRB02KT KJYL 191015Z AUTO 00000KT 10SM CLR 04/04 A3010 RMK AO2 T00390037 KJYM 191035Z AUTO 27004KT 4SM BR OVC007 M02/M03 A3019 RMK AO2 T10241027 UUYY 191030Z VRB02MPS 7000 -SHSN SCT050CB BKN066 M03/M05 Q1004 TEMPO 1000 SHSN 19590539 RMK QFE744/0992 KJYO 191015Z AUTO 32007KT 10SM OVC034 01/M03 A3012 RMK AO2 OYTZ 190900Z 16008KT 9999 FEW030 23/11 Q1023 ENTO 191020Z 21010KT CAVOK 02/M00 Q0986 KJZI 191035Z AUTO 00000KT 8SM CLR 04/ A3009 RMK A02 P000 KJYR 191015Z AUTO 19005KT 7SM OVC012 M01/M02 A3018 RMK AO2 ENVA 191020Z 12010KT CAVOK M05/M07 Q0980 RMK WIND 670FT 15008KT FGBT 191000Z 26003KT 9999 FEW010 BKN100 30/25 Q1013 NOSIG KLGU 190951Z AUTO 10003KT 10SM OVC065 M01/M03 A3018 RMK AO2 SLP228 T10111033 KLIC 190955Z AUTO 03003KT 10SM CLR M09/M11 A3007 RMK AO2 SLP203 T10941111 KLHM 191035Z AUTO 14011KT 10SM BKN048 OVC065 12/06 A3016 RMK AO1 ENVD 190950Z 31005KT 0650 FZFG VV002 M07/M07 Q0989 ARCTIC SEASMOKE EPBY 191030Z 23013KT 9999 -RA FEW008 BKN013 OVC022 12/11 Q1003 KLHQ 190953Z AUTO 35005KT 9SM OVC016 M02/M06 A3022 RMK AO2 SLP241 T10171056 ENVH 191020Z AUTO 27041KT 9999NDV BKN033/// 07/02 Q0995 W///S5 UWKD 191030Z 16003MPS 9999 BKN033 BKN070 M05/M06 Q1012 R11/8/0050 NOSIG RMK QFE749/0999 UWKE 191000Z 18006MPS 9999 SCT012 M04/M05 Q1013 NOSIG RMK QFE742/0990 21451545 KMAE 190953Z AUTO 08005KT 10SM CLR 08/06 A3021 RMK AO2 SLP230 T00830056 KLHW 190958Z AUTO 00000KT 10SM FEW070 06/04 A3008 RMK AO2 SLP189 T00580040 KLHX 190953Z AUTO 28006KT 6SM BR FEW050 SCT060 BKN100 M02/M03 A3009 RMK AO2 SLP195 T10171028 KMAF 190953Z AUTO 07007KT 8SM CLR 04/03 A3010 RMK AO2 SLP175 T00440028 TSNO KLJF 191033Z AUTO 13005KT 5SM BR BKN013 M06/M06 A3021 RMK AO2 LBSF 191030Z 31010KT 290V350 9999 FEW040 10/04 Q1022 NOSIG DXNG 191000Z 06009KT 020V100 8000 NSC 30/01 Q1017 NOSIG KLHZ 191015Z AUTO 00000KT 10SM OVC070 02/M01 A3011 RMK AO2 VOCB 191030Z 04005KT 3000 HZ SCT015 BKN080 26/20 Q01014 NOSIG KMAI 190953Z AUTO 00000KT 10SM SCT110 07/06 A3012 RMK AO2 SLP198 T00670061 $ VOBL 191030Z 05007KT 020V080 6000 SCT012 BKN080 26/23 Q1018 NOSIG KLIT 190953Z 03007KT 7SM OVC006 06/03 A3022 RMK AO2 SLP235 T00560033 KO22 191015Z AUTO 00000KT 10SM OVC080 05/05 A3019 RMK AO1 KMAN 191015Z AUTO 13006KT 10SM FEW048 SCT060 OVC075 05/03 A3005 RMK AO1 KMAO 191035Z AUTO 00000KT 10SM CLR 01/00 A3011 RMK AO2 VOCI 191000Z 09008KT 5000 HZ FEW020 SCT090 29/22 Q1010 NOSIG KMBG 191018Z AUTO 16008KT 5SM BR BKN003 M06/M07 A2997 RMK AO2 T10561067 $ UWKS 191030Z 22004MPS 6000 OVC004 M02/M03 Q1011 NOSIG RMK QBB140 QFE744 24920240 VNKT 190950Z 29007KT 8000 FEW020 BKN250 17/M01 Q1023 NOSIG VOCL 191030Z 27005KT 8000 SCT018 BKN090 31/23 Q1010 NOSIG KMCB 190953Z AUTO 03006KT 6SM BR FEW005 OVC013 11/09 A3009 RMK AO2 SLP188 T01110094 $ KMBL 191035Z AUTO 00000KT 10SM FEW020 M13/M15 A3026 RMK AO1 KMCC 191035Z AUTO 13009KT 8SM FEW033 SCT050 OVC060 10/08 A3018 RMK AO2 KMCD 191036Z AUTO 02004KT 10SM CLR M10/M11 A3024 RMK AO2 T10981112 KMCE 190953Z AUTO 00000KT 10SM CLR 09/06 A3021 RMK AO2 SLP229 T00940061 EPGD 191030Z 25008KT 210V290 6000 -RA FEW007 BKN011 11/10 Q0998 KMCF 190958Z AUTO 35002KT 10SM SCT190 08/08 A3010 RMK AO2 SLP196 T00820081 $ KLKR 191035Z AUTO 04003KT 10SM +RA CLR 00/00 A3011 RMK AO2 KMCI 191024Z 00000KT 2 1/2SM BR OVC006 M01/M01 A3024 RMK AO2 T10061011 $ KMBS 190953Z 30004KT 10SM OVC020 M03/M07 A3024 RMK AO2 SLP250 T10331072 KLLJ 190955Z AUTO 00000KT 10SM FEW050 OVC070 M03/M05 A3007 RMK AO2 SLP212 T10331050 KMCJ 191015Z AUTO 06014KT 14/14 A2997 RMK AO1 KMCK 190953Z AUTO 20004KT 1/4SM FZFG VV002 M06/M07 A3012 RMK AO2 SLP231 I1002 T10611067 LCLK 191030Z 05006KT 020V080 9999 FEW020TCU 19/13 Q1017 NOSIG UWLW 191000Z 19002MPS 8000 OVC025 M03/M06 Q1014 20850345 NOSIG RMK QFE754 KLKU 191015Z AUTO 00000KT 10SM CLR M03/M04 A3010 RMK AO2 KLKV 191035Z 15008KT 10SM BKN032 BKN065 OVC095 01/M01 A3003 RMK AO1 KMDD 191015Z AUTO 09006KT 10SM SCT006 SCT085 05/03 A3012 RMK AO2 T00450029 KMCN 190953Z AUTO 26004KT 10SM CLR 02/00 A3012 RMK AO2 SLP199 T00170000 TSNO KMCO 190953Z 35003KT 10SM SCT170 BKN250 12/11 A3010 RMK AO2 SLP193 T01170106 KMDH 190952Z AUTO 04003KT 9SM OVC040 00/M03 A3028 RMK AO2 SLP258 T00001033 KLLQ 191024Z AUTO VRB04KT 9SM FEW006 OVC043 06/04 A3018 RMK AO2 T00610044 KMDJ 191035Z AUTO 13013KT 10SM BKN030 21/18 A3005 RMK A01 KMEB 190952Z AUTO 02003KT 10SM OVC065 03/01 A3011 RMK AO2 SLP194 T00330006 KLNC 191035Z AUTO 33005KT 7SM OVC009 08/06 A3017 RMK AO2 P0001 T00750060 KLND 190953Z AUTO 00000KT 6SM BR CLR M18/M20 A3005 RMK AO2 SLP267 T11781200 KMCW 190953Z AUTO 16005KT 7SM OVC024 M04/M07 A3026 RMK AO2 SLP259 T10441067 KLMO 191035Z AUTO 00000KT 7SM CLR M06/M08 A3008 RMK AO2 T10621080 KMCX 191035Z AUTO 28003KT 10SM OVC030 M04/M06 A3026 RMK AO2 T10401058 KO54 191015Z AUTO 04005KT 4SM OVC029 05/04 A3003 RMK AO1 P0004 KMEH 190956Z AUTO 00000KT 10SM -RA FEW047 OVC060 03/01 A2989 RMK AO2 RAE32B52 SLP133 P0000 T00330006 KMDQ 191015Z AUTO 00000KT 5SM BR OVC038 01/00 A3019 RMK AO2 KMEI 190958Z AUTO 04005KT 10SM OVC029 07/02 A3016 RMK AO2 SLP212 T00720022 KMDS 191030Z AUTO 19010KT 10SM OVC007 M03/M03 A3011 RMK AO2 KLMT 191000Z AUTO 17009KT 10SM -RA OVC028 04/01 A2998 RMK AO2 P0001 T00390006 KLNK 191022Z AUTO 18004KT 5SM BR FEW012 OVC020 M01/M02 A3022 RMK AO2 T10061017 KMDT 190956Z 30014KT 10SM OVC032 01/M04 A3006 RMK AO2 SLP182 T00111044 LDDU 191030Z 19005KT 110V230 CAVOK 15/07 Q1023 NOSIG KLNL 191015Z AUTO 00000KT 10SM OVC001 M20/M22 A3023 RMK AO2 T11971220 UWOO 191030Z 15005MPS P5000 BKN020 OVC070 M06/M09 Q1021 08810247 NOSIG RMK QFE755/1007 KMFD 190952Z AUTO 26006KT 5SM BR OVC006 M03/M04 A3017 RMK AO2 SLP233 T10281039 KMEM 190954Z 36004KT 9SM SCT027 OVC039 06/02 A3021 RMK AO2 SLP231 T00610022 $ ENZV 191020Z 26010KT 9999 VCSH SCT020CB SCT032 BKN078 05/01 Q0988 KMDW 190953Z 29005KT 8SM -SN OVC022 M01/M05 A3027 RMK AO2 SLP264 P0000 T10111050 $ KMFE 191037Z AUTO 30004KT 5SM BR OVC008 17/17 A2996 RMK AO2 CIG 004V010 T01720167 LBWN 191030Z 24006KT 200V260 CAVOK 11/05 Q1021 NOSIG UWOR 191000Z 17004MPS CAVOK M09/M08 Q1023 25820160 NOSIG RMK QFE744/0992 KLNP 191015Z AUTO 00000KT 10SM OVC044 00/M03 A3012 RMK AO2 KMDZ 191015Z AUTO 00000KT 10SM OVC018 M06/M07 A3022 RMK AO2 T10611073 KMER 191035Z AUTO 00000KT 10SM CLR 08/08 A3021 RMK AO1 KMFI 190954Z AUTO 00000KT 8SM FEW007 OVC017 M04/M07 A3025 RMK AO2 SLP263 T10441067 KLNR 190956Z AUTO 30003KT 10SM OVC015 M02/M07 A3030 RMK AO2 SLP264 T10221072 KLNS 190953Z AUTO 28010KT 10SM OVC035 01/M04 A3004 RMK AO2 SLP177 T00061044 DXSK 190900Z 32002KT 8000 NSC 27/19 Q//// KLOL 190953Z AUTO 00000KT 10SM BKN100 M02/M05 A3011 RMK AO2 SLP203 T10171050 KLPC 191035Z AUTO 00000KT 10SM BKN036 09/07 A3024 RMK AO1 KMGC 191015Z AUTO 00000KT 10SM OVC022 M02/M06 A3025 RMK AO2 KMEV 191035Z AUTO 02003KT 10SM CLR M03/M05 A3012 RMK AO2 KLOM 191035Z AUTO 28004KT 10SM OVC033 02/M02 A3001 RMK AO1 KMGE 190958Z AUTO 32009KT 10SM CLR 03/00 A3012 RMK AO2 SLP204 T00320001 $ KMGG 191035Z AUTO 12004KT 5SM -SN SCT025 OVC035 M05/M07 A3023 RMK AO2 T10551067 KMEZ 191035Z AUTO 07004KT 7SM OVC004 06/05 A3018 RMK AO2 LTG DSNT SE LCPH 191030Z 28010KT 9999 FEW020 20/13 Q1017 KLOR 190953Z AUTO 00000KT 8SM OVC047 09/06 A3012 RMK AO2 SLP199 T00940056 TSNO $ KMFR 190953Z AUTO 17004KT 10SM -RA SCT040 OVC047 08/07 A2998 RMK AO2 SLP153 P0005 T00830072 KMGJ 190954Z AUTO 29010KT 10SM OVC032 02/M06 A2995 RMK AO2 SLP145 T00171056 TSNO KLOT 191015Z AUTO 31006KT 10SM OVC028 M03/M06 A3028 RMK AO2 T10301060 EPLB 191030Z 24015KT 7000 -RA BKN008 OVC014 10/10 Q1008 KLOU 190953Z AUTO 01004KT 9SM OVC070 M01/M06 A3027 RMK AO2 SLP255 T10111056 EPKK 191030Z 25020KT 9999 FEW014 BKN040 13/09 Q1012 KMGM 190953Z AUTO 35003KT 10SM CLR 05/01 A3016 RMK AO2 SLP212 T00500011 KMFV 191015Z AUTO 31005KT 10SM OVC120 01/M02 A3009 RMK AO2 KMHE 191037Z AUTO 17010KT 7SM OVC009 M01/M03 A3012 RMK AO2 T10111033 $ KMGN 191035Z AUTO 00000KT 10SM CLR M13/M15 A3024 RMK AO2 T11341151 FHAW 190950Z 14013KT 9999 FEW022 26/19 Q1016 BLU NOSIG VOHS 191010Z VRB06KT 5000 HZ FEW020 SCT200 26/08 Q1018 NOSIG KLOZ 190953Z AUTO 02005KT 10SM OVC055 01/M04 A3020 RMK AO2 SLP234 T00061039 KO86 191030Z AUTO 00000KT 5SM FEW005 SCT015 OVC027 05/05 A3006 RMK AO1 P0006 KLPR 191017Z AUTO 32005KT 3SM BR OVC008 M02/M03 A3019 RMK AO2 SNE16 P0000 T10171028 TSNO KMGR 191015Z AUTO 00000KT 10SM SCT060 BKN110 08/04 A3011 RMK AO2 KMIA 190953Z 33003KT 10SM CLR 17/12 A3007 RMK AO2 SLP184 T01670117 LCRA 190950Z 11006KT 9999 FEW024 19/12 Q1017 NOSIG KLQK 191035Z AUTO 10SM CLR M01/M06 A3007 RMK AO2 T10131061 KMHK 190952Z AUTO 22003KT 10SM OVC009 M01/M02 A3025 RMK AO2 SLP253 T10061022 TSNO KMIB 191038Z AUTO 14003KT 1 3/4SM R11/3000FT BR OVC002 M04/M04 A2993 RMK AO2 DZE1008 $ KMHL 191135Z AUTO 06005KT 3SM BR OVC004 01/00 A3026 RMK AO2 KMIC 191000Z AUTO 13004KT 3SM -SN BKN048 OVC060 M06/M08 A3025 RMK AO2 P0000 T10561083 EPKT 191030Z 22012KT 8000 -RA SCT021 BKN030 11/09 Q1011 EPLL 191030Z 25013KT 9999 -RA BKN014 OVC019 11/09 Q1007 KLRD 190601Z 00000KT 2SM BR OVC003 18/ A3002 VOHY 190940Z 10003KT 6000 NSC 28/07 Q1018 NOSIG KMGW 191036Z AUTO VRB03KT 10SM OVC015 M03/M07 A3017 RMK AO2 T10281067 TSNO KMIE 190953Z AUTO 28004KT 8SM OVC020 M03/M07 A3024 RMK AO2 SLP249 T10331067 KLRF 190958Z AUTO 01003KT 10SM OVC008 05/04 A3022 RMK AO2 SLP238 T00500035 KMGY 190953Z AUTO 32005KT 10SM OVC017 M03/M07 A3022 RMK AO2 SLP243 T10281067 KMHR 190945Z 14006KT 10SM SCT075 BKN110 10/10 A3018 KMHS 190956Z AUTO 11004KT 4SM RA BR FEW013 OVC022 04/03 A3002 RMK AO2 SLP188 P0013 T00440028 KLRJ 191015Z AUTO 17006KT 6SM BR FEW011 OVC016 M01/M02 A3019 RMK AO2 KMHT 190953Z 31008KT 10SM BKN055 00/M06 A2985 RMK AO2 SLP127 T00001056 KLSB 191015Z AUTO 29004KT 3/4SM BR OVC002 02/01 A3018 RMK AO2 LEAB 191000Z 00000KT 9999 3000SE NSC 07/05 Q1031 NOSIG KMHV 191035Z AUTO 32006KT 10SM CLR 03/02 A3022 RMK AO1 KLSE 190953Z AUTO 22003KT 10SM OVC019 M04/M08 A3030 RMK AO2 SLP275 T10391083 KLRO 191035Z AUTO 00000KT 7SM UP CLR 04/04 A3008 RMK AO2 KLSF 191013Z AUTO 00000KT 5SM R33/4500FT BR CLR 02/01 A3014 RMK AO2 EPMO 191030Z 24013KT 9999 SCT006 BKN008 BKN012 11/11 Q1005 LEAG 191030Z AUTO VRB01KT CAVOK 15/10 Q1031 UWSS 191030Z VRB02MPS 3000 BR BKN005 BKN028 M02/M03 Q1013 30490335 NOSIG RMK QFE746 LEBA 191000Z 00000KT CAVOK 09/07 Q1032 KMIS 191035Z AUTO 14007G15KT 10SM OVC100 22/14 A3004 RMK A01 KNAK 190954Z AUTO 29005KT 10SM OVC037 02/M05 A3010 RMK AO2 SLP195 T00171050 $ LEBB 191030Z VRB01KT 9999 BKN033 11/07 Q1033 NOSIG KMKC 190954Z AUTO 00000KT 6SM BR OVC007 01/M01 A3025 RMK AO2 SLP251 T00061011 KNBC 190956Z AUTO 24003KT 10SM CLR 07/05 A3008 RMK AO2 SLP185 T00670050 $ KLRU 191015Z AUTO 00000KT 10SM SCT002 BKN039 01/01 A3016 RMK AO2 T00080005 LEAL 191030Z 23006KT 200V270 CAVOK 16/09 Q1029 NOSIG KMIV 190954Z AUTO 28008KT 10SM OVC033 02/M03 A3005 RMK AO2 SLP174 T00171033 LEAM 191030Z VRB01KT 9999 FEW010 16/13 Q1030 KMKE 190952Z 31006KT 10SM OVC022 M02/M07 A3027 RMK AO2 SLP261 T10221072 KMIW 190953Z AUTO 13004KT 8SM OVC038 M04/M06 A3025 RMK AO2 SLP259 T10441061 LEAO 191021Z 00000KT CAVOK 05/05 Q1032 LEBG 191034Z 21005KT 170V230 2000 R22/1400U BR VV002 01/01 Q1032 KNBG 190955Z AUTO 07010KT 10SM SCT024 BKN080 OVC110 13/12 A3005 RMK AO2 SLP175 T01330117 $ KMKG 190955Z AUTO 35004KT 10SM CLR M06/M08 A3025 RMK AO2 SLP254 T10611083 KMJQ 191033Z AUTO 16006KT 5SM BR OVC005 M02/M03 A3019 RMK AO2 KP28 190956Z AUTO 00000KT 01/00 A3019 RMK AO1 SLP234 T00060000 KNCA 190956Z AUTO 00000KT 10SM BKN070 01/00 A3010 RMK AO2 SLP194 T00110000 KLUA 191015Z AUTO 00000KT 10SM SCT034 M02/M03 A3010 RMK AO2 KMKJ 191015Z AUTO 30009KT 10SM OVC047 01/M09 A3011 RMK AO2 T00121088 LEAS 191030Z 24009KT 9999 BKN030 08/05 Q1033 NOSIG KMLB 190953Z AUTO 30004KT 8SM CLR 11/09 A3010 RMK AO2 SLP190 T01060094 KMKL 190953Z AUTO 03005KT 10SM OVC037 04/01 A3023 RMK AO2 SLP238 T00390006 KMLC 191026Z AUTO 04005KT 9SM SCT011 OVC018 06/04 A3019 RMK AO2 T00610039 LEBL 191030Z 33013KT 290V010 CAVOK 14/09 Q1028 NOSIG KLSV 190958Z AUTO 00000KT 10SM CLR 05/03 A3024 RMK AO2 SLP240 T00480026 $ KLUD 191015Z AUTO 01007KT 2SM BR OVC003 06/06 A3014 RMK AO2 T00600060 KMKN 191035Z AUTO 36007KT 5SM VCTSRA SCT012 BKN022 OVC070 07/07 A3015 RMK AO2 LTG DSNT SE AND SW P0002 T00710071 KMLE 191015Z AUTO 15003KT 5SM BR OVC006 00/M02 A3022 RMK AO2 T10021017 KMLF 190952Z AUTO 17007KT 10SM CLR M04/M07 A3019 RMK AO2 SLP230 T10441067 TSNO KMKO 191034Z AUTO 36007KT 3SM BR OVC003 05/04 A3021 RMK AO2 T00500039 KMJX 191035Z AUTO 28006KT 10SM OVC038 02/M03 A3002 RMK AO1 KLUF 190958Z AUTO 35005KT 10SM CLR 06/ A3018 RMK AO2 VIS 2 RWY21 SLP220 $ LECH 191030Z 00000KT CAVOK 13/08 Q1029 KMLI 190952Z AUTO 00000KT 6SM BR CLR M09/M11 A3030 RMK AO2 SLP271 I1000 T10891111 KMKS 191035Z AUTO 00000KT 5SM BR CLR 05/04 A3008 RMK AO2 UWUU 191030Z 18004MPS 120V230 2100 -SN OVC008 M05/M07 Q1017 14491046 TEMPO 0500 +SN VV002 RMK QFE752/1003 MOD ICE INC KLTS 191031Z AUTO 03009KT 7SM R35L/5000FT OVC007 05/05 A3016 RMK AO2 $ KMLJ 191015Z AUTO 00000KT 10SM CLR 03/02 A3011 RMK AO2 VOMM 191010Z 05012G22KT 6000 SCT018 SCT100 27/21 Q1013 NOSIG LEBT 191000Z AUTO 00000KT CAVOK 16/09 Q1028 KLUK 190953Z AUTO 00000KT 7SM BKN021 M05/M06 A3027 RMK AO2 SLP256 T10501061 KNBT 190956Z AUTO 30006KT BKN070 08/03 A3009 RMK AO2 SLP192 T00780028 PNO $ KMKT 191035Z AUTO 15007KT 7SM BKN017 OVC028 M04/M07 A3022 RMK AO1 KLUM 191035Z AUTO 18003KT 10SM OVC012 M04/M07 A3027 RMK AO2 T10451070 LECO 191030Z 18005KT 140V210 9999 FEW020 BKN035 11/08 Q1034 NOSIG DXXX 191000Z 20008KT 8000 FEW014 31/24 Q1013 NOSIG KMLP 190953Z AUTO 19007KT 080V230 10SM OVC004 M01/M02 A2989 RMK AO2 CIG 001V007 SLP098 T10111022 KMKY 191035Z AUTO 04004KT 10SM CLR 12/09 A3007 RMK AO1 EPPO 191030Z 24016KT 9999 BKN013 12/09 Q1005 KMMH 191015Z AUTO 00000KT 10SM SCT120 M05/M06 A3020 RMK AO1 LEBZ 191000Z 07004KT 4000 BR OVC006 08/07 Q1033 KMMI 191035Z AUTO 00000KT 10SM CLR M03/M04 A3019 RMK KLVJ 190953Z AUTO 07015G22KT 6SM -RA BR OVC021 15/14 A3003 RMK AO2 RAE0859B21 SLP167 P0001 T01500139 KMLS 190953Z AUTO 22006KT 10SM CLR M04/M07 A2995 RMK AO2 SLP167 T10441067 KLWA 191034Z AUTO 00000KT 10SM SCT026 M05/M06 A3024 RMK AO2 T10551065 KLVK 190953Z AUTO 00000KT 10SM FEW038 BKN047 OVC055 11/09 A3015 RMK AO2 SLP210 T01110089 KMLT 191026Z AUTO 33005KT 10SM BKN021 OVC047 M03/M06 A2979 RMK AO2 T10281061 $ KMMK 190953Z AUTO 34007G19KT 10SM OVC036 02/M06 A2994 RMK AO2 SLP141 T00171061 TSNO $ KLWB 191015Z AUTO 00000KT 10SM CLR M03/M05 A3010 RMK AO2 T10261055 LEEC 191000Z 04004KT CAVOK 09/07 Q1032 KLWC 190952Z AUTO 03003KT 7SM OVC009 00/M02 A3025 RMK AO2 SLP252 T00001017 KMLU 190953Z AUTO 06008KT 10SM OVC028 09/08 A3015 RMK AO2 SLP208 T00890078 KMML 191035Z AUTO 17005KT 5SM OVC020 M03/M04 A3016 RMK AO1 KLVL 191035Z AUTO 00000KT 10SM CLR M01/M04 A3011 RMK AO1 T10151036 LECV 191000Z 00000KT CAVOK 14/05 Q1031 KLVM 190953Z AUTO 27024G31KT 10SM BKN075 03/M07 A2995 RMK AO2 PK WND 26038/0939 SLP152 T00331067 KLWD 191016Z AUTO 15003KT 9SM SCT020 OVC043 M02/M03 A3024 RMK AO2 T10221033 KLVN 191024Z AUTO 12003KT 7SM OVC060 M07/M08 A3025 RMK AO2 KP53 190956Z AUTO 19007KT M06/M08 A3025 RMK AO1 SLP255 T10561083 KMNE 191015Z AUTO 05004KT 10SM OVC007 09/07 A3015 RMK AO2 KLUX 191035Z AUTO 01005KT 10SM CLR 02/01 A3008 RMK AO2 KMNH 191034Z AUTO 20007KT 7SM CLR M06/M07 A3003 RMK AO2 KP58 190951Z AUTO 36003KT M02/M07 A3018 RMK AO1 SLP234 T10171072 KLVS 191034Z AUTO 36004KT 1/2SM FZFG VV002 M08/M08 A3006 RMK AO2 I1000 T10781083 KP59 190951Z AUTO 25004KT M04/M07 A3027 RMK AO1 SLP265 T10391072 $ KP60 190956Z AUTO 00000KT M05/M07 A3007 RMK AO1 SLP208 P0001 T10501072 KMMT 190958Z AUTO 00000KT 10SM CLR 02/02 A3009 RMK AO2 SLP193 T00240016 KMOB 190956Z AUTO 03008KT 6SM HZ OVC035 10/ A3012 RMK AO2 SLP197 T0100 $ UWWW 191030Z VRB01MPS 0750 R23/0900N +SN VV008 M02/M03 Q1013 23592033 15//99// TEMPO 0400 +SHSN BKN010CB RMK QFE748/0998 KMMU 191015Z AUTO 30003KT 10SM 04/M04 A2999 RMK AO2 EPSC 191030Z 23012KT 8000 -RA BKN006 11/10 Q1001 KMMV 190953Z AUTO 14008KT 10SM BKN090 BKN110 08/06 A2989 RMK AO2 SLP120 T00830061 KMOD 190953Z AUTO 00000KT 6SM BR BKN100 09/08 A3021 RMK AO2 SLP229 T00940078 KMNM 191035Z AUTO 33003KT 10SM CLR M09/M12 A3027 RMK AO1 KLWM 190954Z AUTO 28005KT 10SM BKN050 00/M05 A2988 RMK AO2 SLP120 T00001050 KMNN 190953Z AUTO 29008KT 5SM BR OVC010 M03/M05 A3020 RMK AO2 SLP241 T10281050 TSNO KNFE 190956Z AUTO 00000KT 7SM CLR M01/M03 A3010 RMK AO2 SLP195 T10061033 KNFG 190954Z AUTO 00000KT 7SM CLR 08/06 A3021 RMK AO2 SLP228 T00780061 $ KNDZ 191024Z AUTO 03005KT 10SM SCT026 OVC035 12/04 A3012 RMK AO2 T01220044 LEGA 191000Z 00000KT CAVOK 09/04 Q1032 KP68 190953Z AUTO 21004KT M04/M06 A3016 RMK AO1 SLP210 T10391061 KLWS 190956Z AUTO 10010KT 10SM -RA FEW060 OVC080 06/03 A2994 RMK AO2 RAB53 SLP145 P0000 T00610028 KP69 190952Z AUTO 00000KT 02/01 A3005 RMK AO1 SLP190 T00220011 KLWT 190954Z AUTO 22012KT 10SM CLR M01/M06 A2990 RMK AO2 SLP144 T10111061 KLXL 191039Z AUTO 13004KT 7SM -SN SCT005 OVC019 M06/M08 A3020 RMK AO2 KNFL 190956Z AUTO 18009KT 10SM SCT090 03/M02 A3010 RMK AO2 SLP160 T00331022 FGSL 190500Z 22003KT 3500 BR FEW010 25/23 Q1012 NOSIG KLWV 190953Z AUTO 02004KT 6SM BR CLR M03/M05 A3030 RMK AO2 SLP265 T10331050 KNEW 191014Z AUTO 09011KT 10SM OVC028 14/10 A3005 RMK AO2 T01440100 TSNO KLXN 191015Z AUTO 25005KT 1 3/4SM BR OVC003 M02/M03 A3012 RMK AO2 T10251030 LEGE 191030Z 00000KT 9999 FEW020 13/11 Q1028 KMOP 191035Z AUTO 00000KT 10SM OVC013 M05/M07 A3024 RMK AO2 T10531075 KLYH 190954Z AUTO 00000KT 10SM CLR M03/M05 A3010 RMK AO2 SLP201 T10331050 KMNZ 191035Z AUTO 01011G15KT 4SM BR OVC005 08/08 A3011 RMK AO2 LTG DSNT S AND W T00760076 KMOR 191035Z AUTO 00000KT 10SM OVC040 03/M04 A3018 RMK EPRZ 191030Z 22012KT 9999 FEW006 OVC019 07/07 Q1012 LDOS 191030Z 18006KT CAVOK 09/06 Q1021 KLXT 191018Z AUTO 00000KT 7SM OVC004 00/M01 A3024 RMK AO2 T00001011 TSNO KMOT 191011Z AUTO 13004KT 3/4SM BR VV002 M03/M04 A2993 RMK AO2 T10281039 KMQB 191035Z AUTO 00000KT 10SM OVC046 M02/M04 A3030 RMK AO2 T10231040 LEHC 181500Z 25008KT 210V280 CAVOK 14/09 Q1025 LDPL 191030Z 25004KT 200V300 9000 SCT018 13/10 Q1023 NOSIG KLXV 191025Z AUTO 05007KT 10SM FEW026 OVC036 M14/M16 A3007 RMK AO2 T11391161 KMQE 190954Z AUTO 31008KT M01/M04 A2984 RMK AO1 SLP121 T10061039 KNFW 191027Z AUTO 04005KT 10SM VCTS -RA BKN008 OVC027 09/05 A3022 RMK AO2 RAB09 TSE21 CIG 007V012 P0000 T00940050 KMPO 191036Z AUTO 31010G18KT 1SM -SN BR BKN010 OVC016 M02/M04 A2991 RMK AO2 UPE0954SNB12 P0000 T10221044 KMOX 191033Z AUTO 15010KT 3SM BR BKN006 M05/M06 A3014 RMK AO2 KNGP 191020Z AUTO 17006KT 10SM FEW006 BKN046 OVC100 21/20 A2994 RMK AO2 T02060200 KLXY 191035Z AUTO 02008G14KT 3SM -RA OVC004 08/08 A3007 RMK AO2 LTG DSNT S AND W P0005 T00820078 KMQI 191015Z AUTO 00000KT 10SM CLR 02/01 A3009 RMK AO2 T00170011 LEGR 191030Z 00000KT CAVOK 08/04 Q1032 KMQJ 191035Z AUTO 00000KT 7SM CLR M06/M06 A3025 RMK AO1 LEGT 191020Z 00000KT 5000 BR NSC 05/05 Q1032 KNHK 190952Z AUTO 31011KT 10SM FEW065 SCT100 01/M05 A3011 RMK AO2 SLP195 T00111050 KMRB 190953Z AUTO 28008KT 10SM OVC031 01/M07 A3011 RMK AO2 SLP200 T00111072 TSNO LEIB 191030Z 22007KT 9999 FEW008 17/15 Q1029 NOSIG KNGU 190959Z 33006KT 10SM CLR 03/M03 A3011 RMK AO2 SLP197 T00331028 KP92 190953Z AUTO VRB04KT 17/14 A3000 RMK AO1 SLP160 P0001 T01670144 KMPV 190951Z AUTO 30009KT 6SM BR OVC008 M05/M06 A2992 RMK AO2 CIG 006V011 SLP150 T10501061 KLYV 191034Z AUTO 18008KT 3SM BR OVC006 M01/M02 A3016 RMK AO2 KNID 190956Z AUTO 20005KT 10SM CLR 02/01 A3022 RMK AO2 SLP241 T00220011 $ KMRF 191035Z AUTO 35005KT 10SM CLR M01/M04 A3014 RMK AO1 KMRH 190958Z AUTO 34004KT 10SM OVC070 06/03 A3009 RMK AO2 SLP189 I1000 T00610028 TSNO KMPZ 191015Z AUTO 02006KT 7SM OVC060 M03/M05 A3028 RMK AO2 T10301051 LDRI 191030Z VRB02KT 9999 FEW036 13/08 Q1023 KMQS 191015Z AUTO 30009KT 10SM OVC029 01/M02 A3003 RMK AO2 KMRJ 191015Z AUTO 00000KT 10SM OVC012 M03/M06 A3026 RMK AO2 EPWA 191030Z 26010KT 220V290 9999 BKN009 12/11 Q1006 NOSIG KLZU 190145Z 28005KT 10SM SCT034 08/M02 A3012 RMK JW KMRN 191015Z AUTO 00000KT 10SM CLR M02/M03 A3015 RMK AO2 T10211027 KNIP 190953Z 00000KT 10SM SCT200 BKN250 11/06 A3010 RMK AO2 SLP188 T01110056 KMQY 190956Z AUTO 03005KT 8SM OVC048 01/M01 A3024 RMK AO2 T00111011 SLP253 KLZZ 191035Z AUTO 35008KT 4SM VCTS BR OVC006 08/07 A3009 RMK AO2 LTG DSNT ALQS T00750068 KOAJ 191035Z AUTO 00000KT 10SM OVC075 02/M01 A3012 RMK AO1 LFBA 191030Z AUTO 22006KT 190V250 9999 OVC031 12/10 Q1031 KOAK 191026Z 15014KT 10SM SCT029 OVC033 13/11 A3015 RMK AO2 RAB08E18 P0000 KMRT 191034Z AUTO 29004KT 7SM OVC022 M03/M06 A3021 RMK AO2 T10281057 KNJK 190956Z AUTO 28004KT 10SM CLR 07/05 A3019 RMK AO2 SLP239 T00720050 $ KMSL 190953Z AUTO 06004KT 9SM OVC035 04/01 A3020 RMK AO2 SLP228 T00440006 KMTC 191028Z AUTO 30007KT 10SM OVC019 M03/M05 A3020 RMK AO2 $ LFBC 191030Z AUTO 26007KT 9999 FEW015 BKN028 OVC033 14/12 Q1031 KNJM 190957Z AUTO 34005KT 10SM OVC070 04/00 A3010 RMK AO2 SLP196 T00390000 $ LFBD 191030Z AUTO 22006KT 9999 FEW010 OVC030 13/11 Q1030 KMSN 191010Z AUTO 00000KT 10SM OVC014 M03/M07 A3027 RMK AO2 T10331067 KOBE 191035Z AUTO 00000KT 10SM CLR 07/07 A3010 RMK AO2 LFBE 191030Z AUTO 22006KT 180V250 9999 OVC011 12/10 Q1030 KMSO 190953Z AUTO 00000KT 10SM FEW065 OVC100 M01/M02 A3000 RMK AO2 SLP188 T10111022 VOTR 191010Z 06006KT 2200 BR SCT010 SCT016 OVC080 25/23 Q1013 NOSIG KMSP 190953Z 13004KT 9SM OVC060 M06/M09 A3026 RMK AO2 SLP263 T10611089 $ KMRY 190954Z 09006KT 10SM BKN044 11/09 A3019 RMK AO2 SLP236 T01110089 LDSP 191030Z VRB02KT CAVOK 13/06 Q1024 NOSIG LFBG 191030Z AUTO 23008KT 9999 SCT020 BKN025 OVC031 12/11 Q1029 KMTH 190953Z AUTO 02005KT 10SM CLR 18/17 A3005 RMK AO2 SLP175 T01830167 LFBH 191030Z AUTO 25011KT 4700 BR FEW009 BKN017 BKN026 12/10 Q1028 LFAQ 191030Z AUTO 23020KT 8000 -RA OVC010 11/10 Q1015 LEJR 191030Z VRB01KT 0300 R20/0500N FG VV002 09/09 Q1032 LFBI 191030Z AUTO 23015KT 9999 OVC010 11/10 Q1026 KMSS 190953Z AUTO 30008KT 10SM OVC016 M05/M08 A3004 RMK AO2 SLP179 T10501083 KMTJ 190953Z AUTO 00000KT 8SM OVC036 00/M01 A3020 RMK AO2 SLP221 T00001011 EPWR 191030Z 23009KT 9999 FEW026 SCT033 13/08 Q1009 VOTV 191010Z 24004KT 5000 DZ/HZ SCT012 FEW025CB BKN090 28/25 Q1009 TEMPO 4000 HZ LFAT 191030Z AUTO 26011KT 220V290 2600 -RA BR OVC009 12/11 Q1014 LELC 191000Z 23005KT 200V270 CAVOK 15/09 Q1030 NOSIG KNLC 190956Z AUTO 15004KT CLR 08/07 A3020 RMK AO2 SLP228 T00830072 RVRNO $ LFBL 191030Z AUTO 22010KT 190V250 9999 BKN003 OVC008 09/09 Q1028 KMSV 191035Z AUTO 31011KT 10SM OVC019 M03/M07 A2995 RMK AO1 LFBM 191030Z AUTO 24004KT 200V270 9999 BKN023 OVC030 12/09 Q1031 KMTN 191033Z AUTO 28008KT 10SM OVC031 02/M03 A3011 RMK AO2 KMTO 190953Z AUTO 01005KT 6SM BR CLR M05/M07 A3028 RMK AO2 SLP262 T10501072 KOCF 191035Z AUTO 00000KT 10SM CLR 07/04 A3011 RMK AO1 LFBO 191030Z AUTO 30008KT 9000 BKN009 BKN018 BKN026 11/10 Q1031 KMTP 190954Z AUTO 31012G19KT 03/M03 A2993 RMK AO1 SLP135 T00331033 KMSY 190953Z 08009KT 10SM BKN022 OVC028 14/10 A3005 RMK AO2 SLP179 T01390100 LFBP 191030Z AUTO 17003KT 9999 OVC029 11/09 Q1032 KOCH 191035Z AUTO 08003KT 4SM OVC005 09/08 A3009 RMK AO1 P0008 KMUI 190958Z AUTO 27007KT 10SM BKN026 OVC032 01/M04 A3004 RMK AO2 BKN V OVC SLP180 T00111045 KNKT 190954Z 00000KT 10SM OVC070 03/01 A3010 RMK AO2 SLP189 T00280006 $ LFBT 191030Z AUTO 30004KT 9999 OVC022 10/08 Q1032 LFCK 191030Z AUTO 31012KT 9999 FEW006 SCT012 OVC032 10/09 Q1032 LELL 191030Z 00000KT 9999 FEW010 15/10 Q1028 LFBU 191030Z AUTO 25008KT 2500 DZ BR ////// 11/11 Q1029 KMTV 191015Z AUTO 35006KT 10SM CLR 02/M07 A3013 RMK AO2 T00181071 LEMD 191030Z 00000KT CAVOK 08/04 Q1032 NOSIG KMVE 191034Z AUTO 18007KT 7SM OVC019 M04/M04 A3018 RMK AO2 KMTW 190956Z AUTO 34005KT 10SM OVC028 M03/M06 A3027 RMK AO2 SLP278 T10331056 FZRANO LELN 191000Z 00000KT 9999 FEW010 M01/M02 Q1032 LELO 191000Z 29012KT 260V320 9999 SCT015 07/05 Q1032 KNKX 190955Z 07006KT 10SM CLR 10/08 A3020 RMK AO2 SLP222 T01000078 $ KMUO 190958Z AUTO 10013KT 10SM FEW070 BKN090 03/00 A3008 RMK AO2 SLP195 T00321005 LFBY 191000Z AUTO 21007KT 9999 // ////// 12/08 Q1032 LEMG 191030Z 29006KT CAVOK 13/09 Q1031 NOSIG EPZG 191030Z 22021KT 9999 SCT019 BKN028 OVC035 12/09 Q1006 KMVH 191040Z AUTO 33004KT 10SM CLR M04/M07 A2991 RMK A01 KOCQ 191015Z AUTO 00000KT 10SM CLR M10/M10 A3028 RMK AO1 T11001103 LFBZ 191030Z AUTO VRB03KT 9999 OVC032 12/08 Q1032 LEMH 191030Z VRB02KT 9999 FEW020 18/12 Q1028 LFCR 191030Z AUTO 30006KT 9999 BKN005 OVC016 08/07 Q1030 KMWA 191010Z AUTO 01003KT 7SM OVC042 M00/M02 A3027 RMK AO2 KOEB 191035Z AUTO 26006KT 7SM OVC017 M03/M04 A3021 RMK AO2 T10271037 KMUT 191015Z AUTO 06004KT 10SM OVC049 M03/M06 A3030 RMK AO2 KMVL 190954Z AUTO 32007KT 290V350 7SM OVC012 M03/M06 A2993 RMK AO2 UPB32E34FZRAB34E42 SLP147 P0000 I1001 T10331056 TSNO KMWC 191015Z AUTO 31004KT 10SM OVC026 M03/M07 A3028 RMK AO2 KNMM 190956Z AUTO 00000KT 10SM OVC026 07/03 A3017 RMK AO2 SLP229 T00670028 KMVN 191035Z AUTO 00000KT 4SM OVC042 M03/M06 A3029 RMK AO1 KOCW 191015Z AUTO 00000KT 10SM SCT070 02/00 A3011 RMK AO2 T00170003 LEMO 191000Z 00000KT 0300 R20/0250N R02/0300D FG VV001 06/05 Q1031 KODO 190953Z AUTO 08009KT 6SM BR SCT085 04/02 A3010 RMK AO2 SLP175 T00390022 KMWH 190952Z AUTO 00000KT 4SM -RA BR OVC050 03/03 A2987 RMK AO2 UPB23E27RAB27 SLP123 P0002 T00330028 KNMT 191026Z AUTO 02007KT OVC004 16/14 A2994 RMK AO2 T01560144 PNO $ KMWK 191015Z AUTO 32004KT 10SM CLR 04/M04 A3011 RMK AO2 T00401041 KMWL 190953Z AUTO 23004KT 4SM -RA BR BKN007 OVC070 07/06 A3020 RMK AO2 RAB00 PRESRR SLP224 P0004 T00670061 KMWM 191034Z AUTO 00000KT 3SM BR OVC004 M03/M03 A3017 RMK AO2 KMWN 190952Z 32014KT 1/8SM FZFG SCT000 M12/M12 RMK FZFG SCT000 VRY LGT ICG MOON DMLY VSBL KODX 181753Z AUTO 19008KT 4SM BR OVC008 M04/M05 A3014 RMK AO2 SLP237 T10391050 11039 21050 58003 KOFF 190958Z AUTO 17004KT 9SM OVC007 M01/M02 A3023 RMK AO2 SLP252 T10101023 KMXF 190958Z AUTO 01005KT 10SM CLR 05/02 A3015 RMK AO2 SLP213 T00450018 KMWO 191015Z AUTO 32007KT 10SM OVC019 M01/M06 A3027 RMK AO2 T10151065 KOEO 191015Z AUTO 17004KT 10SM OVC014 M05/M07 A3029 RMK AO2 T10521075 KMVY 190953Z AUTO 30005KT 10SM OVC055 02/M04 A2988 RMK AO2 SLP118 T00171039 KNOG 191031Z AUTO 24004KT 10SM +RA FEW005 BKN022 OVC060 20/19 A2995 RMK AO2 P0015 T02000194 $ KMWS 191030Z 23500G00KT MM/00 RMK SNOW DEPTH M PTKK 190952Z VRB05KT 15SM FEW014 BKN280 28/25 A2983 RMK SLP101 T02810254 KNPA 190956Z AUTO 04006KT 10SM BKN039 BKN048 OVC060 13/07 A3011 RMK AO2 SLP198 T01280072 KOGA 191015Z AUTO 00000KT 10SM CLR M10/M11 A3008 RMK AO2 T11011111 LFGA 191030Z AUTO 21012KT 9999 NSC 12/06 Q1021 LEPA 191030Z VRB02KT CAVOK 17/12 Q1028 NOSIG KMWT 190953Z AUTO 00000KT 4SM BR OVC002 04/03 A3016 RMK AO2 SLP220 T00440033 KOGB 190953Z AUTO 00000KT 10SM CLR 03/02 A3008 RMK AO2 SLP186 T00330017 $ KOFK 190956Z AUTO 22008KT 10SM OVC011 M01/M03 A3016 RMK AO2 SLP231 T10111033 KOGD 190953Z AUTO 18005KT 10SM OVC065 M01/M03 A3018 RMK AO2 SLP221 T10061033 TSNO KMYF 190953Z AUTO 00000KT 10SM CLR 10/08 A3020 RMK AO2 SLP226 T01000083 TSNO KMXO 191015Z AUTO 00000KT 6SM BR FEW049 OVC070 M07/M07 A3029 RMK AO2 KOFP 190954Z AUTO 00000KT 10SM OVC090 00/M03 A3013 RMK AO2 SLP203 T00001033 PTKR 190953Z 00000KT 14SM SCT016 SCT110 BKN290 27/25 A2986 RMK SLP111 T02720251 KNQA 191035Z AUTO 04004KT 10SM OVC026 04/03 A3021 RMK LDZA 191030Z 24008KT CAVOK 12/06 Q1020 NOSIG LFGJ 191030Z AUTO 21012KT 9999 OVC026 11/08 Q1025 KMYL 191018Z AUTO 09004KT 4SM -SN BR SCT006 BKN014 OVC034 00/M01 A3002 RMK AO2 P0001 T00001006 LDZD 191030Z VRB02KT 9999 FEW040 15/10 Q1023 NOSIG KMYP 191034Z AUTO OVC001 M12/M15 A3013 RMK AO2 PWINO ESCF 191020Z 24016G26KT 9999 SCT025 06/04 Q0988 KMZG 191035Z AUTO 18009KT 7SM SCT026 BKN039 BKN050 22/20 A2995 RMK A01 LEPP 191030Z 32006KT 290V010 9999 FEW016 SCT022 09/05 Q1031 KMZH 191033Z AUTO 20004KT 10SM OVC009 M06/M07 A3021 RMK AO2 KMYR 191035Z AUTO 00000KT 10SM CLR 04/02 A3011 RMK AO1 KNQI 191017Z AUTO 00000KT 5SM BR BKN005 BKN017 OVC060 21/21 A2994 RMK AO2 T02060206 GABS 191030Z 05012KT 3000 DU NSC 25/M04 Q1019 NOSIG KNRB 190957Z 00000KT 10SM BKN220 11/06 A3009 RMK AO2 T01110061 $ KMYV 190953Z AUTO 14008KT 10SM FEW040 SCT049 OVC060 12/08 A3016 RMK AO2 SLP216 T01170078 ESDF 191020Z AUTO 24010KT 220V280 9999NDV SCT017/// BKN039/// 08/06 Q0994 FJDG 190955Z 00000KT 9999 FEW020 FEW080 SCT220 31/27 A2978 RMK SLP081 T03070271 KMYZ 191015Z AUTO 00000KT 10SM OVC012 00/M02 A3022 RMK AO2 LERI 191000Z 00000KT CAVOK 13/08 Q1030 NOSIG WIBB 191000Z 00000KT 5000 HZ BKN012 28/24 Q1008 NOSIG LESA 191030Z 14003KT 040V190 0450 R21/0750N FG VV002 02/02 Q1033 KOJA 191015Z AUTO 03005KT 3SM BR OVC003 01/01 A3019 RMK AO2 KOJC 190953Z AUTO 02003KT 5SM BR OVC006 00/M01 A3023 RMK AO2 CIG 005V010 SLP246 T00001011 LGAD 191020Z 00000KT CAVOK 16/08 Q1022 KNSE 191009Z AUTO 00000KT 10SM BKN026 OVC048 11/04 A3013 RMK AO2 T01110044 KPAE 190953Z AUTO 17015G22KT 10SM BKN006 OVC085 08/07 A2978 RMK AO2 RAE27 CIG 004V010 SLP086 P0000 T00830067 TSNO KNQX 190953Z AUTO 03005KT 10SM CLR 19/17 A3006 RMK AO2 SLP176 T01890167 KPAH 190953Z AUTO 01007KT 7SM OVC048 01/M02 A3025 RMK AO2 SLP245 T00111017 FIMP 191000Z 11005KT 8000 -SHRA FEW012CB FEW015TCU SCT017 SCT25 0 27/25 Q1012 RESH KMZZ 191015Z AUTO 30005KT 10SM OVC028 M04/M06 A3025 RMK AO2 T10361056 KNSI 191019Z AUTO 33006KT 10SM SCT013 OVC026 A3020 RMK AO2 $ LERS 191030Z VRB01KT 9999 FEW020 15/10 Q1028 FIMR 191000Z 35012KT 9999 BKN017 30/23 Q1013 KNRS 190956Z AUTO 09007KT CLR 11/09 A3020 RMK AO2 SLP226 T01110094 $ LERT 191000Z 02003KT 350V050 0150 R10/0350N FG VV002 09/09 Q1031 NOSIG KOKB 191003Z AUTO 03004KT 3SM BR CLR 08/07 A3020 RMK AO2 T00780067 LFKB 191030Z 19003KT 160V220 9999 FEW030 16/08 Q1024 NOSIG LFKC 191030Z 00000KT 9999 FEW030 18/07 Q1024 NOSIG LGAL 191020Z 08007KT 9999 FEW025 12/08 Q1022 KOKC 190952Z 02007KT 3/4SM R35R/2800V3000FT BR VV002 04/03 A3017 RMK AO2 SLP221 T00440028 LFJL 191030Z AUTO 23020KT 9999 -DZ OVC013 10/08 Q1019 KNTD 190956Z AUTO VRB03KT 10SM CLR 11/08 A3021 RMK AO2 SLP232 T01110083 $ KPAM 190958Z AUTO 04004KT 10SM CLR 11/06 A3012 RMK AO2 SLP203 T01050058 $ KPAN 191035Z AUTO 00000KT 10SM CLR M00/M03 A3021 RMK AO2 KPAO 190347Z 00000KT 10SM SCT050 12/ A3016 KPBF 191007Z AUTO 03004KT 7SM BKN006 OVC019 06/04 A3021 RMK AO2 T00560044 LFKF 191030Z AUTO 24009KT 200V280 9999 FEW019/// 17/13 Q1025 LESO 191030Z 18005KT 9999 BKN035 12/08 Q1032 KPBG 191025Z AUTO 34007KT 10SM BKN023 OVC032 M03/M06 A2998 RMK AO2 T10331061 KPBH 191035Z AUTO 00000KT 10SM OVC016 M08/M09 A3022 RMK AO2 T10831094 KPBI 190953Z 32003KT 10SM SCT030 SCT250 13/11 A3007 RMK AO2 SLP182 T01330106 LFJR 191030Z AUTO 24015KT 9999 OVC009 12/11 Q1024 LFKJ 191030Z VRB02KT 9999 FEW025 16/09 Q1025 NOSIG WIDD 191000Z 36005KT 8000 SCT013 25/23 Q1009 RMK RERA KOKK 191035Z AUTO 29006KT 10SM OVC030 M03/M07 A3025 RMK AO1 LFLB 191030Z VRB02KT 5000 VCFG BKN004 08/08 Q1027 BECMG FEW020 LEST 191030Z 12005KT 060V150 4000 BR SCT010 OVC020 07/06 Q1034 TEMPO BKN010 KNUC 190156Z 12006KT 10SM FEW008 SCT018 BKN035 BKN160 14/12 A3016 RMK SLP212 LAST T01420121 LGBL 191020Z 34007KT 9999 FEW020 10/07 Q1023 LFLC 191030Z VRB02KT 9999 FEW025 SCT220 12/07 Q1027 NOSIG LETL 191030Z AUTO VRB02KT CAVOK 06/04 Q1031 PTPN 190250Z 07006KT 15SM SCT018 BKN130 BKN300 32/25 A29877 RMK LAST LGAV 191020Z 07006KT 9999 FEW025 15/08 Q1023 NOSIG KOKM 191015Z AUTO 36008G16KT 310V030 5SM BR OVC006 04/03 A3020 RMK AO2 T00380031 KOLE 191035Z AUTO 29006G14KT 4SM BR OVC003 M05/M05 A2999 RMK AO2 KOLF 191032Z AUTO 04004KT 8SM FEW003 M08/M10 A2993 RMK AO2 T10781100 LETO 191000Z 00000KT 9999 FEW005 06/04 Q1032 NOSIG KOLG 191015Z AUTO 22004KT 7SM OVC006 M06/M06 A3024 RMK AO1 ESGG 191020Z 23011KT 9999 VCSH FEW013 SCT017 BKN023 04/03 Q0991 R21/29//95 KNUI 190953Z AUTO 30004KT 10SM BKN095 01/M06 A3011 RMK AO2 SLP195 T00111056 KOMA 191010Z 17006KT 7SM OVC009 M01/M02 A3024 RMK AO2 T10061022 LFKS 191030Z AUTO VRB03KT 9999 NSC 16/08 Q1024 ESGJ 191020Z 25013KT 9999 FEW014 SCT018 04/03 Q0990 KNTU 190956Z 00000KT 10SM FEW090 00/M03 A3009 RMK AO2 SLP192 T00001028 KPDC 191015Z AUTO 00000KT 10SM OVC075 M03/M07 A3030 RMK AO2 T10351074 LFMC 191030Z AUTO VRB01KT 0450 FG ////// 07/06 Q1024 LFLL 191030Z VRB02KT 0200 R36L/0500N R18R/0350N R36R/0550U R18L/0500N FG VV/// 08/08 Q1027 NOSIG LEVC 191030Z 00000KT CAVOK 16/09 Q1028 NOSIG LEVD 191030Z 15003KT 110V180 0400 R23/0400N R05/0400N FG VV002 03/03 Q1033 KPCM 191035Z AUTO 00000KT 10SM CLR 11/ A3011 RMK AO2 KOLM 191009Z AUTO 19008KT 10SM FEW009 BKN034 OVC055 08/07 A2982 RMK AO2 T00830072 KOKV 191015Z AUTO 30012KT 10SM OVC030 01/M07 A3010 RMK AO2 LFMD 191030Z AUTO VRB03KT 9999 NSC 14/09 Q1024 LFLN 191030Z AUTO 24009G21KT 200V290 9999 OVC029 12/07 Q1026 KPBX 191015Z AUTO 35004KT 10SM BKN013 OVC060 M02/M04 A3019 RMK AO2 T10171037 LFLP 191030Z AUTO 20003KT 0500 R04/0750D FG VV/// 08/07 Q1027 ESGP 191020Z 23008KT 9999 FEW023CB SCT025 06/04 Q0992 RERA REDZ R19/29//95 KNUQ 190956Z 14007KT 10SM FEW029 SCT060 OVC075 13/09 A3017 RMK AO2 SLP218 T01280094 KOKZ 191035Z AUTO 00000KT 10SM CLR 02/02 A3013 RMK AO2 T00200015 KOMH 191015Z AUTO 00000KT 10SM CLR M01/M03 A3013 RMK AO2 LFMH 191030Z VRB02KT 2000 BR SCT001 SCT250 09/09 Q1027 NOSIG PTSA 190350Z 03011KT 10SM BKN025 BKN130 BKN300 31/25 A2974 LAST LFMI 191030Z AUTO 31012KT 9999 NSC 16/09 Q1025 ESGR 191020Z AUTO 24012KT 210V270 9999 FEW017/// 06/03 Q0989 KONA 191034Z AUTO 00000KT 10SM OVC021 M04/M07 A3030 RMK AO2 KOLS 191001Z AUTO 09003KT 1/2SM FG VV002 03/02 A3016 RMK AO2 T00280017 KPEA 191015Z AUTO 00000KT 7SM SCT017 OVC050 M03/M04 A3028 RMK AO2 T10261041 LFLS 191030Z AUTO 10008KT 9999 NSC 10/07 Q1027 KOMK 190953Z AUTO 00000KT 4SM -RA BR OVC012 01/00 A2988 RMK AO2 SLP131 P0007 T00060000 KPDK 190953Z AUTO 31004KT 10SM CLR 03/M01 A3011 RMK AO2 SLP204 T00281006 KNY0 191015Z AUTO 30008G20KT 10SM OVC041 M03/M07 A2995 RMK AO2 T10351073 LFMK 191030Z AUTO 29015KT 9999 OVC031 12/09 Q1030 LFLU 191030Z AUTO 01009KT 9999 NSC 13/10 Q1025 ESIB 191020Z AUTO 24015KT 9999NDV NCD 05/02 Q0990 ESGT 191020Z 21010KT 9999 VCSH FEW019CB FEW030 06/03 Q0990 KOLU 191035Z AUTO 21008KT 9SM OVC013 M01/M05 A3019 RMK AO1 LFML 191030Z 27008KT 9999 FEW026 14/10 Q1024 NOSIG KOLV 191035Z AUTO 02006KT 8SM BKN019 OVC037 04/04 A3020 RMK A01 P000 KOMN 182350Z 00000KT 10SM SKC 12/09 A3012 RMK LAST PTRO 190954Z 06004KT 14SM SCT016TCU BKN120 OVC300 26/25 A2987 RMK TCU VC ALQDS KPCW 191030Z AUTO 05005KT 10SM -SN OVC011 M02/M03 A3019 RMK AO2 CIG KNUW 190956Z 15016G20KT 10SM SCT010 BKN016 OVC050 11/07 A2975 RMK AO2 PK WND 15026/0925 SLP079 T01110072 VISNO E $ LFMN 191030Z 33008KT 9999 FEW023 13/05 Q1024 NOSIG LFMO 191030Z AUTO 34010KT 9999 NSC ///// Q1025 LFLX 191030Z 24017KT 9999 BKN010 BKN016 11/10 Q1026 TEMPO 3000 DZ BKN010 KOLY 191015Z AUTO 00000KT 7SM CLR M03/M05 A3031 RMK AO2 LFMP 191030Z AUTO 31009KT 260V350 9999 NSC 15/08 Q1028 LFLY 191030Z AUTO VRB01KT 0150 R34/0400N FG VV/// 09/08 Q1027 KPCZ 191035Z AUTO 00000KT 10SM CLR M08/M10 A3028 RMK AO2 T10791097 KOLZ 191015Z AUTO 00000KT 10SM FEW032 OVC070 M05/M07 A3027 RMK AO2 LEVS 191030Z 00000KT 8000 NSC 12/06 Q1032 KOOA 191015Z AUTO 08003KT 7SM OVC060 M03/M05 A3027 RMK AO2 T10331048 LFOA 191030Z AUTO 24014KT 9999 BKN006 BKN011 OVC023 11/10 Q1025 KPDT 190953Z AUTO 11009KT 10SM -RA FEW045 OVC060 08/04 A2983 RMK AO2 SLP102 P0002 T00830039 LFMT 191030Z 28011KT CAVOK 17/09 Q1026 NOSIG LFOB 191030Z AUTO 23014KT 9999 -RA OVC011 11/10 Q1017 LEVT 191030Z 00000KT 9999 BKN017 07/04 Q1032 LGEL 191020Z 00000KT CAVOK 17/08 Q1022 KONL 191015Z AUTO 20007KT 1 1/4SM BR OVC003 M02/M02 A3010 RMK AO2 T10251025 LFOC 191030Z AUTO 24017KT 9999 OVC011 11/10 Q1022 LFMU 191030Z AUTO 27015KT 9999 NSC 15/09 Q1027 KONM 191015Z AUTO 30007KT 10SM CLR M01/M02 A3017 RMK AO2 T10081016 LFMV 191030Z AUTO 34009KT 9999 NSC 16/10 Q1025 ETAD 191009Z 24018G27KT 9000 -RA BR OVC007 09/08 A2998 RMK AO2A $ LFOE 191030Z AUTO 23015KT 9999 -RA BKN013 BKN019 BKN025 11/10 Q1018 KNXF 190956Z AUTO 05007KT 8SM CLR 11/08 A3020 RMK AO2 SLP312 T01060083 $ KPEO 191002Z AUTO 31008KT 10SM OVC013 M03/M06 A3004 RMK AO2 CIG 008V018 T10281056 KONO 190953Z AUTO 23004KT 7SM OVC075 03/01 A3008 RMK AO2 RAE10 SLP198 P0000 T00280011 KPDX 190953Z 14008KT 10SM FEW016 FEW080 BKN250 07/07 A2990 RMK AO2 SLP124 T00670067 LEVX 191030Z 20005KT 120V220 9999 FEW008 OVC020 06/05 Q1035 NOSIG RCKH 191030Z 02009KT 350V050 5000 -RA FEW013 BKN045 BKN080 17/13 Q1020 NOSIG RMK A3014 KONP 191035Z AUTO 16006KT 128V188 10SM SCT020 SCT028 SCT033 08/07 A2991 RMK AO2 LFMY 191030Z AUTO 32009KT 280V350 9999 NSC 17/10 Q1024 KPEQ 191015Z AUTO 26005KT 10SM CLR 06/01 A3010 RMK AO2 T00570006 LFOH 191030Z AUTO 24023KT 9999 OVC007 12/11 Q1017 KPGA 190953Z AUTO 00000KT 7SM CLR 01/M02 A3021 RMK AO2 SLP225 T00061022 TSNO LFOJ 191030Z AUTO 23016KT 9999 BKN009 OVC013 11/10 Q1023 LEXJ 191030Z 24006KT 200V270 9999 BKN032 11/06 Q1033 KONT 190953Z 03004KT 10SM FEW200 08/06 A3020 RMK AO2 SLP226 T00830056 LFOK 191030Z AUTO 23021KT 9999 OVC007 10/09 Q1020 LFPB 191030Z AUTO 24014KT 9999 -RA OVC017 12/10 Q1019 KNYC 190951Z AUTO 29009KT 270V330 10SM OVC035 03/M06 A2999 RMK AO2 SLP149 T00281056 $ LFPC 191030Z AUTO 22016KT 9999 -RA BKN012 BKN018 OVC056 11/10 Q1018 KPGD 191021Z AUTO 07003KT 4SM BR CLR 08/07 A3011 RMK AO2 T00780072 WIHH 191000Z 30010KT 5000 HZ FEW016CB SCT017 30/24 Q1009 CB AND RA TO SE PTTP 190954Z 00000KT 15SM FEW018 SCT300 25/24 A2987 RMK SLP115 T02530240 KOPF 190953Z 35005KT 10SM FEW036 15/13 A3008 RMK AO2 SLP185 T01500128 KPEX 191034Z AUTO 09007KT 3SM BR BKN005 OVC012 M07/M07 A3019 RMK AO2 T10751075 KONX 191015Z AUTO 00000KT 10SM CLR 00/M01 A3010 RMK AO2 T00041010 VQPR 190950Z 18004KT 9999 SKC 17/M11 Q1021 NOSIG KNXP 190956Z AUTO 26005KT 10SM CLR 03/01 A3029 RMK AO2 SLP242 T00330006 $ KNYG 190956Z AUTO 36007KT 10SM BKN100 02/M06 A3014 RMK AO2 SLP207 T00171061 $ LFPG 191030Z 23017KT 9999 -RA BKN015 BKN023 12/10 Q1019 NOSIG LFOP 191030Z AUTO 23016KT 9999 -RA OVC006 11/10 Q1017 KONZ 191034Z AUTO 35006KT 10SM SCT017 OVC029 M02/M04 A3021 RMK AO2 KPEZ 191035Z AUTO 02009KT 5SM +RA OVC008 12/11 A3002 RMK AO2 LTG DSNT NE P0005 T01160110 ETAR 191036Z AUTO 23013G23KT 6000 -RA BR SCT011 OVC016 09/08 A3003 RMK AO2 RAB1000DZE1021 CIG 011V017 $ LFQA 191030Z AUTO 23015G25KT 200V260 9999 OVC015 12/09 Q1018 LFQB 191030Z AUTO 22020KT 9999 BKN017 BKN023 BKN036 11/09 Q1021 LFOT 191030Z AUTO 22014KT 9999 OVC010 11/10 Q1024 KOPL 191015Z AUTO 35011KT 4SM TSRA BKN004 OVC009 12/11 A3009 RMK AO2 LTG DSNT ALQS P0020 T01150110 KNYL 190957Z 06003KT 10SM CLR 09/06 A3018 RMK AO2 SLP221 T00940061 KPHD 190953Z AUTO 28003KT 9SM OVC010 M01/M04 A3019 RMK AO2 SLP232 T10111039 LFOV 191030Z AUTO 23013KT 7000 -RA BKN007 OVC012 12/11 Q1022 LFPM 191030Z AUTO 23018KT 9999 OVC012 11/10 Q1020 KOPN 191035Z AUTO 35003KT 10SM CLR 05/02 A3014 RMK AO2 LFPN 191030Z AUTO 23015KT 9999 -RA OVC012 11/10 Q1019 ESKN 191020Z 28012KT 9999 BKN022 06/03 Q0987 R26/290195 KPHF 190954Z 34003KT 10SM CLR M01/M04 A3011 RMK AO2 SLP195 T10111039 LFPO 191030Z 24015KT 210V270 9999 -RA BKN013 12/09 Q1020 TEMPO BKN008 WIII 191030Z 33006KT 8000 SCT020 29/25 Q1008 NOSIG LEZG 191030Z 31011KT 9000 BKN012 09/07 Q1031 LGHI 190950Z 36008KT 290V080 9999 FEW020 15/08 Q1020 KPIA 190954Z 00000KT 6SM HZ CLR M07/M09 A3029 RMK AO2 SLP267 T10671094 KORB 191033Z AUTO 18005KT 10SM OVC009 M06/M08 A3016 RMK AO2 KPIB 191035Z AUTO 04007KT 10SM OVC019 09/06 A3012 RMK AO1 LFRB 191030Z 26012KT 3500 -DZRA BR OVC005 13/12 Q1022 NOSIG LFPT 191030Z AUTO 23015KT 200V260 9999 RA BKN012 OVC023 11/10 Q1018 GAMB 190900Z 04008KT 8000 NSC 21/M01 Q1017 KPHL 190954Z 28010KT 10SM BKN032 OVC041 03/M04 A3005 RMK AO2 SLP175 T00281039 KORC 191015Z AUTO 18005KT 3SM BR BKN020 M02/M03 A3017 RMK AO2 LFRC 191030Z AUTO 28016KT 9999 BKN014 BKN020 BKN034 11/09 Q1018 LEZL 191030Z 02005KT 350V060 CAVOK 11/08 Q1032 NOSIG KORD 190951Z 31005KT 10SM OVC026 M02/M05 A3026 RMK AO2 SNB04E18 SLP257 P0000 T10221050 KPGV 191015Z AUTO 00000KT 10SM CLR 01/01 A3012 RMK AO2 LFPV 191030Z AUTO 23014KT 9999 -RA OVC012 11/09 Q1019 LFRD 191030Z AUTO 23013KT 9999 OVC018 13/11 Q1020 KORE 191034Z AUTO 31005KT 10SM SCT026 OVC041 00/M05 A2989 RMK AO2 T00001050 KPIE 190953Z AUTO 05004KT 10SM CLR 13/09 A3010 RMK AO2 SLP192 T01280094 KPHN 191037Z AUTO 30007KT 10SM OVC025 M03/M05 A3020 RMK AO2 KORF 190951Z AUTO 00000KT 10SM CLR 02/M02 A3010 RMK AO2 SLP191 T00221017 TSNO RCMQ 191030Z 02002KT 9999 FEW010 SCT030 BKN050 14/13 Q1021 RMK A3015 KPHP 190955Z AUTO 27005KT 10SM CLR M10/M12 A3001 RMK AO2 SLP189 T11001122 KORG 191035Z AUTO 05010KT 3SM +RA SCT013 BKN021 OVC050 15/14 A3006 RMK AO2 LTG DSNT NE E AND W P0022 T01460142 LFRG 191030Z AUTO 27013KT 240V300 9999 OVC009 12/11 Q1018 GAKY 181200Z 10014KT 8000 NSC 28/M02 Q1016 KPIH 190953Z AUTO 18009KT 10SM OVC070 03/M02 A3013 RMK AO2 SLP212 T00281022 KORH 190954Z AUTO 28010KT 10SM FEW026 OVC033 M01/M05 A2985 RMK AO2 SLP120 T10111050 LFQQ 191030Z 24017KT 9999 -RA OVC011 12/11 Q1013 TEMPO 4000 OVC005 LFRH 191030Z AUTO 26020KT 9999 OVC006/// ///TCU 13/12 Q1023 LFRI 191030Z AUTO 23009KT 2200 -DZ BR BKN006 OVC011 11/11 Q1027 KOSA 191015Z AUTO 05004KT 3SM OVC005 08/07 A3016 RMK AO1 T00750072 LFRJ 191030Z AUTO 26016KT 9999 3900 OVC006 13/12 Q1022 KPHT 191035Z AUTO 04005KT 10SM OVC042 00/M02 A3024 RMK KOQT 190953Z AUTO 00000KT 10SM FEW043 00/M02 A3020 RMK AO2 SLP238 T00001022 LFSB 191030Z 28008KT 220V020 9999 FEW020 BKN030 BKN200 12/08 Q1023 TEMPO 27015G25KT LFRK 191030Z AUTO 26020KT 9999 BKN013 OVC023 13/11 Q1018 KOQU 190252Z 29008KT 10SM SKC 01/M03 A2989 ESMK 191020Z 27012KT 9999 FEW012 09/07 Q0995 KORL 190953Z AUTO 00000KT 10SM CLR 12/10 A3010 RMK AO2 SLP196 T01220100 KPIL 190953Z AUTO 16004KT 7SM FEW070 20/19 A2993 RMK AO2 RAB42E51 SLP134 P0000 T02000194 KOSC 191034Z AUTO 00000KT 10SM CLR M10/M11 A3022 RMK AO2 T11001110 ETEB 190958Z AUTO 23013KT 9999 OVC021 09/08 A3003 RMK AO2 SLP185 T00940083 LFRL 191030Z AUTO 26017KT 6000 -DZ OVC004 13/12 Q1022 LFRM 191030Z AUTO 23011KT 190V260 9999 OVC012/// ///TCU 12/10 Q1023 LFSD 191030Z AUTO 22014KT 9999 BKN027 BKN200 12/08 Q1024 LFRN 191030Z AUTO 23012KT 200V260 9999 OVC011 13/11 Q1022 LGIO 191020Z AUTO VRB01KT //// // ////// 04/// Q1023 RE// KPHX 190951Z 10003KT 10SM CLR 09/06 A3017 RMK AO2 SLP210 T00890061 LFRO 191030Z AUTO 26016KT 240V300 1900 RA BR OVC003 12/12 Q1021 KNZY 190952Z 00000KT 10SM CLR 12/09 A3020 RMK AO2 SLP225 T01170094 $ LFSG 191030Z AUTO 21017KT 9999 BKN014 OVC019 10/08 Q1021 ESNG 191020Z 11002KT 2000 BR OVC002 M09/M10 Q0983 KOSH 190953Z 00000KT 9SM CLR M08/M10 A3026 RMK AO2 SLP269 T10781100 LFRQ 191030Z AUTO 26014KT 2000 -RA BR OVC004 12/12 Q1023 LGIR 191020Z 36006KT 9999 FEW018 SCT025 16/12 Q1020 NOSIG ESMQ 191020Z 23010KT 9999 FEW018 SCT027 08/05 Q0993 KPIR 190953Z AUTO 11003KT 1/4SM FZFG VV002 M11/M13 A3003 RMK AO2 SLP195 I1000 T11111133 PTYA 191032Z 06012G20KT 6SM -SHRA BKN015TCU BKN030 OVC300 27/24 A2987 RMK TCU ALQDS LFSI 191030Z AUTO 23014KT 9000 -DZ OVC013 11/09 Q1021 KORS 191035Z AUTO 21009KT 10SM SCT016 BKN023 OVC039 09/07 A2974 RMK AO2 KQAJ 190955Z 21004KT 9999 SCT250 20/03 A3019 RMK SLP223 T01990033 LFRS 191030Z 24011KT 210V270 2000 -DZ BKN006 BKN016 12/11 Q1025 NOSIG LFRT 191030Z AUTO 27015KT 5000 BR BKN011 OVC017 13/12 Q1021 KPIT 190951Z 27006KT 6SM -FZDZ BR OVC010 M03/M04 A3014 RMK AO2 FZDZB37 SLP228 P0000 I1000 T10281039 ESMS 191020Z 26012KT 9999 FEW018 BKN029 08/07 Q0997 KPKB 190953Z AUTO 26003KT 8SM FEW016 OVC026 M02/M06 A3023 RMK AO2 SLP247 T10221056 ESNK 191020Z AUTO 28004KT 7000 SG FEW006/// BKN025/// BKN039/// M05/M06 Q0981 ESMT 191020Z 26010KT CAVOK 07/05 Q0995 LHBC 190845Z 19008KT 7000 -RA BKN083 06/05 Q1021 LFSL 191030Z AUTO 19003KT 140V230 3500 BR BKN004 OVC010 10/09 Q1030 ESNL 191020Z 34002KT 9999 OVC006 M02/M03 Q0979 KPKD 191027Z AUTO 15009KT 4SM -SN BR BKN011 OVC016 M07/M09 A3014 RMK AO2 P0000 T10721094 LFRV 191030Z AUTO 26012KT 220V310 3400 BR OVC004 12/11 Q1023 LFSN 191030Z AUTO 24010KT 190V290 9999 OVC017 11/08 Q1020 LGKF 190950Z 00000KT 9999 SCT016 17/11 Q1022 ESNN 191020Z 31003KT 2900 -SN VV017 M04/M05 Q0981 R16/79//36 ESOE 191020Z 25014G24KT 9999 FEW019 06/04 Q0986 KQBF 190955Z AUTO 06007G15KT 6000 HZ CLR 27/M06 A3006 RMK AO2 SLP165 T02691060 TSNO $ LFSO 191030Z AUTO 21016G29KT 9999 BKN011 OVC017 09/08 Q1020 KS25 191035Z AUTO 00000KT 9SM CLR M08/M08 A2990 RMK AO2 ESNO 191020Z AUTO 27003KT 9999 OVC006/// M03/M03 Q0979 RESG ESMX 191020Z 24014G27KT 210V270 9999 -SHRA FEW015CB SCT017 BKN020 07/04 Q0992 KOTG 191035Z AUTO 19007KT 2SM OVC004 M03/M03 A3016 RMK AO1 KOTH 191035Z 16008KT 10SM FEW038 SCT050 BKN070 09/09 A2994 RMK AO1 LFRZ 191030Z AUTO 25016KT 5000 -RADZ BR BKN009 OVC015 13/12 Q1025 LFTH 191030Z AUTO VRB02KT 9999 FEW014 15/11 Q1024 ESNQ 191020Z 18002KT 9999 BKN004 OVC006 M08/M09 Q0981 GANR 190900Z 04004KT 8000 NSC 19/M02 Q//// ESPA 191020Z 09006KT 2500 -SN VV019 M01/M02 Q0983 ESNS 191020Z 09005KT 3000 -RASN VV003 00/00 Q0980 KQBK 190956Z AUTO VRB02KT 9999 CLR 21/03 A3023 RMK AO2 SLP066 T02120030 LFST 191030Z AUTO 21011KT 9999 OVC036 12/07 Q1020 LGKL 191020Z 00000KT 9999 FEW030 18/08 Q1022 ESOK 191020Z 24012KT CAVOK 03/01 Q0986 KOSU 190953Z AUTO 28006KT 8SM OVC023 M02/M06 A3021 RMK AO2 SLP241 T10221056 KQBL 190956Z AUTO 36002KT 10SM OVC039 12/05 A3013 RMK AO2 SLP208 T01210045 ESNU 191020Z 00000KT 2000 BR OVC002 00/M00 Q0979 R14/72//60 KOTM 190953Z AUTO 06003KT 8SM OVC024 M03/M06 A3027 RMK AO2 SLP262 T10281056 LGKO 191020Z 35010KT 9999 FEW018 16/10 Q1020 ESPE 191020Z AUTO 00000KT 2100NDV -SN VV022/// M06/M07 Q0982 RESN LFSX 191030Z AUTO 23011KT 200V260 9999 BKN021 OVC027 10/07 Q1024 LGKP 190950Z 30011KT 9999 SCT025 18/09 Q1019 ESNX 191020Z 07005KT 1500 SN VV005 M04/M05 Q0980 LHBP 191030Z 21005KT 190V250 CAVOK 10/07 Q1018 NOSIG ETGG 191020Z 25017KT 9999 FEW010 SCT060 BKN180 08/07 Q1000 BLU KQAZ 191030Z AUTO 09003KT 9999 CLR 31/M01 A3002 RMK CDP03565 CLR LGKR 191020Z 00000KT 9999 FEW015 15/10 Q1022 NOSIG ESNZ 191020Z 34004KT 9999 BKN011 M07/M08 Q0979 ETHA 191020Z 27019KT 9999 FEW035 SCT130 10/06 Q1019 BLACKBLU+BLU+ VRMM 191000Z 00000KT 9999 FEW018TCU BKN110 28/24 Q1010 TEMPO 4000 TSRA WIMM 191000Z 28004KT 7000 FEW018CB BKN020 28/26 Q1009 KS39 191035Z AUTO 15004KT 10SM BKN042 BKN050 OVC085 06/02 A2989 RMK AO2 ETHB 191020Z 24017KT 9999 -RADZ BKN012 11/09 Q1005 GRN WHT TEMPO GRN KQCL 190955Z AUTO 00000KT 9999 CLR 15/M12 A3022 RMK AO2 SLP252 T01541125 $ LHDC 191015Z 20011KT 7000 FEW043 OVC083 06/05 Q1019 NOSIG ETHC 191020Z AUTO 24017KT 6000 // ////// 11/10 Q1004 /// LGKV 191020Z 00000KT 9999 FEW010 13/11 Q1023 LGLM 191020Z 06004KT 9999 FEW010 15/09 Q1022 KPMD 190953Z AUTO 21007KT 10SM CLR 03/01 A3023 RMK AO2 SLP238 T00280006 KPKV 191035Z AUTO 05004KT 2SM BR OVC003 19/18 A2996 RMK AO2 P0001 T01850181 KOVE 190953Z AUTO 10007KT 10SM -RA BKN045 OVC055 11/09 A3017 RMK AO2 SLP219 P0002 T01110089 KPLN 190954Z AUTO 00000KT 10SM CLR M18/M20 A3025 RMK AO2 SLP260 T11781200 KOUN 191015Z AUTO 02006KT 2 1/2SM BR OVC004 03/03 A3019 RMK AO2 LFTW 191030Z AUTO 29005KT 260V330 9999 NSC 17/08 Q1025 ETHE 191020Z AUTO 24012KT //// // ////// 11/11 Q1007 /// ESOW 191020Z 23013KT 9999 SCT024 05/02 Q0985 R01/290195 ETHF 191020Z 21015KT 9999 -RADZ FEW013 BKN018 10/08 Q1010 WHT FCST CANCEL LGKZ 191020Z AUTO 29005KT 260V350 //// // ////// 07/03 Q1023 RE// ETGQ 190520Z AUTO 22008G18KT //// // ////// 11/08 Q1014 /// KQEA 190955Z AUTO 07001KT 30/22 A2982 RMK AO2 SLP096 T02950223 PWINO TSNO $ KOWA 191035Z AUTO 15007KT 7SM SCT022 BKN029 M04/M07 A3023 RMK AO2 KPNA 191015Z AUTO 00000KT 10SM BKN048 OVC050 M07/M08 A3012 RMK AO2 LGMK 190950Z 35010KT 9999 SCT010 FEW018TCU SCT020 13/11 Q1021 KOWB 190956Z AUTO 9SM OVC046 00/M03 A3028 RMK AO2 TSNO T00001033 SLP256 KQEB 190955Z AUTO 24/13 Q1022 RMK AO2 SLP134 T02410126 PWINO TSNO $ KPNC 190953Z AUTO 35007KT 5SM BR OVC008 02/00 A3022 RMK AO2 SLP238 T00170000 KOVL 191034Z AUTO 14008KT 7SM OVC010 M03/M05 A3019 RMK AO2 ETHL 191020Z 23014KT 9999 SCT020 BKN160 BKN240 10/06 Q1020 BLU BLU KOWD 190953Z AUTO 00000KT 10SM FEW055 M01/M03 A2988 RMK AO2 SLP118 T10111033 ETIC 190958Z AUTO 23016G26KT 200V270 9999 OVC021 10/06 A2999 RMK AO2 SLP159 T01010062 $ KPNE 190954Z AUTO 29010KT 10SM OVC033 03/M05 A3004 RMK AO2 SLP172 T00331050 TSNO $ ETHN 191020Z 24026KT 9999 FEW015 BKN018 BKN030 09/06 Q1016 WHT BLU TEMPO GRN LFVP 191000Z 25025KT 3000 -DZ BR OVC005 05/05 Q0994 NOSIG KPMP 190953Z 00000KT 10SM FEW041 15/12 A3007 RMK AO2 SLP183 T01500117 ETIH 190958Z AUTO VRB06KT 9999 OVC028 10/06 A3005 RMK AO2 SLP179 T00990059 KQEI 191030Z AUTO 00000KT 8000 HZ FEW055 M04/M10 A3024 RMK A02 TSNO KOVS 190953Z AUTO 00000KT 10SM OVC019 M03/M07 A3030 RMK AO2 SLP273 T10331072 PWAK 190958Z AUTO 05012KT 9999 BKN046 27/25 A3002 RMK AO2 SLP172 T02680247 ETHS 191025Z 28021G33KT 5000 -RA BR SCT006 BKN040 09/07 Q1004 RESN WHT LGMT 191020Z VRB02KT CAVOK 15/09 Q1022 ESSA 191020Z 25011KT 9999 BKN017 05/03 Q0984 R01L/29//95 R08/29//95 R01R/29//95 NOSIG KOXB 190953Z AUTO 31005KT 10SM OVC110 02/M03 A3008 RMK AO2 SLP184 T00171033 TSNO KPOB 190958Z AUTO 00000KT 10SM OVC070 04/02 A3011 RMK AO2 SLP200 T00360015 ESSB 191020Z 23012KT 9999 BKN021 05/03 Q0985 R30/29//88 KQEL 191030Z AUTO 36002KT 9999 CLR M05/M12 A3031 RMK A02 TSNO KPOC 190447Z 00000KT 10SM CLR 09/07 A3023 KOXC 191035Z 32007KT 10SM OVC032 00/M07 A2994 RMK AO1 ETIK 190958Z AUTO 25016KT 9999 OVC026 11/08 A3003 RMK AO2 PK WND 26029/33 OVC V BKN SLP172 T01060078 KPNM 191035Z AUTO 00000KT 3SM -SN OVC060 M06/M08 A3023 RMK AO2 KPMV 191015Z AUTO 15004KT 4SM BR OVC005 M01/M03 A3022 RMK AO2 T10151026 ESSD 191020Z 22009KT CAVOK 02/00 Q0982 KPOE 191033Z AUTO 35003KT 1 1/2SM -RA BR OVC004 11/10 A3010 RMK AO2 LTG DSNT E-W KPOF 191018Z AUTO 03006KT 8SM BKN008 OVC044 02/00 A3023 RMK AO2 T00220000 KQEP 191030Z AUTO 15002KT 9999 CLR M02/M13 A3021 RMK A02 TSNO KQFG 190955Z AUTO 15005KT 6000 CLR 16/M08 A3024 RMK AO2 SLP250 T01631085 KOWP 191035Z AUTO 36004KT 1 1/4SM BR OVC001 04/03 A3021 RMK AO2 T00380029 KQEQ 191030Z AUTO 09001KT 9999 OVC034 M01/M10 A3009 RMK A02 TSNO RCSS 191030Z 27005KT 9999 -RA FEW020 SCT030 BKN080 16/12 Q1022 NOSIG RMK A3019 KQER 191030Z AUTO 18002KT / /CLR M02/M10 A3018 RMK A02 TSNO KOXI 191035Z AUTO 26007KT 5SM OVC014 M03/M06 A3024 RMK AO1 T10271056 KQGA 190959Z AUTO 04013G19KT 6000 HZ CLR 24/00 A3008 RMK CDP03659 CLR LGPA 191020Z AUTO 35013KT //// // ////// 16/11 Q1021 RE// KQES 191030Z AUTO 9999 BKN050 01/M06 A3025 RMK A02 TSNO KPNS 190953Z AUTO 02004KT 10SM OVC041 12/06 A3012 RMK AO2 SLP201 T01220056 KPPA 191015Z AUTO 00000KT 7SM OVC008 02/01 A3013 RMK AO2 T00220007 PNO ESTA 191020Z 25011KT 9999 FEW015 SCT080 07/05 Q0995 KPNT 191015Z AUTO 00000KT 7SM CLR M07/M08 A3029 RMK AO2 T10721085 ESSL 191020Z 25011KT 220V280 9999 FEW024 06/03 Q0988 KQEV 191030Z AUTO 12003KT 9999 CLR M01/M09 A3027 RMK A02 TSNO WIPP 191000Z 30006KT 9999 SCT015 27/23 Q1009 NOSIG KQEW 191030Z AUTO 13001KT 9999 FEW044 BKN075 M03/M13 A3030 RMK A02 TSNO FKKD 191000Z 22006KT 4500 HZ BKN016 FEW020CB 30/25 Q1013 BECMG 6000 NSW RCTP 191030Z 27004KT 5000 -DZ FEW012 BKN018 BKN080 15/13 Q1022 NOSIG RMK A3019 LGNX 190950Z 35015KT 9999 SCT018 16/12 Q1021 KPPF 190952Z AUTO 36004KT 6SM BR OVC006 02/01 A3024 RMK AO2 SLP243 T00170011 KQEX 191030Z AUTO 04004KT 9999 CLR M01/M11 A3034 RMK A02 TSNO KQEY 191030Z AUTO 20001KT 9999 FEW075 SCT085 01/M05 A3026 RMK A02 TSNO KQFQ 190955Z AUTO 12007G19KT 8SM BKN080 BKN130 00/M09 A3020 RMK AO2 SLP233 T10031093 $ ESSP 191020Z 25017KT 9999 FEW024 06/03 Q0988 R27/19//95 WIPT 191000Z 20005KT 8000 SCT020 28/25 Q1009 KOXR 190951Z AUTO 04008KT 10SM CLR 11/07 A3021 RMK AO2 SLP228 T01110072 KQFS 190956Z AUTO 25002KT 9000 FEW080 01/M08 A3031 RMK AO2 SLPNO T00131084 KOZA 191015Z AUTO 03006KT 10SM OVC006 09/08 A3010 RMK AO2 KQFT 191030Z AUTO 36002KT 9999 FEW029 BKN035 M03/M11 A3025 RMK A02 TSNO KQFU 191030Z AUTO 33006G11KT 9999 CLR 00/M11 A3022 RMK A02 TSNO KPOU 190953Z AUTO 32004KT 10SM OVC038 02/M04 A2995 RMK AO2 SLP141 T00221044 TSNO KQFV 191030Z AUTO 18001KT 9000 HZ CLR M05/M12 A3021 RMK A02 TSNO ESTL 191020Z AUTO 26012KT 9999NDV FEW018/// SCT031/// BKN070/// ///// Q0996 KPOV 191042Z AUTO 33007KT 4SM DZ BKN006 OVC011 M02/ A3015 RMK AO2 T1016 KOXV 191015Z AUTO 00000KT 7SM BKN018 OVC047 M03/M04 A3025 RMK AO2 ESSV 191020Z 25014KT CAVOK 07/06 Q0990 ESUD 191020Z AUTO 31002KT 3900 -SN OVC006/// M05/M06 Q0979 FKKN 191000Z 04006KT CAVOK 28/13 Q1019 KQFX 191030Z AUTO 10003KT 9000 HZ FEW008 BKN036 M03/M11 A3027 RMK A02 TSNO KPPO 191015Z AUTO 26007KT 10SM OVC021 M01/M03 A3024 RMK AO2 T10131033 KPOY 191015Z AUTO 12010KT 10SM CLR M06/M10 A2997 RMK AO2 KPPQ 191015Z AUTO 00000KT 7SM SCT006 OVC030 M01/M02 A3029 RMK AO2 T10111025 KPQI 191035Z AUTO 29007KT 10SM OVC017 M04/M08 A2973 RMK AO1 LFYR 191030Z AUTO 23009KT 200V260 9999 FEW006 BKN010 OVC014 11/11 Q1025 FKKR 191000Z VRB04KT CAVOK 30/04 Q1014 NOSIG KPRB 190953Z AUTO 00000KT 10SM OVC018 09/08 A3022 RMK AO2 SLP232 T00890078 TSNO KPQL 190953Z AUTO 03007KT 10SM BKN031 OVC039 12/08 A3010 RMK AO2 SLP194 T01220083 TSNO KPRC 190953Z 19004KT 10SM CLR M03/M05 A3021 RMK AO2 SLP217 T10281050 KQGV 190855Z 18008KT 9999 BKN180 18/04 A3022 RMK SLPNO QNH1024 PA +189 58017 KPQN 191034Z AUTO 21003KT 4SM BR OVC005 M03/M03 A3013 RMK AO2 KQHN 190955Z VRB04KT 9999 FEW200 15/M07 A3027 RMK SLP226 Q1025 DA3796 KQGX 190958Z AUTO VRB04KT 9999 CLR 25/09 A3014 RMK AO2 SLP209 T02490092 CHINO RWY31 $ KPRG 191015Z AUTO 00000KT 7SM CLR M05/M06 A3029 RMK AO2 T10521062 LGPZ 191020Z 08006KT 9999 FEW018 13/08 Q1023 KOZR 190958Z AUTO 35004KT 10SM OVC041 11/02 A3013 RMK AO2 SLP205 T01050015 LGSA 191020Z 06008KT 9999 FEW020 BKN025 16/11 Q1021 VTBD 191030Z 34006KT 300V360 9999 FEW030 BKN300 28/16 Q1013 NOSIG ESUT 191020Z AUTO 09002KT 7000 BR FEW011/// OVC016/// M10/M11 Q0979 KPSC 190953Z AUTO 00000KT 4SM -RA BR OVC070 03/03 A2989 RMK AO2 RAB33 SLP123 P0000 T00330033 KRAC 190953Z AUTO 31005KT 10SM OVC022 M03/M07 A3028 RMK AO2 SLP263 T10281067 ETML 191020Z AUTO 25015KT //// // ////// 09/07 Q1000 /// ETND 181320Z 23013KT 6000 BKN006 BKN012 11/10 Q1006 YLO KPRN 190256Z AUTO 33004KT 10SM FEW027 BKN100 BKN120 12/01 A3015 RMK AO2 RAE0158 SLP210 P0000 60000 T01170011 50005 KOZW 191035Z AUTO 01003KT 10SM OVC008 M04/M05 A3021 RMK AO2 T10391046 ETMN 191020Z 27015G26KT 9999 FEW008 BKN046 08/07 Q1003 BLU BLU KPSF 191012Z AUTO 31010KT 10SM BKN023 OVC032 M03/M06 A2988 RMK AO2 T10281061 KPRO 191035Z AUTO 15004KT 4SM -SN BKN033 OVC040 M02/M02 A3024 RMK AO2 T10201020 KQL5 190955Z VRB01KT 4400 HZ CLR 17/M08 A3022 RMK SLP245 T01711076 LGRP 191020Z 27006KT 9999 FEW018 17/10 Q1019 NOSIG KQHY 190956Z AUTO 03002KT 10SM OVC040 12/04 A3013 RMK AO2 SLP210 T01200041 ETNG 190950Z 23017G36KT 6000 -RADZ SCT013 BKN017 BKN023 11/10 Q1011 TEMPO BKN012 ETNH 191020Z 25010KT 8000 FEW010 BKN050 08/07 Q1001 BLU BLU KQIR 190958Z 33006KT 9999 FEW200 22/11 A3016 RMK AO2A SLP215 T02180114 $ VTCC 191030Z 34005KT 9999 FEW035 26/12 Q1018 A3006 NOSIG LIBA 190955Z /////KT CAVOK 13/08 Q1024 RMK SKC VIS MIN 9999 WIND THR29 25001KT BLU KPRS 191015Z AUTO 35005KT 10SM CLR 06/00 A3010 RMK AO2 T00620000 KT20 191015Z AUTO 36006KT 10SM TS OVC006 11/11 A3002 RMK AO2 LTG DSNT ALQS T01110107 KPTB 191015Z AUTO 00000KT 10SM CLR M02/M03 A3012 RMK AO2 T10231031 KPSK 191015Z AUTO 27005KT 10SM OVC050 01/M04 A3011 RMK AO2 T00051043 LIBC 190950Z 01008KT 340V040 CAVOK 14/07 Q1024 RMK VIS MIN 9999 KRAL 190953Z AUTO 06003KT 10SM CLR 08/06 A3021 RMK AO2 SLP220 T00830061 ETNL 191023Z 30019G32KT 2500 R28/0900D +RA BR SCT005 BKN011 10/08 Q1000 YLO VTBO 191000Z 04010KT 8000 SCT150 26/17 Q1013 LGSM 191020Z 02008KT 9999 SCT025 16/11 Q1021 LIBD 191020Z 34006KT CAVOK 14/08 Q1024 KRBD 190953Z 06004KT 6SM -RA BR OVC005 08/06 A3014 RMK AO2 RAB52 SLPNO P0000 T00830061 KPSM 190958Z 28005KT 10SM FEW035 FEW055 M01/M05 A2984 RMK AO2A SLP109 T10141055 KPSN 191035Z AUTO 36007KT 3SM RA OVC004 09/09 A3009 RMK AO2 P0002 T00950092 LHKE 191015Z 24006KT 210V270 8000 NSC 09/07 Q1019 NOSIG RMK BLU LIBF 190950Z 00000KT CAVOK 15/09 Q1024 ETNN 191020Z 20014G26KT 8000 -RA SCT020 BKN050 OVC120 12/09 Q1011 RERA BLU BLU TEMPO GRN KPSO 191035Z AUTO 00000KT 10SM CLR M08/M08 A3014 RMK AO2 T10801082 VTCH 191000Z 28004KT 230V330 9999 FEW028 28/15 Q1014 A2996 LGRX 191020Z 04007KT CAVOK 15/10 Q1022 LGSO 190950Z 35009KT 9999 FEW018 15/10 Q1021 KPRX 191035Z 05006KT 2 1/2SM OVC002 07/06 A3015 RMK AO1 LIBG 190950Z VRB02KT 9999 FEW018 14/10 Q1023 KRAP 190952Z AUTO 30006KT 10SM CLR M02/M08 A2998 RMK AO2 SLP175 T10221078 KRBG 190953Z AUTO 00000KT 10SM FEW041 SCT055 OVC070 09/07 A2996 RMK AO2 RAE0857 SLP146 P0000 T00890072 $ KPSP 190953Z 33007KT 10SM CLR 11/06 A3022 RMK AO2 SLP233 T01060056 VTBS 191030Z 07005KT 9999 FEW030 BKN300 28/15 Q1014 NOSIG LGSR 191020Z 34010KT 9999 SCT025 17/11 Q1021 VTCL 191000Z 04003KT 9999 FEW025 25/16 Q1016 A3001 INFO LICA 190950Z 00000KT 9999 FEW035 16/09 Q1024 VTBU 191030Z 02005KT 5000 HZ NSC 29/16 Q1012 A2991 KRCA 190958Z AUTO 28007KT 10SM CLR M03/M08 A2997 RMK AO2 SLP178 T10321081 $ KRAS 191015Z AUTO 14004KT 7SM SCT015 BKN037 OVC075 20/19 A2994 RMK AO2 LTG DSNT N T01950190 LICB 190950Z 26003KT CAVOK 16/09 Q1025 ETNS 191020Z AUTO 25012KT 5000 // ////// 08/07 Q1001 /// KPTK 190953Z AUTO 36006KT 10SM OVC011 M04/M07 A3020 RMK AO2 SLP239 T10441067 KPUB 190953Z AUTO 29003KT 10SM CLR M07/M09 A3009 RMK AO2 SLP204 T10721089 ETNT 190954Z 27019KT 9999 -SHRA BKN012 BKN060 09/06 Q1004 GRN BLU TEMPO GRN VTCN 191000Z 02002KT 9999 FEW025 26/09 Q1015 A3000 RWY/02 INFO/E LICC 191020Z 22004KT 190V260 9999 FEW030 16/10 Q1025 KPUC 190953Z AUTO 01004KT 10SM CLR M06/M09 A3018 RMK AO2 SLP268 T10611089 KRBL 191015Z AUTO 14019G27KT 10SM OVC009 11/09 A3009 RMK AO2 PK WND 14027/1007 T01110094 LICD 190950Z 02009KT 9999 FEW020 17/12 Q1025 VTCP 190800Z 01007KT 9999 FEW025 BKN300 29/14 Q1015 A2998 INFO E RWY01 LIBN 190955Z 34006KT 9999 FEW025 14/12 Q1023 RMK SCT VIS MIN 9999 WIND THR14 33005KT BLU KPTN 191035Z AUTO 09007KT 5SM BKN004 OVC014 14/13 A3004 RMK AO1 KRCE 191015Z AUTO 02009KT M1/4SM FG OVC002 02/02 A3020 RMK AO2 VSBY M1/4V5 KRBO 182255Z AUTO 15010KT 10SM SCT036 BKN050 OVC090 24/20 A2996 RMK AO2 T02400197 ETNW 191020Z 23017G28KT 9000 -RA BKN014 OVC025 11/10 Q1005 GRN GRN KPSX 190553Z AUTO 08007KT 9SM FEW005 OVC012 18/18 A2999 RMK AO2 RAE14B36E48 SLP156 P0000 60031 T01830178 10217 20183 402390183 58004 LICG 190955Z /////KT 9999 SCT013 16/12 Q1026 RMK SCT VIS MIN 9999 WIND THR08 05008KT WIND THR21 03008KT BLU LIBP 190950Z VRB02KT CAVOK 13/07 Q1024 KT35 191015Z AUTO 36011KT 5SM -RA OVC005 10/09 A3007 RMK AO2 LTG DSNT SE S AND NW P0001 T00950090 LIBQ 182155Z 10008KT 0000 FG VV/// 02/01 Q1019 RMK MON INVIS VAL INVIS VIS MIN 0000 VTCT 191000Z 03006KT CAVOK 24/11 Q1018 A3007 RMK/RWY03 INFO K LIBR 191015Z 31012KT 9999 FEW015 14/11 Q1023 NOSIG LGTS 191020Z VRB03KT 8000 FEW020 10/08 Q1023 NOSIG LICJ 191020Z 24004KT 9999 SCT025 17/13 Q1026 KPUJ 191035Z AUTO 32006KT 10SM CLR 03/02 A3012 RMK AO2 KPTS 191015Z AUTO 03006KT 1 3/4SM BR OVC003 02/02 A3020 RMK AO2 T00200021 KPTT 191015Z AUTO 17003KT 3SM BR SCT001 OVC017 00/00 A3018 RMK AO2 KPVB 191015Z AUTO 00000KT 10SM OVC014 M04/M07 A3028 RMK AO1 T10431068 KPVC 191035Z 31014G19KT 10SM OVC038 03/M04 A2987 RMK AO1 LIBV 190955Z 36007KT 9999 SCT018 12/08 Q1023 RMK SCT VIS MIN 9999 WIND THR32 35007KT WIND THR14 35007KT BLU KPVD 190951Z AUTO 27007KT 10SM CLR 01/M04 A2990 RMK AO2 SLP124 T00061039 KRDD 191034Z AUTO 17021G26KT 6SM RA BR OVC013 11/09 A3005 RMK AO2 PK WND 16026/1034 RAB0954 P0012 T01110094 KPTV 191035Z AUTO 11006KT 10SM CLR 08/05 A3019 RMK AO1 KRCM 191035Z AUTO 01003KT 1/2SM FG OVC002 00/00 A3025 RMK AO2 ETOU 190958Z AUTO 23016G21KT 9999 OVC020 11/08 A2998 RMK AO2 PK WND 22026/56 RAB0928E0938 SLP155 P0000 T01070084 $ GCGM 191000Z 00000KT CAVOK 20/11 Q1028 RMK CAB09 VRB02KT GCFV 191030Z 05007KT 9999 FEW020 20/16 Q1029 KRBW 191035Z AUTO 00000KT 10SM CLR 04/ A3009 RMK AO2 KPVE 191035Z AUTO 03004KT 10SM OVC040 02/00 A3021 RMK KPTW 190954Z AUTO 29004KT 10SM OVC030 01/M04 A3004 RMK AO2 SLP171 T00111039 KPVF 191035Z AUTO 14011KT 10SM OVC085 08/02 A3017 RMK AO1 KPVG 191035Z AUTO 00000KT 10SM CLR M04/M07 A3012 RMK AO1 KRDG 191006Z AUTO 28008KT 10SM OVC034 02/M04 A3003 RMK AO2 T00171044 KQLP 190955Z AUTO 04007G14KT 25/08 Q1023 RMK AO2 SLP124 T02480081 PWINO TSNO $ LICR 190950Z VRB02KT 9999 FEW030 17/12 Q1023 RMK VIS MIN 9999 KRCR 191015Z AUTO 26005KT 7SM SCT013 SCT026 M02/M03 A3025 RMK AO2 GCHI 191000Z 15007KT 9999 FEW025 22/16 Q1028 LIEA 191020Z 19011KT 9999 BKN025 16/14 Q1026 KPWA 190953Z AUTO 02010KT 1/4SM FG VV001 03/03 A3018 RMK AO2 SLP224 T00330028 KPVJ 191035Z AUTO 06005KT 2 1/2SM BR OVC003 05/04 A3017 RMK AO2 T00460043 LICT 190955Z 33005KT 9999 FEW025 17/12 Q1025 RMK FEW VIS MIN 9999 WIND THR13 /////KT BLU KRDK 191015Z AUTO 19004KT 5SM BR OVC006 M01/M01 A3024 RMK AO2 KPWC 191033Z AUTO 15006KT 7SM BKN019 OVC029 M08/M09 A3020 RMK AO2 KRCV 191030Z AUTO 26011KT 10SM CLR M09/M13 A3012 RMK AO2 T10941130 KRDM 190956Z AUTO 19011KT 10SM FEW050 OVC090 06/02 A2987 RMK AO2 RAB12E30 SLP115 P0000 T00610022 LIEE 191020Z 29003KT 250V360 CAVOK 14/12 Q1027 KPUW 190953Z AUTO 08008KT 10SM OVC070 04/02 A2993 RMK AO2 RAE04 SLP146 P0000 T00440017 FLHN 191000Z 33008KT 9999 SCT035 SCT100 29/19 Q1016 NOSIG=3D=C2=A0 KRCX 191035Z AUTO 20005KT 10SM OVC010 M04/M06 A3026 RMK AO2 T10451060 KPWG 191035Z AUTO 36010KT 8SM OVC006 08/04 A3012 RMK AO1 LTG DSNT W LICZ 190955Z 27002KT 9999 FEW020 17/14 Q1025 RMK FEW VIS MIN 9999 WIND THR28 25003KT A3028 BLU KRCZ 191015Z AUTO 00000KT 10SM BKN065 03/00 A3011 RMK AO2 T00320000 KQMR 190955Z AUTO 11004KT 9999 CLR 29/23 A2995 RMK AO2 SLP140 T02900230 $ KRDR 191026Z AUTO 17009KT 3SM R17/4000FT -FZDZ BR OVC004 M06/M06 A3008 RMK AO2 ETSA 191020Z 23018KT 9999 FEW020 SCT140 11/05 Q1019 BLU+BLU+ TEMPO BLU KPWK 190952Z AUTO 34005KT 9SM OVC024 M02/M05 A3029 RMK AO2 SLP266 T10221050 ETSB 191020Z AUTO 24015G25KT 2500 // ////// 08/07 Q1013 /// KRDU 190951Z 00000KT 10SM BKN065 06/M03 A3011 RMK AO2 SLP195 T00561028 KPVU 191035Z AUTO 00000KT 10SM CLR M03/M05 A3021 RMK AO1 KPWM 190951Z 00000KT 10SM CLR M03/M05 A2983 RMK AO2 SLP103 T10281050 KRFD 190954Z 31007KT 10SM OVC014 M03/M07 A3030 RMK AO2 SLP271 T10281067 KPVW 191015Z AUTO 09006KT 7SM -DZ BKN006 OVC010 03/02 A3010 RMK AO2 T00300023 KPXE 191015Z AUTO 33003KT 10SM CLR 05/01 A3013 RMK AO2 T00530005 ETSE 190720Z 26006KT 9999 BKN023 09/06 Q1020 WHT LIEO 191020Z 23011KT CAVOK 16/11 Q1025 KREO 190952Z AUTO 16016KT 04/M02 A2999 RMK AO1 SLP159 T00441017 KT65 191015Z AUTO 30005KT 4SM BR BKN003 OVC009 18/17 A2994 RMK AO2 T01770166 ETSH 191020Z 23017G27KT 9999 BKN025 BKN040 13/08 Q1007 BLU KRFI 191015Z AUTO 04006KT 7SM OVC005 09/09 A3010 RMK AO2 LTG DSNT SW T00930091 ETSI 191020Z 25013KT 9999 FEW020 SCT120 11/07 Q1018 BLU+BLU LHPA 191015Z 21004MPS CAVOK 12/05 Q1018 NOSIG RMK BLU KPWT 191035Z AUTO 18007KT 10SM SCT006 BKN014 OVC085 08/08 A2982 RMK AO1 P0001 ETSL 191020Z 22014KT 9999 FEW020 SCT130 10/06 Q1019 BLU+ ETSN 191020Z 23010KT 9999 FEW016 SCT140 BKN300 11/07 Q1018 BLACKBLU+ LGZA 190950Z 02004KT 9999 FEW018 16/12 Q1022 GCLA 191030Z 00000KT 9999 FEW035 22/12 Q1028 KRGK 191031Z AUTO 00000KT 10SM SCT022 OVC090 M05/M08 A3027 RMK AO2 FLKK 181300Z 03004KT 9999 BKN045TCU FEW100 29/16 Q1014 KPYM 190952Z AUTO 28005KT 10SM OVC035 01/M03 A2988 RMK AO2 SLP119 T00061028 KT82 191015Z AUTO 02007KT 7SM OVC007 09/08 A3006 RMK AO2 LTG DSNT NW THRU SE T00870077 LHPP 191015Z 25004KT CAVOK 11/05 Q1020 FMCH 191000Z 33011KT 9999 FEW023 33/26 Q1112 NOSIG KRHI 191032Z AUTO 00000KT 1 3/4SM BR OVC002 M16/M18 A3022 RMK AO2 VIS 1/2V5 T11611183 LHPR 191015Z 23006KT CAVOK 13/06 Q1019 AGGH 191000Z 16003KT 9999 HZ FEW016 SCT100 BKN300 26/25 Q1009 KQRB 190955Z AUTO 06004G13KT 9999 FEW090 SCT220 29/25 A2995 RMK AO2 SLP141 T02860248 KRIC 190954Z 34003KT 10SM SCT090 01/M05 A3011 RMK AO2 SLP202 T00111050 KPYX 191015Z AUTO 00000KT 3SM OVC003 02/02 A3014 RMK AO2 T00210016 KRHP 191015Z AUTO 00000KT 10SM CLR M03/M03 A3012 RMK AO2 T10301031 KPZQ 191035Z AUTO 27003KT 10SM SCT016 M10/M10 A3024 RMK AO2 T11001103 KQRH 190955Z AUTO 08007G15KT 050V120 9999 CLR 29/18 A3007 RMK AO2 SLP180 T02940176 $ GCLP 191030Z VRB01KT 9999 FEW020 20/15 Q1029 NOSIG KQSA 190956Z VRB01KT 9999 CLR 13/M15 A3022 RMK AO2A SLP188 T01301151 $ KSAA 191015Z AUTO 15004KT 10SM OVC049 M08/M10 A3011 RMK AO2 KRIL 191035Z AUTO 14003KT 10SM SCT015 OVC028 M02/M03 A3019 RMK AO2 T10171033 KSAC 190953Z AUTO 14007KT 10SM OVC070 12/08 A3016 RMK AO2 SLP214 T01170083 KRHV 190550Z 15005KT 10SM SKC 13/10 A3017 RMK LAST KSAD 190951Z AUTO 14003KT 10SM CLR 02/01 A3018 RMK AO2 SLP215 T00170011 FMEE 191030Z 30018KT 9999 FEW026 BKN230 32/24 Q1010 NOSIG KSAF 190953Z AUTO 34010KT 10SM CLR M02/M05 A3011 RMK AO2 SLP192 T10221050 KU16 190958Z AUTO 07003KT 10SM FEW075 M07/M09 A3016 RMK AO2 SLP833 T10671089 TSNO $ FMCZ 191030Z 33011KT 9999 FEW023 BKN250 32/24 Q1011 NOSIG KSBA 190953Z AUTO 00000KT 10SM CLR 11/09 A3019 RMK AO2 SLP222 T01060089 KQTC 190955Z AUTO 13008G12KT 10SM CLR 33/M02 A2999 RMK AO2 SLP111 T03311024 $ KSBD 190449Z 11006KT 10SM SCT040 08/05 A3022 KRKD 191035Z AUTO 28004KT 10SM BKN044 BKN070 M02/M04 A2980 RMK AO1 KRIV 190958Z AUTO 08002KT 10SM CLR 05/05 A3020 RMK AO2 SLP227 T00480048 LHSM 191015Z 15002KT CAVOK 10/06 Q1019 NOSIG ETWM 191020Z 26013KT 9999 FEW016 BKN042 09/07 Q1007 BLU KSAN 190951Z 00000KT 10SM CLR 13/09 A3022 RMK AO2 SLP231 T01280089 KRIW 191020Z AUTO 02005KT 1/4SM FZFG VV001 M14/M16 A3007 RMK AO2 T11391156 LHSN 191015Z 23010KT CAVOK 08/06 Q1018 NOSIG RMK BLU FMEP 191030Z AUTO 27020KT 9999 BKN090/// 30/23 Q1010 KQTH 190955Z 04008G17KT 9999 CLR 25/05 A3020 RMK AO2A SLP216 T02470053 KSAR 191035Z AUTO 00000KT 10SM OVC034 M01/M03 A3028 RMK AO2 T10101029 KSAT 190951Z 01010KT 6SM -DZ BR BKN007 OVC018 12/10 A3003 RMK AO2 SLP155 P0000 T01170100 KQTM 190959Z AUTO 04013KT 9999 CLR 19/01 A2983 RMK CDP03569 CLR KSAV 190953Z AUTO 26003KT 10SM CLR 07/04 A3009 RMK AO2 SLP190 T00720039 TSNO KSBM 191037Z AUTO 30006KT 10SM OVC030 M06/M08 A3026 RMK AO2 T10561078 KQUD 190955Z AUTO 20003KT 10SM CLR 30/21 A3018 RMK AO2 SLP160 T03000205 TSNO $ KSCD 191035Z AUTO 00000KT 7SM CLR 00/00 A3017 RMK AO2 T10011001 LHUD 191015Z 18008KT 7000 BKN083 07/05 Q1020 GBYD 191000Z 08010KT CAVOK 24/03 Q1014 KSBN 190954Z 25004KT 8SM BKN018 OVC022 M02/M05 A3024 RMK AO2 SNB13E38 SLP250 P0000 T10221050 KSAW 191036Z AUTO 00000KT 10SM OVC020 M06/M08 A3023 RMK AO2 T10651079 LJCE 191030Z 23011KT CAVOK 12/05 Q1020 RMK BLU KSCF 191035Z AUTO 11011KT 4SM BR FEW110 18/17 A3001 RMK A01 KSBO 191015Z AUTO 00000KT 10SM CLR 05/03 A3010 RMK AO2 KRKP 190953Z AUTO 9SM FEW020 BKN043 OVC080 21/19 A2995 RMK AO2 LTG DSNT NE SLP142 T02110194 KSBP 191017Z AUTO 00000KT 10SM OVC033 12/11 A3023 RMK AO2 T01170106 KSCH 190159Z 27012G17KT 10SM OVC020 01/M03 A2995 KSAZ 191034Z AUTO 15005KT 7SM -SN OVC011 M08/M09 A3017 RMK AO2 KRKR 191035Z AUTO 00000KT 5SM BR BKN006 OVC016 05/04 A3021 RMK AO2 LTG DSNT SW T00500035 LIMA 190950Z 18004KT CAVOK 07/04 Q1023 KRKS 190954Z AUTO 24013KT 10SM CLR M06/M08 A3013 RMK AO2 SLP237 T10561083 KSBS 191035Z AUTO 00000KT 5SM OVC025 M08/M09 A3015 RMK AO1 T10791089 KSDA 191015Z AUTO 19004KT 3SM BR BKN007 OVC012 M01/M01 A3025 RMK AO2 KSDB 190948Z AUTO 06004KT 10SM CLR 06/00 A3021 RMK AO2 SLP212 T00560000 KSCK 190955Z AUTO 12011KT 7SM OVC110 11/09 A3016 RMK AO2 SLP212 T01060089 LIMC 191020Z VRB02KT CAVOK 09/05 Q1023 NOSIG LIME 191020Z VRB02KT CAVOK 10/05 Q1023 KRME 190953Z AUTO 29012KT 10SM BKN032 OVC043 M03/M05 A3003 RMK AO2 SLP175 T10331050 LIMF 191020Z VRB01KT CAVOK 08/04 Q1023 KSDF 190956Z 03005KT 8SM FEW015 OVC070 M01/M05 A3027 RMK AO2 SLP254 T10061050 KQVF 190955Z AUTO VRB04KT 9999 FEW240 33/22 A2995 RMK AO2 SLP141 T03280217 LIMG 190950Z 31002KT 9999 BKN050 11/09 Q1025 KRMG 190953Z AUTO 31006KT 10SM CLR 02/01 A3016 RMK AO2 SLP212 T00220006 KSBY 190954Z AUTO 30007KT 10SM OVC120 03/M04 A3008 RMK AO2 SLP189 T00281039 KQTZ 190955Z 11007KT 5000 HZ SCT180 OVC200 15/08 A3014 RMK SLP207 WND/ALSTG/SLP ESTMD LIMJ 191020Z 15005KT 120V190 9999 FEW018 BKN032 16/12 Q1024 KSEA 190953Z 16008KT 10SM -RA OVC044 09/07 A2981 RMK AO2 SLP103 P0005 T00890072 LIMK 190955Z 19008KT CAVOK 09/07 Q1022 RMK SKC VAL S NEBBIA VIS MIN 9999 FKYS 191000Z 19003KT 160V270 6000 BKN016 27/21 Q1017 NOSIG LIML 191020Z VRB01KT 5000 BR FEW020 07/07 Q1024 NOSIG KSDL 190953Z 00000KT 10SM CLR 08/05 A3018 RMK AO2 SLP212 T00780050 KRNC 191035Z AUTO 00000KT 5SM BKN043 M01/M01 A3020 RMK KRND 191018Z AUTO 02012KT 10SM OVC007 11/10 A3003 RMK AO2 KSDM 190953Z AUTO 12006KT 9SM CLR 09/08 A3020 RMK AO2 SLP225 T00890078 $ LIMN 190955Z VRB02KT 5000 BR NSC 06/05 Q1023 RMK FEW FEW100 VIS MIN 5000 WHT KRMN 191015Z AUTO 33003KT 10SM OVC100 00/M05 A3016 RMK AO2 T00001055 KSEE 191015Z AUTO 00000KT 10SM 07/07 A3023 RMK AO2 LIMP 190950Z VRB02KT 0400 R20/0400N FG SCT002 04/04 Q1024 KSEG 190953Z AUTO 29007KT 10SM OVC032 02/M04 A3006 RMK AO2 SLP182 T00171044 KRNH 191015Z AUTO 20003KT 10SM OVC013 M06/M07 A3026 RMK AO2 T10561072 LIMS 190955Z 02003KT 1500 0800E BCFG SCT005 07/07 Q1023 KROA 190954Z 29009KT 10SM CLR 01/M07 A3013 RMK AO2 SLP210 T00111072 KSFB 190953Z AUTO 00000KT 10SM CLR 11/08 A3009 RMK AO2 SLP190 T01060083 KROC 190954Z 32011KT 9SM OVC013 M04/M06 A3009 RMK AO2 FZDZE51SNE51 SLP200 P0000 I1000 T10391061 KRNM 191030Z AUTO 07003KT 2SM BR CLR 04/03 A3020 RMK AO2 T00390033 $ KQWM 190955Z 24004KT 9999 OVC200 19/02 A3020 RMK SLP227 QNH1022 KSEM 191035Z AUTO 00000KT 10SM FEW039 04/02 A3017 RMK AO2 VTPH 191000Z 02010KT 8000 NSC 27/18 Q1013 NOSIG KSFF 190953Z AUTO 00000KT 10SM BKN037 OVC047 04/03 A2992 RMK AO2 RAB14E30 SLP138 P0001 T00440028 KRNO 190955Z 30007KT 10SM SCT065 SCT200 02/M01 A3010 RMK AO2 SLP185 T00221011 KROG 191037Z AUTO 13003KT 5SM BR OVC004 03/03 A3019 RMK AO2 KRMY 191034Z AUTO 00000KT 4SM BR BKN006 BKN009 OVC015 M02/M03 A3020 RMK AO2 T10251033 KRNP 191035Z AUTO 01004KT 10SM OVC016 M04/M05 A3024 RMK AO2 T10381050 KSDY 191035Z AUTO 00000KT 6SM CLR M06/M07 A2994 RMK AO1 KSEP 191035Z AUTO 01007KT 4SM SCT004 BKN060 OVC070 07/06 A3015 RMK AO2 P0002 T00700056 LIMZ 190950Z VRB02KT CAVOK 09/05 Q1023 GCRR 191030Z 05010KT 9999 FEW025 20/16 Q1029 LIPA 190955Z 08003KT 8000 FEW025 SCT080 09/07 Q1023 RMK SCT VIS MIN 8000 A3022 BLU KU68 191015Z AUTO 00000KT 10SM CLR M12/M12 A3004 RMK AO2 PWINO LIPB 190950Z VRB01KT CAVOK 06/04 Q1024 KRNT 190953Z AUTO 11006KT 7SM -RA OVC050 08/08 A2981 RMK AO2 SLP101 P0004 T00830078 KSET 190954Z AUTO 00000KT 8SM OVC028 00/M02 A3030 RMK AO2 SLP262 T00001022 FLSK 181300Z 00000KT 9999 SCT040 28/18 Q1015 LIPC 190955Z 00000KT 5000 BR NSC 09/06 Q1024 RMK SKC VIS MIN 3500S WIND THR11 00000KT YLO VTPO 191000Z 34006KT 8000 FEW025 28/15 Q1014 FNBC 190800Z VRB02KT 6000 OVC010 23/23 Q1016 KSFM 191035Z AUTO 27003KT 10SM SCT060 M02/M06 A2984 RMK AO1 KRNV 191035Z AUTO 04004KT 10SM BKN040 07/05 A3018 RMK AO2 LTG DSNT SW T00690053 KRPD 191035Z AUTO 14006KT 10SM OVC012 M05/M07 A3026 RMK AO2 T10491070 VTPP 191000Z 27003KT 7000 NSC 28/15 Q1014 LIPE 191020Z 01005KT 4000 BR FEW001 05/05 Q1024 LIPF 190955Z 00000KT 0200 FG SCT001 OVC002 05/02 Q1024 RMK OVC VIS MIN 0200 KSGF 190952Z 08003KT 5SM BR OVC004 03/02 A3019 RMK AO2 SLP230 T00330022 KSFO 190956Z 14008KT 10SM SCT022 BKN040 OVC050 13/11 A3015 RMK AO2 SLP209 T01330111 FNBG 190800Z 00000KT 9999 FEW020 BKN100 Q1015 LIPH 191015Z /////KT 1800 BR SCT002 BKN006 07/06 Q1024 KSGH 190956Z AUTO VRB06KT 6SM HZ OVC014 M03/M06 A3023 RMK AO2 T10271055 SLP250 KSFQ 191015Z AUTO 00000KT 10SM CLR M01/M02 A3011 RMK AO2 T10151025 KSEZ 191015Z AUTO 04008KT 10SM CLR 02/M02 A3020 RMK AO2 KRPH 191010Z AUTO 06004KT 3SM BR OVC005 07/07 A3015 RMK AO2 T00670067 LIPI 190955Z 01003KT 7000 SCT020 SCT025 09/07 Q1023 RMK BKN VIS MIN 7000 WIND THR06 34002KT WHT KROS 191036Z AUTO 00000KT 10SM OVC014 M06/M08 A3025 RMK AO2 T10591080 KRPJ 191015Z AUTO 32004KT 10SM OVC024 M04/M06 A3028 RMK AO2 T10371058 KSGJ 190958Z AUTO 29003KT 10SM CLR 08/07 A3010 RMK AO2 SLP194 T00830072 LIPK 190950Z VRB01KT 6000 NSC 11/09 Q1024 FNCA 190800Z 11005KT 9999 SCT016 28/24 Q1014 KRQB 191034Z AUTO 36003KT 10SM OVC013 M05/M06 A3022 RMK AO2 T10521065 KQXT 190955Z 25004KT 9999 CLR 18/M03 A3030 RMK SLP268 WND DATA ESTMD ALSTG/SLP ESTMD Q1026 LIPL 190955Z /////KT 1600 BR SCT004 SCT020 04/03 Q1023 RMK BKN VIS MIN 1600 WIND THR31 00000KT YLO KSHD 191015Z AUTO 00000KT 10SM BKN090 M04/M06 A3011 RMK AO2 T10381059 KROW 190951Z 36006KT 10SM BKN048 BKN070 04/01 A3009 RMK AO2 SLP166 T00440011 KRQE 191017Z AUTO 00000KT 10SM BKN020 M05/M07 A3019 RMK AO2 T10501072 TSNO LIPO 190950Z 32002KT 5000 BR SCT025 05/05 Q1024 KROX 191034Z AUTO 16008KT 10SM SCT011 BKN025 OVC032 M06/M09 A3012 RMK AO2 KSFY 191015Z AUTO 00000KT 10SM OVC019 M03/M07 A3030 RMK AO2 T10351070 LIPQ 191020Z 00000KT 9999 FEW045 BKN070 12/07 Q1023 KSFZ 191035Z 27008KT 10SM OVC043 01/M07 A2987 RMK AO1 VTSB 191000Z 04014KT 9999 SCT020 OVC120 27/27 Q1011 A2987 LIPR 191015Z 36001KT 3200 BR NSC 11/11 Q1023 KSGR 190953Z AUTO 07007KT 7SM -RA BKN006 OVC027 16/14 A3000 RMK AO2 SLP161 P0005 T01560144 VTSC 190800Z 05008KT 9000 SCT018 BKN050 OVC100 28/24 Q1011 A2985 RWY20 INFO E LIPS 190955Z 32003KT 1600 BR SCT008 BKN015 06/05 Q1023 RMK BKN VIS MIN 1600 WIND THR26 28002KT WIND THR08 29002KT YLO LIRA 191015Z 01003KT 9999 SCT070 11/07 Q1024 KSGS 191030Z AUTO 16003KT 10SM OVC060 M05/M08 A3026 RMK AO2 T10501080 KSGT 191035Z 02008KT OVC008 05/03 A3022 RMK AO1 GCTS 191030Z 07015KT 9999 FEW025 21/14 Q1028 NOSIG LIPU 190950Z VRB03KT 0800 FG OVC002 07/07 Q1024 KSGU 191035Z AUTO 22004KT 10SM CLR 02/M02 A3026 RMK AO1 KSHL 191015Z AUTO 18007KT 4SM BR OVC007 M02/M02 A3016 RMK AO2 VTSF 191000Z 02009KT 9000 -RA BKN016 BKN300 27/24 Q1011 A2986 INFO K / RWY 01 KSHM 191013Z AUTO 18002KT 10SM OVC014 M01/M05 A3007 RMK AO2 LIQN 190950Z 00000KT CAVOK 06/05 Q1025 VTSG 191000Z 04006KT 350V080 9999 FEW020 SCT300 29/23 Q1010 A2982 INFO M RWY32 KSHN 190953Z AUTO 18004KT 10SM SCT033 BKN046 OVC090 08/06 A2978 RMK AO2 RAB16E31 SLP086 P0000 T00780061 KRQO 191035Z AUTO 02010KT OVC001 02/02 A3018 RMK AO2 LTG DSNT S PWINO VTSH 191000Z 09008KT 9000 FEW020CB SCT040 BKN300 29/24 Q1010 A2985 CB SE LIRF 191020Z 06004KT 020V090 CAVOK 13/08 Q1025 NOSIG LIPX 191015Z 00000KT 0500 R04/0750U FG VV001 05/04 Q1024 KSIF 191015Z AUTO 00000KT 10SM CLR 00/M04 A3012 RMK AO2 T10051043 LIRG 190955Z 31001KT CAVOK 14/07 Q1025 LIPY 190950Z VRB02KT 7000 FEW004 09/08 Q1024 WMBA 191000Z 21003KT 9999 FEW017CB SCT030 BKN260 29/25 Q1009 LIRH 190955Z 30003KT 7000 NSC 09/05 Q1024 LIPZ 191020Z VRB01KT 2000 BR NSC 08/07 Q1023 LIRI 190950Z 00000KT CAVOK 15/07 Q1025 KSHR 190953Z AUTO 00000KT 10SM FEW120 M07/M12 A2997 RMK AO2 SLP183 T10721122 FMMI 191030Z 30011KT 270V330 9999 BKN020CB 29/22 Q1017 NOSIG VTSM 191000Z 03007KT 9000 FEW020 BKN300 28/22 Q1013 A2991 LIRL 190955Z 17002KT CAVOK 14/12 Q1024 KSJC 190953Z AUTO 11009KT 10SM OVC034 13/09 A3016 RMK AO2 SLP213 T01280089 KRRL 191015Z AUTO 00000KT 10SM CLR M12/M13 A3025 RMK AO2 T11171129 LIRM 190955Z 06005KT CAVOK 12/10 Q1025 KTAD 191019Z AUTO 27006KT 10SM BKN002 M04/M05 A3008 RMK AO2 T10391050 KSHV 191023Z 03007KT 7SM OVC008 10/08 A3013 RMK AO2 CIG 005V012 T01000083 LIQW 190955Z 33006KT 9999 SCT040 09/07 Q1024 VTSP 191030Z 06005KT 8000 FEW018 BKN300 29/22 Q1009 A2981 NOSIG LIRN 191020Z VRB02KT CAVOK 15/08 Q1024 VTSR 191000Z 05005KT 330V130 6000S HZ SCT025 BKN150 28/20 Q1010 A2985 VOR/DME RWY02 INFO O LIRP 191015Z 10004KT 9999 SCT070 11/09 Q1025 NOSIG VTSS 191030Z 03006KT 9999 FEW018CB BKN120 BKN300 27/24 Q1011 A2985 NOSIG LIRQ 191020Z VRB02KT 9999 FEW025 12/08 Q1025 VTST 191000Z 05013KT 9999 FEW020 BKN300 29/24 Q1008 RWY08 INFO K WMAU 191000Z 33006KT 1000 FEW000 SCT024 BKN140 24/24 Q//// QFF1009 LIRS 190955Z /////KT 9999 SCT050 10/05 Q1025 KSKA 191034Z AUTO 12008KT 10SM SCT030 SCT037 BKN048 BKN080 04/03 A2987 RMK AO2 RAB0958E34 VTUD 191000Z 05004KT 340V080 8000 NSC 26/12 Q1016 A3001 INFO L RWY30 KRRT 191034Z AUTO 16008KT 10SM OVC013 M07/M09 A3013 RMK AO2 LIRU 190950Z VRB03KT 8000 NSC 09/07 Q1025 FMMT 191000Z 08008KT 9999 SCT017CB BKN233 30/26 Q1009 NOSIG KRSL 190953Z AUTO 17006KT 7SM OVC019 M01/M01 A3017 RMK AO2 SLP235 T10061011 LIRV 190955Z 04006KT CAVOK 10/06 Q1024 FMNM 191000Z 04008KT 9999 SCT020CB BKN230 30/26 Q1012 NOSIG KTAN 190952Z AUTO 00000KT 10SM CLR M02/M03 A2988 RMK AO2 SLP117 T10171033 KSJN 190954Z AUTO 00000KT 9SM BKN020 M03/M04 A3020 RMK AO2 SLP225 I1001 T10281039 KRSN 191015Z AUTO 02005KT 10SM OVC006 09/08 A3019 RMK AO2 LTG DSNT SE T00850082 FMNN 190900Z 25004KT 9999 SCT020CB BKN100 32/23 Q1012 KSKF 191003Z AUTO 02009KT 10SM BKN010 OVC016 12/11 A3000 RMK AO2 CIG 009V016 BKN V SCT $ KRSP 181654Z AUTO 10SM OVC021 M02/M07 A3004 RMK AO2 SLP199 T10221067 $ VTUI 191000Z 11010KT CAVOK 25/13 Q1016 A3002 RWY05 INFO J KSIY 191008Z AUTO 19003KT 7SM -RA SCT027 OVC032 06/04 A2999 RMK AO2 P0003 T00560044 LIRZ 190950Z 06001KT 1400 BR OVC002 05/05 Q1026 VTUK 191000Z 01008KT CAVOK 22/11 Q1015 A2999 RWY 03 INFO L VTUL 191000Z 24004KT 8000 NSC 26/13 Q1016 A3001 KSJS 191035Z AUTO 02003KT 10SM OVC016 M01/M04 A3021 RMK AO2 T10131038 KSJT 190951Z AUTO 06010KT 10SM OVC007 08/06 A3009 RMK AO2 SLP183 T00830061 KRST 190954Z 18006KT 10SM OVC070 M06/M08 A3024 RMK AO2 SLP263 T10561083 KSLB 191015Z AUTO 18005KT 3SM BR OVC005 M02/M02 A3020 RMK AO2 KSLC 190953Z 16008KT 10SM FEW080 00/M03 A3018 RMK AO2 SLP223 T00001028 KTCC 190953Z AUTO 01008KT 8SM CLR M01/M03 A3007 RMK AO2 SLP184 T10111033 VTUO 190900Z 04009KT CAVOK 27/14 Q1014 A2995 INFO J RWY 04 KRSV 191035Z AUTO 36005KT 10SM OVC014 M02/M04 A3032 RMK AO2 T10221044 KTBN 190958Z AUTO 08003KT 10SM OVC006 01/01 A3020 RMK AO2 SLP239 T00080008 KRSW 190953Z 05004KT 9SM CLR 11/09 A3009 RMK AO2 SLP186 T01060094 KRTN 190953Z AUTO 00000KT 10SM OVC030 M03/M05 A3007 RMK AO2 SLP173 T10331050 KRUE 190953Z AUTO VRB04KT 9SM OVC006 05/03 A3022 RMK AO2 SLP230 T00500033 KSLE 190956Z AUTO 11006KT 10SM FEW036 08/06 A2989 RMK AO2 SLP123 T00780061 KSJX 191035Z AUTO 00000KT 10SM CLR M12/M13 A3025 RMK AO2 T11161127 GCXO 191030Z 11010KT 080V140 9000 FEW004 SCT010 BKN014 14/14 Q1030 NOSIG KRUG 191015Z AUTO 15005KT 2 1/2SM BR BKN003 BKN009 M04/M04 A2997 RMK AO2 VVCR 191030Z 04011KT 9999 FEW015 BKN050 24/21 Q1015 NOSIG KSLG 191035Z AUTO 01003KT 1/2SM OVC003 04/01 A3019 RMK AO1 KSLH 191038Z AUTO 00000KT 10SM CLR M13/M15 A3025 RMK AO2 T11401150 KTAZ 191015Z AUTO 02005KT 7SM BKN016 OVC035 M02/M04 A3030 RMK AO2 VVCT 191030Z 36005KT 9999 FEW015 SCT050 27/21 Q1011 NOSIG KTBR 191015Z AUTO 00000KT 10SM CLR 04/04 A3008 RMK AO2 T00380038 KSLI 190958Z AUTO 36001KT 10SM CLR 10/09 A3021 RMK AO2 SLP233 T00960090 FNGI 190800Z 17006KT CAVOK 26/09 Q1010 VTUU 191030Z 03009KT 8000 NSC 24/14 Q1014 A2997 NOSIG KRTS 191035Z AUTO 00000KT 10SM FEW055 05/M06 A3012 RMK AO2 LJLJ 191030Z 02001KT CAVOK 10/06 Q1021 NOSIG VTUV 190000Z 36004KT 6000 SCT025 BKN300 16/12 Q1019 A3010 INFO A RWY 36 KSLK 190951Z AUTO VRB03KT 5SM HZ OVC005 M07/ A2989 RMK AO2 SLP147 I1000 T1067 $ LJMB 191030Z 17003KT 120V220 CAVOK 13/05 Q1018 LIVC 190955Z 33020KT CAVOK 05/M06 Q1025 RMK SKC VVDN 191030Z 31004KT 9999 SCT015 BKN050 20/15 Q1019 NOSIG VTUW 191000Z 08008KT 9000 FEW030 SCT300 24/10 Q1016 A3002 RWY15 INFO J KTCL 190953Z AUTO 00000KT 8SM FEW038 01/00 A3020 RMK AO2 SLP225 T00110000 KTCM 190958Z AUTO 18005KT 10SM SCT043 BKN055 OVC110 08/08 A2982 RMK AO2 RAE30 SLP103 P0000 T00820082 KSLN 191032Z AUTO 14003KT 1 1/2SM BR OVC003 M01/M02 A3022 RMK AO2 T10111022 KSME 191015Z AUTO 02003KT 7SM OVC060 00/M03 A3023 RMK AO2 KSMF 190953Z 14008KT 10SM OVC055 11/08 A3015 RMK AO2 SLP209 T01110083 KSKX 191035Z AUTO 36004KT 10SM BKN009 M08/M09 A3013 RMK AO1 KSLO 191035Z AUTO 02003KT 7SM OVC041 00/M02 A3030 RMK AO2 T00011023 KTBX 191015Z AUTO 16006KT CLR M01/M15 A3008 RMK AO2 PWINO KTDF 191015Z AUTO 32003KT 10SM OVC060 04/M04 A3012 RMK AO2 KRUQ 191015Z AUTO 00000KT 10SM OVC050 01/00 A3011 RMK AO2 T00111003 KSLR 191035Z AUTO 05005KT 3SM BR OVC005 08/07 A3017 RMK AO2 T00780073 KTCS 190953Z AUTO 31007KT 10SM CLR 02/M01 A3015 RMK AO2 SLP193 T00171011 TSNO KSNA 190953Z AUTO 00000KT 10SM CLR 12/08 A3021 RMK AO2 SLP229 T01220083 TSNO EVRA 191020Z 22011KT 180V280 3900 RA SCT009 BKN011 OVC015 09/08 Q0990 R18/290195 NOSIG KTEB 190951Z 31007KT 10SM OVC036 03/M05 A2997 RMK AO2 SLP150 T00281050 KRUT 191035Z 32008KT 10SM OVC020 M03/M07 A2992 RMK AO1 KSNC 191035Z AUTO 33010G15KT 10SM OVC030 01/M05 A2993 RMK AO2 LKCV 191000Z 24012KT 9999 BKN029 12/08 Q1014 NOSIG KSMN 191035Z AUTO 00000KT 10SM OVC060 M03/M05 A3006 RMK AO1 KSMO 190951Z AUTO 06003KT 10SM CLR 11/07 A3021 RMK AO2 SLP228 T01110067 KRWF 190953Z AUTO 14008KT 7SM OVC011 M04/M06 A3020 RMK AO2 SLP242 T10391056 LIVP 181555Z 22010KT CAVOK 00/M04 Q1017 RMK SCT F KSNH 191035Z AUTO 01004KT 10SM OVC038 04/02 A3021 RMK KSMQ 190953Z AUTO 30005KT 10SM OVC040 03/M05 A2998 RMK AO2 SLP154 T00281050 KRWI 190953Z AUTO 00000KT 10SM SCT070 02/00 A3011 RMK AO2 SLP197 T00170000 KSMS 191035Z AUTO 00000KT 6SM BR CLR 01/01 A3009 RMK AO2 KRVS 190953Z 01007KT 5SM BR OVC004 03/03 A3022 RMK AO2 SLP239 T00330028 KSOA 191015Z AUTO 04008KT 6SM BR OVC004 11/11 A3010 RMK AO2 KSNK 191015Z AUTO 02005KT 10SM OVC008 04/02 A3015 RMK AO2 LTG DSNT E T00400022 KRWL 190953Z AUTO 24014KT 10SM CLR M06/M08 A3009 RMK AO2 SLP226 T10611083 KSNL 191015Z AUTO 03004KT 5SM BR OVC004 05/05 A3019 RMK AO2 FNHU 190800Z 00000KT 9999 FEW010 21/17 Q1024 FMSD 191000Z 10014KT 9999 TS SCT020CB SCT040 27/23 Q1011 KRXE 190953Z AUTO 19003KT 10SM SCT025 OVC046 00/M02 A3012 RMK AO2 SLP220 T00001017 KSMX 190951Z AUTO 21003KT 10SM CLR 11/08 A3020 RMK AO2 SLP229 T01110083 TSNO KTDZ 191009Z AUTO 28007KT 7SM SCT011 OVC027 M01/M04 A3022 RMK AO2 T10111039 TSNO KSPA 191035Z AUTO 03005KT 10SM CLR 05/M01 A3009 RMK AO2 KSNS 190953Z AUTO 11007KT 10SM CLR 11/08 A3019 RMK AO2 SLP233 T01110083 KSNT 190951Z AUTO 14007KT 00/M05 A3004 RMK AO1 SLP159 T00001050 KSPB 191037Z AUTO 18005KT 10SM FEW015 SCT020 OVC044 09/07 A2989 RMK AO2 T00890067 KSPD 190956Z AUTO 26004KT M02/M04 A3008 RMK AO1 SLP185 T10221039 KRWV 191015Z AUTO 36007KT 7SM -DZ BKN003 BKN015 OVC075 10/10 A3006 RMK AO2 P0001 KTEW 191034Z AUTO 04004KT 10SM OVC005 M03/M04 A3022 RMK AO2 T10331043 KTEX 190655Z AUTO 00000KT 10SM SCT029 M07/M10 A3017 RMK AO2 T10711105 KSPF 191015Z AUTO 25004KT 10SM CLR 00/M08 A2997 RMK AO2 KSNY 190953Z AUTO 29006KT 10SM CLR M07/M09 A3006 RMK AO2 SLP209 T10671094 KSPG 190953Z AUTO 02006KT 10SM CLR 14/11 A3009 RMK AO2 SLP188 T01390106 KSOP 191035Z AUTO 00000KT 10SM OVC060 03/M01 A3012 RMK AO1 KTFP 191015Z AUTO 16006KT 7SM -DZ SCT017 BKN070 OVC080 20/19 A2994 RMK AO2 LTG DSNT N T01990186 KSPI 190952Z 01003KT 10SM OVC038 M02/M05 A3030 RMK AO2 SLP267 T10171050 KTGI 191017Z AUTO 33010KT 10SM SCT090 BKN120 03/M02 A3010 RMK AO1 KTHA 191035Z AUTO 00000KT 3SM OVC005 M01/M01 A3019 RMK KSPL 191015Z AUTO 00000KT 3SM CLR A2993 RMK AO1 KRYN 190245Z 00000KT 10SM CLR 09/08 A3017 KSOW 191035Z AUTO 00000KT 10SM OVC015 M03/M04 A3021 RMK AO2 KSQE 191035Z AUTO 00000KT 10SM BKN017 BKN023 BKN050 23/20 A3001 RMK A01 KSQI 191035Z 30005KT 10SM OVC020 M04/M08 A3028 RMK AO1 KSPR 191035Z AUTO 16009KT 10SM FEW016 FEW021 BKN120 23/20 A2999 RMK A01 KSPS 190952Z AUTO 08010KT 6SM BR OVC005 06/05 A3015 RMK AO2 CIG 004V008 SLP211 T00610050 TSNO $ MBGT 190000Z 07008KT 9000 SCT012 24/20 Q1018 FNMA 190800Z 18005KT 9999 OVC007 19/17 Q1018 EVVA 191020Z AUTO 25013KT 9999 OVC031 07/06 Q0991 KSRB 191035Z AUTO 00000KT 3SM BKN048 M03/M03 A3019 RMK KRYT 190953Z AUTO 35008KT 10SM OVC024 00/M06 A3004 RMK AO2 SLP189 T00001056 $ KSQL 191030Z AUTO 15006KT 10SM BKN024 OVC030 13/10 A3017 RMK AO2 KSRC 190956Z AUTO 00000KT 7SM BKN011 OVC041 04/03 A3024 RMK AO2 SLP248 T00440033 TSNO KRZL 191035Z AUTO 28005KT 7SM OVC027 M02/M03 A3027 RMK AO2 FNKU 190800Z 21005KT 9999 FEW014 BKN020 23/15 Q1023 KRYV 191015Z AUTO 31003KT 10SM OVC021 M04/M05 A3027 RMK AO2 T10401052 KSPW 190953Z AUTO 17006KT 6SM BR OVC007 M02/M03 A3020 RMK AO2 SLP243 T10221033 TSNO KRYW 191015Z AUTO 03007KT 1 3/4SM +VCTSDZ OVC003 09/08 A3006 RMK AO2 LTG DSNT ALQS T00870080 LIYW 190958Z AUTO 07004KT 9999 CLR 10/10 A3023 RMK AO2 SLP243 T01000100 KRZN 191015Z AUTO 18003KT 10SM OVC012 M05/M07 A3026 RMK AO2 T10551075 KTIF 191015Z AUTO 28003KT 10SM CLR M10/M11 A3006 RMK AO2 T11031114 KRYY 190347Z 29004KT 10SM SCT034 06/M01 A3017 WMKA 191000Z 05006KT 340V120 9999 FEW020 BKN280 30/23 Q1009 LJPZ 191030Z VRB01KT 9999 BKN030 11/09 Q1023 KRZR 191035Z AUTO 00000KT 10SM CLR M03/M04 A3018 RMK WMKB 191000Z 06004KT 9999 FEW020 BKN150 BKN280 29/24 Q1008 NOSIG WMKC 191000Z 05008KT 020V080 8000 FEW018 SCT020 BKN280 28/25 Q1011 WMKD 191000Z 03005KT 9000 -RA FEW010 SCT024 BKN260 26/24 Q1010 NOSIG KRZT 191005Z AUTO 35003KT 10SM OVC019 M02/M07 A3023 RMK AO2 KTIK 191033Z AUTO 03006KT 8SM -DZ OVC004 03/03 A3018 RMK AO2 WMKE 191000Z 30003KT 9999 -RA FEW010 SCT020 BKN180 25/24 Q1010 KSSC 190958Z AUTO 00000KT 10SM CLR 03/01 A3007 RMK AO2 SLP185 T00300012 $ FNLU 190800Z 15006KT 9999 FEW018 BKN022 27/22 Q1014 NOSIG GEML 191030Z VRB02KT CAVOK 18/12 Q1031 KTHV 190953Z AUTO 28005KT 10SM OVC027 01/M04 A3007 RMK AO2 SLP188 T00061044 KW13 191035Z AUTO 00000KT 10SM CLR M03/M06 A3008 RMK AO1 T10281058 KSSF 190953Z AUTO 02009KT 10SM OVC010 12/10 A3001 RMK AO2 LTG DSNT SE RAB17E31 SLP159 P0000 T01170100 FNMO 190800Z 00000KT CAVOK 22/17 Q1014 WMKI 191000Z 00000KT 8000 -TSRA FEW005 FEW017CB SCT025 BKN260 25/24 Q1010 KTIP 191010Z AUTO 34004KT 7SM CLR M05/M08 A3028 RMK AO2 T10551076 WMKJ 191000Z 36004KT 9999 -RA FEW008 SCT022 BKN260 25/24 Q1009 KSRQ 190953Z AUTO 06003KT 10SM CLR 09/09 A3008 RMK AO2 SLP186 T00940089 WMKK 191030Z 22002KT 9999 FEW017CB BKN280 28/25 Q1009 NOSIG KSSI 190953Z AUTO 32004KT 10SM CLR 09/05 A3009 RMK AO2 SLP190 T00890050 KSRR 191035Z AUTO 36005KT 10SM CLR M02/M02 A3013 RMK AO2 WMKL 191000Z 03010KT 330V090 9999 FEW022 BKN280 30/23 Q1009 WMKM 191000Z 08002KT 9999 FEW020 BKN140 BKN270 26/24 Q1009 LKKB 191000Z 24020KT 9999 BKN026 BKN060 11/06 Q1013 NOSIG WMKN 191000Z 01008KT 9999 SCT022 BKN190 28/24 Q1010 KSTC 191023Z AUTO 13005KT 3SM -SN BKN043 BKN070 OVC095 M06/M08 A3022 RMK AO2 P0001 T10561083 KTKC 191033Z AUTO 17003KT 4SM BR OVC007 M02/M03 A3016 RMK AO2 T10201027 KW22 191015Z AUTO 28003KT 10SM OVC014 M04/M06 A3015 RMK AO2 WMKP 191000Z 05011KT 9000 FEW020 SCT140 BKN270 29/23 Q1008 NOSIG KTIW 190953Z AUTO 18005KT 10SM -RA OVC032 09/07 A2981 RMK AO2 SLP096 P0005 T00890072 KUBE 191015Z AUTO 22005KT 10SM OVC007 M06/M07 A3024 RMK AO2 KSTE 191015Z AUTO 00000KT 10SM SCT022 M12/M13 A3026 RMK AO2 T11191134 KTIX 190155Z 00000KT 7SM SCT120 09/09 A3012 RMK LAST KSTF 191035Z AUTO 00000KT 10SM OVC031 07/03 A3018 RMK AO2 KUAO 190953Z AUTO 18008KT 10SM FEW041 08/07 A2990 RMK AO2 SLP125 T00780067 LLBG 191020Z 20006KT CAVOK 18/12 Q1018 NOSIG KTKI 190953Z AUTO 04006KT 7SM OVC005 07/06 A3012 RMK AO2 SLP209 T00720061 KSUA 191015Z AUTO 33004KT 10SM CLR 11/10 A3009 RMK AO2 KSTJ 190953Z AUTO 00000KT 10SM OVC008 M01/M03 A3027 RMK AO2 SLP258 T10111028 KW29 191032Z AUTO 29009KT 10SM 01/M04 A3011 RMK AO1 KSTK 191030Z AUTO 26005KT 7SM CLR M10/M11 A3007 RMK AO2 KSTL 190951Z 00000KT 7SM OVC027 01/M03 A3029 RMK AO2 SLP266 T00061033 KW31 191035Z AUTO 00000KT 10SM CLR M02/M04 A3009 RMK AO1 T10251039 KSUE 191035Z AUTO 35004KT 10SM CLR M05/M07 A3028 RMK AO1 KSTP 190953Z AUTO 16004KT 10SM OVC060 M06/M08 A3028 RMK AO2 SLP265 T10561083 KTLH 190953Z AUTO 00000KT 10SM CLR 08/04 A3010 RMK AO2 SLP191 T00780044 $ VVNB 191030Z 28003KT CAVOK 18/06 Q1021 NOSIG KSTS 191032Z AUTO 14007KT 3SM -RA BR OVC004 12/11 A3011 RMK AO2 P0003 KTMA 191015Z AUTO 00000KT 10SM SCT042 OVC060 09/01 A3010 RMK AO2 T00920006 KTMB 190953Z AUTO 32003KT 6SM HZ CLR A3007 RMK AO2 SLP184 $ LKKU 191000Z 21008KT 180V260 9999 SCT040 13/10 Q1015 KSVC 191035Z AUTO 33008KT 10SM CLR 00/M01 A3017 RMK AO2 KTKV 191015Z AUTO 00000KT 10SM BKN001 M14/M15 A3024 RMK AO2 T11381155 LKKV 191030Z 24011KT 210V290 9999 -RA SCT010 BKN015 08/06 Q1013 KTME 191035Z AUTO 01005KT 5SM -RA OVC004 14/13 A3003 RMK AO2 LKLN 191000Z AUTO 25012G22KT 9999 OVC027 11/07 Q1015 KSUN 191015Z AUTO 32005KT 10SM SCT029 OVC070 00/M01 A3012 RMK AO2 KW43 191015Z AUTO RMK AO2 TSNO PWINO KUDG 191035Z AUTO 01004KT 10SM CLR 02/M01 A3012 RMK AO1 KUCP 190956Z AUTO 27006KT 4SM BR M02/M02 A3015 RMK AO2 TSNO T10221022 SLP237 $ KSVH 191015Z AUTO 00000KT 10SM BKN048 01/M01 A3010 RMK AO2 T00071015 LKNA 191000Z 24006KT 9999 FEW027 SCT110 BKN220 11/08 Q1015 NOSIG KSUS 190954Z AUTO 00000KT 9SM OVC026 01/M02 A3029 RMK AO2 SLP264 T00061022 KTMK 191035Z AUTO 13005KT 10SM SCT025 BKN050 OVC080 09/08 A2988 RMK AO2 P0001 KSUT 191015Z AUTO 00000KT 10SM CLR 03/01 A3009 RMK AO2 T00280014 KTNB 191015Z AUTO 28003KT 10SM BKN031 OVC035 00/M06 A3007 RMK AO2 T00021061 KSUU 191029Z AUTO 15001KT 10SM CLR 10/09 A3015 RMK AO2 RAB07E17DZB17 KSVN 190958Z AUTO 28003KT 10SM CLR 07/05 A3007 RMK AO2 SLP186 T00670046 KSUW 191015Z AUTO 23004KT 10SM OVC010 M05/M06 A3026 RMK AO2 T10501065 KSWF 190945Z 31010KT 10SM OVC030 01/M04 A2995 KSUX 190952Z 15004KT 6SM BR OVC014 M01/M02 A3020 RMK AO2 SLP240 T10061022 KUCY 191035Z AUTO 08004KT 10SM OVC044 01/M01 A3024 RMK VVPB 191030Z 27007KT 4000 -RA BR SCT013 OVC030 16/16 Q1021 NOSIG KTOA 190347Z 00000KT 10SM FEW020 12/11 A3021 RMK LAST FNSA 190800Z 00000KT 9999 SCT029 BKN100 22/18 Q1015 KTOB 191033Z AUTO 18004KT 7SM SCT028 OVC075 M05/M06 A3023 RMK AO2 LKMT 191030Z 21014KT 9999 OVC028 11/08 Q1014 NOSIG KTOC 191015Z AUTO 00000KT 10SM CLR 06/00 A3008 RMK AO2 T00550003 KW63 191015Z AUTO 00000KT 10SM CLR 00/M01 A3010 RMK AO1 KSWO 190953Z AUTO 03005KT 10SM OVC008 03/01 A3021 RMK AO2 SLP232 T00280006 KTOI 190953Z AUTO 00000KT 10SM CLR 05/02 A3015 RMK AO2 SLP208 T00500022 KTPA 190953Z 00000KT 10SM SCT200 BKN250 11/08 A3010 RMK AO2 SLP194 T01110083 KUES 191015Z AUTO 31004KT 10SM OVC020 M05/M07 A3027 RMK AO2 LLET 190950Z 06011KT CAVOK 24/08 Q1018 KTOL 190952Z 28006KT 6SM BR OVC010 M02/M04 A3021 RMK AO2 SLP239 T10221044 KTNU 191015Z AUTO 09004KT 10SM OVC048 M03/M05 A3025 RMK AO2 LKPD 191000Z 24012KT 9999 BKN029 12/07 Q1014 NOSIG KSWW 191015Z AUTO 04005KT 10SM OVC007 05/03 A3018 RMK AO2 LTG DSNT SE T00500032 KTPF 191035Z AUTO 05004KT 10SM CLR 12/10 A3010 RMK AO2 VVPQ 191030Z 00000KT 9999 SCT017 SCT040 27/19 Q1012 NOSIG KSYF 191015Z AUTO 24008KT 10SM CLR M05/M07 A3009 RMK AO2 T10511071 FNSO 190700Z VRB03KT 9999 FEW011 OVC100 23/23 Q//// KTOP 190953Z AUTO 30004KT 7SM OVC007 00/M02 A3026 RMK AO2 SLP254 T00001017 KW75 191035Z AUTO 34006KT 10SM SCT100 02/M04 A3011 RMK AO1 T00151040 KTPH 190956Z AUTO 01006KT 10SM CLR M03/M05 A3020 RMK AO2 SLP236 T10331050 KSYI 191035Z AUTO 02004KT 7SM OVC041 01/00 A3022 RMK KTOR 190953Z AUTO 00000KT 7SM CLR A3004 RMK AO2 SLPNO I1000 $ LLHA 190950Z 15006KT 9000 FEW030 BKN040 16/11 Q1019 RMK RERA KSXS 190956Z AUTO 35003KT 8SM FEW043 OVC050 10/03 A3015 RMK AO2 SLP211 T00980025 KW78 191015Z AUTO 00000KT 10SM CLR 00/M03 A3012 RMK AO1 T10011031 KSXT 191012Z AUTO 18015G24KT 1/4SM FG VV001 02/02 A2991 RMK AO2 UPB00E03SNE00B03E04 P0000 T00220022 FNUB 190800Z 35004KT 9999 FEW002 25/// Q1024 KTPL 191035Z AUTO 34008KT 4SM OVC005 08/06 A3007 RMK AO1 LTG DSNT N KW81 191035Z AUTO 00000KT 10SM CLR M03/M05 A3011 RMK AO1 T10341046 FNSU 190800Z 20005KT 9999 BKN012 26/21 Q1016 KSYM 191030Z AUTO 00000KT 10SM CLR M04/M06 A3026 RMK AO2 KTQE 191008Z AUTO 17007KT 5SM BR OVC006 M01/M02 A3022 RMK AO2 T10061022 KSYN 191034Z AUTO 00000KT 10SM OVC060 M04/M07 A3024 RMK AO2 T10451073 KUGN 190955Z AUTO 28005KT 10SM OVC023 M03/M06 A3027 RMK AO2 SLP265 T10281061 FNUE 190800Z 00000KT 9999 SCT040 23/18 Q1020 FNUG 190800Z 00000KT 8000 OVC017 22/21 Q1018 WMSA 191000Z 24005KT 190V280 8000 FEW010 FEW017CB SCT140 BKN280 28/25 Q1010 KTQH 191015Z AUTO 00000KT 1 3/4SM BR OVC005 03/03 A3020 RMK AO2 KSYR 191001Z 29010KT 8SM -FZDZSN OVC017 M03/M04 A3005 RMK AO2 P0000 T10281044 LKPR 191030Z 23029G39KT 9999 SCT023 10/06 Q1012 NOSIG LLIB 190950Z VRB02KT 5000 HZ FEW050 15/08 Q1019 RMK BKN100 KSZL 190958Z 04003KT 1/2SM R01/0900FT FG VV001 00/00 A3024 RMK AO2A SLP252 T00031001 $ MBPV 190300Z 06005KT 9999 SCT015 23/18 Q1018 GFLL 190900Z 03005KT 8000 HZ NSC 24/19 Q1013 KW96 191015Z AUTO 00000KT 10SM BKN095 M01/M03 A3011 RMK AO1 T10101032 KTRI 190953Z 28004KT 10SM OVC048 03/M05 A3014 RMK AO2 SLP204 T00281050 MDAB 182200Z 04005KT 9999 FEW018 27/25 Q1016 NOSIG KSZT 191035Z AUTO 05003KT 10SM BKN031 OVC039 02/02 A2993 RMK AO2 KW99 191015Z AUTO 00000KT 10SM BKN035 BKN044 M02/M05 A3014 RMK AO2 T10191050 KTRK 191015Z AUTO 20013G17KT 10SM CLR 02/M05 A3013 RMK AO2 KUIL 190953Z AUTO 20004KT 4SM -RA BR SCT025 SCT035 BKN042 09/08 A2973 RMK AO2 RAB44 SLP068 P0003 T00890078 KTRL 190953Z AUTO 06008KT 6SM BR OVC006 08/07 A3012 RMK AO2 SLP200 T00830067 KTRM 190952Z AUTO 35007KT 10SM CLR 08/04 A3019 RMK AO2 SLP222 T00830044 TSNO KVAD 190958Z AUTO 35004KT 10SM FEW210 07/03 A3011 RMK AO2 SLP199 T00710034 $ KUIN 190954Z AUTO 00000KT 7SM OVC032 M02/M04 A3028 RMK AO2 SLP262 T10221044 KVAF 191035Z AUTO 22014KT 10SM OVC110 23/19 A2997 RMK A01 KTTA 191015Z AUTO 00000KT 10SM OVC070 04/03 A3012 RMK AO2 T00370032 LKTB 191030Z 23009KT 9999 FEW020 BKN036 12/08 Q1015 NOSIG KTTD 190953Z AUTO 07003KT 10SM BKN075 07/06 A2989 RMK AO2 RAE02 SLP122 P0000 T00670056 KTTF 191034Z AUTO 03003KT 10SM OVC010 M02/M03 A3020 RMK AO2 KUKF 191015Z AUTO 33003KT 10SM CLR 03/M05 A3015 RMK AO2 KVBG 190955Z AUTO 13004KT 10SM FEW032 10/09 A3022 RMK AO2 SLP224 T01000094 TSNO $ KTSP 191015Z AUTO 12006KT 10SM CLR 00/00 A3022 RMK AO2 MDBH 182300Z 13010KT 9999 FEW018 SCT070 26/22 Q1016 NOSIG FOOG 191000Z /////KT 9999 SCT010 SCT030 29/24 Q1013 VVTS 191030Z 26006KT 9999 R25R/1900VP2000N SCT017 SCT040 29/21 Q1011 NOSIG KUKI 190956Z AUTO 17009KT 8SM FEW008 BKN018 OVC025 11/10 A3008 RMK AO2 RAE14B27E53 SLP181 P0002 T01110100 KVCB 190953Z AUTO 00000KT 4SM BR BKN035 OVC043 11/09 A3016 RMK AO2 RAB13E24 SLP214 P0000 T01060089 TSNO FOOL 190222Z 14006KT 9000 SCT011 FEW016CB 26/24 Q1011 NOSIG KTTN 190953Z AUTO 28004KT 10SM OVC033 02/M04 A3000 RMK AO2 SLP155 T00221044 FOON 191000Z 20002KT 8000 SCT012 25/22 Q1012 KVAY 190954Z AUTO 28006KT 10SM OVC033 03/M04 A3003 RMK AO2 SLP168 T00281044 KTTS 190958Z AUTO 30002KT 10SM BKN190 OVC210 11/10 A3009 RMK AO2 SLP193 T01060097 KVBT 191035Z AUTO 00000KT 1SM OVC003 04/03 A3019 RMK AO1 KUKT 191035Z AUTO 29005KT 10SM OVC028 01/M03 A3001 RMK AO1 KTUL 190953Z 34008KT 4SM BR OVC003 03/03 A3022 RMK AO2 SLP235 T00330028 KTVC 191028Z AUTO 00000KT 10SM BKN019 M11/M13 A3026 RMK AO2 T11061128 KULM 191033Z AUTO 15005KT 5SM BR OVC017 M04/M04 A3021 RMK AO2 KVBW 191035Z AUTO 00000KT 10SM SCT090 M04/M06 A3009 RMK AO2 T10431059 KVDF 191035Z AUTO 00000KT 4SM BR CLR 08/07 A3011 RMK AO2 KTVF 191035Z AUTO 16010KT 10SM OVC013 M06/M08 A3011 RMK AO1 KTUP 190953Z AUTO 00000KT 10SM OVC033 07/03 A3019 RMK AO2 SLP224 T00670028 KVDI 191015Z AUTO 31003KT 10SM CLR 07/02 A3010 RMK AO2 KTVI 191015Z AUTO 00000KT 10SM BKN110 08/04 A3012 RMK AO2 RJAA 191030Z 11005KT 9999 FEW030 SCT/// 00/M03 Q1030 NOSIG KTUS 190953Z 14005KT 10SM CLR 04/02 A3018 RMK AO2 SLP210 T00390022 KVCT 191025Z AUTO 02009KT 10SM -RA BKN005 OVC010 17/16 A2997 RMK AO2 LTG DSNT NE AND NW CIG 003V008 P0009 T01670156 KTVK 191010Z AUTO 00000KT 10SM OVC021 M03/M03 A3027 RMK AO2 KTVL 190953Z AUTO 18014G19KT 10SM OVC046 04/M09 A3014 RMK AO2 SLP184 T00441089 KVCV 191015Z AUTO 18003KT 10SM 01/00 A3022 RMK AO2 RJAF 190700Z 30004KT 260V330 CAVOK M00/M09 Q1026 KTWF 190953Z AUTO 17010KT 10SM CLR 03/M03 A3009 RMK AO2 SLP179 T00331033 MDCY 182300Z 18005KT 9999 FEW018 25/21 Q1015 NOSIG RJAH 191000Z 18002KT 9999 FEW030 03/M05 Q1030 KTVR 190953Z AUTO 03004KT 10SM OVC028 10/07 A3014 RMK AO2 SLP213 T01000072 KUNI 191015Z AUTO 00000KT 10SM OVC019 M02/M05 A3022 RMK AO2 T10201052 RJBB 191030Z 18003KT 150V220 CAVOK 07/M02 Q1030 BECMG 12006KT RJBD 191000Z 16003KT 090V250 9999 FEW030 SCT/// 06/M01 Q1030 KVEL 190953Z AUTO 08004KT 10SM OVC016 M03/M05 A3023 RMK AO2 SLP268 T10281050 KTWM 191001Z AUTO 22006KT 10SM OVC006 M04/M07 A3021 RMK AO2 SABE 191000Z 32014KT CAVOK 23/16 Q1006 RJBE 191000Z VRB01KT CAVOK 05/M03 Q1030 KUNO 191037Z AUTO 04005KT 1 3/4SM BR OVC002 02/01 A3019 RMK AO2 T00170006 SAAR 191000Z 34004KT CAVOK 20/17 Q1006 RJCA 190603Z 35001KT 4000 -SHSN FEW005 SCT015 BKN025 M02/M06 Q1023 RMK 1ST005 3ST015 6CU025 A3022 KVER 191015Z AUTO 06004KT 4SM BR OVC006 00/00 A3026 RMK AO2 T00000000 RJCB 191000Z 00000KT 9999 FEW040 BKN/// M11/M13 Q1023 KVES 191015Z AUTO 27005KT 10SM OVC022 M03/M04 A3022 RMK AO2 RJCC 191030Z 17004KT 9999 FEW030 BKN100 BKN/// M02/M07 Q1025 EYKA 191020Z 26016KT 9999 -DZ BKN013 OVC024 09/07 Q0997 R08/290095 KTXK 190953Z AUTO 06005KT 4SM BR OVC003 06/06 A3016 RMK AO2 SLP213 T00610061 KUNU 191015Z AUTO 00000KT 10SM SCT022 M07/M08 A3028 RMK AO2 T10661077 RJAW 190900Z 07015KT 9999 FEW020 BKN040 18/09 Q1023 RMK 1CU020 7SC040 A3022 KUNV 191015Z AUTO 28006KT 10SM OVC019 M01/M04 A3005 RMK AO2 T10101040 RJCH 191000Z 26014KT 9999 BKN035 02/M07 Q1026 RJCK 191000Z 35003KT 9999 FEW030 M06/M09 Q1023 RJBT 190900Z 23006KT 9999 FEW030 SCT150 BKN/// 01/M01 Q1028 RJDC 191000Z 10012KT 9999 FEW025 BKN050 BKN130 09/03 Q1027 RJCM 191000Z 20006KT 9999 FEW030 BKN/// M05/M07 Q1023 LLOV 181250Z VRB01KT CAVOK 22/03 Q1018 RJCN 190900Z 24001KT 9999 BKN040 M07/M09 Q1023 RJCO 190602Z VRB02KT 9999 FEW010 SCT020 BKN040 00/M04 Q1025 RMK 1ST010 3CU020 5CU040 A3027 SACO 191000Z 34003KT CAVOK 18/14 Q1010 SADF 191000Z 32006KT CAVOK 21/16 Q1006 KUOX 191015Z AUTO 00000KT 10SM OVC036 05/03 A3019 RMK AO2 PWINO PNO KTYQ 191015Z AUTO 31005KT 7SM OVC021 M05/M07 A3025 RMK AO2 T10481070 FQCH 190900Z /////KT 9999 BKN015 27/22 Q1017 KTYR 191033Z 01006KT 2SM BR OVC002 09/08 A3011 RMK AO2 T00890078 $ FQBR 181300Z 10008KT 9999 SCT018 30/25 Q1007 RJEB 190700Z 23003KT 200V280 9999 FEW040 SCT050 BKN070 M00/M06 Q1022 KTYS 190953Z 00000KT 10SM OVC041 01/M02 A3018 RMK AO2 SLP225 T00061022 RJEC 191000Z 18009KT 9999 FEW015 BKN045 M02/M07 Q1023 KVGT 190953Z 34003KT 10SM CLR 05/01 A3022 RMK AO2 SLP253 T00500011 RJCW 190900Z 24015KT 9999 FEW015 SCT030 BKN045 M01/M05 Q1020 KVIH 190953Z AUTO 08004KT 1/4SM FG VV002 00/M01 A3022 RMK AO2 SLP243 T00001006 KTZR 191015Z AUTO 10SM OVC022 M02/M05 A3022 RMK AO2 T10251054 RJDT 191000Z 17008KT 140V210 9999 FEW030 SCT100 BKN160 08/00 Q1025 MDJB 182300Z 03006KT 9999 BKN020 25/21 Q1016 LLSD 190950Z VRB03KT CAVOK 19/12 Q1017 RJFF 191030Z 15006KT 9999 FEW035 SCT045 BKN100 08/M00 Q1026 KUSE 191035Z AUTO 29005KT 6SM BR BKN010 OVC023 M02/M03 A3022 RMK AO2 RJFG 190900Z 09008KT 9999 FEW030 SCT070 BKN120 11/08 Q1025 KVJI 191015Z AUTO 00000KT 10SM OVC048 02/M05 A3012 RMK AO2 T00241048 KUTA 191035Z AUTO 36005KT 7SM SCT023 OVC035 06/04 A3021 RMK AO2 KVIS 191035Z AUTO 00000KT 10SM CLR 08/04 A3021 RMK AO1 RJFK 191000Z 09006KT 9999 FEW030 SCT045 BKN120 08/01 Q1026 KY19 191035Z AUTO 18004KT 7SM OVC070 M06/M07 A2996 RMK AO2 RJFM 191000Z 26006KT 9999 FEW025 SCT060 BKN120 09/04 Q1027 KWAL 190954Z AUTO 31004KT 10SM OVC110 01/M03 A3009 RMK AO2 SLP187 T00111028 RJFO 191000Z 15011KT 9999 FEW030 SCT070 BKN130 10/04 Q1027 KY23 191015Z AUTO 14004KT 10SM OVC010 M05/M07 A3025 RMK AO2 T10531069 RJGG 191030Z 05004KT 9999 FEW020 SCT170 BKN/// 05/M02 Q1030 NOSIG SAEZ 191000Z 32010G20KT 280V360 CAVOK 24/14 Q1006 RJFR 191000Z 12008KT 090V150 9999 FEW030 BKN050 09/04 Q1027 RJFS 191000Z 32004KT 9999 FEW035 BKN045 BKN050 07/01 Q1027 RJFT 191000Z 28003KT 210V310 9999 SCT050 BKN120 06/M01 Q1025 RJFU 191000Z 14006KT 9999 FEW025 BKN040 BKN080 07/03 Q1026 EYPA 191020Z 25008KT 200V300 9999 BKN007 07/06 Q0996 R19/2///95 KVLD 190953Z AUTO 00000KT 10SM CLR 06/04 A3011 RMK AO2 SLP202 T00610044 $ KUTS 191029Z AUTO 06006KT 5SM RA BR OVC005 11/11 A3003 RMK AO2 LTG DSNT S P0004 T01110106 KVKS 191035Z AUTO 05005KT 10SM OVC028 10/06 A3012 RMK A01 KUVA 191015Z AUTO 04004KT 10SM OVC010 13/12 A3003 RMK AO2 T01300118 KVLL 191035Z AUTO 30004KT 10SM OVC016 M02/M06 A3024 RMK AO2 T10201060 GGOV 191000Z 06010KT 9000 NSC 24/02 Q1014 NOSIG KVKY 191035Z AUTO 11016KT 10SM OVC100 20/14 A3004 RMK A01 KWDG 191015Z AUTO 02007KT 5SM BR SCT007 01/01 A3018 RMK AO2 SBAA 182000Z 20003KT 9999 FEW025 31/24 Q1008 MDLR 190300Z 00000KT 9999 FEW020 23/22 Q1018 KY50 191008Z AUTO 00000KT 10SM SCT023 M09/M11 A3028 RMK AO2 TSNO KY49 191015Z AUTO 16003KT 10SM -SN BKN015 OVC029 M08/M10 A3016 RMK AO2 T10771098 LMML 191015Z 07008KT 9999 SCT025 17/12 Q1024 NOSIG KUUU 190953Z AUTO 30007KT 10SM BKN037 OVC050 01/M03 A2988 RMK AO2 SLP120 T00111033 KVNC 191035Z AUTO 07005KT 10SM CLR 09/09 A3010 RMK AO2 TSNO KY51 191014Z AUTO 26004KT 10SM OVC012 M05/M07 A3025 RMK AO1 T10521067 SBAF 191000Z 22002KT 9999 FEW020 BKN090 26/20 Q1010 KWDR 190240Z AUTO 32005KT 10SM CLR 09/03 A3015 RMK AO2 T00900027 RJKA 191000Z 12014KT 9999 -SHRA FEW025 SCT035 BKN060 18/10 Q1024 KVOA 191035Z AUTO 09012KT 10SM FEW110 23/14 A3005 RMK A01 EYSA 191014Z 25013KT 9999 SCT008 BKN013 07/06 Q0994 R32R/29//95 R32L/29//95 SBAN 191000Z 00000KT CAVOK 19/17 Q1015 SBBE 191000Z 08003KT CAVOK 24/23 Q1010 KY63 191034Z AUTO 15009KT 5SM BR OVC004 M06/M06 A3013 RMK AO2 T10571061 SBBG 182100Z 21007KT 9999 FEW027 28/13 Q1010 FQIN 181300Z 24008KT 9999 BKN020 30/23 Q1010 SBAQ 191000Z 04003KT 9999 SCT015 24/22 Q1014 SBBH 191000Z 09007KT 9999 SCT035 22/17 Q1015 SBBI 191000Z 03004KT 5000 -DZ BKN003 BKN015 19/18 Q1014 SBAR 191000Z 07008KT 9999 SCT015 SCT100 26/23 Q1012 SBCA 191000Z 05010KT 9999 FEW030 BKN070 23/15 Q1012 SBAT 191000Z 00000KT 9999 FEW020 BKN090 24/23 Q1011 SBCB 191000Z 24010KT 9999 SCT040 24/24 Q1010 SBCC 191000Z 06003KT 9999 FEW020 SCT100 22/21 Q1012 SBAU 191000Z 32003KT CAVOK 24/20 Q1010 KY70 191034Z AUTO 02003KT 10SM OVC020 M02/M05 A3022 RMK AO2 T10251052 KVOK 191003Z AUTO 24005KT 10SM OVC013 M05/M05 A3027 RMK AO2 KVPC 190953Z AUTO 00000KT 6SM BR CLR 00/M01 A3016 RMK AO2 SLP212 T00001011 MDPC 191000Z 00000KT 9999 BKN016 BKN080 22/20 Q1015 RERA KUXL 191015Z AUTO 10009KT 7SM TSRA SCT017 BKN042 OVC050 14/13 A3009 RMK AO2 LTG DSNT ALQS P0004 T01370134 SBAX 191000Z 12004KT 4000 DZ BR SCT004 BKN018 20/19 Q1016 SBCF 191000Z 15003KT 9999 SCT025 21/17 Q1015 KUYF 191035Z AUTO 31005KT 10SM OVC020 M03/M05 A3021 RMK AO2 SBCG 191000Z 35002KT 9999 FEW020 SCT100 23/20 Q1010 SBBQ 191000Z 36004KT 9999 FEW008 BKN050 20/17 Q1018 SBCH 191000Z 10008KT CAVOK 23/18 Q1011 KVNY 190951Z 00000KT 9SM CLR 08/07 A3020 RMK AO2 SLP225 T00830067 SBCI 191000Z 35002KT 9999 -RA SCT005 SCT020 OVC080 23/22 Q1012 SBBR 191000Z 06002KT 9999 FEW040 BKN080 21/19 Q1015 SBCJ 191015Z 00000KT 8000 NSC 23/21 Q1014 KUZA 190954Z AUTO 00000KT 8SM CLR 01/M01 A3009 RMK AO2 SLP193 I1000 T00061006 SBBU 191000Z 06005KT 9999 SCT015 24/23 Q1011 SBCM 191000Z 00000KT CAVOK 21/19 Q1011 FPST 191000Z 17012KT 9999 FEW020CB BKN330 28/24 Q1014 NOSIG SBBV 191000Z 08010KT CAVOK 22/19 Q1010 SBBW 191015Z 00000KT 9999 FEW012 BKN100 23/23 Q1011 FQLC 191000Z 36006KT 9999 SCT017 FEW023CB 27/17 Q1019 RMK CB TOW/NW SAME 191000Z 18003KT CAVOK 20/11 Q1005 SBCO 191000Z 13004KT CAVOK 21/19 Q1010 SBCP 191000Z 00000KT CAVOK 27/23 Q1010 MDPP 190900Z 00000KT 9999 FEW016 21/21 Q1016 SBCR 191000Z 36003KT 9999 SCT005 BKN020 24/23 Q1008 KVPS 190955Z 03006KT 10SM BKN036 OVC110 12/04 A3012 RMK AO2A SLP206 T01170044 $ SBCT 191000Z 09004KT 9999 BKN009 BKN020 19/18 Q1014 FQMA 191000Z 10008KT 9999 SCT020 30/22 Q1013 NOSIG KVRB 190953Z AUTO 27003KT 10SM CLR 10/08 A3009 RMK AO2 SLP188 T01000083 SBDN 191000Z 27005KT 240V320 9000 NSC 25/22 Q1010 SBCX 181800Z 18010KT 9999 SCT020 FEW030TCU 23/19 Q1014 RJNG 181830Z 00000KT 9999 FEW030 BKN045 M05/M05 Q1029 RMK 1CU030 5SC045 A3040 SBEG 191000Z 08003KT 8000 SCT006 25/23 Q1009 SBCY 191000Z 34006KT 9999 FEW006 BKN100 23/22 Q1009 KWHP 182347Z 00000KT 10SM SCT055 14/07 A3017 SBCZ 191000Z 00000KT CAVOK 23/23 Q1008 KVQQ 191015Z AUTO 00000KT 7SM CLR 04/04 A3010 RMK AO2 KVPZ 191006Z AUTO 26008KT 10SM OVC014 M03/M06 A3025 RMK AO2 T10281056 TSNO RJOA 191000Z VRB02KT 9999 FEW020 SCT060 BKN130 03/M02 Q1028 SBEK 191015Z 28002KT 5000 BR VV003 25/25 Q1009 RJNK 191000Z 11005KT 9999 FEW030 BKN180 BKN/// 02/01 Q1028 RJOB 191000Z 13002KT 9999 FEW035 BKN140 03/M03 Q1029 EYVI 191020Z 24012KT 2900 -RA BR BKN005 OVC012 09/08 Q0997 R20/2/0395 NOSIG SAOC 191000Z 32004KT CAVOK 20/14 Q1005 RJOC 191000Z 17005KT 9999 FEW050 SCT140 BKN/// 02/00 Q1028 KVQT 191035Z AUTO 17006KT 10SM SCT060 22/20 A3000 RMK A01 RJOE 182206Z 30007KT 9999 FEW020 SCT060 03/M04 Q1032 RMK 1CU020 4SC060 A3048 MDSD 191000Z 00000KT 9999 SCT016 21/20 Q1015 RJOF 190545Z 09007KT 9999 FEW030 BKN150 BKN230 08/M00 Q1028 RMK 1CU030 5AC150 A3037 KVSF 191019Z AUTO 30004KT 10SM BKN028 OVC037 M02/M06 A2991 RMK AO2 T10171061 TSNO KWJF 190956Z AUTO 26003KT 10SM CLR 02/01 A3024 RMK AO2 SLP248 T00220006 RJOH 191000Z 19005KT 9999 FEW120 BKN150 02/00 Q1028 SBFI 191000Z 03001KT 3000 1000S BCFG BR NSC 22/22 Q1009 KVSH 191035Z AUTO 09011G19KT 10SM SCT030 BKN035 OVC100 14/09 A3006 RMK AO1 RJOI 190955Z 31006KT 9999 FEW025 SCT120 BKN200 04/M01 A3038 RMK SLP286 T00391011 SBES 191000Z 00000KT 9999 FEW015 24/22 Q1010 RJNS 191000Z 31008KT 9999 FEW030 SCT/// 04/M01 Q1029 RJOK 191000Z 36005KT 9999 FEW030 BKN050 BKN130 07/02 Q1029 RJNT 191000Z VRB02KT 9999 FEW030 SCT/// 00/M02 Q1029 SANT 191000Z 25004KT 9000 NSC 18/17 Q1008 KVTA 190954Z AUTO 25005KT 10SM OVC021 M02/M06 A3020 RMK AO2 SLP237 T10171056 SBFL 191000Z 33002KT CAVOK 22/19 Q1011 RJOM 191000Z 05004KT 9999 FEW030 SCT050 BKN140 08/M01 Q1028 SBFN 191000Z 12012KT 9999 SCT019 27/22 Q1013 RJNW 191000Z 05003KT 9999 FEW025 SCT030 BKN040 01/01 Q1028 LOAN 191000Z 27003KT 45KM FEW040CU RMK FEW RJOO 191000Z 06003KT 020V090 CAVOK 05/M02 Q1029 FQNP 191000Z 08005KT 9999 SCT025 SCT100 BKN/// 35/20 Q1011 RJOR 191000Z 14006KT 9999 FEW045 SCT130 BKN/// 03/M01 Q1028 RJOS 190215Z 30006KT 9999 FEW030 SCT045 BKN230 06/M05 Q1032 RMK 1CU030 4SC045 A3050 SBFS 191000Z 02010KT CAVOK 25/21 Q1009 KVTI 191015Z AUTO 00000KT 7SM BKN036 BKN048 M04/M07 A3028 RMK AO2 T10371067 RJOT 191000Z 15004KT 9999 FEW030 SCT140 BKN180 03/M01 Q1029 VYMD 191030Z 00000KT 7000 NSC 25/14 Q1015 NOSIG SBGL 191000Z 25005KT 9999 FEW025 BKN080 27/17 Q1009 MDST 191000Z 00000KT 9999 FEW014 SCT070 17/17 Q1016 SBGM 182300Z 24003KT CAVOK 27/24 Q1007 FQPB 191000Z 05019KT 9999 FEW020 BKN/// 31/26 Q1011 LOAV 191000Z VRB03KT 40KM FEW025CU SCT300CI 15/06 Q1018 RMK FEW RJOW 191000Z 17005KT 9999 FEW050 SCT140 BKN/// 05/M00 Q1027 KWLD 190954Z AUTO 36005KT 6SM BR OVC005 00/M01 A3023 RMK AO2 SLP246 T00001006 KVTN 190952Z AUTO 23008KT 10SM CLR M11/M13 A3005 RMK AO2 SLP216 T11111133 SBGO 191000Z 00000KT 9999 FEW030 SCT080 21/19 Q1013 RJOY 191000Z 16003KT CAVOK 05/M03 Q1029 SBFZ 191000Z 10013KT 9999 SCT025 27/20 Q1012 KVTP 191029Z AUTO 20005KT 7SM OVC001 M09/M11 A3004 RMK AO2 KXBP 191035Z AUTO 00000KT 7SM OVC005 07/07 A3022 RMK AO2 LTG DSNT S AND SW T00650065 SBGR 191000Z 06005KT 9000 NSC 21/18 Q1014 KVUJ 191015Z AUTO 00000KT 10SM SCT060 00/00 A3015 RMK AO2 T00001003 SBIC 191015Z 00000KT 9999 BKN008 BKN100 25/25 Q1010 SBGU 191000Z 09006KT 9999 SCT020 19/17 Q1014 SARC 191000Z 14004KT 9000 NSC 22/20 Q1008 KWMC 190956Z AUTO 18011KT 10SM SCT070 03/M02 A3008 RMK AO2 SLP186 T00281022 $ SBGW 191000Z 19002KT 7000 SCT010 SCT013 22/20 Q1013 SARE 191000Z 00000KT CAVOK 21/21 Q1008 SARF 191000Z 18002KT CAVOK 24/23 Q1008 KVUO 190953Z AUTO 00000KT 10SM CLR 07/06 A2989 RMK AO2 SLP122 T00720061 SBIH 191000Z 00000KT 9999 FEW007 SCT100 26/25 Q1009 KVVG 191015Z AUTO 00000KT 7SM 09/08 A3001 RMK A01 SARI 191020Z 18002KT 0500 FG BKN100 22/22 Q1010 RJSA 191000Z 22009KT 9999 FEW015 BKN040 01/M04 Q1027 SASA 191000Z 00000KT 5000 VCFG FEW003 15/14 Q1015 SBHT 191000Z 00000KT 9999 SCT010 BKN015 24/24 Q1010 RKJB 191000Z 10004KT 9999 BKN030 OVC080 02/00 Q1025 NOSIG SBIL 191000Z 26004KT 8000 VCSH SCT015 SCT040 BKN070 23/22 Q1012 RJSC 191000Z VRB02KT 9999 FEW020 BKN050 01/M01 Q1030 SARL 191000Z 09008KT CAVOK 09/08 Q1009 FQQL 191000Z 14007KT 9999 FEW020 BKN100 33/23 Q1010 SBJF 191000Z 01008KT 9999 FEW030 SCT060 BKN100 21/18 Q1015 RJSF 191000Z 17003KT 9999 FEW030 M00/M03 Q1029 SBIP 191000Z 00000KT 9999 BKN030 23/20 Q1012 SARP 191000Z 14003KT CAVOK 23/17 Q1009 RJSH 190234Z 25010KT 210V290 9999 FEW020 SCT040 BKN060 05/M03 Q1026 RMK 1CU020 3CU040 7SC060 A3031 RJSI 191000Z VRB01KT 9999 FEW010 SCT040 BKN050 M01/M02 Q1029 SCBA 182100Z 30017KT 9999 -RA FEW020 OVC030 10/083 Q0993 SASJ 191000Z 32005KT CAVOK 17/16 Q1012 RJSK 191000Z 14003KT 8000 FEW002 BKN030 BKN040 00/M00 Q1029 RKJK 190958Z AUTO 12008KT 10SM FEW020 02/M02 A3026 RMK AO2 UPB0948 SLP252 P0000 T00211021 $ RJTE 181812Z 04007KT 9999 FEW030 05/M07 Q1026 RMK 1CU030 A3031 RJSN 191000Z 15003KT 9999 FEW030 BKN040 03/00 Q1030 KVVV 191034Z AUTO 14007KT 5SM BR OVC010 M04/M06 A3013 RMK AO2 RJSO 190504Z 29006KT 240V340 5000 -SHSN FEW006 SCT010 BKN015 01/M01 Q1025 RMK 2ST006 4ST010 7CU015 A3029 2000N RJTF 190700Z 15007KT 9999 FEW030 08/M08 Q1029 SBKG 191000Z 07011KT 4500 -RA BKN008 BKN015 22/21 Q1015 SCAP 191000Z AUTO 24008KT 200V270 //// // SCT033 BKN045 09/04 Q1005 SBJP 191000Z 11004KT 9999 BKN020 27/23 Q1013 SBIZ 191000Z 00000KT 9999 SCT040 BKN100 25/24 Q1011 SBJR 191000Z 19002KT 9999 FEW030 BKN100 26/24 Q1010 RJTI 190700Z 15004KT 120V190 CAVOK 08/M07 Q1029 RJSR 191000Z 16006KT 9999 FEW010 SCT015 BKN040 00/M02 Q1028 SCAR 191000Z 05004KT 9999 OVC030 20/12 Q1014 SCAS 182000Z 24011KT 5000 RA BKN010 OVC030 14/14 Q0997 RJSS 191000Z VRB02KT 9999 FEW030 SCT/// 02/M02 Q1030 SBLB 191000Z 02025KT 9999 FEW015 26/22 Q1011 W///S4 SCAT 191000Z AUTO 20003KT 180V240 9999 // ///019 14/11 Q1017 SBJU 191000Z 09004KT 9999 SCT020 27/23 Q1015 SBJV 191000Z 00000KT 3000 -DZ BR BKN004 OVC015 21/21 Q1011 KVWU 191029Z AUTO 00000KT 10SM -SN SCT029 OVC041 M07/M08 A3015 RMK AO2 SBLE 182100Z 00000KT 9999 SCT020 BKN070 24/22 Q1013 RJTO 190700Z 15004KT 110V200 9999 FEW030 09/M03 Q1029 SCCF 191000Z 10013KT CAVOK 08/M06 Q1025 RJSY 191000Z 16006KT 9999 -SHRA FEW010 BKN040 02/00 Q1029 SBKP 191000Z 02008KT CAVOK 24/19 Q1012 SCCH 190000Z 21005KT CAVOK 24/13 Q1014 SCCI 191000Z 25020KT 9999 SCT030 BKN100 03/00 Q0983 NOSIG SBMA 191000Z 11002KT 5000 BR FEW005 OVC070 25/24 Q1011 SCDA 191000Z 12008KT 9999 FEW030 SCT300 17/11 Q1015 RJTT 191030Z 15012KT 9999 FEW020 BKN/// 07/M03 Q1029 NOSIG SAVC 191000Z 25015KT 9999 FEW035 SCT100 12/01 Q0991 SBMD 191000Z 07006KT 9999 FEW012 SCT080 ///// Q1010 SBME 191000Z 15003KT CAVOK 27/23 Q1009 SBLO 191000Z 10005KT CAVOK 23/19 Q1011 SBLP 182000Z 15005KT 9999 FEW030 32/20 Q1009 SBMG 191000Z 02004KT 9999 FEW045 BKN070 24/21 Q1010 RJTY 190958Z AUTO 31004KT 10SM CLR 04/M04 A3043 RMK AO2 SLP318 T00401040 SBLS 191000Z 16006KT CAVOK 21/17 Q1015 SBMK 191000Z 00000KT 9999 FEW045 23/18 Q1014 KVYS 191015Z AUTO 30004KT 7SM OVC018 M06/M08 A3029 RMK AO2 T10631077 SBML 191000Z 30004KT CAVOK 25/20 Q1012 KWRB 190958Z AUTO 34004KT 10SM CLR 03/00 A3012 RMK AO2 SLP203 T00310003 FQTT 181300Z 35003KT 9999 FEW015 SCT020 BKN090 23/22 Q1010 SAWE 191000Z 23015KT 9999 BKN025 03/06 Q0979 SBMN 191025Z 09002KT 9999 BKN005 FEW025TCU 25/23 Q1010 SBNF 191000Z 25004KT 9999 FEW012 BKN045 24/22 Q1010 SBMO 191000Z 04004KT 9999 SCT015 24/23 Q1013 SCCY 190000Z 20003KT 6000 RA SCT005 OVC026 11/09 Q0993 SAWG 191000Z 27020G30KT CAVOK 03/M02 Q0984 SAWH 191000Z 25025KT 9999 VCSH BKN018 OVC100 04/02 Q0977 SBMQ 191000Z 35004KT 9999 FEW015 BKN090 25/23 Q1010 LOIH 190900Z 00000KT 35KM MIFG FEW100AC 04/02 Q1023 RMK FEW KXIH 191035Z AUTO 04024G29KT 3SM BR BKN004 OVC011 16/15 A2999 RMK A01 SBMS 191015Z 09008KT 9999 FEW030 28/22 Q1012 SCFA 191000Z 08002KT 9999 SCT027 16/11 Q1014 NOSIG KWRI 190958Z AUTO 29007KT 10SM OVC035 02/M04 A2999 RMK AO2 SLP160 T00221037 SBMT 191000Z 08001KT 6000 NSC 23/16 Q1013 SCEL 191000Z 17007KT CAVOK 12/07 Q1014 NOSIG KWRL 190953Z AUTO 34003KT 10SM CLR M17/M19 A3006 RMK AO2 SLP253 T11721194 FQVL 191000Z 11007KT 050V150 9999 BKN020 27/23 Q1010 SBMY 191015Z 24005KT CAVOK 25/24 Q1010 SBOI 182000Z 05003KT 9999 -RA BKN020 FEW023TCU 27/24 Q1010 SBPA 191000Z 08002KT CAVOK 22/19 Q1010 SBPB 191000Z 11010KT 9999 FEW020 29/23 Q1011 SBNT 191000Z 09009KT 9999 VCSH BKN015 FEW030TCU SCT049 27/23 Q1 012 SBPC 191000Z 31001KT 9999 BKN015 BKN100 18/18 Q1017 RKPC 191000Z 15005KT 9999 SCT035 OVC110 09/00 Q1025 NOSIG SCGE 182100Z 24010KT CAVOK 29/09 Q1012 SBPF 191000Z 11005KT 9999 FEW040 SCT070 18/16 Q1012 RKNY 191000Z 25007KT 9999 FEW050 OVC110 05/M11 Q1022 NOSIG LPAR 191000Z 07003KT 0200 FG BKN002 04/04 Q1033 SBPJ 191000Z 30008KT 9999 FEW012 SCT100 24/22 Q1012 LPBJ 191000Z 03005KT 6000 OVC005 07/07 Q1032 SBPK 191000Z 02002KT CAVOK 19/19 Q1010 SCFT 191000Z AUTO 26012KT 220V280 CAVOK 11/04 Q0999 RKPK 191032Z 04001KT 9999 SCT040 BKN090 04/M04 Q1026 NOSIG MGCB 190000Z 05004KT 9999 OVC016 18/16 QFE 870.3 MTN N/NE/SE/W/NW CUB/CL KWST 190953Z AUTO 31006KT 10SM OVC050 02/M03 A2992 RMK AO2 SLP132 T00171033 SBPL 191000Z 13005KT 9999 FEW025 BKN070 27/23 Q1013 SBPN 191000Z 34003KT 9999 FEW008 24/23 Q1010 SBPP 191015Z 00000KT CAVOK 23/22 Q1011 SBPR 191000Z 14009KT 9999 BKN025 23/18 Q1016 LPAZ 191000Z 16006KT 9999 BKN030 15/10 Q1035 SBPS 191000Z VRB02KT 9999 VCSH SCT020 BKN040 OVC070 24/22 Q1013 SBRB 191020Z 14002KT 0500 R06/0600 FG SCT001 SCT100 22/22 Q1009 SCIC 191000Z AUTO 06006KT 9999 NCD 11/07 Q1013 SAZM 191000Z 34018KT 9999 FEW030 21/13 Q0000 SBPV 191000Z 35004KT 9999 SCT006 BKN015 FEW023TCU 23/23 Q1010 R ETSRA KXLL 191015Z AUTO 27007KT 10SM OVC031 02/M02 A3002 RMK AO2 SAZN 191000Z 27008KT CAVOK 21/01 Q1002 SCIE 191000Z 10003KT 9999 BKN025 11/09 Q1015 SBRF 191000Z 08007KT 9999 SCT020 SCT060 28/23 Q1012 SBRJ 191000Z 11002KT 9999 FEW020 BKN080 25/21 Q1009 KWVI 190953Z AUTO 32003KT 10SM OVC046 12/11 A3020 RMK AO2 SLP226 T01170106 SAZS 191000Z 32040G43KT 9999 SCT040 SCT045 FEW100 10/06 Q0999 KXNA 190953Z AUTO 01006KT 1/2SM R17/2000V2800FT FG VV002 04/04 A3016 RMK AO2 SLP218 T00390039 SBSC 191000Z 23002KT 9999 FEW025 BKN100 25/22 Q1010 FSIA 191000Z 25007KT 9999 FEW014CB 31/23 Q1011 NOSIG SBQV 191000Z 02010KT 9999 SCT005 SCT010 BKN070 22/21 Q1016 KWVL 191035Z 01004KT 10SM FEW028 M04/M08 A2979 RMK AO1 KWWD 191035Z AUTO 30009G17KT 270V330 10SM OVC110 03/M04 A3004 RMK AO1 RKSG 190958Z AUTO 12006KT 10SM CLR 00/M07 A3025 RMK AO2 SLP248 T10021068 $ SCIP 191000Z 10006KT 070V140 9999 BKN020 20/18 Q1024 NOSIG SBRP 191000Z 05004KT 9999 BKN018 23/19 Q1012 SCIR 182000Z 18011KT 9999 SCT020 OVC030 17/09 Q1023 RKSI 191030Z 14012KT 6000 -SNRA FEW014 BKN030 OVC080 00/M04 Q1023 NOSIG SBTA 190900Z /////KT 3000 BR BKN008 BKN015 ///// Q1012 SBSJ 191000Z 00000KT 8000 NSC 24/19 Q1013 KXMR 190958Z AUTO 30002KT 10SM CLR 12/10 A3009 RMK AO2 SLP193 T01150096 SBTC 182020Z 36004KT 9999 FEW025 BKN100 25/22 Q1011 SBSL 191000Z 06010KT 9999 SCT020 BKN100 27/21 Q1010 SBSM 191000Z 05005KT 9999 FEW040 19/17 Q1010 RKSM 191000Z 17006KT 9999 FEW040 BKN120 M01/M11 A3027 SBTE 191000Z 31002KT 9999 FEW030 SCT100 26/22 Q1011 SBSN 191000Z 00000KT CAVOK 23/23 Q1009 SBTF 182300Z 33007KT 9999 TS SCT010 BKN030CB BKN070 27/25 Q1008 SCJO 182200Z 27005KT 240V310 9999 SCT030 OVC120 16/10 Q1015 RKSO 190958Z AUTO 09005KT 7SM BKN090 00/M05 A3024 RMK AO2 SLP244 T10021046 $ SBSP 191000Z 14003KT CAVOK 21/15 Q1014 SBSR 190900Z 06005KT CAVOK 22/19 Q1011 SBUA 182300Z 23003KT 9999 SCT017 BKN100 24/24 Q1007 KWWR 191015Z AUTO 00000KT 3SM BR OVC002 02/01 A3018 RMK AO2 RKSS 191000Z 12005KT 9999 SCT030 OVC080 M00/M13 Q1024 TEMPO -RASN SBTK 182300Z 06001KT 9999 SCT030 28/23 Q1007 MGES 190000Z 03006KT 9999 BKN018 21/17 QFE 910-8 SBST 190900Z 00000KT 8000 FEW030 BKN070 21/20 Q1010 LPFL 191000Z 18011KT 9999 SCT014 18/16 Q1029 SBSV 191000Z 02006KT 9999 FEW010 SCT015 FEW020TCU BKN070 25/23 Q1011 RKTN 191014Z 03001KT CAVOK 02/M07 Q1026 NOSIG RMK TEST TEST TEST SBUF 191015Z 20002KT 9999 FEW016 26/22 Q1013 SBUG 191000Z 05005KT CAVOK 20/14 Q1009 LPFR 191000Z 13003KT CAVOK 12/07 Q1031 SBTT 182300Z 03003KT 9999 FEW020 28/24 Q1006 SBTU 191000Z 04007KT 5000 BR NSC 24/24 Q1012 SBUL 191017Z 08007KT 9999 FEW002 19/18 Q1014 RKTU 191027Z 01003KT 9999 BKN030 OVC100 M02/M08 Q1025 NOSIG RMK TEST TEST TEST TEST VYYY 191030Z 02004KT 8000 NSC 30/17 Q1013 SBVH 191015Z 28006KT 9999 -RA BKN002 BKN006 BKN070 20/20 Q1013 SBUR 190830Z 00000KT 9999 FEW005 BKN090 21/21 Q1013 SCMK 182000Z 33015KT 2500 DZ OVC005 13/12 Q1006 REDZ MGGT 191000Z 03006KT 9999 SCT004 BKN012 16/13 Q1024 A3024 SBUY 182300Z 00000KT 9999 FEW015 BKN090 25/24 Q1006 KXPY 191035Z AUTO 05006KT 10SM BKN026 OVC100 18/16 A3006 RMK A01 YABA 191030Z AUTO 11012KT 9999 // NCD 21/12 Q1012 LPHR 191000Z 16004KT 9999 FEW006 17/15 Q1032 SBVT 191000Z 02010KT 9999 SCT040 25/21 Q1011 KXSA 191035Z AUTO 00000KT 10SM OVC100 00/M04 A3012 RMK AO2 T00011041 MGHT 191000Z 00000KT 0100 FG VV/// 07/07 QFE 818.2 APCH CLSD WSAP 191000Z 05007KT 8000 -RA FEW014 BKN160 25/24 Q1009 KYIP 181753Z 30008KT 10SM BKN013 OVC027 02/M03 A3018 SCNT 182000Z 29023G33KT 250V330 9999 VCSH BKN023 08/02 Q0987 MHAM 190600Z 00000KT 9999 SKC 25/23 SCON 191000Z AUTO 26002KT 9999 10/08 Q1005 MHCA 190600Z 08004KT 9999 FEW030 23/21 1015 LPLA 191000Z /////KT 9999 FEW014 16/14 Q1032 RMK ESTMD WND 24008KT LQBK 191030Z 36004KT CAVOK 10/07 Q1020 NOSIG KYKM 191015Z AUTO 11004KT 3SM BR OVC004 04/03 A2987 RMK AO2 RAE15 P0000 T00390028 KYKN 191035Z AUTO 18011KT 10SM OVC014 M02/M04 A3016 RMK AO1 SCPQ 191000Z AUTO 24003KT 200V280 9999 BKN032 11/08 Q1005 MHCH 190600Z 03004KT 9999 FEW030 26/18 SBYS 191000Z 05005KT 9999 BKN025 BKN100 23/21 Q1013 LPMA 191000Z 01010KT 330V040 9999 SCT016 BKN030 16/12 Q1032 RS02011KT 0501010KT 2302009KT SCRD 190000Z 01004KT CAVOK 13/11 Q1016 SCRG 182000Z 15011KT CAVOK 29/11 Q1013 SCQP 191000Z 34007KT 9999 OVC011 12/11 Q1013 KXVG 191036Z AUTO 15004KT 7SM -SN OVC046 M07/M09 A3017 RMK AO2 MGMM 182100Z 12006KT 9999 SCT020 28/20 Q1015 A2997 SCSE 191000Z 31004KT 9999 BKN010 OVC012 14/12 Q1015 LOWG 191020Z VRB01KT CAVOK 10/06 Q1018 R17/1///95 NOSIG KYNG 191032Z 30007KT 3/4SM -SN BR BKN004 OVC013 M02/M02 A3013 RMK AO2 P0001 T10171022 LPMR 191000Z 16002KT 5000 BR FEW028 04/03 Q1034 LOWI 191020Z 27004KT 9999 FEW005 SCT300 06/06 Q1022 NOSIG SCTB 190200Z 27002KT CAVOK 19/08 Q1016 MGMT 190000Z 00000KT CAVOK 27/23 QFE 1006.1 LPMT 191000Z 04004KT 010V070 0100 FG VV/// 04/04 Q1033 LOWK 191020Z 09004KT 050V130 0400 R10/0400N R28/0500N FG SKC 03/02 Q1021 BECMG 9999 NSW LOWL 191020Z 25012KT 9999 FEW022 BKN031 12/07 Q1019 NOSIG SCTE 191000Z 24008KT 5000 -DZ SCT006 OVC021 12/12 Q1007 NOSIG SCSN 191000Z AUTO VRB02KT 9999 OVC010 12/10 Q1015 LOWS 191020Z 17006KT 9999 FEW015 SCT300 11/08 Q1019 NOSIG MGPB 191000Z 00000KT 9999 FEW018 SCT090 21/21 Q1014 A2994 LPPD 191000Z 18008KT 9999 FEW018 BKN035 16/12 Q1034 LOWW 191020Z 26013KT 9999 FEW040 15/07 Q1017 NOSIG LOWZ 191000Z 00000KT 2000 BR OVC002ST 06/06 Q1022 RMK OVC SCVD 191000Z AUTO 31009KT 9000 // FEW010 SCT012 OVC048 13/12 Q1010 LPOV 191000Z 18003KT 9999 FEW030 06/04 Q1034 LOXZ 190950Z VRB03KT 30KM FEW300CI 05/03 Q1020 RMK COTRA/FEW LPPR 191000Z 10005KT 050V150 9999 BKN027 07/05 Q1034 LPPS 191000Z 08009KT 050V110 9999 SCT015 BKN030 17/12 Q1033 LPPT 191000Z 09006KT 060V120 0150 R21/0250N FG VV001 04/04 Q1033 SCVM 191000Z 09002KT 7000 OVC015 13/12 Q1015 YBAF 191030Z AUTO 07007KT 9999 // NCD 26/19 Q1012 MGQZ 190000Z 00000KT 3000 BR SCT012 16/14 QFE 766.5 TCU DIST W YBAS 191030Z AUTO 08005KT 9999 // NCD 30/11 Q1014 MGSJ 191000Z 00000KT 9000 SKC 20/19 Q1011 A2985 BR MGRT 190000Z 22006KT 9999 FEW022 SCT080 28/22 Q1014 A2994 VOL. STA. MARIA Y SANTIAGUITO EN ACTIVIDAD YBBN 191030Z 08005KT 9999 FEW020 26/21 Q1012 LRBC 191030Z 18014KT 0100 R34/0200V0325N FG BKN001 01/01 Q1017 R16/19//95 YBCG 191030Z AUTO 18011KT 9999 // SCT023 BKN027 BKN033 24/20 Q1013 YBCK 191030Z AUTO 12004KT //// // ////// 28/08 Q1012 YAMB 191030Z AUTO 08017KT 9999 // SCT120 27/18 Q1011 LRAR 191030Z 19010KT 9999 BKN045 08/05 Q1021 LPST 191000Z 01011KT 340V040 9999 FEW018 10/06 Q1033 MHLC 191000Z 19003KT 9999 SCT024 BKN080 21/19 Q1013 A2992 NOSIG LRBM 191030Z 09006KT 4000 DZ BR FEW005 OVC010 06/06 Q1020 R10/290294 YBDG 191030Z AUTO 16011KT 9999 // NCD 17/07 Q1018 MHLE 190000Z 07002KT 9999 SCT020 16/14 YBCS 191030Z 07005KT CAVOK 28/21 Q1010 LRBS 191030Z 23007KT 200V260 1000 R07/1300VP2000D R25/1500D BR SCT001 OVC003 02/02 Q1021 R07/19//95 NOSIG SEGU 191000Z 23004KT 9999 FEW020 BKN100 23/17 Q1010 NOSIG RMK A2983 YBCV 191030Z AUTO 00000KT 9999 // NCD 26/08 Q1012 LRCK 191030Z 23008KT 200V260 0100 R36/0300N FG SCT000 OVC001 03/03 Q1020 NOSIG MGTU 190000Z 18006KT CAVOK 29/22 FEW200 LRCL 191030Z 08006KT 9999 BKN040 07/04 Q1019 MHLM 191000Z 00000KT 9999 FEW025 20/20 Q1014 A2994 NOSIG YBDV 191030Z AUTO 16008KT //// // ////// 34/04 Q1011 LRCV 191030Z VRB02KT 2500 BR SCT001 04/03 Q1021 R09/19//95 LQMO 191030Z VRB03KT CAVOK 09/03 Q1024 BGBW 190950Z 22002KT 9999 -SN SCT020 BKN028 M09/M12 Q1003 ROAH 191030Z 12008KT 9999 VCSH FEW035 BKN110 19/12 Q1021 SFAL 191000Z 26025KT 9999 RA SCT010 OVC025 XX/XX Q0974 GMAD 191030Z 07004KT CAVOK 17/09 Q1029 NOSIG MHNO 190000Z 33004KT 9999 FEW040 23/17 Q1016 HZ GMAG 191000Z 08008KT CAVOK 16/08 Q1029 NOSIG FTTA 191000Z 32004KT CAVOK 32/05 Q1015 FTTC 191000Z 00000KT CAVOK 34/M04 Q1014 FTTD 190900Z 36012KT CAVOK 28/12 Q1015 YBHI 191030Z AUTO 16010KT 9999 // NCD 23/M01 Q1018 KZPH 191035Z AUTO 00000KT 7SM CLR 06/05 A3011 RMK AO2 MGZA 190000Z 08006KT 9999 FEW020 25/19 QFE 988.1 YBHM 191030Z AUTO 36005KT 9999 // SCT120 27/21 Q1012 FTTJ 191000Z 05009KT 010V070 CAVOK 30/09 Q1014 NOSIG MHPL 190000Z 33007KT 9999 FEW024TCU SCT080 24/22 Q1015 TCU ENE HZ GMAT 191000Z 10004KT CAVOK 17/08 Q1028 NOSIG YARG 191030Z AUTO 12009KT 9999 // SCT073 BKN083 33/20 Q1010 BGGH 190950Z 03003KT 9999 SKC M11/M15 Q1004 SELT 191000Z 00000KT 9999 SCT013 BKN026 11/11 Q1028 LRIA 191030Z 11008KT CAVOK 03/03 Q1017 R14/19//95 YARM 191030Z AUTO 13007KT 100V180 9999 // NCD 17/11 Q1017 FVBU 190800Z VRB04KT 9999 VCSH BKN025TCU 26/19 Q1019 NOSIG RODN 190958Z AUTO 11010KT 10SM BKN110 18/12 A3017 RMK AO2 RAB0921E0927 SLP224 P0000 T01790119 $ FTTY 190800Z 04016KT CAVOK 22/M02 Q1017 YCBA 191030Z AUTO 20010KT //// // ////// 25/M03 Q1015 YCBB 191030Z AUTO 20009KT //// // ////// 20/M02 Q1016 WSSL 191000Z 35004KT 9999 -RA FEW008 BKN200 25/24 Q1009 RMK 0930Z Q1009 SEMT 191000Z 18009KT 9999 BKN023 BKN100 23/20 Q1011 RMK A2986 LQSA 191030Z VRB02KT 2500 BR FEW005 05/05 Q1024 NOSIG YBKE 191030Z AUTO 25005KT //// // ////// 25/M05 Q1013 MHSC 190958Z AUTO 00000KT 9999 OVC011 18/18 A3001 RMK AO2 OVC V BKN SLP127 T01830177 $ MHRO 190000Z 00000KT 9999 BKN020 SCT070 26/21 Q1014 A2995 NOSIG YCAR 191030Z AUTO 20017KT 9999 // BKN013 24/19 Q1010 YCAS 191030Z AUTO 13007KT //// // ////// 23/18 Q1014 WSSS 191030Z 33003KT 300V030 9999 -RA FEW012 BKN160 24/24 Q1009 NOSIG FVCZ 190900Z 12006KT 9999 SCT030 30/22 Q1017 FVFA 190900Z 35007KT 280V080 9999 SCT030 27/22 Q1017 NOSIG MHTE 190000Z 00000KT 9999 FEW024TCU 25/23 Q1013 TCU SW HZ YCBP 191030Z AUTO 18011KT //// // NCD 31/02 Q1015 GMFF 181500Z 33005KT 290V360 9999 FEW013 SCT230 17/09 Q1027 NOSIG MHTG 191000Z 00000KT 9999 FEW026 13/13 Q1018 A3006 NOSIG YBMA 191030Z AUTO 16011KT 9999 // NCD 33/14 Q1011 YBKT 191030Z AUTO 35007KT //// // ////// 32/24 Q1008 MHSR 190600Z 00000KT 6000 BKN020 15/15 YBLN 191030Z AUTO 18016KT //// // ////// 24/14 Q1009 GMFK 191000Z 24002KT CAVOK 12/05 Q1033 NOSIG GMFM 191000Z 11003KT CAVOK 13/07 Q1030 NOSIG BGJN 190950Z 09013KT 9999 SKC M17/M24 Q1009 GMFO 190900Z 32002KT CAVOK 09/07 Q1030 NOSIG YBNA 191030Z AUTO 16010KT 9999 // SCT029 OVC038 23/18 Q1014 YBLT 191030Z AUTO 19009KT 9999 // NCD 13/05 Q1019 MHTR 190000Z 00000KT 9999 FEW024 BKN080 24/22 HZ YBMK 191030Z AUTO 02006KT 9999 // SCT038 SCT054 28/23 Q1012 FVHA 190800Z 01004KT 320V030 9999 -RA SCT020 OVC080 23/19 Q1021 NOSIG RMK QFE 853.7 YCEE 191030Z AUTO 14008KT //// // ////// 16/10 Q1020 SEQM 191000Z 00000KT 6000 BCFG SCT005 BKN015 12/11 Q1024 NOSIG RMK A3024 YCDO 191030Z AUTO 22007KT //// // ////// 20/M04 Q1015 BGKK 190950Z 07026G36KT 8000 -SN BLSN BKN020 M02/M06 Q0996 YCCY 191030Z AUTO 12008KT //// // ////// 34/14 Q1010 ROIG 191000Z 15006KT 9000 -SHRA FEW007 BKN021 BKN040 19/18 Q1020 LQTZ 191000Z VRB02KT 6000 NSC 07/06 Q1021 YCDU 191030Z AUTO 17014KT 9999 // NCD 18/12 Q1018 YCEM 191030Z AUTO 16005KT //// // ////// 13/07 Q1019 GLRB 190900Z 05004KT 8000 SCT014 SCT100 27/25 Q1014 RMK BRVC YBNS 191030Z AUTO 35005KT 310V040 9999 // NCD 12/09 Q1018 YBOK 191030Z AUTO 05005KT 9999 // NCD 22/18 Q1013 YCFL 191030Z AUTO 08006KT //// // ////// 27/22 Q1010 YAYE 191030Z AUTO 14005KT 9999 // SCT120 34/11 Q1012 LROD 191030Z 19016KT 9999 OVC030 09/04 Q1020 YCFS 191030Z AUTO 18009KT 9999 // BKN034 OVC039 23/18 Q1015 SGAS 191000Z 17003KT CAVOK 24/23 Q1008 HEBA 191000Z 35010KT 9999 SCT020 20/12 Q1020 NOSIG FVKB 190300Z 36006KT 9999 TS FEW015CB SCT020 BKN090 29/22 Q1012 YBPN 191030Z AUTO 34004KT 9999 // SCT120 26/22 Q1011 LSGC 191020Z 24013KT 200V270 9999 SCT012 BKN160 08/08 Q1024 WS R24 LSGG 191020Z VRB01KT 9999 FEW030 SCT220 10/08 Q1026 NOSIG LROP 191030Z 24008KT 210V270 0400 R08R/0700V1200N R26L/0800N FG VV001 02/02 Q1020 R88/29//95 BECMG 0800 BKN002 YCHK 191030Z AUTO 33012KT 9999 // NCD 38/12 Q1009 HEAR 191000Z 27004KT CAVOK 21/10 Q1019 NOSIG HECA 191030Z 35006KT 6000 NSC 21/06 Q1018 NOSIG HEAT 191000Z 02004KT CAVOK 19/03 Q1019 NOSIG HEBL 191000Z 04006KT CAVOK 25/12 Q1016 NOSIG HEAX 191000Z 34007KT 9999 SCT020 SCT022 21/12 Q1019 NOSIG MHYR 190000Z 09002KT 9999 SCT023 21/18 HZ YBRK 191030Z AUTO 01004KT 9999 // NCD 25/22 Q1012 YBRL 191030Z AUTO 23012KT 120V230 //// // ////// 26/21 Q1011 LSGS 191020Z 13003KT 9999 SCT025 SCT100 06/04 Q1027 YBRM 191030Z AUTO 27008KT 9999 // NCD 31/26 Q1008 YCIN 191030Z AUTO 03003KT //// // NCD 33/25 Q1007 GMMB 191000Z 13003KT 100V160 2000 BR BKN002 12/12 Q1031 BECMG 3000 BR SCT005 BKN010 GMMC 190900Z /////KT 8000 SCT016 13/12 Q1028 YBSG 191030Z AUTO 35004KT //// // BKN029 BKN038 BKN055 28/25 Q1009 GMME 191030Z 08003KT 030V130 6000 BKN010 13/11 Q1030 NOSIG GMMH 190900Z 05009KT 8000 NSC 17/04 Q1023 NOSIG GMMI 191000Z AUTO VRB01KT //// NCD 16/13 Q1029 NOSIG LTAB 190518Z 22002KT 1300 R24/P1500U R06/P1500U BR SCT006 SCT025 BKN080 05/05 Q1020 BECMG TL0600 1800 RMK RWY06 00000KT LRSB 191030Z VRB02KT 9999 BKN046 06/01 Q1020 LTAC 191020Z 16004KT 120V210 9999 FEW015 BKN033 07/04 Q1020 NOSIG LTAD 190016Z 00000KT 1600 BR FEW020 BKN040 BKN100 05/05 Q1019 RERA NOSIG RMK RWY29 VRB01KT SGEN 191000Z 09005KT CAVOK 22/17 Q1009 KZZV 190953Z AUTO 26004KT 10SM OVC019 M02/M06 A3020 RMK AO2 SLP236 T10221061 GMML 190900Z 11006KT 8000 FEW020 14/06 Q1027 NOSIG YBRY 191030Z AUTO 35010KT 9999 // NCD 37/11 Q1010 LTAE 191016Z 19005KT 090V220 7000 SCT035 SCT100 08/04 Q1021 NOSIG RMK RWY21 18005KT 140V220 YBTH 191030Z AUTO 21005KT 9999 // NCD 15/M01 Q1017 ROMY 191000Z 12010KT 9999 SCT027 BKN047 20/14 Q1019 LTAF 191020Z 03004KT 360V070 9999 SCT035 BKN100 17/08 Q1018 NOSIG GMMN 191030Z 12003KT 100V160 4300 BR BKN016 11/11 Q1031 NOSIG LTAG 191020Z 05009KT 9999 SCT035 BKN100 16/07 Q1018 NOSIG LTAH 190523Z 30003KT 270V340 5000 BR SCT035 BKN100 02/01 Q1020 RMK RWY13 01004KT 340V050 SGES 191000Z 25005KT 9999 FEW030 BKN080 23/20 Q1008 LTAI 191020Z 07004KT 040V130 9999 SCT030 17/07 Q1018 BECMG TL1100 18010KT YBSU 191030Z AUTO 36003KT 9999 // NCD 23/21 Q1011 LTBA 191020Z 18005KT 150V210 6000 NSC 12/06 Q1023 NOSIG LTAJ 191020Z 05006KT 020V090 7000 -RA SCT006 BKN020 OVC070 08/06 Q1019 NOSIG YBTL 191030Z AUTO 03005KT 9999 // SCT115 28/21 Q1011 YBUD 191030Z AUTO 01005KT 9999 // NCD 25/22 Q1012 YCKN 191030Z AUTO 00000KT 9999 // NCD 25/21 Q1010 LTAL 190921Z 24005KT 4000 -RA BR SCT015 BKN025 BKN070 04/03 Q1020 LRTC 191030Z 17004KT 140V210 8000 FEW005 07/04 Q1020 LRSM 191030Z 18006KT 9999 OVC031 08/06 Q1019 R01/29//95 FVMV 190400Z 00000KT 9999 SCT015 BKN100 20/19 Q1017 LTAN 190950Z 02011KT 9999 SCT040 BKN100 09/04 Q1020 NOSIG LTBF 190950Z VRB01KT 6000 BKN008 09/07 Q1023 BECMG TL1100 SCT015 GMMW 191000Z 17004KT 130V210 CAVOK 15/06 Q1030 NOSIG LTBG 190912Z VRB02KT 1600 BCFG NSC 09/08 Q1023 BECMG TL1030 4000 BR RMK RWY18 21004KT 170V230 LTAP 191020Z 30002KT 9000 -RA BKN035 BKN090 08/05 Q1020 NOSIG GMMX 191030Z VRB02KT CAVOK 15/11 Q1030 NOSIG BGSF 190950Z AUTO 04007KT 9999NDV BKN160/// M30/M34 Q1010 LTAR 190950Z 08004KT 9999 SCT040 BKN100 02/01 Q1020 GMMZ 191000Z 00000KT CAVOK 10/03 Q1032 NOSIG LTAS 190832Z VRB01KT 3500 BR FEW011 SCT027 BKN090 10/09 Q1023 RMK RWY18 00000KT LTBJ 191020Z 35011KT 9999 FEW030 15/09 Q1020 NOSIG LTCA 190950Z 05010KT 9999 SCT020 BKN033 OVC090 06/03 Q1021 NOSIG LTAT 191020Z 36002KT 7000 -RA SCT010 BKN033 OVC090 06/05 Q1021 NOSIG LTBL 190513Z 00000KT 4500 BR FEW040 SCT100 07/06 Q1020 NOSIG RMK RWY17 VRB01KT LTAU 191020Z 00000KT 9999 FEW016 BKN035 08/03 Q1020 NOSIG LTCC 191029Z 19003KT 160V230 4000 -RA BR SCT035 BKN090 07/06 Q1021 NOSIG RMK RWY16 19004KT LTCD 190950Z 00000KT 9999 SCT033 BKN080 07/M01 Q1020 NOSIG LRSV 191030Z 23010KT 180V260 CAVOK 06/05 Q1014 LRTM 191030Z 10004KT 060V130 9999 SCT038 BKN044 07/03 Q1020 LTAW 190718Z 00000KT 4000 BR FEW012 SCT034 BKN100 07/06 Q1021 RMK RWY22 VRB02KT YDBY 191030Z AUTO 00000KT //// // ////// 33/24 Q1008 LTCE 191020Z 29004KT 7000 -SN BKN020 BKN070 00/M01 Q1020 NOSIG BIBD 191000Z 36009KT 2000 SN VV015 01/// Q0987 LTCF 190950Z 13003KT 8000 SCT035 SCT070 M03/M03 Q1020 LTAY 190110Z 00000KT 4000 BR SCT040 03/03 Q1019 RMK RWY06 VRB02KT LTCG 191020Z 31006KT 9999 SCT035 BKN100 14/10 Q1022 NOSIG LTAZ 191020Z 27004KT 220V330 9999 FEW015 BKN030 08/05 Q1020 LTBQ 190950Z 35003KT 310V030 7000 SCT015 BKN023 11/08 Q1023 NOSIG LTCI 190950Z 30004KT 270V330 8000 SCT035 BKN070 04/M03 Q1021 NOSIG LTBR 191020Z 35002KT 9999 SCT030 SCT090 13/07 Q1022 NOSIG LRTR 191030Z 17007KT CAVOK 09/06 Q1021 LTDA 191022Z 04006KT 9999 BKN030 BKN090 12/10 Q1020 RESHRA RMK RWY04 00000KT LSMA 190950Z AUTO VRB01KT 0350NDV R01/0500V0650D R19/0600D FG VV001 04/04 Q1024 RMK RED LTBS 191020Z VRB01KT 9999 FEW020 18/09 Q1019 NOSIG LTCJ 191020Z 01005KT 8000 SCT040 BKN100 10/06 Q1021 YCMM 191030Z AUTO 14011KT //// // ////// 17/10 Q1020 LTBT 190637Z VRB02KT 7000 NSC 07/07 Q1022 RMK RWY14 08004KT LTCK 190950Z 27008KT 8000 BKN035 BKN080 04/01 Q1022 BIAR 191000Z 18006KT 9999 FEW045 OVC057 M07/M09 Q0983 191206 R01/750047 LTBU 191020Z VRB02KT 8000 NSC 11/07 Q1023 LTCM 181318Z 26007KT 9999 -SHRA SCT030 BKN090 12/07 Q1015 RMK RWY05 26005KT LSMD 190950Z AUTO 27009KT 220V320 9999NDV FEW029 11/06 Q1023 RMK BLU LTCN 190804Z 25004KT 5000 -RA FEW012 SCT033 BKN080 08/08 Q1021 LSME 190950Z AUTO 24005KT 9999NDV FEW002 07/07 Q1024 RMK BLU BGTL 190958Z AUTO 10011KT 9999 CLR M26/M31 A2973 RMK AO2 SLP061 T12621309 LTCO 190736Z 30004KT 6000 SCT070 BKN200 M00/M02 Q1022 RMK RWY34 32004KT HEGN 191000Z 01008KT CAVOK 25/11 Q1018 NOSIG LTBY 182215Z 26002KT 3000 BR SCT030 05/05 Q1019 RMK RWY27 29003KT LTCP 190632Z 06008KT 6000 -RA FEW017 BKN030 OVC080 07/07 Q1021 RMK RWY23 04007KT YCMT 191030Z AUTO 00000KT //// // ////// 24/20 Q1013 YCNK 191030Z AUTO 16009KT //// // ////// 19/11 Q1017 LTCT 190918Z 15003KT 110V180 5000 BR FEW025 BKN070 05/01 Q1022 RMK RWY30 13005KT YCNM 191030Z AUTO 18008KT //// // ////// 24/M05 Q1013 YCOE 191030Z AUTO 04010KT //// // ////// 27/21 Q1009 LTCU 190907Z 12003KT 4800 BR SCT015 BKN030 OVC090 05/03 Q1023 RERA LSMM 190950Z AUTO 07003KT 010V180 4400NDV FEW010 02/02 Q1025 RMK GRN YBWP 191030Z AUTO 04003KT 9999 // OVC023 30/26 Q1009 LSMP 190950Z AUTO 23008KT 200V260 9999NDV FEW200 10/07 Q1025 RMK BLU RORS 191000Z 11010KT 9999 FEW027 SCT035 BKN050 20/15 Q1019 LSMS 190950Z 07002KT 9999 SCT025 SCT100 06/04 Q1027 YCOM 191030Z AUTO 13006KT 9999 // NCD 10/05 Q1018 YBWW 191030Z AUTO 16003KT 9999 // NCD 21/16 Q1012 LTFC 191020Z 02001KT 9999 SCT035 10/05 Q1020 YBWX 191030Z AUTO 27015KT //// // ////// 26/22 Q1009 YCNY 191030Z AUTO 00000KT //// // ////// 34/14 Q1008 LTFE 191020Z 27004KT 210V330 9999 SCT035 16/10 Q1019 NOSIG LTFG 190437Z 08004KT 040V110 8000 -SHRA FEW020CB BKN030 12/12 Q1018 RMK RWY26 11004KT LTFH 190950Z 31008KT 9999 SCT036 BKN100 12/09 Q1022 NOSIG BIEG 191000Z 18010KT 9999 SCT035 BKN050 M03/M07 Q0980 R04/720095 LTFJ 191020Z 27003KT 170V340 9999 SCT020 12/07 Q1023 NOSIG RPLB 191000Z 06008KT 9999 FEW020 BKN080 27/19 Q1013 NOSIG RMK A2991 RPLC 191000Z 12004KT 9999 FEW042 BKN300 26/21 Q1015 RMK NOSIG A2998 GMTA 191000Z 20002KT CAVOK 18/08 Q1030 NOSIG ROTM 190958Z 12009KT 9000 DZ BR SCT030 BKN060 OVC110 18/12 A3020 RMK SLP213 XWND ADV P0000 T01780122 RPLI 191000Z 00000KT 9999 FEW019 SCT290 25/18 Q1014 NOSIG RMK A2994 FWKI 190800Z 10006KT 9999 SCT925 28/16 Q1018 NOSIG RPLL 191000Z 12005KT 070V160 9999 SCT023 OVC100 26/21 Q1014 NOSIG RMK A2994 RPMD 191000Z 34003KT 4400 SCT016 BKN090 OVC290 25/24 Q1011 RERA RMK A2985 FVTL 181200Z 30006KT 9999 -SHRA SCT030 28/19 Q1016 GMTN 191000Z 19007KT 5000 FEW016 12/10 Q1030 HEMA 191000Z 35010KT CAVOK 25/14 Q1018 NOSIG GMTT 191030Z 12003KT 6000 FEW016 15/13 Q1031 NOSIG HEMM 191000Z 27009KT CAVOK 20/12 Q1021 NOSIG BIHN 191000Z 33011KT 9999 FEW080 M02/// Q0981 R18/790235 HELX 191000Z 36002KT CAVOK 24/14 Q1017 NOSIG RPMZ 190900Z 08004KT 9999 FEW018 BKN100 31/25 Q1010 RMK A2983 NCAI 191000Z AUTO 11013KT //// //// 25/22 Q1011 FVWN 181200Z 29003KT CAVOK 29/19 Q1014 MKJP 191000Z 32007KT 9999 FEW022 25/21 Q1013 MKJS 191000Z 12004KT 9999 FEW022 25/22 Q1013 YCUN 191030Z AUTO 08009KT //// // ////// 32/17 Q1006 BIIS 191000Z 02019G29KT 2000 SN VV010 00/M00 Q0988 LUBL 191030Z 21013KT 9999 SCT049 03/02 Q1015 YDLQ 191030Z AUTO 22008KT //// // ////// 19/01 Q1017 YCWA 191030Z AUTO 35012KT 9999 // NCD 36/11 Q1010 GOGG 191000Z 06008KT CAVOK 24/05 Q1015 BIKF 191030Z 33011KT 9999 -SN FEW010 SCT026 M02/M04 Q0987 GOGK 190900Z VRB02KT CAVOK 19/09 Q1015 HEPS 191000Z 27006KT 6000 NSC 18/12 Q1019 NOSIG GOGS 191000Z 06010KT CAVOK 24/09 Q1014 YCWR 191030Z AUTO 20005KT //// // ////// 20/M02 Q1015 HESC 191000Z 31006KT CAVOK 16/01 Q1023 NOSIG HESH 191000Z 03010KT CAVOK 21/08 Q1016 NOSIG YDPO 191030Z AUTO 25013KT 9999 // BKN078 14/06 Q1016 HESN 191000Z 02006KT CAVOK 26/13 Q1016 NOSIG LSZA 191020Z VRB01KT CAVOK 08/05 Q1023 NOSIG LSZB 191020Z 12004KT 1500 BR BCFG SCT001 BKN003 06/06 Q1025 NOSIG LSZC 190950Z VRB03KT 0200 FG 05/04 Q1024 LSZG 191020Z 25011KT 9999 FEW010 BKN200 10/08 Q1024 NOSIG LSZH 191020Z 26006KT 180V310 9999 FEW015 BKN190 11/07 Q1023 WS R14 WS R16 NOSIG RPVM 191000Z 36009KT 9999 FEW020 OVC090 26/24 Q1012 RMK A2988 LSZL 190950Z 00000KT 9999 FEW130 05/05 Q1023 RMK BLU LSZR 191020Z VRB02KT CAVOK 12/07 Q1022 NOSIG RMK F LSZS 191020Z VRB01KT CAVOK M03/M03 Q1024 MMAA 190940Z 35002KT 8SM SKC 23/21 A2988 FXMM 181300Z 24005KT 9999 SCT030 FEW035CB 26/11 Q1020 NOSIG YELD 191030Z AUTO 01010KT //// // ////// 31/// Q//// CAHR 191000Z AUTO 28003KT M00/M00 RMK AO1 2PAST HR 3014 SLP976 P0001 T10021002 50007 BIRK 191000Z 32006KT 9999 FEW025 M01/M03 Q0986 R01/490245 GOOD 190900Z 08006KT CAVOK 23/M01 Q1015 MMAN 190540Z 01002KT 1/16SM FG VV000 16/16 A3004 RMK SLP151 57003 963 8//// -DZ INTMT YFBS 191030Z AUTO 23006KT //// // ////// 18/M00 Q1015 GOOG 191000Z 08006KT 9000 NSC 25/06 Q//// MMAS 190542Z 14006KT 10SM SKC 12/02 A3024 RMK SLP143 ISOL AC MMCB 190441Z 00000KT 7SM SKC 18/11 A3013 RMK HZY LUKK 191030Z 24011KT 9999 BKN003 02/M00 Q1018 R26/CLRD65 NOSIG FYGB 191000Z AUTO 28003KT //// // ////// 31/07 Q1020 GOOK 191000Z 04008KT CAVOK 26/18 Q1012 YFDF 191030Z AUTO 32013KT 9999 // ////// 38/12 Q1009 MMCE 190144Z 05007KT 7SM SKC 25/21 A2996 CBBC 191007Z AUTO 15011G20KT 9SM -RA SCT013 SCT019 BKN025 OVC033 06/06 A2952 RMK SLP996 FYGF 191000Z 16006KT 9999 FEW030 31/07 Q1019 YEML 191030Z AUTO 02003KT 9999 // NCD 26/21 Q1012 MMBT 190045Z 00000KT 5SM FEW020 SCT220 26/22 A2991 RMK 8/101 HZY MMCL 190543Z 00000KT 10SM OVC230 18/13 A3002 RMK SLP167 52010 955 8/008 BINOVC MMCM 190347Z 09004KT 7SM SCT020 24/20 A3002 RMK 8/500 RTS MMCN 190345Z 01003KT 10SM SKC 16/10 A3002 RMK HZY MMCP 190541Z 00000KT 7SM SCT100 20/18 A2999 RMK 8/030 GOOY 191030Z 05006KT 020V090 6000 NSC 25/01 Q1016 NOSIG MMCS 190340Z 26008KT 10SM SCT070 08/04 A3009 RMK 8/070 MMCT 182144Z 00000KT 8SM BKN020 29/17 A2998 RMK 8/400 MSGTX MMMD MMCU 190540Z 18009KT 10SM SCT080 02/M06 A3016 RMK SLP200 52014 900 8/070 MMCV 190944Z 15010KT 3SM BR SCT001 OVC005 18/18 A2990 RMK 8/7// BCFG W/NW MMDO 190643Z 23005KT 8SM SCT090 BKN200 10/M03 A3020 RMK 8/067 RTS MMCZ 190945Z 10007KT 7SM BKN015 OVC070 20/20 A2997 RMK 8/47/ DSNT CB SE RTS BIVM 191000Z 35015KT 9999 FEW015 M01/M01 Q0984 R30/9903// MMEP 190611Z RTD 00000KT 5SM SKC 12/10 A3012 RMK SLP202 51001 955 BCFG NW GOSM 190900Z 00000KT CAVOK 18/04 Q1016 GOSP 190900Z 06002KT CAVOK 18/02 Q1018 GOSS 191000Z 08006KT CAVOK 23/14 Q1018 GOTK 190900Z 04006KT 8000 NSC 22/14 Q1017 MMGL 190959Z RTD 14002KT 10SM SKC 09/07 A3014 MMGM 190147Z 00000KT 6SM SKC 22/12 A3000 FYKM 191000Z 32003KT 9999 FEW030 31/21 Q1015 MMIA 190444Z 00000KT 8SM SKC 21/17 A3006 RMK HZY YERN 191030Z AUTO 12008KT //// // ////// 31/08 Q1016 FYKT 190900Z 21007KT CAVOK 30/13 Q1017 GOTT 191000Z 06016KT 4800 DRDU NSC 27/13 Q1016 MMHO 190341Z 31003KT 10SM SKC 16/09 A3011 RMK HZY NCRG 191000Z 12010G22KT 9999 BKN018 24/18 Q1013 NCPY 191000Z AUTO 05006KT //// //// 26/25 Q1007 FYML 191000Z AUTO 20004KT //// // ////// 37/00 Q1017 YESP 191030Z AUTO 11014KT 9999 // NCD 24/13 Q1013 MMIO 190740Z 00000KT 1 1/2SM BR SCT002 OVC004 12/11 A3012 RMK 8/5// YGBI 191030Z AUTO 01003KT //// // ////// 31/25 Q1009 YEST 191030Z AUTO 13015KT 9999 // NCD 21/15 Q1013 FYLZ 181400Z AUTO 20013KT //// // ////// 21/13 Q1014 MMIT 182300Z 03012KT 7SM SKC 28/18 A2981 RMK HZY FYOA 191000Z 18006KT CAVOK 32/03 Q1017 YGAY 191030Z AUTO 00000KT //// // ////// 25/19 Q1011 YFLI 191030Z AUTO 26024KT 9999 // OVC100 16/09 Q1015 MNBL 182300Z 01008KT 9999 FEW017CB BKN020 26/23 Q1011 CB/E/SE YGDH 191030Z AUTO 23009KT //// // ////// 25/M04 Q1013 FYOO 191000Z AUTO 17004KT //// // ////// 34/04 Q1016 MNCH 182300Z 23004KT 9999 FEW025 29/22 Q1010 MMMA 190340Z 00000KT 7SM OVC070 22/21 A3005 RMK 8/05/ HZY MMLM 190447Z 00000KT 10SM FEW220 15/10 A3004 RMK 8/001 MMMD 190944Z 08008KT 7SM SKC 20/18 A2998 RMK HZY FYOW 190900Z AUTO 16003KT //// // ////// 31/11 Q1019 MMLO 190945Z 00000KT 8SM SCT200 07/04 A3025 RMK 8/008 MMLP 190540Z 17005KT 10SM FEW030 SCT200 16/10 A3009 RMK SLP189 52013 956 8/406 ISOL AC YGEL 191030Z AUTO 23012KT 9999 // NCD 23/18 Q1009 MMLT 190140Z 02010KT 8SM FEW040 21/16 A3002 RMK 8/400 MMML 190440Z 26003KT 10SM SKC 13/07 A3020 MMMM 190943Z 00000KT 7SM SKC 05/04 A3020 RMK CI MMMT 190352Z 36008KT 10SM SKC 23/20 A2997 MMNL 190140Z 00000KT 1/2SM FG VV001 17/16 A3000 RMK 8//// YGFN 191030Z AUTO 15005KT 9999 // SCT032 BKN041 BKN047 23/16 Q1015 MMMV 190040Z 00000KT 6SM BKN0150 OVC020 15/12 A3000 RMK 8/5// HZY FYRN 191000Z 36008KT CAVOK 31/14 Q1016 MMMX 190947Z 00000KT 6SM SKC 12/06 A3027 NOSIG RMK HZY SC SKBG 190500Z 34003KT 4000 BCFG SCT005 19 A3001 RMK AD OPER IMC MMMY 190946Z 30003KT 1SM BR BKN003 OVC005 15/15 A2997 RMK 66005 8/5// DZ OCNL RTS MMMZ 190943Z 33007KT 10SM SKC 12/10 A2994 SKAR 190600Z 00000KT 9999 SCT025 SCT100 18/18 A3005 MMPA 190240Z 09007KT 4SM SCT015 OVC025 22/21 A3001 RMK SLP148 53017 970 8/8// HZY MMPB 190453Z 00000KT 8SM SKC 10/06 A3033 RMK HZY SKCC 191030Z VRB02KT 5000 BCFG BKN008 SCT070 23/22 A2994 RM AD OPR IMC SKBO 191029Z 30003KT 8000 0900NW R13L/0550N R13R/P2000U PRFG SCT017 06/06 A3027 SKCG 191000Z 03006KT 350V050 CAVOK 27/24 A2977 MMPG 190046Z 00000KT 8SM BKN030 18/13 A3001 RMK 8/500 HZY SKBQ 191000Z 05006KT CAVOK 26/24 A2980 SKCL 191030Z 00000KT 9999 SCT040 SCT090 21/19 A2994 MMPN 190042Z 00000KT 10SM SKC 19/13 A3017 RMK HZY CI MMOX 190447Z 03005KT 7SM SCT220 16/08 A3023 RMK 8/008 HZY MMPQ 190041Z 00000KT 5SM BKN030 OVC100 25/21 A2982 RMK 8/52/ HZY MSGTX MMMD MMPR 190945Z 00000KT 10SM SCT020 SCT250 20/19 A2993 RMK 8/508 MMPS 190141Z 32006KT 7SM FEW090 26/23 A3002 RMK 8/030 HZY YHBA 191030Z AUTO 01003KT 9999 // NCD 24/21 Q1012 SKEJ 190000Z 00000KT 9999 FEW010 28/24 A2976 YFRT 191033Z AUTO 12021G31KT //// // ////// 24/13 Q1015 BKPR 191030Z VRB01KT 4000 BR SCT007 BKN020 04/03 Q1024 NOSIG RMK 17290095 MMQT 190945Z 00000KT 10SM SKC 08/04 A3024 FYWB 191000Z AUTO 30004KT //// // ////// 21/12 Q1017 MMSD 190558Z RTD 00000KT 10SM SKC 17/14 A3005 FYWE 191000Z 04006KT 9999 FEW050 28/01 Q1021 MNJG 182300Z 00000KT 9999 BKN020 22/18 Q1012 YGLA 191030Z AUTO 36005KT 9999 // NCD 26/21 Q1012 YGLB 191030Z AUTO 09006KT //// // SCT029 12/08 Q1018 FYWH 191000Z 15003KT 9999 SCT035 29/M00 Q1022 NOSIG TAPA 191000Z 07009KT 9999 FEW016 25/20 Q1013 NOSIG GQNI 191000Z 08024KT 1000 BLSA NSC 21/M01 Q1022 MMTC 190440Z 00000KT 10SM SCT100 BKN200 14/01 A3008 RMK 8/072 HZY MMSL 190357Z RTD 35010KT 10SM SCT120 BKN220 19/10 A3011 RMK 8/028 SC MSGTX MMSD YHAY 191030Z AUTO 18009KT //// // ////// 22/01 Q1016 MMRX 190940Z 30002KT 3SM BR HZ OVC003 16/14 A2994 RMK 8/5// GQNN 191030Z 10014KT 3000 BLDU NSC 23/M01 Q1020 NOSIG YGLI 191030Z AUTO 07006KT 340V110 //// // ////// 17/14 Q1017 MMTG 190547Z 28003KT 7SM FEW080 20/18 A3001 RMK SLP131 51002 979 8/030 HZY MMSP 190945Z 00000KT 6SM SCT210 11/10 A3016 RMK 8/001 MMTJ 190940Z 11003KT 6SM SKC 10/08 A3023 RMK HZY GQPA 191000Z 06016KT 3000 BLSA NSC 22/02 Q1025 MNJU 182300Z 08008KT 9999 FEW025 BKN060 29/21 Q1012 MMTM 190544Z 13008KT 5SM FEW010 OVC030 23/20 A2999 RMK SLP144 57008 9// 8/5// BINOVC YFTZ 191030Z AUTO 05003KT //// // ////// 34/22 Q1008 FYWW 191000Z 28005KT 9999 FEW045 30/01 Q1021 MMTO 190846Z 00000KT 3SM BR HZ SCT015 05/04 A3036 RMK SLP134 52014 904 8/500 MMTP 190942Z 00000KT 10SM SKC 24/22 A2988 RMK HZY YGLS 191030Z 15007KT 9999 FEW080CB 33/15 Q1012 SKIB 190200Z 21003KT 9999 SCT023 SCT100 22/21 A3005 MMVA 190540Z 04005KT 7SM SCT200 21/20 A2998 RMK SLP149 54000 9// 8/005 MMUN 190947Z 00000KT 7SM FEW070 24/20 A2998 RMK 8/070 K04V 191030Z AUTO 31009KT 10SM CLR M07/M10 A3011 RMK AO2 K06D 191035Z AUTO 17003KT 1 3/4SM BR OVC002 M05/M05 A2996 RMK AO2 K04W 191034Z AUTO 00000KT 10SM OVC011 M05/M07 A3024 RMK AO2 MNMG 191000Z 14006KT 9999 FEW022 23/22 Q1010 A2983 NOSIG GQPP 191000Z 05014KT 6000 VCBLDU NSC 18/05 Q1022 NOSIG SKIP 182300Z 00000KT 9999 VCSH SCT016 SCT080 12/11 A3038 RMK VCSH/W GQPZ 191000Z 16014KT CAVOK 17/M04 Q1026 MMVR 190706Z RTD 30003KT 5SM SCT012 BKN070 BKN250 21/19 A2998 RMK 8/138 HZY K08D 191015Z AUTO 00000KT 1/2SM FZFG OVC002 M04/M04 A2990 RMK AO2 LWOH 191030Z 22001KT 9999 SCT040 08/03 Q1023 SLAS 181400Z 16005KT 3000 -RA BKN012 OVC070 23/22 Q1013 SLCA 191000Z 00000KT 9999 BKN036 20/19 Q1013 SLCB 191000Z 00000KT 2000SE FU FEW027 BKN070 BKN200 13/13 Q1022 SKLC 182300Z 32006KT 9999 FEW020 28/25 A2979 LXGB 190950Z 26003KT CAVOK 12/09 Q1031 NOSIG MNPC 182300Z 07008KT 7000 BKN016 27/25 Q1011 HZ NFFN 191000Z 12003KT 9999 SCT028 SCT048 BKN300 26/23 Q1011 NOSIG YHID 191030Z AUTO 08005KT 9999 // NCD 29/21 Q1009 SKMD 182300Z 00000KT 9999 SCT030 SCT200 21/17 A3002 MMZC 190941Z 21010KT 10SM SKC 10/00 A3019 SLCO 191000Z 00000KT 4000 BR SCT003 BKN015 BKN070 24/23 Q1008 SLCP 191000Z 00000KT 9999 OVC004 21/21 Q1014 MMZH 190245Z 31004KT 6SM SKC 25/22 A2992 RMK SLP/// 5//// 9// HZY SKLT 191000Z 00000KT 9999 SCT015 SCT080 24/23 A2979 MMZO 190255Z RTD 03005KT 12SM SCT250 24/21 A2990 RMK 8/001 SKMR 190100Z 00000KT CAVOK 26/25 A2979 K11R 191015Z AUTO 35009KT 4SM +VCTSRA BKN006 OVC011 13/12 A3004 RMK AO2 LTG DSNT ALQS P0010 T01260121 YGTE 191030Z AUTO 06006KT 9999 // NCD 30/24 Q1008 YGTH 191030Z AUTO 21009KT 9999 // NCD 21/M00 Q1016 K12N 190954Z AUTO VRB04KT 01/M04 A2997 RMK AO1 SLP159 T00111044 SKMZ 181600Z 30008KT 7000 VCFG SCT010 SCT080 20/XX A3035 YHLC 191030Z AUTO 00000KT //// // ////// 32/20 Q1011 MNRS 182300Z 09006KT 9999 FEW018CB SCT018 26/23 Q1010 CB/E/SE SLET 191000Z 28003KT 9999 FEW006 BKN023 OVC070 22/22 Q1008 TBPB 191000Z 03005KT 9999 SCT020 24/22 Q1012 NOSIG SKPC 182300Z 01008KT CAVOK 31/23 A2972 LWSK 191030Z 00000KT 6000 BKN007 BKN013 05/04 Q1025 NOSIG YGTN 191030Z AUTO 21003KT //// // ////// 32/22 Q1009 SKNV 190200Z 00000KT 9999 FEW043 27/23 A2985 RMK LTNG/S SKPE 191000Z 14004KT 9999 FEW012 SCT070 19/15 A3001 LYBE 191030Z 19003KT 130V230 CAVOK 11/05 Q1021 NOSIG MPBO 190000Z 29004KT 9999 SCT018 SCT090 Q1013 SKPS 182300Z 07004KT 8000 VCFG BKN020 17/16 A3011 YHML 191030Z AUTO 20011KT 9999 // NCD 13/07 Q1020 MPDA 190200Z 00000KT 9999 FEW020 ///// Q1011 A29.85 LYBT 191030Z VRB01KT 4500 BR NSC 10/06 Q1021 NOSIG SKPV 190000Z VRB02KT 9999 FEW017 27/24 AXXXX SKRG 191000Z 00000KT 5000 BCFG BKN012 SCT080 13/13 A3024 RMK BCFG N/S SKRH 182300Z 06011KT 9999 FEW020 28/22 A2984 K14Y 191048Z AUTO 12005KT 5SM BR OVC007 M07/M08 A3017 RMK AO2 NFNA 191000Z 09005KT 9999 SCT018 BKN045 26/24 Q1012 K0A9 191035Z AUTO 29004KT 10SM OVC050 02/M04 A3015 RMK SLJE 182200Z 00000KT 9999 SCT017 OVC070 27/23 Q1010 SKSM 190300Z 04008KT 9999 FEW020 28/21 A2985 YHOO 191030Z AUTO 15013KT //// // ////// 28/21 Q1011 SLJO 191000Z 00000KT 9999 SCT008 BKN080 22/22 Q1008 SKSP 190900Z 08004KT 9999 FEW016 27/24 A2983 YHOT 191030Z AUTO 20003KT 9999 // ////// 04/03 Q1019 SKUC 190300Z 00000KT 9999 FEW030 25/24 A2987 K19A 191015Z AUTO 28004KT 10SM CLR 02/01 A3009 RMK AO2 TDCF 191000Z 13002KT 9999 FEW017 BKN036 24/20 Q1012 SKUI 190000Z 00000KT 9999 FEW030 27/24 A2982 K0E0 191015Z AUTO 30005KT 10SM CLR M03/M06 A3013 RMK AO2 T10281057 NGFU 190900Z 00000KT 9999 VCSH SCT018CB BKN110 29/26 Q1010 RE-SH K21D 191030Z AUTO 00000KT 10SM BKN060 OVC070 M05/M07 A3026 RMK AO2 SLMG 191000Z 00000KT 9999 BKN080 22/22 Q1008 SLLP 191000Z 11005KT 4000E VCFG FEW003 SCT013 BKN200 06/04 Q1033 YJAB 191030Z AUTO 34005KT //// // ////// 32/23 Q1008 K20U 191015Z AUTO 25010KT 10SM FEW075 BKN090 BKN120 00/M03 A2992 RMK AO2 K20V 191035Z AUTO 00000KT 1/2SM FZFG OVC002 M08/M10 A3017 RMK AO2 K0F2 191015Z AUTO 00000KT 7SM OVC003 06/06 A3017 RMK AO2 LTG DSNT S T00560055 SKVP 190300Z 06009KT 9999 FEW020 27/20 A2991 K0CO 191035Z AUTO BKN001 BKN005 OVC012 M15/M18 A3001 RMK AO2 PWINO YHSM 191030Z AUTO 20013KT //// // NCD 19/05 Q1018 SKVV 182300Z 00000KT 9999 FEW023 28/2122 A2983 HKEL 191000Z 05006KT 9999 FEW022 BKN300 23/10 HKEM 191000Z 16005KT 9999 BKN024 25/17 YHUG 191030Z AUTO 10006KT //// // ////// 30/19 Q1011 NFTF 191000Z 11008KT 9999 FEW012 SCT017TCU BKN270 25/21 Q1016 SLOR 191000Z 00000KT 9999 FEW015 SCT200 04/03 Q1034 HKGA 190400Z 11007KT 9999 SCT023 BKN080 27/22 Q1012 K24J 191035Z AUTO 00000KT 1 3/4SM CLR 06/06 A3012 RMK AO1 NFTL 190600Z 10010KT 9999 FEW009 BKN018 BKN100 26/23 Q1011 SLPO 191000Z 00000KT 9999 BKN015 SCT200 04/02 Q1035 SLPS 191000Z 00000KT 5000 BR BKN006 24/23 Q1008 SLRB 191000Z 00000KT 9999 SCT017 OVC070 23/23 Q1010 NFTV 190600Z 08009KT 9999 FEW016 SCT030 BKN270 26/23 Q1011 LYKV 191030Z VRB02KT 3000 BR FEW007 03/03 Q1023 BECMG 6000 NSW MPMG 190300Z VRB02KT 9999 FEW018 25/24 Q1012 NOSIG K0J4 190958Z AUTO 00000KT 10SM SCT038 OVC048 11/05 A3014 RMK AO2 SLP206 T01110050 $ SLRI 191000Z 00000KT 7000 VCSH SCT004 BKN015 FEW020CB BKN070 25/24 Q1009 K1A5 191015Z AUTO 00000KT 10SM M03/M04 A3012 RMK AO2 T10331037 SLSA 191000Z 00000KT 9999 SCT006 BKN015 BKN070 23/23 Q1007 K1A6 191015Z AUTO 00000KT 10SM OVC050 01/M02 A3019 RMK AO2 T00051019 K1A9 191035Z AUTO 00000KT 10SM CLR 05/01 A3016 RMK AO2 T00470010 SLRQ 191000Z 00000KT 2000 -RA BKN005 OVC070 22/22 Q1008 SLSI 191000Z 00000KT 4000 -DZ OVC005 22/22 Q1008 LYNI 191030Z 08003KT 050V110 7000 FEW010 SCT013 BKN023 07/05 Q1024 NOSIG SMJP 190100Z 07003KT CAVOK 24/23 Q1012 NOSIG SLRY 191000Z 00000KT 5000 -RA BKN010 BKN015 OVC070 21/21 Q1009 METAR SLRQ 191000Z 00000KT 2000 -RA BKN005 OVC070 22/22 Q1008 SLTJ 191000Z 00000KT 9999 FEW023 16/14 Q1016I MPPA 190300Z 34006KT CAVOK Q1012 SLSU 191000Z 00000KT 9999 SCT010 12/11 Q1026 K28J 191015Z AUTO 00000KT 10SM BKN044 08/08 A3010 RMK AO2 HKJK 191030Z 05012KT 9999 FEW025CB SCT026 26/14 Q1020 NOSIG LYPG 191030Z VRB01KT CAVOK 12/04 Q1023 NOSIG HKKG 190100Z 00000KT CAVOK 16/14 SLTR 191000Z 00000KT 9999 BKN003 BKN200 23/22 Q1009 HKKI 191000Z 24012KT 9999 FEW025CB SCT090 29/17 Q1017 ZBAA 191030Z 32008MPS CAVOK 00/M20 Q1028 NOSIG HKKR 190700Z 08012KT 9999 SCT022 20/12 HKKS 191000Z 09005KT 9999 FEW023 BKN090 25/14 LZIB 191030Z 28014G24KT 250V310 9999 FEW030 15/05 Q1017 NOSIG SLVM 191000Z 00000KT 9999 BKN017 23/22 Q1009 HKKT 191000Z 36008KT 9999 SCT023 27/13 K1F0 191015Z AUTO 06004KT 10SM OVC006 06/05 A3018 RMK AO2 HKME 190700Z 00000KT 9999 SCT017 20/17 SLVR 191000Z 30002KT 8000 -DZ FEW006 BKN020 OVC070 22/22 Q1009 HKNC 191000Z 08009KT 9999 SCT024 24/14 Q1022 HKLU 190800Z 08012KT 9999 BKN025TCU 31/24 HKML 191000Z 05015KT 9999 SCT025TCU 32/24 Q1012 HKMO 191000Z 05010KT 9999 BKN025 32/25 Q1012 NOSIG GUCY 190900Z 06006KU 5000 HZ NSC 25/20 Q1014 NOSIG SLYA 191000Z 00000KT 9999 SCT023 BKN070 22/20 Q1011 YJLC 191030Z AUTO 19005KT //// // ////// 31/17 Q1009 HKNI 190700Z 08002KT 9999 SCT022 21/16 TDPD 191000Z 25003KT 2000 SHRA BKN012TCU SCT034 23/22 Q1013 HKNK 191000Z 30008KT 9999 FEW026CB SCT027 25/11 HKMU 191000Z 12004KT 9999 BKN028 28/20 K1H2 191015Z AUTO 00000KT 4SM BR CLR M03/M05 A3031 RMK AO2 T10341050 CERM 191000Z AUTO 32006KT M05/M07 RMK AO1 SOG 27 1007 SLP082 T10461068 HKNO 190700Z 16004KT 9999 SCT021 SCT080 22/14 HKMY 190800Z 09012KT CAVOK 28/12 K33V 191035Z AUTO 00000KT 10SM SCT037 SCT047 M18/M22 A3009 RMK AO2 HKNW 191000Z 07013KT 9999 BKN027 25/13 Q1021 MPTO 190900Z 00000KT 9999 FEW018 22/20 Q1008 NOSIG NGTT 191000Z 07007KT 9999 FEW018TCU SCT300 29/23 Q1009 K1J0 190958Z AUTO 00000KT 10SM OVC041 09/06 A3013 RMK AO2 SLP187 T00940061 $ YIVO 191030Z AUTO 19007KT //// // ////// 23/M01 Q1016 LYTV 191030Z VRB02KT CAVOK 14/04 Q1023 NOSIG LZKZ 191030Z 18005KT 150V210 0250 R01/0550N FG OVC001 05/05 Q1016 NOSIG K1K1 191035Z AUTO 00000KT 4SM BR OVC004 M02/M02 A3021 RMK AO2 T10171021 LYUZ 191030Z 24005KT 190V280 CAVOK 07/04 Q1021 LYVR 191030Z 16012G24KT CAVOK 11/03 Q1021 NOSIG K1II 191035Z AUTO 7SM CLR M07/M08 A3028 RMK AO2 K1L0 191015Z AUTO 05005KT 10SM TSDZ BKN017 OVC022 14/12 A3005 RMK AO2 LTG DSNT N AND NE T01430118 GVAC 191000Z 06016KT 9999 FEW015 23/16 Q1019 NOSIG K36U 191015Z AUTO 12004KT 10SM OVC018 M06/M07 A3020 RMK AO2 SOCA 191030Z AUTO 15002KT 9999 FEW002/// SCT020/// BKN048/// 24/23 Q1011 GVBA 191000Z 06014KT CAVOK 23/17 Q1018 NOSIG K2C8 191035Z AUTO 17008KT 1 1/4SM BR OVC004 M06/M07 A3007 RMK AO2 ZBHH 191000Z 33005MPS CAVOK M10/M20 Q1027 NOSIG K1M4 190956Z AUTO 00000KT 10SM BKN027 04/02 A3019 RMK AO2 T00380022 SLP233 $ K0V4 191015Z AUTO 00000KT 10SM CLR M02/M03 A3011 RMK AO1 T10251029 K2D5 191035Z AUTO 17007KT 5SM BR M03/M03 A3006 RMK AO2 K40J 191035Z AUTO 00000KT 10SM CLR 06/06 A3012 RMK AO2 T00600059 YKII 191030Z AUTO 27012KT 9999 // SCT026 BKN038 14/09 Q1018 LZPP 191030Z 00000KT 9999 FEW015 13/09 Q1016 HLLM 190850Z 25008KT 9999 FEW020 SCT080 15/05 Q1026 AYGN 190600Z 14009KT 9999 FEW025 30/23 Q1007= K0VG 191015Z AUTO 00000KT 10SM OVC049 01/M03 A3018 RMK AO2 YLBD 191030Z AUTO 27001KT 9999 // NCD 30/24 Q1009 K42J 191035Z AUTO 01003KT 4SM CLR 07/07 A3010 RMK AO1 TSNO MSAC 182250Z 25005KT CAVOK 30/23 Q1010 A2985 K1P1 191015Z AUTO 29011G15KT 10SM SCT022 BKN035 OVC042 M01/M03 A2987 RMK AO2 T10151030 TFFF 191030Z AUTO 09003KT 9999 NSC 21/21 Q1012 HKVO 191000Z 05016KT 9999 BKN024 29/22 K2G4 191030Z AUTO 28007KT 1 1/4SM BR OVC002 M06/ A3002 RMK AO1 HKWJ 190700Z 09007KT SKC 29/20 K2G9 191015Z AUTO 27008KT 7SM OVC008 M05/M06 A3005 RMK AO2 LZSL 191030Z 22002KT 2700 BR BKN004 OVC025 05/05 Q1016 TFFR 191030Z AUTO 00000KT 9999 FEW025/// SCT058/// ///CB 22/21 Q1013 MRLB 190200Z 09006KT 9999 FEW040 26/20 A2988 K2I0 191015Z AUTO 02003KT 7SM OVC050 00/M01 A3027 RMK AO2 T00041012 YLEC 191030Z AUTO 21012KT //// // ////// 28/M01 Q1015 LZTT 191030Z 26016KT 9999 FEW013 10/07 Q1013 NOSIG MRLM 190000Z 31005KT CAVOK 25/24 A2988 YKMP 191030Z AUTO 21005KT //// // ////// 21/14 Q1015 SMZO 190000Z 00000KT 9999 FEW012 26/23 Q1012 NOSIG K46D 191035Z AUTO 2SM BR OVC002 M03/M03 A2999 RMK AO2 K2J9 191035Z AUTO 00000KT 10SM FEW021 SCT040 BKN049 08/03 A3014 RMK AO1 P0107 YLEO 191030Z AUTO 07005KT 9999 // NCD 29/17 Q1010 YKNT 191030Z AUTO 17006KT //// // ////// 32/19 Q1012 MROC 191000Z 11011KT 9999 FEW030 20/15 A2997 NOSIG AYMO 190300Z 32010KT 9999 BKN018 BKN300 31/25 Q1008 RMKS YKOW 191030Z AUTO 27005KT //// // NCD 30/26 Q1008 K3D2 191035Z AUTO 31003KT 10SM OVC008 M05/M05 A3026 RMK AO2 T10471055 K1V4 190954Z AUTO M02/M06 A2988 RMK AO1 SLP130 T10221061 K1V6 191035Z AUTO 30003KT 10SM CLR M01/M06 A3006 RMK AO2 SPCL 191000Z /////KT 9999 SCT012 SCT100 22/20 Q1008 RMK PP000 YLHR 191030Z AUTO 08002KT //// // BKN023 28/24 Q1009 LZZI 191030Z VRB02KT 9999 FEW009 SCT016 OVC022 08/08 Q1015 YKSC 191030Z AUTO 19007KT 9999 // NCD 16/09 Q1021 AYNZ 190500Z 09008KT 9999 SCT020 SCT040 OVC140 30/24 Q1006= MRPV 190000Z 10007KT 9999 SCT025 22/16 A3000 NOSIG YMBA 191030Z AUTO 36006KT //// // ////// 24/19 Q1013 YLIS 191030Z AUTO 16008KT 9999 // NCD 22/19 Q1014 ZBSJ 191000Z 35004MPS CAVOK 02/M17 Q1027 NOSIG OAHR 190954Z 02005KT CAVOK 13/M03 Q1025 RMK BKN BKN200 VIS MIN 9999 BLU YMBD 191030Z AUTO 20011KT //// // ////// 16/08 Q1021 YKRY 191030Z AUTO 00000KT //// // ////// 21/16 Q1013 ZBTJ 191030Z 33010MPS CAVOK 02/M19 Q1026 NOSIG AYPY 190600Z 21010 9999 FEW025CB SCT020 32/22 Q1006 RMKS OAKB 190950Z VRB03KT CAVOK 12/M17 Q1024 NOSIG RMK BLU BLU YMAV 191030Z AUTO 19011KT 9999 // NCD 15/09 Q1019 YLLE 191000Z AUTO 19012KT //// // ////// 33/05 Q1012 YMAY 191030Z AUTO 26010KT 9999 // NCD 19/05 Q1015 GVNP 191000Z 05017KT 9999 FEW016 SCT200 24/18 Q1017 NOSIG OBBI 191000Z 27009KT CAVOK 21/10 Q1022 NOSIG K54J 191015Z AUTO 36004KT 10SM OVC034 11/03 A3013 RMK AO2 T01070032 SPGM 182100Z /////KT 9999 SCT030 OVC100 26/22 Q1010 RMK BIRD HAZARD RWY 19 TX YMCO 191030Z AUTO 27004KT //// // ////// 14/08 Q1018 NIUE 190300Z 11020KT 9999 BKN018 27/22 Q1009 K3I2 191015Z AUTO 00000KT 10SM OVC021 00/M03 A3025 RMK AO2 YMDG 191030Z AUTO 15004KT //// // NCD 21/01 Q1015 MTCH 181400Z VRB02KT 9999 FEW032 27/ Q1018 A3008 SPHI 191000Z 17014KT 9999 OVC005 18/17 Q1012 RMK PP000 SPHO 191000Z VRB01KT CAVOK 12/10 Q1024 RMK PPTRZ MSLP 191000Z 190090Z VR003KT CAVOK 23/20 Q1012 A2989 K4A6 191015Z AUTO 00000KT 7SM OVC048 M01/M01 A3019 RMK AO2 YMEK 191030Z AUTO 12016KT 9999 // SCT120 32/16 Q1009 K3J7 191035Z AUTO 28003KT 10SM CLR 05/03 A3006 RMK AO2 MSLU 182050Z 00000KT CAVOK 35/17 Q1008 A2979 K1YT 191036Z AUTO 30003KT 3SM BR FEW012 FEW050 SCT060 SCT075 BKN100 03/02 A2985 RMK AO2 RAE36DZB36E36 SPIM 191000Z 17008KT 9999 OVC020 19/17 Q1013 NOSIG RMK PP000 K4A9 191015Z AUTO 00000KT 5SM BR CLR M01/M03 A3016 RMK AO2 YMEN 191030Z AUTO 17010KT 9999 // NCD 15/08 Q1019 SPHY 191000Z /////KT 6000 BCFG SCT030 07/00 Q1034 RMK RA NOCHE PP038 K3K3 191015Z AUTO 00000KT 5SM BR OVC075 M02/M02 A3012 RMK AO2 YMER 191030Z AUTO 14007KT 9999 // SCT041 SCT054 16/09 Q1018 YMES 191030Z AUTO 25006KT 9999 // NCD 14/07 Q1019 SPJI 182100Z 00000KT CAVOK 32/26 Q1014 RMK T.MAX 34.2 PP000 YMGB 191030Z AUTO 36005KT //// // ////// 31/25 Q1008 OAMS 190950Z 09020KT 9999 FEW200 10/02 Q1025 BLU+BLU+ YMGD 191030Z AUTO 01008KT 9999 // NCD 31/25 Q1008 SPJL 190200Z 22005KT 9999 -RA BKN010 SCT070 06/03 Q1037 RMK PP010 SPJR 191000Z 00000KT 9999 FEW040 06/05 Q1027 RMK PP000 YMHB 191030Z 29009KT 9999 FEW050 BKN070 15/01 Q1014 ZBYN 191030Z 29006MPS CAVOK M02/M22 Q1026 NOSIG AYWK 190500Z 31006KT 9999 FEW018CB SCT018 BKN300 31/26 Q1006 RMKS K2V5 191035Z AUTO 24004KT 10SM CLR M07/M09 A3009 RMK AO2 T10751094 YMIA 191030Z AUTO 18004KT 9999 // NCD 23/02 Q1017 YLRE 191030Z AUTO 13008KT 9999 // NCD 31/04 Q1011 SPME 190300Z /////KT 9999 BKN020 25/20 Q1012 RMK BIRD HAZARD RWY 32/14 PP000 SPLO 182100Z 14008KT CAVOK 22/16 Q1011 RMK TMAX 24.6 PP000 GVSV 191000Z 06023KT 9999 FEW024 24/16 Q1018 NOSIG K4BM 191034Z AUTO 31008G14KT 10SM CLR M11/M15 A3003 RMK AO2 K3LF 191015Z AUTO 00000KT 7SM BKN008 OVC037 M01/M03 A3029 RMK AO2 T10151035 K2W6 191032Z AUTO 31003KT 10SM OVC095 00/M05 A3012 RMK AO1 K3N8 191015Z AUTO 15008KT 7SM OVC012 M06/M08 A3012 RMK AO2 T10641082 YMIN 191030Z AUTO 15010KT //// // ////// 16/09 Q1020 SPMS 182300Z 02005KT 9999 SCT020 30/23 Q1010 BIRD HAZARD 09/27 PP000 MSSA 182350Z 03004KT CAVOK 26/14 Q1016 A3002 YNAR 191030Z AUTO 19008KT //// // ////// 21/02 Q1016 YLST 191030Z AUTO 20008KT 9999 // SCT079 BKN098 27/19 Q1014 YLTN 191030Z AUTO 07004KT 040V100 //// // ////// 29/17 Q1013 MSSM 190050Z 20002KT CAVOK 26/19 Q1009 A2980 DAAD 191000Z 34010KT 8000 FEW020 BKN033 16/09 Q1029 DAAE 191000Z 24010KT 8000 FEW003 SCT020 BKN040 15/14 Q1030 YNBR 191030Z AUTO 19005KT //// // ////// 23/M02 Q1013 YMMB 191030Z AUTO 17007KT 9999 // SCT047 15/07 Q1019 DAAG 191030Z 22005KT 180V260 9999 FEW020 SCT083 17/13 Q1031 YLTV 191030Z AUTO 24010KT 9999 // NCD 13/08 Q1019 DAAJ 191000Z 00000KT CAVOK 17/04 Q1024 DABB 191030Z 28008KT 250V310 9999 FEW023 SCT046 16/13 Q1027 DABC 191030Z 11003KT 0800 FG BKN003 OVC020 09/09 Q1029 K4I3 191035Z AUTO 26005KT 5SM BR OVC010 M03/M03 A3019 RMK AO2 MUCF 190958Z AUTO 06007KT 19/18 Q1016 K2WX 190956Z AUTO 25010KT M02/M06 A2988 RMK AO1 SLP141 T10171061 DAAP 191000Z 00000KT CAVOK 12/02 Q1027 YMLT 191030Z AUTO 31009KT 9999 // OVC078 14/03 Q1014 K4I7 191035Z AUTO 00000KT 7SM OVC014 M04/M08 A3027 RMK AO2 K3R7 191015Z AUTO 33009G14KT 10SM -TSRA OVC004 12/11 A3010 RMK AO2 LTG DSNT ALQS T01150113 YMML 191030Z 17008KT 9999 FEW037 14/07 Q1019 YMNE 191030Z AUTO 07013KT 9999 // NCD 25/19 Q1012 MUCL 191005Z AUTO 06012KT 23/19 Q1015 DAAS 191000Z 32010KT 8000 SCT010 BKN026 10/06 Q1029 DAAT 190930Z 08018KT CAVOK 19/M09 Q1021 MUCM 190952Z 02006KT 9000 NSC 19/16 Q1017 YMNG 191030Z AUTO 19007KT 9999 // NCD 16/06 Q1018 DAAV 191000Z 28006KT 5000 RA SCT006 BKN016TCU 15/14 Q1028 TGPY 191000Z 09005KT 9999 FEW018 BKN038 25/24 Q1011 NOSIG DAAY 191000Z 00000KT 8000 NSC 10/06 Q1033 SPQT 191000Z 26004KT 9999 SCT015 BKN100 23/22 Q1007 RMK PP000 K65S 191035Z AUTO 00000KT 1 3/4SM BR SCT013 BKN023 OVC030 02/01 A2993 RMK AO2 VSBY 1/2V5 SPQU 191000Z 36003KT CAVOK 10/02 Q1025 RMK PP000 YNEN 191030Z AUTO 21003KT 9999 // NCD 30/24 Q1008 DABS 191000Z 00000KT 9999 FEW026 BKN033 11/09 Q1027 MUCU 190951Z 35006KT 9000 FEW020 20/17 Q1015 DABT 191000Z 00000KT 9999 FEW010 BKN023 11/10 Q1029 YMOG 191030Z AUTO 08013KT //// // ////// 29/18 Q1009 K3T5 191010Z AUTO 02007KT 5SM -VCTSRA OVC008 12/11 A3001 RMK AO2 LTG DSNT ALQS T01190114 K66R 191010Z AUTO 03005KT 7SM VCTSDZ OVC004 13/13 A2999 RMK AO2 LTG DSNT SW THRU NE T01320130 SPRU 191000Z 12007KT 4000 BR OVC005 17/16 Q1012 RMK PP000 K5C1 191015Z AUTO 01005KT 2 1/2SM OVC004 10/08 A3004 RMK AO1 P0001 SPSO 191000Z 20005KT 8000 FEW015 18/16 Q1012 RMK FU QUAD E PP000 YMOR 191030Z AUTO 20007KT 9999 // NCD 24/00 Q1013 DAEF 191000Z 09010KT CAVOK 14/02 Q1028 SPST 190300Z VRB02KT 9999 FEW030 27/22 Q1009 RMK BIRD HAZARD RWY 17/35 PP000 SPTN 191000Z 00000KT CAVOK 15/13 Q1013 RMK PP000 DAEN 191000Z 00000KT CAVOK 13/03 Q1028 YMRB 191030Z AUTO 13008KT 9999 // SCT120 26/20 Q1013 YNHL 191030Z AUTO 21011KT //// // ////// 19/04 Q1019 DAFH 191000Z /////KT CAVOK 12/06 Q1029 MUHA 191023Z 06005KT 040V100 6000 NSC 14/12 Q1017 SPTU 182300Z 00000KT 9999 SCT020 BKN100 27/25 Q1004 RMK BIRD HAZARD RWY 01/19 PP000 K4M9 191015Z AUTO 06008KT 5SM BR OVC043 02/02 A3024 RMK AO2 MUGM 190956Z 34007KT 9999 FEW040 22/18 A2998 RMK SLP153 T02170183 MTPP 190000Z 29005KT 8000 FEW020 26/// Q1015 A2997 MUHG 190952Z 05005KT 8000 VCFG FEW020 18/16 Q1015 K4O4 191035Z AUTO 05005KT 3SM OVC004 06/05 A3015 RMK AO2 YMRY 191030Z AUTO 16010KT 9999 // SCT035 SCT039 OVC046 18/12 Q1018 YMTG 191030Z AUTO 23006KT 9999 // OVC036 15/09 Q1020 YMTI 191030Z AUTO 35005KT //// // ////// 31/24 Q1008 K4MR 190956Z AUTO VRB04KT 8SM SCT060 01/00 A3009 RMK AO2 SLP181 T00131004 K5H4 191035Z AUTO 18008KT 3SM BR OVC002 M03/M03 A2996 RMK AO2 SPZA 182130Z 22014KT 9000 BLDU NSC 28/14 Q1012 SPYL 182100Z 20017KT CAVOK 25/18 Q1010 RMK TMAX 27.2 BIRD HAZARD RWY 17/35 PP000 DBBB 191000Z 21006KT 180V260 6000 SCT013 30/27 Q1012 NOSIG SPZO 191030Z 00000KT 9000 -DZ FEW025 SCT036 OVC070 08/06 Q1029 RMK CLNG BLW 1200M UAAA 191030Z 23003MPS 1300 R23R/1700N R23L/1300N FU OVC100 00/M07 Q1025 R88/9///60 NOSIG K6B0 191015Z AUTO 36009KT 10SM OVC032 M02/M05 A2994 RMK AO2 T10221055 UAAH 191030Z 07003MPS CAVOK M04/M09 Q1028 R05/410055 NOSIG RMK QFE733/0978 YMYB 191030Z AUTO 03004KT 9999 // NCD 24/21 Q1011 DAMH 190900Z 00000KT CAVOK 11/02 Q1028 UACC 191030Z 13002MPS 080V140 6000 SKC M15/M19 Q1029 R04/8/0065 NOSIG RMK QFE740/0987 DAOB 191000Z 00000KT CAVOK 12/06 Q1030 TJBQ 190450Z 06008KT 7SM SCT034 OVC043 22/21 A3002 -RA RMK TWR CLOSED DAOF 191000Z 00000KT CAVOK 13/M01 Q1030 YNRC 191030Z AUTO 21009KT //// // ////// 14/07 Q1020 UACK 191030Z VRB01MPS CAVOK M12/M14 Q1028 R02/490337 NOSIG RMK QFE746/0995 DAOI 191000Z 08003KT 5000 NSC 13/09 Q1031 K79J 190956Z AUTO 04005KT 10SM OVC050 12/02 A3013 RMK AO2 SLP201 T01220017 UADD 191030Z 19002MPS 9999 NSC 06/M08 Q1025 R13/0///65 NOSIG RMK QFE711/0948 K5M9 191035Z AUTO 03004KT 7SM OVC048 M01/M03 A3025 RMK AO2 T10131028 UACP 191030Z 19002MPS CAVOK M13/M14 Q1027 R23/4/0545 NOSIG RMK QFE758/1010 DAON 191030Z 10003KT CAVOK 14/08 Q1031 DAOO 191030Z 20003KT CAVOK 14/11 Q1031 DAOR 191000Z 00000KT CAVOK 12/07 Q1031 YPAD 191030Z 15012KT 9999 FEW035 18/08 Q1020 YPAG 191030Z AUTO 17018KT //// // NCD 20/11 Q1018 DAOV 191000Z 00000KT CAVOK 12/09 Q1031 YNSM 191030Z AUTO 02005KT 360V070 //// // ////// 33/02 Q1011 OEAB 191000Z 09004KT 9999 FEW020 21/05 Q1026 NOSIG MUSC 181226Z VRB01KT 7000 2000SE FEW025 14/12 Q1021 OEAH 191000Z 34004KT CAVOK 22/M02 Q1021 NOSIG OEBA 191000Z 10006KT CAVOK 22/09 Q1023 NOSIG YPCC 191030Z AUTO 14015KT 9999 // OVC050 28/23 Q1010 YOLD 191030Z AUTO 19006KT 9999 // NCD 29/M02 Q1015 YNTN 191030Z AUTO 31006KT //// // ////// 33/25 Q1007 YPBO 191030Z AUTO 27015KT 9999 // NCD 42/04 Q1007 K82V 191015Z AUTO 25004KT 10SM CLR M10/M11 A3006 RMK AO2 OEAO 191000Z 12002KT CAVOK 26/05 Q1019 OEBH 191000Z 35004KT CAVOK 24/06 Q1021 NOSIG MWCB 190000Z 08006KT 9999 FEW016 26/22 Q1015 K6I2 191035Z AUTO 7SM FEW060 00/M03 A3024 RMK AO2 YPEA 191000Z AUTO 20016KT 9999 // NCD 34/08 Q1005 YPED 191030Z AUTO 19010KT 9999 // NCD 19/10 Q1019 K5R8 191015Z AUTO 03003KT 4SM TSRA SCT004 BKN050 OVC070 11/11 A3006 RMK AO2 LTG DSNT ALQS P0007 T01130113 YOLW 191030Z AUTO 30014KT //// // ////// 27/20 Q1009 DAUA 191000Z 01008KT CAVOK 14/06 Q1029 YPDN 191030Z 21005KT 9999 FEW024 BKN300 29/25 Q1008 DAUB 191000Z /////KT 9999 FEW040 19/08 Q1027 TJIG 182245Z 08008KT 8SM SCT030 BKN060 26/21 A3001 RMK RY09 IN USE ATIS M DATM 191000Z 36020KT CAVOK 17/M01 Q1021 OEDF 191000Z 26005KT CAVOK 21/07 Q1022 NOSIG DAUE 191000Z /////KT CAVOK 14/06 Q1029 UAII 191030Z VRB01MPS 3000 FU SCT050CB OVC100 04/M03 Q1028 R10/0///70 NOSIG RMK QFE735/0980 MWCR 190200Z 06008KT 9999 FEW016 25/24 Q1015 NOSIG DAUG 191000Z VRB02KT CAVOK 15/05 Q1029 DAUH 191030Z 00000KT 9999 FEW040 13/04 Q1027 YOOD 191030Z AUTO 15012KT //// // ////// 34/06 Q1013 DAUI 191000Z 04017KT CAVOK 16/03 Q1027 YNWN 191030Z AUTO 35013KT 9999 // NCD 39/12 Q1008 OEDM 191000Z 20012KT CAVOK 22/05 Q1021 DAUK 191000Z 02006KT 9999 FEW040 SCT100 14/09 Q1028 DAUL 191000Z 00000KT 9999 FEW023 12/07 Q1030 DAUO 191000Z 320//KT 9999 BKN033 14/08 Q1028 OEDR 191000Z 28007KT CAVOK 22/08 Q1020 NOSIG MUVR 190951Z 14002KT 9000 FEW025 14/12 Q1017 UBBB 191030Z 35006KT 7000 OVC011 09/06 Q1017 88CLRD70 NOSIG YOOM 191030Z AUTO 13009KT //// // ////// 31/03 Q1013 UAKD 191000Z 04004MPS 7000 NSC M04/M10 Q1026 R04/82//50 NOSIG RMK QFE736/0982 DAUT 191000Z 00000KT CAVOK 12/02 Q1029 ZGGG 191030Z 09001MPS 6000 NSC 12/08 Q1023 NOSIG DAUU 191000Z 34008KT 9999 FEW046 16/07 Q1028 UBBG 191030Z VRB04KT 9999 BKN083 12/03 Q1016 R30/CLRD70 NOSIG K6L4 191035Z AUTO 33005KT 9SM OVC031 M02/M05 A3017 RMK AO2 ZGHA 191000Z 08005MPS 6000 NSC 10/03 Q1026 NOSIG TIST 190753Z 10006KT 10SM SCT032 SCT041 BKN085 25/19 A2992 RMK AO2 SLP132 T02500194 DAUZ 191000Z 06010KT CAVOK 14/02 Q1026 UAKK 191030Z 06002MPS CAVOK M09/M13 Q1028 R05/810560 NOSIG RMK QFE723/0964 UBBL 191000Z 03004KT 9999 BKN200 11/07 Q1018 R33/CLRD70 NOSIG RMK MT OP UBBN 191030Z 12002KT 8000 OVC026 OVC100 04/03 Q1021 R14R/CLRD60 NOSIG RMK MT OBSC QFE690 TISX 190753Z 06008KT 10SM BKN070 24/20 A2992 RMK AO2 SLP131 T02440200 K5SM 191038Z AUTO 00000KT 3SM -SN BKN003 OVC007 A3012 RMK AO2 UBBQ 191000Z 35002KT 9999 BKN060 08/04 Q1016 R34/CLRD70 NOSIG RMK MT OBSC YPGV 191030Z AUTO 03004KT 9999 // NCD 29/25 Q1009 YORG 191030Z AUTO 24004KT 9999 // NCD 13/M01 Q1018 OEGN 191000Z 19008KT 9999 FEW030 31/22 Q1015 NOSIG K7BM 191034Z AUTO 28010G15KT 10SM CLR M05/M12 A3005 RMK AO2 UBBY 191000Z VRB02KT 9999 OVC100 07/04 Q1020 R33/////// NOSIG RMK MT OP OEGS 191000Z 19008KT CAVOK 23/13 Q1020 OEGT 191000Z 30004KT CAVOK 15/06 Q1019 NOSIG K5W8 191015Z AUTO 00000KT 10SM OVC060 04/01 A3011 RMK AO2 T00370010 OEHL 191000Z 21012KT CAVOK 23/07 Q1020 UBEE 191000Z 35004KT 6000 BKN033 09/05 Q1017 R30/CLRD70 NOSIG YPKA 191030Z AUTO 32012KT 9999 // NCD 29/21 Q1009 YPKG 191030Z AUTO 09012KT 9999 // NCD 34/03 Q1010 TJMZ 182150Z 09008KT 10SM SCT040 25/19 A2999 TJNR 190953Z AUTO 06007KT 10SM SCT032 SCT041 BKN060 26/19 A2997 RMK AO2 SLP147 T02560194 $ YPJT 191030Z AUTO 20015KT 9000 // NCD 31/05 Q1006 YPLC 191030Z AUTO 17011KT 9999 // NCD 17/11 Q1020 ZHCC 191000Z 27004MPS CAVOK 09/M16 Q1024 NOSIG ZGKL 191000Z VRB01MPS CAVOK 13/03 Q1024 NOSIG UAOO 191030Z VRB01MPS CAVOK 01/M06 Q1026 R06/CLRD70 NOSIG RMK QFE758/1011 OEJN 191000Z 21004KT CAVOK 30/18 Q1014 NOSIG YPKS 191030Z AUTO 21006KT //// // ////// 18/M01 Q1016 YPKT 191030Z AUTO 35005KT //// // ////// 31/25 Q1008 OEKJ 190500Z 00000KT CAVOK 11/03 Q1025 YPKU 191030Z AUTO 06008KT 9999 // BKN083 31/21 Q1009 OEKK 191000Z 15004KT CAVOK 21/11 Q1021 NOSIG YPLM 191030Z AUTO 23014KT 9999 // NCD 30/14 Q1009 OEKM 191000Z 15004KT 9999 FEW022 21/03 Q1025 NOSIG K6R3 191015Z AUTO 03003KT 10SM -RA OVC004 13/13 A3004 RMK AO2 LTG DSNT E SW AND W T01270125 K6R6 190953Z AUTO 30005KT 10/03 A3004 RMK AO1 SLP156 T01000033 TJPS 190950Z 00000KT 8SM FEW050 22/19 A2992 OEMA 191000Z 05007KT 9000 SKC 25/05 Q1020 NOSIG K8A0 191015Z AUTO 00000KT 4SM BR CLR 01/01 A3015 RMK AO2 K96D 191015Z AUTO 16010KT 3SM BR M07/M07 A3006 RMK AO2 YPMQ 191030Z AUTO 22005KT 9999 // OVC038 22/16 Q1015 SUAA 191000Z 35009KT CAVOK 21/12 Q1006 YPOD 191030Z AUTO 27004KT //// // OVC033 14/10 Q1020 OEMK 191000Z 18004KT 9999 SCT040 32/21 Q1014 ZGNN 191000Z 33001MPS CAVOK 17/05 Q1022 NOSIG SUAG 181500Z 13007KT 9999 SCT030 29/15 Q1011 OENG 191000Z 12006KT CAVOK 22/04 Q1023 NOSIG UARR 191030Z 17006MPS 3000 -FZDZ BR OVC003 M01/M01 Q1016 R22/690237 TEMPO 2000 -FZDZ BR OVC003 RMK QBB090 QFE759/1012 TJSJ 190956Z 00000KT 10SM FEW031 SCT055 23/21 A2995 RMK AO2 SLP141 T02330206 UASK 191030Z 00000MPS 5000 BR FEW230 M20/M23 Q1034 R30/820248 NOSIG RMK QFE750/1000 YPPD 191030Z AUTO 33013KT 9999 // NCD 29/22 Q1009 YPPF 191030Z AUTO 15011KT 9999 // NCD 18/08 Q1019 UATE 191030Z 12005MPS 9999 BKN011 OVC150 05/01 Q1019 R12/0///70 NOSIG RMK QFE762/1017 K7L2 191035Z AUTO 15011G14KT 7SM CLR M07/M07 A2997 RMK AO2 UATG 191030Z 14006MPS 5000 BR SCT048 BKN160 02/01 Q1021 R14/19//65 NOSIG RMK QFE768/1024 UASP 191030Z 12004MPS CAVOK M20/M23 Q1034 R21/410160 NOSIG RMK QFE764/1019 YPPH 191030Z 21017KT 5000 FU FEW100 32/06 Q1005 SUCA 182200Z 31006KT 9999 FEW030 30/13 Q1005 UASS 191030Z 14003MPS CAVOK M18/M21 Q1035 R08/42//55 NOSIG RMK QFE755/1006 OEPA 191000Z 15010KT CAVOK 19/09 Q1020 NOSIG ZGOW 191000Z 03002MPS 340V060 9999 -RA SCT050 13/11 Q1023 NOSIG ZHHH 191000Z 23002MPS CAVOK 08/03 Q1026 NOSIG K8D3 190956Z AUTO 16009KT M04/M04 A3012 RMK AO1 SLP228 T10441044 UATT 191030Z 19004MPS 050V220 CAVOK M05/M10 Q1023 R13/0///60 NOSIG RMK QFE748/0997 CMGB 191030Z AUTO 29001KT M04/M06 RMK AO1 SOG 15 3010 SLP148 T10381060 CMFM 191000Z AUTO 35003KT M11/M12 RMK AO1 SOG 34 1005 SLP102 T11091124 UAUU 191030Z 17004MPS CAVOK M09/M10 Q1026 R15/410060 NOSIG RMK QFE753/1004 OERF 191000Z 22016KT CAVOK 25/08 Q1016 SUDU 191000Z 36010KT CAVOK 21/11 Q1007 OERK 191000Z 21004KT CAVOK 22/04 Q1023 NOSIG OESH 191000Z 06009KT CAVOK 23/09 Q1022 NOSIG OERR 191000Z 31007KT 9999 FEW040 SCT100 20/13 Q1016 NOSIG OETB 191000Z 31010KT CAVOK 21/05 Q1017 NOSIG OESK 191000Z 24006KT CAVOK 22/04 Q1018 NOSIG UCFM 191030Z VRB01MPS 7000 NSC 00/M05 Q1026 R26/CLRD70 NOSIG YPTN 191030Z AUTO 00000KT 9999 // SCT100 30/24 Q1008 UCFO 191030Z 07002MPS 3700 BR FU BKN083 01/M03 Q1027 R12/CLRD70 NOSIG OETF 191000Z VRB04KT 9999 FEW030 25/06 Q1022 NOSIG ZGSZ 191000Z 02005MPS 3200 -RA BR SCT013 OVC050 12/09 Q1023 NOSIG OERY 191000Z 17005KT CAVOK 21/07 Q1023 TKPK 191000Z 04010KT 9999 FEW022 25/21 Q1013 TKPN 190000Z 09009KT 9999 FEW020 SCT050 26/20 Q1015 K7R4 182205Z 12004KT 7SM OVC014 15/11 A3004 OETR 191000Z 00000KT 9999 SCT030 BKN100 14/09 Q1018 SVAC 182300Z 360//KT 9999 FEW023 ///// Q1010 YREN 191030Z AUTO 20011KT //// // ////// 22/03 Q1018 OEWD 191000Z 12008KT CAVOK 23/16 Q1021 NOSIG YPWR 191030Z AUTO 15016KT 9999 // NCD 27/M05 Q1016 OEWJ 191000Z 30012KT CAVOK 28/18 Q1014 NOSIG SVBC 191100Z 00000KT 9999 FEW010 22/22 Q1012 YPXM 191022Z AUTO 15006KT 1000 DZ BKN001 OVC005 25/24 Q1011 SVBI 191000Z 02002KT CAVOK 23/19 Q1010 SVCB 181700Z 02013KT 9999 SCT013 32/// Q1010 SVBM 191000Z 16003KT 9999 FEW016 21/19 Q1015 MYGF 190100Z 00000KT 9999 FEW015 19/18 A3008 SVBS 190900Z 27003KT CAVOK 22/21 Q1014 HTAR 191000Z 18005KT 9999 BKN030 BKN080 23/17 Q1019 K9D7 191035Z AUTO 16007KT 3SM BR OVC003 M05/M05 A2999 RMK AO2 SVCN 182100Z 00000KT 9999 SCT050 ///// Q1015 OEYN 191000Z 18008KT CAVOK 30/18 Q1013 NOSIG K7W4 191015Z AUTO 00000KT 10SM CLR 00/M05 A3011 RMK AO1 T00001051 SVCR 190900Z /////KT 9999 FEW013 26/24 Q1012 SULS 191000Z 32007KT CAVOK 23/12 Q1006 SVCU 190900Z 11006KT CAVOK 24/21 Q1011 HTDA 191000Z 02013KT 9999 BKN030 34/24 Q1011 NOSIG HTBU 191000Z 09008KT 9999 FEW022 FEW024CB 26/19 Q1017 SUMU 191000Z 35010KT CAVOK 21/13 Q1006 NOSIG HTDO 191000Z 34005KT 9999 FEW017 FEW019CB BKN070 21/18 Q1019 NOSIG YSBK 191030Z AUTO 12010KT 9999 // OVC052 19/09 Q1018 YSCB 191030Z AUTO 10010KT 9999 // NCD 13/09 Q1017 TLPC 191000Z 10004KT 9999 FEW020 24/22 Q1012 NOSIG SVFM 181400Z /////KT 9999 FEW040 ///// Q1019 SVGD 191000Z 00000KT CAVOK 22/21 Q//// SVGI 181800Z /////KT 9999 SCT010 33/24 Q1006 YRMD 191030Z AUTO 13011KT //// // ////// 33/16 Q1010 TLPL 191000Z 09005KT 9999 FEW022 BKN300 24/22 Q1012 NOSIG YSCN 191030Z AUTO 14004KT 9999 // OVC050 18/10 Q1018 YSCO 191030Z AUTO 18011KT //// // ////// 18/12 Q1015 YSCR 191030Z AUTO 08009KT 040V100 //// // ////// 36/05 Q1008 SVGU 190900Z /////KT 9999 FEW017 24/21 Q1009 MZBZ 190000Z 07003KT 9999 FEW020 24/21 A2996 Q1014 NOSIG YSDU 191030Z AUTO 19007KT 9999 // NCD 19/02 Q1015 HRYR 191000Z 08004KT 9999 BKN025 28/19 Q1020 NOSIG SVJC 190000Z 06005KT 9999 FEW015 XX/XX Q1010 YROM 191030Z AUTO 19003KT 9999 // NCD 26/10 Q1012 YSGE 191030Z AUTO 18006KT //// // ////// 27/02 Q1012 SVJM 191000Z /////KT CAVOK 20/19 Q1011 SUSO 191000Z 12004KT CAVOK 21/15 Q1008 MYNN 191000Z 00000KT CAVOK 16/13 A3008 K9L2 190955Z AUTO 00000KT 10SM CLR 01/00 A3021 RMK AO2 SLP241 T00110000 FZRANO TSNO $ TNCA 190900Z 06011KT 9999 FEW018 27/22 Q1011 A2986 NOSIG HTIR 190900Z 00000KT 9999 BKN024 27/15 Q1021 TNCB 190600Z AUTO 07007KT 040V100 //// ////// 26/21 Q1012 NOSIG HTKA 191000Z 21006KT 9999 SCT026 FEW027CB 29/21 Q1018 TNCC 190600Z 07009KT 9999 FEW017 27/23 Q1012 NOSIG TNCE 190600Z AUTO 05013KT //// ////// ///// Q1014  SVLF 181800Z 00000KT 9999 SCT040 XX/XX Q1012 DFFD 191000Z 04014KT 6000 NSC 27/M02 Q1017 NOSIG YSHK 191030Z AUTO 22017KT //// // ////// 23/17 Q1010 ZJHK 191000Z 01001MPS 7000 SCT013 OVC040 13/11 Q1022 NOSIG SVMC 191000Z /////KT 9999 SCT013 25/22 Q1010 HTKJ 191000Z 06010KT 9999 FEW032CB BKN033 31/18 Q1015 NOSIG HSSS 191000Z 36008KT CAVOK 31/07 Q1014 NOSIG SVMD 191000Z 09003KT CAVOK 15/12 Q1022 TNCM 191000Z 07008KT 9999 FEW021 25/19 Q1013 A2993 NOSIG K8W2 191035Z AUTO 00000KT 10SM CLR M04/M06 A3010 RMK AO1 T10451061 SVMG 191000Z /////KT 9999 FEW010 26/24 Q1012 NOSIG SVMI 191000Z 07004KT 9999 FEW020 24/19 Q1014 NOSIG YSHT 191030Z AUTO 15007KT //// // ////// 17/04 Q1017 YSHW 191030Z AUTO 13006KT 9999 // BKN049 OVC058 19/11 Q1018 HTMB 190700Z 00000KT 9999 FEW022 SCT090 23/15 Q//// SVMN 190900Z 07004KT 9999 BKN013 25/// Q1012 UEEE 191030Z 00000MPS 0200 R23L/0600V0600N FG VV002 M44/M49 Q1027 NOSIG RMK QBB080 QFE761 23490150 HTMG 191000Z 00000KT 9999 SCT027 33/20 Q1014 SVMT 190200Z 05007KT CAVOK 25/24 Q1012 OIAA 191000Z 00000KT 7000 NSC 18/11 Q1022 K9MN 191034Z AUTO 12004KT 10SM SCT034 OVC070 M06/M08 A3024 RMK AO1 T10571082 YTAR 191030Z AUTO 15009KT //// // ////// 29/M01 Q1016 YRTI 191030Z AUTO 20023KT //// // ////// 22/17 Q1006 OIAG 191000Z 29002KT 7000 NSC 19/11 Q1023 SVPA 190900Z /////KT CAVOK 22/22 Q1011 OIBA 191000Z 15006KT 6000 FEW025 25/13 Q1018 SVPC 181600Z 04010KT 9999 BKN040 33/XX Q1015 OIBB 191000Z 32008KT CAVOK 19/12 Q1020 A3015 HTMT 191000Z 36020KT 9999 BKN026 31/25 Q1011 DGAA 191000Z 25006KT 220V290 9999 SCT019 OVC024 29/24 Q1013 NOSIG HTMU 191000Z 00000KT 9999 FEW022 FEW023CB SCT100 26/19 Q1017 OIAM 191000Z 32008KT 5000 HZ NSC 17/12 Q1022 HUEN 191800Z 20005KT 8000 SCT024TCU FEW027CB 26/22 Q1019 HTMW 190700Z 06008KT 9999 FEW025 FEW026CB BKN110 25/19 Q1018 NOSIG OIBJ 191000Z 08006KT CAVOK 20/08 Q1022 OIBK 191000Z 17008KT CAVOK 25/09 Q1019 OIBL 191000Z 12006KT CAVOK 24/13 Q1020 OICC 191030Z 00000KT 7000 FEW040 BKN090 BKN180 09/00 Q1023 A3024 NOSIG OIAW 191000Z 00000KT 3000 BR NSC 15/12 Q1021 YSMH 191030Z AUTO 02001KT 9999 // NCD 23/22 Q1012 YSMI 191030Z AUTO 27005KT //// // ////// 12/10 Q1017 OIBP 191030Z 23010KT 9999 FEW035 25/14 Q1019 A3011 OIBQ 191000Z 34008KT CAVOK 20/12 Q1022 OICI 191000Z 10008KT 9999 FEW040 BKN100 OVC180 11/M04 Q1023 A3021 OIBS 191000Z 00000KT CAVOK 25/14 Q1019 OICK 190950Z 31004KT CAVOK 11/03 Q1022 YTEE 191030Z AUTO 17008KT 9999 // NCD 32/10 Q1011 KMG 191030Z AUTO 18010KT 9999 // NCD 10/07 Q1019 YSNF 191030Z AUTO 03010KT 9999 // BKN005 BKN009 BKN013 23/22 Q1015 YTEF 191030Z AUTO 31012KT //// // ////// 37/17 Q1008 OIBV 191000Z 23008KT 9999 FEW020TCU 25/12 Q1019 SVSA 191000Z /////KT 8000 VCFG BKN020 23/21 Q1013 YTEM 191030Z AUTO 22006KT //// // ////// 19/00 Q1016 SVSE 182000Z 00000KT 7000 DZ OVC040 ///// Q//// CPBT 190900Z AUTO 23012KT M04/M06 RMK AO1 T10361062 UDSG 191030Z VRB02MPS 8000 FEW036 SCT100 02/M03 Q1020 R02/CLRD70 NOSIG YSNW 191030Z AUTO 15006KT 9999 // OVC046 17/11 Q1018 SVSO 190300Z /////KT 9999 FEW023 22/22 Q1016 SVSP 181300Z 04010KT 9999 FEW020 XX/XX Q1015 SVSR 190900Z /////KT CAVOK 24/// Q1009 SVST 182100Z 06010KT 9999 SCT050 ///// Q1013 HUJI 190600Z 00000KT 9999 FEW018 24/21 CPEH 190900Z AUTO 04002KT M12/M12 RMK AO1 T11171124 YTGM 191030Z AUTO 19011KT //// // ////// 31/02 Q1013 HUKA 181200Z 16004KT 9999 BKN023 FEW025CB BKN120 25/18 HTTB 191000Z 27004KT 9999 SCT020 FEW022CB BKN080 23/18 Q1019 OIFM 191030Z 16004KT 6000 HZ FEW035 BKN200 11/M03 Q1022 A3020 SVSZ 181600Z 00000KT 9999 SCT010 XX/XX Q1013 HTSO 191000Z 02010KT 9999 SCT025 FEW027CB 29/19 Q1017 OIGG 191030Z 27004KT 4000 BR SCT020 OVC080 12/10 Q1016 YTIB 191030Z AUTO 17009KT //// // ////// 28/// Q1015 SVVA 190900Z 36001KT 9999 FEW016 25/20 Q1014 OIFS 191000Z 18006KT 9999 FEW040 SCT080 BKN200 11/M11 Q1024 CPFI 191000Z AUTO 21007KT M05/M07 RMK AO1 T10521069 K9V9 191015Z AUTO 00000KT 4SM BR CLR M09/M10 A3006 RMK AO2 T10921101 HTSU 191000Z 00000KT 9999 SCT016 FEW018CB SCT220 19/15 Q1022 RESH SVVG 191000Z 25005KT 9999 OVC013 23/22 Q1009 YSRI 191030Z AUTO 13007KT 9999 // OVC044 19/11 Q1018 DFOO 191000Z 36012KT 8000 NSC 25/M01 Q1017 OIHH 191000Z 00000KT 9999 FEW040CB SCT090 BKN190 05/01 Q1021 HULI 190900Z 06008KT 9999 FEW020 30/XX SVVL 190900Z 20002KT 9999 BKN020 22/22 Q1014 YSRN 191030Z AUTO 32011KT 9000 // SCT027 BKN037 OVC044 12/10 Q1015 OIIE 191030Z 00000KT 5000 HZ FEW040 BKN100 BKN180 08/M03 Q1021 OIII 191000Z 21010KT 3500 HZ FEW035CB FEW040 OVC100 09/M03 Q1021 A3017 NOSIG HUMI 190900Z 34003KT 9999 FEW020 28/18 OIIK 191000Z 15006KT 7000 FEW045 OVC190 09/M00 Q1022 PAAD 191035Z AUTO 04005KT 10SM -SN OVC025 M19/M22 A2983 RMK AO2 YSTH 191030Z AUTO 15005KT //// // ////// 14/07 Q1014 OIIP 191000Z 24008KT 5000 HZ FEW030CB SCT040 OVC090 05/M04 Q1021 OJAI 190900Z 00000KT 6000 NSC 13/07 Q1020 NOSIG PABA 191001Z AUTO 06003KT 10SM OVC060 M18/M20 A2984 RMK AO2 SLP104 T11781200 FZRANO PAAK 191036Z 00000KT 10SM BKN025 BKN030 OVC055 03/00 A2854 RMK AO1 OIKB 191030Z 21010KT CAVOK 26/10 Q1019 A3011 OJAM 191000Z 33005KT 4000 HZ NSC 14/06 Q1020 NOSIG ZJSY 191000Z 09003MPS 9999 FEW015 OVC050 22/16 Q1018 NOSIG YSSY 191030Z 15012KT 9999 FEW032 BKN050 20/10 Q1017 PABE 190953Z 02011KT 10SM FEW110 M11/M13 A2921 RMK AO2 SLP896 T11111128 PAAP 190155Z VRB05KT 10SM -RA FEW005 BKN020 OVC040 06/04 A2925 RMK LAST NO SPECI OJAQ 191000Z 35009KT CAVOK 21/07 Q1018 NOSIG PAAQ 190953Z AUTO 00000KT 10SM CLR M11/M12 A2920 RMK AO2 SLP892 T11061122 TSNO PABI 190953Z AUTO 11024G37KT 10SM CLR M13/M16 A2937 RMK AO2 PK WND 10037/0953 SLP995 T11281161 TSNO CPIR 190900Z AUTO 25011KT M02/M04 RMK AO1 T10171041 OIKK 191030Z 03004KT CAVOK 14/M09 Q1024 A3025 PABL 191036Z AUTO 00000KT 10SM CLR M19/M21 A2955 RMK AO1 YSTW 191030Z AUTO 21009KT 9999 // NCD 21/01 Q1013 PACD 190953Z 12007KT 10SM FEW035 OVC130 03/01 A2892 RMK AO2 SLP794 T00330006 $ OIKQ 191000Z 15006KT CAVOK 25/16 Q1019 PABR 190953Z 05012KT 10SM SCT055 M24/M26 A2988 RMK AO2 SLP121 T12391261 HTZA 190700Z 05010KT 9999 BKN024 31/24 Q1013 NOSIG PABT 190953Z 03008KT 10SM CLR M16/M19 A2959 RMK AO2 SLP041 T11611189 $ OIMB 191000Z 28006KT CAVOK 10/M05 Q1024 OIMC 191000Z 00000KT CAVOK 14/06 Q1019 YTMO 191030Z AUTO 16008KT //// // ////// 32/10 Q1012 PABV 191036Z AUTO 17003KT 10SM CLR M09/M09 A2922 RMK AO1 PACM 190956Z AUTO 10SM FEW090 M06/M09 A2930 RMK AO2 FZRANO TSNO T10611088 SLP918 $ OIMD 191000Z 35004KT CAVOK 09/M01 Q1020 YTNG 191030Z AUTO 00000KT 9999 // SCT065 23/20 Q1013 PADE 190953Z AUTO 05006KT 10SM CLR M11/M13 A2952 RMK AO2 SLP998 T11111133 TSNO YSWG 191030Z AUTO 23007KT 9999 // NCD 19/01 Q1015 YSWH 191030Z AUTO 19006KT //// // ////// 21/02 Q1017 PADG 182100Z 36004KT 15SM -SN BKN050 M10/M12 A2966 UDYZ 191030Z 00000MPS 6000 BKN200 06/01 Q1021 R09/000070 NOSIG YTNK 191030Z AUTO 11007KT 9999 // NCD 33/15 Q1011 PADK 191036Z AUTO 03021G25KT 10SM OVC012 02/00 A2859 RMK AO1 P0001 PAEC 190146Z 36014KT 20SM FEW280 M09/M12 A2935 RMK NOSPECI PADL 191036Z 34012KT 10SM CLR M03/M07 A2912 RMK AO1 PACV 190953Z VRB03KT 10SM OVC050 04/M04 A2921 RMK AO2 SLP891 T00391044 PAED 190958Z AUTO 00000KT 10SM OVC110 M11/M13 A2921 RMK AO2 SLP890 T11111128 PADM 190956Z AUTO 04018KT 10SM FEW080 M09/M12 A2930 RMK AO2 TSNO T10941122 SLP911 $ OIMM 191030Z 30006KT 9999 FEW040 SCT100 BKN190 11/M00 Q1020 A3013 OINE 191000Z 33004KT CAVOK 18/10 Q1015 OIMN 191000Z 00000KT 9999 FEW025 BKN140 09/01 Q1020 PAEG 190953Z AUTO 13007KT 10SM CLR M12/M14 A2958 RMK AO2 SLP035 T11171144 TSNO OING 191000Z 00000KT CAVOK 14/08 Q1017 PACZ 190955Z AUTO 19005KT 10SM BKN046 BKN130 M04/M06 A2922 RMK AO2 SLP906 T10411056 400081046 PADQ 190953Z 35013G21KT 10SM CLR 06/M01 A2899 RMK AO2 SLP818 T00611011 PAEH 190955Z AUTO 12014KT 10SM OVC055 02/M04 A2910 RMK AO2 SLP861 T00231044 OIMQ 191000Z 00000KT CAVOK 10/01 Q1024 PAEI 190958Z AUTO 00000KT 1SM R32/2200FT HZ VV002 M23/M26 A2942 RMK AO2 SLP981 T12311261 $ OIMS 182000Z 06010KT 9999 FEW030CB SCT035 BKN100 05/03 Q1026 NSFA 190900Z 14003KT 9999 FEW020 BKN042 OVC120 26/25 Q1008 PAFA 190953Z 00000KT 10SM CLR M23/M26 A2943 RMK AO2 SLP980 T12281261 $ PAFB 190956Z AUTO 00000KT 10SM CLR M22/M26 A2942 RMK SLP975 T12171256 VIA AUTODIAL PAEL 190147Z 10009G22KT 7SM -RA OVC022 04/01 A2930 RMK NOSPECI LAST PADU 190856Z AUTO 12016G19KT 10SM FEW027 BKN060 OVC075 04/M01 A2885 RMK AO2 RAE27 SLP776 P0000 60000 T00391006 400391022 58008 PAEM 191036Z AUTO 03005KT 10SM OVC070 M06/M08 A2929 RMK AO1 PAEN 190953Z AUTO 10004KT 10SM SCT120 M07/M08 A2920 RMK AO2 SLP892 T10671083 TSNO PAFE 191036Z AUTO 11004KT 8SM OVC021 02/02 A2935 RMK AO1 P0004 OINN 191000Z 02004KT 9999 FEW040 SCT080 BKN160 13/10 Q1016 OINR 191000Z 05004KT 9999 FEW035CB SCT040 OVC100 12/09 Q1016 PAGA 190958Z AUTO 00000KT 10SM CLR M19/M21 A2949 RMK AO2 SLP992 T11891206 FZRANO PAFM 191036Z AUTO 03004KT 10SM CLR M14/M17 A2959 RMK AO1 HUSO 190900Z 11005KT 9999 FEW020 29/16 Q1017 OINZ 191000Z 03004KT CAVOK 14/09 Q1016 SYCJ 191000Z 20004KT 0900 FG FEW015 21/21 Q1011 NOSIG PAFS 190956Z AUTO 04006KT 10SM -SN OVC007 M09/M11 A2932 RMK AO2 TSNO T10881105 SNB18E33B54 P0000 SLP945 $ PAGK 190953Z AUTO 36003KT 10SM OVC005 M21/M24 A2940 RMK AO2 SLP025 T12061239 TSNO PAGL 191036Z AUTO 07014G18KT 10SM CLR M02/M12 A2939 RMK AO1 PAHC 190956Z AUTO 36012KT 10SM FEW006 M13/M15 A2933 RMK AO2 TSNO T11271150 SLP938 $ YTRE 191030Z AUTO 20006KT //// // BKN037 OVC043 21/15 Q1016 PAGM 191036Z AUTO 06021G24KT 7SM M01/ A2935 RMK AO1 PAGN 191032Z AUTO VRB05KT 8SM -RA SCT009 SCT015 OVC021 02/01 A2932 RMK AO2 TSNO UPB01E09B31E32 P0001 $ PAGS 191036Z AUTO 00000KT 2SM OVC041 01/M01 A2931 RMK AO1 PNO PAHL 191036Z AUTO 36004KT 10SM FEW011 M18/M19 A2950 RMK AO1 PAHN 191010Z AUTO 30010KT 5SM -SN BR BKN040 BKN048 OVC065 M01/M03 A2942 RMK AO2 P0000 T10111028 TSNO PAHO 190953Z AUTO 04004KT 10SM FEW120 01/M06 A2912 RMK AO2 SLP863 T00111061 TSNO PAGY 190953Z AUTO 03011KT 330V050 10SM BKN060 OVC090 01/M08 A2944 RMK AO2 SLP970 T00111078 TSNO PAHP 191036Z AUTO 08015KT 10SM CLR M08/M11 A2926 RMK AO1 PAIG 190956Z AUTO 03007KT 10SM CLR M01/M03 A2914 RMK AO2 TSNO T10051033 SLP870 $ PAII 191036Z AUTO 05010KT 10SM M03/M05 A2907 RMK AO1 NTAA 191030Z 11002KT 9999 VCSH FEW016 SCT050 BKN090 26/22 Q1009 TEMPO 33016G26KT 2500 +SHRA FEW010 BKN016CB OVC040 PAIK 190901Z AUTO 36003KT 10SM CLR M15/M17 A2961 RMK AO2 SLP072 60000 T11501167 411501150 58005 FZRANO PAIL 190953Z AUTO 35005KT 10SM CLR M03/M07 A2915 RMK AO2 SLP874 T10281072 TSNO PAJC 191036Z AUTO 05015G22KT 9SM BKN012 OVC018 05/02 A2897 RMK AO1 P0001 PAIM 191026Z AUTO 33001KT 10SM -SHSN SCT003 SCT230 M16/M18 A2944 RMK AO2 SLP014 PAIN 191036Z AUTO 00000KT 10SM CLR M24/M26 A2928 RMK AO1 PAHX 190956Z AUTO 03008KT 10SM OVC009 M12/M13 A2935 RMK AO2 SLP942 T11221133 FZRANO YTTI 191030Z AUTO 25009KT //// // ////// 31/30 Q1009 PAHY 191036Z AUTO 10SM BKN040 OVC050 05/02 A2932 RMK AO1 YTST 191030Z AUTO 27006KT 9999 // SCT022 30/25 Q1008 OISL 191000Z 06004KT CAVOK 21/04 Q1021 PAJN 190953Z 00000KT 10SM BKN060 OVC080 01/M01 A2935 RMK AO2 SLP938 T00061011 PAIW 190958Z AUTO 07025G31KT 10SM CLR M11/M12 A2948 RMK AO2 PK WND 07031/0958 SLP984 T11111122 FZRANO DIAD 191000Z 00000KT 6000 SCT015 31/26 Q1013 NOSIG PAKF 191001Z AUTO 09010G16KT 10SM OVC022 05/02 A2891 RMK AO2 RAE0950 SLP883 P0000 T00500022 $ CPRO 191000Z AUTO 22001KT M15/M16 RMK AO1 T11461157 PAKH 190956Z AUTO 02008KT 10SM 03/01 A2898 RMK AO2 TSNO T00330005 SLP818 $ OISR 190600Z 00000KT CAVOK 14/07 Q1025 PAKI 190956Z AUTO 36011KT 10SM CLR M09/M11 A2917 RMK AO2 TSNO T10941111 SLP881 $ ZLLL 191000Z 12002MPS 8000 NSC M03/M20 Q1021 NOSIG OISS 191030Z 00000KT CAVOK 15/M04 Q1023 A3023 OKBK 191000Z 23003KT CAVOK 21/05 Q1022 NOSIG PAKK 191036Z AUTO 01011G16KT 300V020 10SM CLR A2935 RMK AO1 OITL 191000Z 30006KT 9999 FEW045 SCT090 BKN160 09/M03 Q1018 OITM 191000Z 21008KT 9999 FEW030 BKN190 10/M01 Q1019 SYGO 182200Z 04010KT 9999 SCT021 SCT300 28/23 Q1011 NOSIG PAKN 190954Z 36010KT 10SM FEW040 BKN110 M03/M06 A2907 RMK AO2 SLP844 T10281056 PAKP 191036Z AUTO 02006KT 10SM BKN005 M16/M19 A2949 RMK AO1 PALG 190956Z AUTO 00000KT 10SM CLR M12/M14 A2928 RMK AO2 TSNO T11221144 SLP921 $ OISY 191000Z 27004KT CAVOK 12/M05 Q1025 PALH 190953Z 00000KT 10SM CLR M08/M11 A2922 RMK AO2 SLP897 T10831111 PAJZ 190956Z AUTO 00000KT 10SM BKN100 M11/M13 A2923 RMK AO2 TSNO T11051133 SLP889 $ YTWB 191030Z AUTO 19001KT 9999 // NCD 25/10 Q1015 CPRY 191000Z AUTO 22009KT M00/M05 RMK AO1 T10041050 DIAP 191030Z 17006KT 120V220 8000 SCT012 30/25 Q1013 NOSIG OITR 191000Z 06004KT 5000 HZ FEW035 BKN180 07/02 Q1019 NOSIG PALJ 190150Z 05012KT 7SM BKN100 BKN200 03/M01 A2927 RMK 400331061 LAST NOSPECI PAKT 190953Z AUTO 14011G24KT 5SM -RA BR OVC018 05/03 A2936 RMK AO2 PK WND 13026/0911 SLP942 P0005 T00500033 TSNO OITT 191030Z 36004KT 5000 HZ FEW035 BKN180 07/M01 Q1021 A3016 PAKU 190345Z 04007KT 10SM R06/P6000FT SCT130 M23/M25 A2987 RMK LAST PAMC 191003Z 31005KT 10SM OVC010 M15/M17 A2935 RMK T11501172 DIBK 191000Z 24010KT 8000 BKN013 26/21 Q1015 NOSIG CPST 191000Z AUTO 19003KT M10/M10 RMK AO1 T10961102 PAKV 190953Z AUTO 07005KT 10SM CLR M12/M14 A2949 RMK AO1 SLP991 T11171139 FZRANO TSNO PAMD 191036Z 09024G29KT 5SM FEW017 SCT025 BKN037 07/04 A2910 RMK AO1 PAKW 190953Z AUTO 06007KT 9SM -RA OVC036 03/03 A2930 RMK AO2 SLP923 P0002 T00330028 TSNO CPSV 191000Z AUTO 23009KT M04/M05 RMK AO1 T10391054 PALP 190246Z 04006KT 15SM BKN110 BKN130 M21/M24 A2989 PAMH 191036Z AUTO 00000KT 10SM M10/M13 A2933 RMK AO1 OITZ 191000Z 12010KT 9999 SCT035 BKN080 07/M06 Q1019 PANA 190956Z AUTO 05006KT 10SM OVC110 M09/M12 A2920 RMK AO2 SLP889 T10941117 FZRANO PAMK 190956Z AUTO 06014KT 10SM CLR M07/M09 A2933 RMK AO2 TSNO T10721094 SLP936 $ PANC 190953Z 00000KT 10SM FEW110 BKN200 M07/M11 A2921 RMK AO2 SLP893 T10671106 PALU 191020Z AUTO 12007KT 10SM -SHSN OVC003 M12/M13 A2969 RMK AO2 SLP055 PAMM 191036Z AUTO 13004KT 10SM FEW034 BKN043 OVC060 06/02 A2938 RMK AO1 DIBU 191000Z 28004KT 6000 BKN013 25/22 Q1014 NOSIG PAMO 190956Z AUTO 05013KT 10SM SCT080 M08/M11 A2929 RMK AO2 TSNO T10831105 SLP805 $ PAMR 190953Z 00000KT 10SM FEW130 SCT200 M10/M12 A2921 RMK AO2 SLP894 T11001122 PANI 191036Z AUTO 03005KT 10SM CLR M13/M14 A2930 RMK AO1 UHBB 191030Z 36005MPS 9999 -SN NSC M25/M27 Q1021 NOSIG RMK QFE748/0997 36412050 DIDK 191000Z ///// 9999 SCT013 BKN100 26/24 Q//// NOSIG DIDL 191000Z ///// 9999 BKN013 25/24 Q1015 NOSIG PANN 190953Z AUTO 06008G15KT 10SM CLR M11/M14 A2939 RMK AO2 SLP965 T11061139 TSNO PAMY 191036Z AUTO 10SM BKN006 OVC095 M05/M09 A2918 RMK AO1 PAOH 190956Z AUTO 13007KT 10SM UP SCT022 OVC029 02/02 A2933 RMK AO2 TSNO T00220022 UPE24B49 P0000 SLP935 $ PANT 190953Z 12012KT 8SM -RA FEW012 BKN020 OVC025 05/04 A2935 RMK AO2 SLP941 P0002 T00500039 PAPB 191021Z AUTO 08011KT 7SM -RA OVC024 02/01 A2891 RMK AO2 UPE18RAB02 P0001 T00170006 TSNO $ PAOM 190953Z 04007KT 10SM OVC110 M03/M09 A2938 RMK SLP948 T10331089 $ VIA AUTODIAL PANV 191036Z AUTO 04006KT 10SM OVC010 M11/M13 A2932 RMK AO1 PANW 190956Z AUTO 01011KT 10SM SCT095 M10/M13 A2917 RMK AO2 TSNO T11001127 SLP860 $ UGKO 191030Z VRB02KT 9999 -SHRA SCT021CB BKN047 12/07 Q1021 R07/09//70 NOSIG PAOO 190956Z AUTO 31007KT 10SM CLR M04/M06 A2919 RMK AO2 TSNO T10381055 SLP887 $ PAPG 191036Z 24004KT 10SM OVC024 02/M01 A2934 RMK AO1 PAPH 191036Z AUTO 00000KT 10SM OVC095 01/M03 A2901 RMK AO1 PAOR 191018Z 00000KT 1SM BR BCFG BKN003 BKN007 M27/M29 A2953 RMK AO2 T12671289 PAOT 190953Z 05004KT 10SM CLR M14/M16 A2957 RMK AO2 SLP014 T11391156 $ OIZB 191000Z 10004KT CAVOK 17/01 Q1023 DIGA 191000Z 18002KT 6000 OVC011 26/24 Q1014 NOSIG PAOU 190956Z AUTO 10004KT 10SM CLR 00/00 A2897 RMK AO2 TSNO T00000000 SLP813 $ PAPM 190956Z AUTO 04010KT 10SM FEW100 00/M03 A2912 RMK AO2 TSNO T00001033 SLP861 $ CPXL 191000Z AUTO 13003KT M07/M08 RMK AO1 T10681077 PAPN 190956Z AUTO 06008KT 10SM SCT120 01/M02 A2905 RMK AO2 PWINO TSNO T00111016 SLP837 $ PAPO 191036Z 36012KT 10SM OVC004 M09/M09 A2964 RMK AO1 PAQH 190956Z AUTO 36009KT 10SM OVC100 M07/M08 A2915 RMK AO2 SLP871 T10721083 FZRANO OIZH 191030Z 14012KT CAVOK 15/M06 Q1024 A3025 OIZI 191000Z 00000KT CAVOK 24/M00 Q1021 OIZJ 190900Z 17004KT 8000 FEW015 25/20 Q1019 PAPT 190146Z 00000KT 25SM FEW100 M16/M18 A2936 RMK NO SPECI PARC 191036Z AUTO 00000KT 10SM CLR M28/ A2957 RMK AO1 OIYY 191000Z 13008KT 9999 FEW100 BKN200 15/M05 Q1022 PASA 191036Z AUTO 09012KT 8SM FEW007 OVC013 M03/M05 A2936 RMK AO1 PAQT 191018Z AUTO 05007KT 10SM BKN012 M21/M23 A2986 RMK AO2 T12111233 TSNO PASC 190953Z 04009KT 10SM OVC010 M21/M23 A2983 RMK AO2 SLP103 I1000 T12061233 PASD 191036Z AUTO 03006KT 7SM SCT010 BKN018 OVC027 04/03 A2894 RMK AO1 P0001 YWCA 191030Z AUTO 17009KT //// // ////// 25/M02 Q1015 PASH 190538Z 06006KT 10SM CLR M10/M12 A2961 RMK VIA PHONE PASI 190953Z 10011KT 10SM -RA OVC040 06/01 A2925 RMK AO2 RAB35 SLP905 P0000 T00560006 YWBL 191030Z AUTO 26007KT //// // ////// 12/08 Q1020 OLBA 191000Z 19004KT 160V220 8000 -RA BKN026 19/13 Q1019 PATA 191026Z AUTO 35003KT 9SM BKN009 M22/M24 A2948 RMK AO2 T12171239 TSNO PARS 190956Z AUTO 00000KT 10SM CLR M12/M13 A2930 RMK AO2 TSNO T11161127 SLP927 $ PASK 191036Z AUTO 05004KT 10SM CLR M12/M13 A2957 RMK AO1 PASL 191036Z AUTO 00000KT 10SM OVC015 M21/M25 A2934 RMK AO1 PATC 190955Z AUTO 04030KT 10SM FEW100 M12/M13 A2940 RMK AO2 PK WND 04033/0951 SLP965 T11251133 TSNO $ PASM 191036Z AUTO 06005KT 10SM CLR M08/M12 A2926 RMK AO1 PASN 191007Z 06014G23KT 6SM BR OVC009 02/01 A2895 RMK AO2 RAE05 P0000 T00220006 PATE 190958Z AUTO 12007KT 10SM FEW120 M07/M09 A2942 RMK AO2 SLP975 T10671089 FZRANO PASO 190953Z AUTO 00000KT 10SM BKN120 00/M02 A2912 RMK AO2 SLP861 T00001017 TSNO YWBR 191030Z AUTO 11004KT //// // ////// 34/16 Q1011 PATG 191036Z AUTO 36009KT 10SM CLR M03/M05 A2911 RMK AO1 PARY 190956Z AUTO 00000KT 4SM BR FEW014 SCT100 M14/M16 A2941 RMK AO2 TSNO T11381155 SNB47E51 P0000 SLP975 $ MSV 191030Z AUTO 11007KT 9999 // OVC016 12/09 Q1019 PATK 190953Z AUTO 00000KT 10SM CLR M12/M16 A2921 RMK AO2 SLP901 T11221161 TSNO PATL 191035Z AUTO VRB04KT 8SM -SHSN OVC003 M13/M14 A2931 RMK AO2 SLP957 $ PASV 190955Z AUTO 00000KT 10SM BKN210 M15/M16 A2915 RMK AO2 SLP912 T11511165 410111168 MUI 191030Z AUTO 17014KT 9999 // NCD 16/12 Q1016 PASW 190152Z 31003KT 30SM SKC M07/M08 A2942 RMK MAXM01 LAST NOSPECI PATO 190953Z AUTO VRB03KT 10SM FEW008 OVC050 M03/M03 A2925 RMK AO2 SLP906 T10281033 TSNO PASX 191036Z AUTO 00000KT 10SM OVC100 M06/M09 A2918 RMK AO1 UHHH 191030Z 02003MPS CAVOK M20/M22 Q1019 NOSIG RMK QFE758/1011 23890555 PASY 190956Z AUTO 35012KT 10SM FEW025 M01/M09 A2908 RMK AO2 SLP849 T10061089 400001017 TSNO $ PATQ 190956Z AUTO 07010KT 10SM CLR M26/M29 A2984 RMK AO2 TSNO T12551288 SLP112 $ PAVA 190957Z AUTO 07008KT 10SM CLR M08/M09 RMK AO2 SLPNO T10781089 FZRANO $ NSTU 190950Z 06003KT 10SM SCT015TCU BKN035 OVC080 27/25 A2978 RMK SLP085 T02650247 PAVC 190956Z AUTO 00000KT 10SM BKN023 OVC027 04/01 A2894 RMK AO2 TSNO T00380011 RAB21E48 P0000 SLP800 $ PAVD 191036Z 04006KT 10SM M02/M09 A2928 RMK AO1 PAUN 191036Z AUTO 11013KT 10SM CLR M08/M12 A2936 RMK AO1 DIKO 191000Z 04008KT 4000 HZ NSC 26/03 Q1016 NOSIG UIAA 191030Z 31004MPS 9999 FEW100 M19/M21 Q1019 NOSIG RMK QFE706 29CLRD70 UGSB 191030Z 35006KT 9999 FEW033 15/08 Q1023 R13/CLRD70 NOSIG PAUT 191015Z AUTO 12010KT 10SM SCT015 BKN035 OVC050 03/02 A2885 RMK AO2 T00280015 PAVL 190953Z AUTO 03009KT 10SM CLR M11/M14 A2960 RMK AO2 SLP023 T11111139 TSNO PAWD 190953Z AUTO 35006KT 10SM OVC060 00/M05 A2915 RMK AO2 SLP873 T00001050 TSNO PAWG 191036Z AUTO 12005KT 10SM SCT026 BKN034 OVC046 03/00 A2937 RMK AO1 PAWI 190953Z AUTO 06011KT 4SM HZ OVC060 M24/M27 A2981 RMK SLP096 T12391272 TSNO VIA AUTODIAL UIBB 191030Z 23002MPS P5000 SCT016CB BKN100 M13/M15 Q1029 NOSIG RMK QFE728/0971 30490630 UGTB 191030Z 31017KT 9999 SCT050CB 11/03 Q1019 R31L/CLRD80 NOSIG PAWM 190851Z 01003KT 10SM CLR M05/M10 A2939 RMK FZRANO VIA PHONE PAWN 191036Z AUTO 02005KT 10SM CLR M13/M16 A2959 RMK AO1 YWHA 191030Z AUTO 19015KT 9999 // NCD 20/12 Q1018 PAYA 190953Z 11004KT 10SM OVC039 03/M02 A2925 RMK AO2 RAB14E20 SLP906 P0000 T00331022 PAWS 191036Z AUTO 00000KT 10SM FEW120 M04/M12 A2919 RMK AO1 ZLXY 191000Z 03002MPS 2500 HZ NSC 02/M11 Q1027 NOSIG UHMA 191000Z VRB01MPS 9999 SCT040 OVC080 M12/M13 Q1001 RMK QFE747/0996 YWGT 191030Z AUTO 22010KT //// // ////// 17/05 Q1016 YVRD 191030Z AUTO 33008KT //// // ////// 25/23 Q1010 UHMD 190300Z 01009MPS 1000 SN DRSN OVC009 M07/M09 Q0998 NOSIG RMK QBB270 MT OBSC QFE748/0998 PAZK 191036Z 07005KT 10SM FEW110 M14/M15 A2920 RMK AO1 UHMM 191030Z 00000MPS 9999 FEW100 M36/M40 Q1010 NOSIG RMK QFE743 88920550 YWIS 191030Z AUTO 04004KT //// // ////// 25/22 Q1012 OMAA 191000Z 36006KT 320V050 CAVOK 25/10 Q1019 A3011 NOSIG OMAD 191000Z 36007KT 330V030 CAVOK 25/10 Q1020 A3013 NOSIG ZMUB 191030Z 15002MPS 9999 BKN250 M23/M26 Q1024 NOSIG RMK QFE660.2 73 NT OMAL 191000Z 29003KT CAVOK 24/09 Q1020 A3014 NOSIG YWLG 191030Z AUTO 17007KT 9999 // NCD 23/M03 Q1013 TQPF 182100Z 07008KT 9999 FEW019 SCT070 26/20 Q1014 YWLM 191030Z AUTO 14009KT 9999 // OVC037 20/12 Q1017 DITB 191000Z 00000KT 8000 SCT013 BKN260 28/24 Q1013 NOSIG UHPP 191000Z 36004MPS 9999 NSC M15/M23 Q1004 NOSIG RMK QFE749/0999 SC070 EBBE 190925Z 23019KT 6000 -RADZ FEW007 SCT009 BKN011 11/09 Q1012 GRN GRN TEMPO YLO DISP 191000Z SPECI 00000KT 8000 BKN013 29/25 Q1013 NOSIG OMDB 191000Z 31008KT 270V340 CAVOK 25/11 Q1020 NOSIG DISS 191000Z 00000KT 9999 BKN015 SCT260 28/24 Q1013 NOSIG EBBL 190955Z 23017KT 9000 -RA FEW010 SCT014 BKN017 11/10 Q1011 GRN GRN TEMPO WHT EBAW 191020Z 24015KT 4400 -DZRA FEW006 SCT007 BKN008 11/10 Q1011 TEMPO 23017G27KT 2500 DZRA BKN007 UIII 191030Z 16002MPS CAVOK M11/M13 Q1031 NOSIG RMK QFE728/0971 30850345 EBBR 191020Z 24019G30KT 8000 -RA SCT008 BKN011 11/09 Q1012 TEMPO 4000 RA BKN009 EBCI 191020Z 23019KT 6000 -RADZ SCT006 BKN009 10/10 Q1013 TEMPO 21020G30KT 3500 RADZ VAAH 191010Z 05008KT 6000 NSC 27/06 Q1016 NOSIG YWOL 191030Z AUTO 17004KT 9999 // BKN037 OVC049 18/12 Q1018 VABB 191010Z 03006KT 3500 FU FEW100 32/11 Q1013 NOSIG OMDW 191000Z VRB02KT CAVOK 26/09 Q1021 NOSIG EBCV 190943Z AUTO 23019KT 6000 FEW006/// SCT010/// BKN013/// 11/10 Q1013 GRN UHSS 191030Z 15002MPS 9999 SCT040CB M10/M11 Q1019 NOSIG RMK QFE763/1017 19820340 OMFJ 191000Z 06008KT 020V100 8000 SCT025 25/15 Q1019 A3011 EBDT 190925Z 23014G28KT 9999 -RA FEW013 SCT017 BKN020 11/10 Q1011 WHT EBFN 191021Z 32009KT 8000 -RA FEW006 SCT027 BKN035 09/09 Q1013 BLU BLU TEMPO WHT EBFS 191023Z 22017KT 4000 -RADZ SCT005 BKN007 BKN010 09/09 Q1014 YLO FCST CANCEL DIYO 191000Z 18004KT 8000 BKN011 OVC100 24/23 Q1015 NOSIG YWUD 191030Z AUTO 14011KT //// // ////// 22/08 Q1019 YWTN 191030Z AUTO 12006KT //// // ////// 33/08 Q1010 UHWW 191030Z VRB01MPS 9999 BKN016CB OVC100 M07/M11 Q1020 NOSIG RMK QFE764/1018 25CLRD60 TRPG 191000Z 11011KT 9999 FEW020 SCT040 24/20 Q1013 EBLB 191006Z AUTO 24013KT 3300 FEW004/// BKN007/// BKN010/// 08/07 Q1013 YLO EBLG 191020Z 22020KT 4000 -RA SCT008 BKN012 10/09 Q1012 TEMPO BKN008 YWWL 191030Z AUTO 23007KT //// // ////// 20/01 Q1016 UKBB 191030Z 22006MPS 9999 -RA OVC036 05/02 Q1011 88290050 NOSIG CTNK 191000Z AUTO 34002KT M11/M12 RMK AO1 SOG 15 1003 SLP199 T11091123 UKDD 191035Z 24005MPS 0550 R26/0400V0600D FZFG VV001 M01/M01 Q1016 26210360 NOSIG UKDE 191028Z 20004MPS 1000 R20/1100 BR OVC004 01/01 Q1018 20250556 NOSIG YWYY 191030Z AUTO 26009KT 9999 // OVC081 13/07 Q1016 TTCP 191000Z 00000KT 9999 FEW016 24/22 Q1012 NOSIG UIUU 191030Z 30002MPS 9999 FEW036CB M13/M17 Q1028 NOSIG RMK QFE726/0968 26410550 EBOS 191020Z 31010KT 8000 -RA FEW005 SCT024 09/08 Q1013 RERA NOSIG UKDR 191030Z 22004MPS 0200 R18/0350N FZFG VV002 M00/M00 Q1017 1819//60 NOSIG OMRK 190900Z 01003KT 9999 FEW040 26/12 Q1021 A3015 CTRA 191000Z AUTO 20004KT M07/M09 RMK AO1 SLP242 T10741087 58005 VANP 190940Z 03005KT 5000 HZ NSC 25/06 Q1018 NOSIG OMSJ 191000Z VRB03KT CAVOK 26/10 Q1020 EDAC 191020Z 22015KT 9999 OVC027 11/09 Q1011 EDAH 191020Z 23014KT 9999 -RA OVC010 10/09 Q1000 EDBC 191020Z 23019KT 9999 -SHRA FEW023 BKN050 11/09 Q1006 UKHH 191030Z 18003MPS 4400 BR BKN010 OVC040 01/M01 Q1014 250///65 BECMG 2100 PFCL 190956Z AUTO 04011KT 10SM OVC005 M04/M07 A2913 RMK AO2 SLP868 T10391072 FZRANO YYNG 191030Z AUTO 00000KT //// // ////// 16/M00 Q1015 ULAA 191030Z 22002MPS 150V260 9999 BKN044 BKN/// M05/M06 Q0996 TEMPO 2000 BR BKN005 RMK QFE745/0994 SC032 EDDB 191020Z 22019G29KT 9999 -RA SCT023 BKN038 12/09 Q1005 NOSIG EDDC 191020Z 24016G28KT 9999 SCT026 BKN031 12/07 Q1010 NOSIG EDDE 191020Z 22023KT 9999 -RA SCT017 BKN020 10/07 Q1010 TEMPO 23025G40KT EDDF 191020Z 22017KT 9999 VCSH FEW020 BKN023 11/08 Q1015 TEMPO 22015G25KT EDDG 191020Z 23014KT 7000 -RA SCT008 BKN012 11/10 Q1007 BECMG 23020G35KT 4000 RA BKN008 EDDH 191020Z 26008KT 9999 -RA SCT007 BKN040 09/09 Q1002 NOSIG KAAA 191035Z AUTO 00000KT 7SM CLR M07/M08 A3031 RMK AO2 T10661077 PFEL 190958Z AUTO 35012KT 10SM CLR M06/M10 A2941 RMK AO2 SLP964 T10561100 FZRANO KC09 191015Z AUTO 29005KT 10SM BKN030 M06/M07 A3028 RMK AO2 T10591069 EDDK 191020Z 22012G22KT 9999 -RA FEW015 BKN028 11/09 Q1012 RERA TEMPO RA EDDL 191020Z 23021KT 9999 -RADZ SCT010 BKN015 11/10 Q1010 TEMPO RA BKN012 EDDM 191020Z 25020KT 9999 FEW030 SCT160 13/08 Q1019 TEMPO 25015G25KT KAAF 190953Z AUTO 00000KT 10SM CLR 10/07 A3010 RMK AO2 SLP193 T01000072 TSNO $ EDDN 191020Z 24014KT 9999 BKN025 11/07 Q1016 TEMPO 25015G25KT VCBI 191010Z 04012KT 9999 SCT016 FEW019CB BKN060 29/22 Q1010 NOSIG EDDP 191020Z 23021KT 9999 -RADZ FEW007 BKN027 OVC100 12/08 Q1009 TEMPO 24020G35KT UKKK 191030Z 23006MPS 9999 -RA OVC046 04/02 Q1010 26290158 NOSIG EDDR 191020Z 23019KT 9000 FEW004 BKN006 09/08 Q1018 NOSIG UKKM 191030Z 23008MPS 9999 -RA OVC022 04/04 Q1009 15220250 NOSIG EDDS 191020Z 23014G25KT 9999 FEW024 BKN033 BKN130 11/06 Q1019 BECMG 24015G25KT EDDT 191020Z 22017KT 9999 -RA FEW014 BKN018 BKN024 11/10 Q1005 TEMPO 24015G25KT ZPPP 191000Z 22004MPS CAVOK 09/01 Q1025 NOSIG KABE 190951Z 29006KT 10SM OVC032 02/M05 A3000 RMK AO2 SLP164 T00221050 EDDV 191020Z 24017G27KT 210V270 9999 -RA SCT012 BKN040 11/10 Q1005 RERA TEMPO BKN012 EDFE 191020Z 22014G26KT 9999 BKN020 11/07 Q1015 EDDW 191020Z 27013KT 9999 -RA FEW015 BKN040 BKN070 10/08 Q1004 NOSIG KAAO 190954Z AUTO 02003KT 5SM BR OVC002 M02/M02 A3022 RMK AO2 SLP247 T10171022 UKLI 191000Z 23006MPS 9999 BKN036 09/03 Q1013 NOSIG KABI 191020Z 36006KT 2 1/2SM BR OVC004 06/05 A3015 RMK AO2 T00560050 EDFH 191020Z 24019G34KT 7000 -RA BKN005 08/08 Q1014 UKLL 191030Z 24006MPS 5000 -RA OVC009 07/06 Q1012 31220365 NOSIG KACB 191035Z AUTO 00000KT 10SM BKN019 M13/M15 A3027 RMK AO2 T11341150 KAAT 190955Z AUTO 21006KT 10SM BKN036 OVC044 03/00 A3004 RMK AO2 SLP173 T00330000 KC29 191010Z AUTO 28003KT 10SM OVC012 M03/M06 A3027 RMK AO1 T10281060 UKLN 191030Z 00000MPS 3500 BR SCT033CB BKN100 M00/M01 Q1014 1531//60 TEMPO 1000 BR BKN003 BKN025CB EDFM 191020Z 21012G22KT 160V250 9999 VCSH OVC025TCU 11/07 Q1017 UKLR 191030Z 25008MPS 1800 -RA BR OVC006 07/06 Q1009 NOSIG KC35 191015Z AUTO 28003KT 10SM OVC012 M05/M07 A3027 RMK AO2 T10471067 KABQ 190952Z 36006KT 10SM CLR 01/M03 A3017 RMK AO2 SLP213 T00061033 KABR 190953Z AUTO 18010KT 7SM OVC008 M02/M04 A3009 RMK AO2 SLP207 T10221044 UKLU 191030Z 14004MPS 1500 -RA BR OVC003 06/05 Q1018 10290060 NOSIG KACJ 191015Z AUTO 00000KT 10SM CLR 05/01 A3014 RMK AO2 KACK 190953Z AUTO 29009KT 10SM BKN050 OVC060 03/M02 A2987 RMK AO2 SLP115 T00281022 KADC 191035Z AUTO 33007KT 7SM BKN010 OVC021 M07/M08 A3015 RMK AO2 KADF 191030Z AUTO 03006KT 1 3/4SM BR OVC002 06/06 A3020 RMK AO2 KADG 190953Z AUTO 30005KT 6SM BR OVC010 M02/M03 A3021 RMK AO2 SLP242 T10171033 $ KABY 190953Z 00000KT 10SM BKN036 OVC110 07/04 A3014 RMK AO2 SLP205 T00720039 KACP 191015Z AUTO 00000KT 4SM VCTSRA SCT007 SCT022 OVC030 11/11 A3008 RMK AO2 LTG DSNT ALQS T01130105 KACQ 191034Z AUTO 14005KT 7SM OVC018 M04/M06 A3024 RMK AO2 KADH 191015Z AUTO 00000KT 4SM BR OVC002 04/04 A3019 RMK AO2 EDHI 191020Z 26011KT 9999 -RA FEW011 BKN032 09/09 Q1003 EDGS 191020Z 23018G30KT 6000 RA BKN004 07/07 Q1011 KACT 190951Z 03010KT 7SM OVC007 08/07 A3009 RMK AO2 SLP189 T00830067 EDHK 191020Z 25010KT 9999 -DZ BKN009 OVC017 08/07 Q1000 EDHL 191020Z 28006KT 240V320 9999 -RA FEW008 BKN034 09/08 Q1002 KACV 190953Z AUTO 14004KT 4SM -RA BR FEW005 BKN040 OVC049 11/10 A3002 RMK AO2 SLP170 P0014 T01060100 KADM 191015Z AUTO 04006KT 7SM OVC007 06/06 A3018 RMK AO2 T00600056 KAEG 191035Z AUTO 33006KT 10SM CLR M02/M04 A3017 RMK AO2 T10191043 KACY 190954Z 28009KT 10SM OVC036 02/M04 A3003 RMK AO2 SLP169 T00171039 KAEJ 191035Z AUTO 00000KT 10SM CLR M12/M14 A3009 RMK AO2 T11161144 KADS 191015Z AUTO 36003KT 7SM -RA OVC006 08/08 A3020 RMK AO2 LTG DSNT SW T00770077 DNAA 190900Z VRB01KT 1500 HZ NSC 30/11 Q1015 TEMPO 3000 EDJA 190950Z 23022KT 9999 FEW016 09/05 Q1020 UKON 191030Z 21005MPS 0200 FG VV003 01/01 Q1019 NOSIG KAEL 191031Z AUTO 17004KT 7SM OVC019 M04/M06 A3023 RMK AO2 KADU 191015Z AUTO 19004KT 4SM HZ BKN007 M02/M04 A3023 RMK AO2 UKOO 191030Z 23004MPS 9999 OVC004 01/01 Q1019 16090060 TEMPO 0300 FG VV002 KADW 190958Z 30007KT 10SM BKN032 OVC090 01/M06 A3010 RMK AO2A SLP198 CWAE 190100Z 00000KT 3SM -SN OVC030 00/M00 A2973 RMK SC8 LAST OBS/NEXT 191500 UTC WND ESTD SLP083 KAFF 190958Z AUTO 36006KT 10SM CLR M08/M10 A3006 RMK AO2 SLP206 T10831099 CWAF 191000Z AUTO 00032KT M04/M08 RMK AO1 T10351077 KAFJ 182215Z AUTO 25004KT 10SM OVC018 M03/M07 A3017 RMK AO1 CWBA 191000Z AUTO 36007KT M14/M15 RMK AO1 SOG 13 T11361150 CWAJ 191000Z AUTO 27005KT M02/M05 RMK AO1 SLP227 T10231047 51006 KAFK 191015Z AUTO 00000KT 3SM BR OVC003 M01/M01 A3023 RMK AO2 T10131013 KAGC 190953Z 26008KT 6SM HZ OVC010 M03/M06 A3013 RMK AO2 SLP222 T10281061 TTPP 191000Z 00000KT 9999 FEW016 SCT038 24/21 Q1011 NOSIG KAFN 190959Z AUTO 30005KT 10SM BKN023 OVC037 M01/M06 A2986 RMK AO2 T10111061 DNBE 191000Z 00000KT 4000 HZ BKN008 30/25 Q1015 CWBE 191000Z AUTO 35004KT M10/M13 RMK AO1 SLP245 T11001131 50002 KAEX 191030Z AUTO 03004KT 1 3/4SM -RA BR OVC003 11/11 A3009 RMK AO2 RAB05 P0001 T01110106 KAFO 191015Z AUTO 00000KT 10SM OVC055 M03/M05 A3013 RMK AO2 KAFP 191015Z AUTO 00000KT 7SM CLR 00/M01 A3011 RMK AO2 T10021010 KC75 191015Z AUTO 00000KT 7SM CLR M10/M11 A3029 RMK AO2 T10981115 CWAQ 191000Z AUTO 00000KT M09/M10 RMK AO1 SOG 00 1003 SLP149 T10921102 PFKT 190849Z 06019KT 10SM BKN120 M03/M09 A2944 RMK FZRANO VIA PHONE CWAR 191000Z AUTO 21026G32KT 05/04 RMK AO1 PRESRR 3011 PK WND 20037/0910 SLP929 T00520038 50006 CWCA 191000Z 33015KT 15SM BKN025 BKN100 M08/M13 A2977 RMK SC5AS2 SLP082 CWBK 192300Z AUTO 20005KT 03/02 RMK AO1 1004 SLP948 T00300017 50007 PFKW 190956Z AUTO 04008KT 10SM BKN085 OVC110 M09/M12 A2921 RMK AO2 SLP893 T10941117 FZRANO CWAV 191000Z AUTO 27003KT M11/M12 RMK AO1 SLP109 T11061115 56011 KAFW 190953Z 35006KT 6SM BR OVC005 07/06 A3018 RMK AO2 SLP223 T00720061 CWCF 191000Z AUTO 12004KT M14/M16 RMK AO1 SOG 13 8007 SLP205 T11411155 CWBO 191000Z AUTO 00000KT M13/M13 RMK AO1 SOG 09 6005 SLP135 T11261134 CWCI 190900Z AUTO 06007KT M04/M06 RMK AO1 SLP255 T10361057 50001 KAIA 190953Z AUTO 27005KT 10SM CLR M16/M18 A3004 RMK AO2 SLP223 I1000 T11611178 KAGS 191036Z AUTO 00000KT 1 3/4SM BR CLR 00/00 A3009 RMK AO2 VIS 1V5 T00000000 EDMA 191020Z 25010KT 9999 FEW023 10/06 Q1019 CWDA 190900Z AUTO 34007KT M00/ RMK AO1 6050 SLP952 T1001 50002 KAIB 191035Z AUTO 00000KT 10SM SCT016 BKN026 OVC030 M01/M01 A3023 RMK AO2 CWCJ 191000Z AUTO 05005KT M19/M21 RMK AO1 SOG 18 4000 SLP270 T11921211 CWBS 191000Z AUTO 31009KT M04/M08 RMK AO1 T10411078 CWBT 191000Z AUTO 36006G15KT M02/M12 RMK AO1 PK WND 01017/0916 SLP046 T10171124 51002 KAID 181447Z 00000KT 10SM OVC021 M03/M08 A3029 CWDC 191000Z AUTO 01001KT M10/M10 RMK AO1 SOG 14 3008 SLP139 T10971095 CWBU 191000Z AUTO 33004KT M07/M08 RMK AO1 SOG 15 3007 SLP161 T10691076 CWCL 191037Z AUTO ///// M00/ CWBV 191000Z AUTO 28016G21KT 01/M00 RMK AO1 PK WND 28023/0909 SLP984 T00131001 53015 KAHN 190951Z AUTO 29003KT 10SM CLR 03/01 A3009 RMK AO2 SLP191 T00330006 EDLN 191020Z 23014KT 180V280 5000 -RA BR BKN012 11/10 Q1010 CWCO 192300Z AUTO 32011KT M03/M05 RMK AO1 PK WND 34020/2234 SLP207 T10311047 53008 KAIG 191015Z AUTO 36003KT 10SM CLR M12/M13 A3023 RMK AO2 T11241134 CWBY 191000Z AUTO 36008KT M03/M07 RMK AO1 SOG 03 8001 PK WND 03017/0904 SLP038 T10261068 EDLP 191020Z 23022G32KT 6000 -RA FEW028 BKN031 10/08 Q1008 KAHQ 191015Z AUTO 16004KT 4SM BR SCT006 BKN018 OVC024 00/M02 A3021 RMK AO2 T10051018 CWBZ 191000Z AUTO 29007KT M05/M07 RMK AO1 SLP165 T10461067 51007 UMBB 191030Z 24007G10MPS 6000 -SHRA OVC007CB 09/08 Q1006 R29/290050 NOSIG KD07 190956Z AUTO 25008KT M03/M06 A2996 RMK AO1 SLP180 T10281061 OOMS 190950Z 02009KT 350V050 9999 FEW025 25/18 Q1019 NOSIG CWDJ 191000Z AUTO 23003KT M05/M06 RMK AO1 SOG 01 6001 SLP154 T10451058 KAIK 191035Z AUTO 00000KT 10SM CLR 04/03 A3011 RMK AO2 PNO KBAB 191019Z AUTO 13009KT 10SM BKN047 OVC060 12/08 A3015 RMK AO2 DZB09E19 $ KBAC 191035Z AUTO 16007KT 1 1/4SM BR OVC002 M04/M04 A3004 RMK AO2 CWCT 191000Z AUTO 00000KT M15/M17 RMK AO1 SLP152 T11531168 58003 CWEB 191000Z AUTO 15012KT 08/07 RMK AO1 PK WND 16023/0903 SLP036 T00770066 51024 CWDK 191000Z AUTO 14004KT M03/M06 RMK AO1 SOG 01 8007 SLP111 T10271060 CWDM 191000Z AUTO 01012KT M01/M02 RMK AO1 SLP970 T10081017 56033 EDLV 191020Z 23016KT 9000 -RA BKN009 11/11 Q1009 PFNO 190958Z AUTO 07004KT 10SM CLR M14/M15 A2958 RMK AO2 SNB0859E12 SLP018 P0000 T11391150 FZRANO CWEE 191000Z AUTO M16/M18 RMK AO1 SLP178 T11601179 52011 KBAF 190953Z 30012G19KT 10SM OVC035 01/M07 A2992 RMK AO2 SLP137 T00111067 EDLW 191020Z 23023G33KT 8000 -RA BKN011 10/08 Q1008 KAIO 191015Z AUTO 19005KT 7SM OVC007 M01/M02 A3023 RMK AO2 EDMO 191020Z 24014KT CAVOK 12/06 Q1019 CWEF 190900Z AUTO 06005KT 04/03 RMK AO1 SLP951 T00350034 56003 CWDO 191000Z AUTO 06007KT 01/01 RMK AO1 7PAST HR PRESFR 8059 SLP901 P0003 T00140007 50013 KAJG 191015Z AUTO 01003KT 10SM OVC050 00/M03 A3030 RMK AO2 CWDQ 191000Z AUTO 35004KT M10/M12 RMK AO1 SOG 18 3010 SLP159 T11041121 CWEH 191000Z AUTO 29005KT M07/M08 RMK AO1 SOG 08 6001 SLP149 T10741077 EEEI 190950Z 17006KT 7000 -RA BKN005 BKN028 OVC038 05/04 Q0984 NOSIG KBAK 190245Z 00000KT 10SM OVC055 M03/M05 A3026 KAIT 191034Z AUTO 17003KT 7SM -SN BKN012 BKN050 M06/M08 A3019 RMK AO2 KBBB 191033Z AUTO 18007KT 5SM BR OVC010 M04/M06 A3016 RMK AO2 CWDT 191000Z AUTO 23001KT M13/M18 RMK AO1 SLP167 T11301177 53013 CWEK 191000Z AUTO 06020KT 06/ RMK AO1 1009 PK WND 05023/0952 SLP946 T0055 50016 KBBD 190935Z AUTO 05007KT 3/4SM -RA BR OVC002 07/07 A3009 RMK CWEL 191000Z AUTO 17012G17KT 09/05 RMK AO1 PK WND 17017/1000 SLP053 T00940054 51022 NWWW 191030Z AUTO 28004KT 9999 NSC 26/23 Q1012 CWDV 191000Z AUTO 08002KT M13/M14 RMK AO1 SOG 27 8007 SLP265 T11321140 CWFD 191031Z AUTO 34008KT 3/8SM CLR M24/ A2951 RMK VSBY VRBL 0.2V9.+ KBAN 190952Z AUTO 35006KT CLR 01/M13 A3009 RMK AO2 SLP174 T00111128 FZRANO $ DNEN 191000Z 10006KT 1500 HZ NSC 33/22 Q1014 NOSIG KAJO 190956Z AUTO 00000KT 10SM CLR 04/04 A3022 RMK AO2 T00440044 SLP231 $ KBBF 191035Z AUTO 20013KT 7SM FEW016 SCT021 BKN034 23/20 A2994 RMK A01 ULLI 191030Z 15005MPS 110V200 4200 -SN BKN008 BKN014 OVC066 01/00 Q0989 88290050 NOSIG CWFF 191000Z AUTO 33003KT M07/M07 RMK AO1 SOG 07 3006 SLP163 T10691073 KD25 191015Z AUTO 00000KT 10SM OVC004 M12/M13 A3022 RMK AO2 T11211130 KBBG 191015Z AUTO 00000KT 5SM BR OVC003 03/02 A3018 RMK AO2 CWEP 191000Z AUTO 30009KT 02/01 RMK AO1 SLP972 T00150009 53013 KAIZ 191035Z AUTO 06005KT 4SM BKN004 OVC011 01/00 A3022 RMK AO1 KAKH 190954Z AUTO 02004KT 10SM CLR 03/M03 A3009 RMK AO2 SLP192 T00281028 CWDZ 191000Z AUTO 14004KT M11/M12 RMK AO1 SLP129 T11081121 56006 CWEQ 191000Z AUTO 33002KT M07/M08 RMK AO1 SLP174 T10701075 55000 CWER 191000Z AUTO 22003KT RMK AO1 CWFJ 191000Z AUTO 23002KT M05/M07 RMK AO1 T10531066 KALB 190951Z 31010G18KT 10SM OVC046 00/M06 A2996 RMK AO2 SLP150 T00001061 KBCB 191015Z AUTO 28005KT 10SM CLR M02/M06 A3013 RMK AO2 T10201059 CWGB 191000Z AUTO 14004KT 09/06 RMK AO1 SLP051 T00860062 53025 CWEU 191037Z 14018KT 4SM BLSN SKC CWGD 191000Z AUTO 04005KT M05/M07 RMK AO1 SOG 02 1005 SLP222 T10451066 KBCE 190953Z AUTO 27009KT 10SM CLR M12/M14 A3020 RMK AO2 SLP233 T11221139 CWEW 191000Z AUTO 31007KT M04/M08 RMK AO1 SOG 04 3009 SLP166 T10421079 KAKO 190953Z AUTO 25009KT 10SM CLR M07/M09 A3006 RMK AO2 SLP213 T10721094 KBAX 191035Z AUTO 27003KT 10SM OVC024 M05/M07 A3021 RMK AO2 T10551067 KBBP 191035Z AUTO 00000KT 10SM CLR 01/01 A3012 RMK AO2 KBAZ 191016Z AUTO 02012KT 4SM HZ OVC007 11/ A3003 RMK AO2 CIG 005V010 T0106 $ EDNY 191020Z 22009KT CAVOK 11/05 Q1022 EDOP 191020Z 22020KT 9999 -RA BKN009 11/10 Q1001 KAKQ 190954Z AUTO 00000KT 10SM CLR M02/M04 A3011 RMK AO2 SLP199 T10221044 TSNO KAJZ 191035Z AUTO 00000KT 7SM SCT039 M02/M03 A3021 RMK AO2 T10201030 CWFQ 191000Z AUTO 00000KT M05/M05 RMK AO1 SLP140 T10481049 53008 CWEZ 191000Z AUTO 22012KT 09/07 RMK AO1 3026 PK WND 19018/0932 SLP069 T00920071 50002 KALI 191032Z AUTO 00000KT 4SM -RA BR OVC004 21/19 A2994 RMK AO2 LTG DSNT NE TSB0954E09B10E26 CIG 002V008 P0001 T02060194 KAKR 190954Z AUTO 29007KT 7SM OVC008 M01/M03 A3015 RMK AO2 SLP219 T10111033 $ KAMA 191020Z AUTO 17010KT 5SM -RA BR OVC004 02/02 A3012 RMK AO2 P0001 T00220017 ULMM 191030Z VRB01MPS 9999 FEW006 BKN080 M11/M12 Q0989 NOSIG RMK OBST OBSC QFE735 31490335 KD39 191032Z AUTO 13006KT 4SM BR OVC005 M07/M07 A3018 RMK AO2 T10681075 KALK 190956Z AUTO 00000KT 10SM CLR 02/M01 A3018 RMK AO2 SLP184 T00171011 TSNO KBCK 191015Z AUTO 00000KT 10SM OVC012 M04/M07 A3027 RMK AO2 T10411067 KALM 191035Z AUTO 02006KT 10SM BKN040 05/04 A3014 RMK AO2 CWGL 191000Z AUTO 32008KT M08/M10 RMK AO1 SLP205 T10811104 51006 CWGM 191000Z AUTO 24020G26KT 03/M02 RMK AO1 PK WND 24028/0937 T00251023 KBDE 190953Z AUTO 16004KT 10SM FEW012 OVC050 M07/M09 A3015 RMK AO2 SLP232 T10671089 TSNO KBBW 191017Z AUTO 23007KT 3/4SM BR OVC002 M04/M05 A3009 RMK AO2 T10391050 KALN 191035Z AUTO 00000KT 7SM OVC036 M01/M03 A3029 RMK AO2 T10071026 TSNO KALO 190954Z 18003KT 8SM BKN032 OVC045 M04/M07 A3028 RMK AO2 SLP266 T10441067 DNGO 190900Z 10020KT 8000 NSC 29/M02 Q1016 KAMG 190953Z AUTO 00000KT 9SM FEW065 06/03 A3009 RMK AO2 SLP190 T00560033 KBDG 191015Z AUTO 00000KT 10SM CLR M04/M05 A3026 RMK AO1 T10391051 KBDH 191035Z AUTO 13008KT 4SM BR OVC006 M04/M06 A3019 RMK AO2 NZAA 191030Z AUTO 06003KT 9999 SCT041/// 18/17 Q1018 NOSIG OOSA 190950Z 02018KT 340V060 CAVOK 30/04 Q1017 NOSIG RMK02 RH19 CWHI 190900Z AUTO 00000KT M11/M12 RMK AO1 T11131123 CWGR 191000Z AUTO 36005KT 01/01 RMK AO1 SLP965 T00100008 53006 ZSAM 191000Z 22002MPS 170V250 5000 BR SCT050 13/12 Q1023 NOSIG KALS 191012Z AUTO 29004KT 3/4SM BR VV001 M14/M16 A3012 RMK AO2 T11441161 KBEA 191035Z AUTO 03007KT 10SM -RA OVC003 15/15 A2996 RMK AO2 LTG DSNT S T01510151 KBCT 190350Z 00000KT 10SM CLR 15/11 A3011 RMK LAST KD50 191035Z AUTO 23003KT 4SM BR OVC003 M04/M04 A2993 RMK AO2 KANB 191001Z AUTO 00000KT 6SM BR FEW003 M01/M02 A3017 RMK AO2 T10061017 DNIB 191000Z 18006KT 6000 SCT013 29/23 Q1014 CWGT 191000Z AUTO 17010KT 10/04 RMK AO1 PK WND 12023/0923 SLP046 T00980035 53024 KBDL 190951Z 32013KT 10SM OVC035 02/M07 A2993 RMK AO2 SLP135 T00171067 CWHL 191000Z AUTO 14012G17KT 06/03 RMK AO1 2PAST HR 3012 PK WND 14017/0956 SLP950 P0001 T00600033 50014 KAND 190956Z AUTO 00000KT 10SM CLR 02/01 A3008 RMK AO2 SLP186 T00220006 KBED 190956Z AUTO 28005KT 10SM SCT031 OVC050 M01/M04 A2987 RMK AO2 SLP129 T10061044 TSNO EDQM 191020Z 22016G27KT 9999 -DZ OVC009 08/06 Q1013 CWID 191000Z AUTO 00000KT M26/M29 RMK AO1 SLP116 T12591291 53002 CWHM 191000Z AUTO 33008KT M03/M07 RMK AO1 T10311067 KALW 190953Z AUTO VRB03KT 10SM SCT065 OVC090 11/03 A2985 RMK AO2 RAB32E44 SLP110 P0000 T01110033 KBDN 191035Z AUTO 17004KT 10SM CLR 05/01 A2989 RMK AO2 LTG DSNT W KANE 191034Z AUTO 13003KT 5SM -SN SCT029 OVC065 M05/M07 A3024 RMK AO2 KAMN 191031Z AUTO 34004KT 10SM OVC016 M04/M07 A3025 RMK AO2 T10411067 CWGW 191000Z AUTO 18005KT 01/M00 RMK AO1 SOG 05 6007 SLP151 T00111004 CWHN 191000Z AUTO 23002KT 7SM CLR M14/M15 A2984 RMK ICG SLP154 KALX 191015Z AUTO 00000KT 10SM BKN032 03/00 RMK AO2 T00250002 CWGX 191000Z AUTO 21006KT M13/M15 RMK AO1 SLP181 T11321148 54000 CWHO 191000Z AUTO 31016G22KT M11/M15 RMK AO1 1011 PK WND 30023/0943 SLP124 T11081151 50052 KD55 191035Z AUTO 18012KT 3SM BR OVC002 M05/M06 A2999 RMK AO2 PFSH 190958Z AUTO 02015KT 10SM CLR M08/M09 A2940 RMK AO2 SLP970 T10831094 FZRANO CWHP 191000Z AUTO 01020KT M01/M01 RMK AO1 2PAST HR 0000 PK WND 01026/0920 SLP987 P0001 T10081008 50005 CWIG 190900Z AUTO 16001KT RMK AO1 CWGY 190700Z AUTO 00000KT M16/M18 RMK AO1 SLP175 T11641175 50001 KBEH 190953Z AUTO VRB04KT 10SM OVC028 M01/M04 A3023 RMK AO2 SLP245 T10061044 CWGZ 182100Z 06004KT 15SM SKC M31/M35 A3001 RMK -28.9/-33.2/0/0 SNW CVR/HRD PCK LAST OB/NEXT 191300 SLP171 CWHQ 191000Z AUTO 31007KT M07/M08 RMK AO1 T10711084 50010 KD57 191035Z AUTO 17004KT 10SM OVC075 M05/M07 A2993 RMK AO2 TSNO KBDR 190952Z AUTO 27003KT 10SM OVC036 03/M03 A2995 RMK AO2 SLP142 T00281028 CWII 191000Z AUTO 14007KT M09/M10 RMK AO1 T10871103 KANJ 190955Z AUTO 00000KT 10SM CLR M13/M15 A3022 RMK AO2 PRESFR SLP246 I1000 T11281150 CWIJ 191000Z AUTO 24010KT M20/M22 RMK AO1 SOG 80 1007 SLP093 T12011215 50002 OPKC 191025Z 07006KT 5000 HZ BKN100 24/02 Q1019 NOSIG KANK 191015Z AUTO 34009KT 10SM CLR M06/M10 A3017 RMK AO1 T10651105 KD60 191015Z AUTO 25004KT 1/2SM FZFG OVC002 M04/M04 A2993 RMK AO2 CWJB 191000Z AUTO 29006KT M05/M08 RMK AO1 SOG 19 T10491080 CWHT 191000Z AUTO 00000KT M13/M15 RMK AO1 2PAST HR SOG 15 8014 SLP016 P0001 T11331147 50002 CWIK 191000Z AUTO 24004KT M05/M05 RMK AO1 SOG 04 8001 SLP158 T10451051 EDSB 191020Z 21015KT 9999 BKN040 11/06 Q1019 KBDU 191035Z AUTO 25003KT 10SM CLR M03/M06 A3005 RMK AO2 ULOO 191030Z 18004MPS 2800 -RA BR OVC004 01/01 Q0989 19290055 TEMPO 2000 BKN003 RMK OBST OBSC QFE738 CWIL 191000Z AUTO 12015KT M22/ A2993 RMK SLP145 KBFD 191002Z AUTO 30012G19KT 10SM OVC009 M04/M06 A3001 RMK AO2 T10391061 DNIM 190900Z 27004KT 8000 BKN011 28/25 Q1014 CWJD 191000Z AUTO 22003KT M12/M13 RMK AO1 SOG 27 0004 SLP194 T11151132 CWHV 191000Z AUTO 31002KT M06/M07 RMK AO1 SLP109 T10561068 52010 UMGG 191030Z 21007G10MPS 6000 -SHRA OVC007CB 04/03 Q1005 R28/290050 NOSIG KAMW 190953Z AUTO 14004KT 8SM OVC011 M03/M06 A3026 RMK AO2 SLP256 T10331056 NZAP 190823Z 24007KT 30KM BKN014 17/14 Q1017 RMK NZPM VATSIM USE ONLY KBFF 190953Z AUTO 34005KT 10SM CLR M13/M15 A3005 RMK AO2 SLP237 I1000 T11331150 CXAF 191000Z AUTO 00000KT M15/M16 RMK AO1 T11511155 TUPJ 190100Z 07007KT 9999 SCT019 26/21 Q1015 CXAG 191000Z AUTO 00000KT M15/M16 RMK AO1 T11511155 KANQ 191055Z AUTO 28004KT 7SM OVC008 M03/M04 A3021 RMK CWIP 191000Z AUTO 35010G15KT M02/ RMK AO1 T1019 KAOH 190953Z AUTO 29007KT 5SM HZ OVC010 M01/M05 A3021 RMK AO2 SLP241 T10111050 CWJH 191000Z AUTO 24001KT M09/M10 RMK AO1 SOG 16 2005 SLP157 T10881095 KBFI 190953Z 15008KT 10SM -RA FEW041 OVC050 10/08 A2981 RMK AO2 SLP093 P0004 T01000078 OPLA 191025Z 31003KT 0600 FG VV/// 09/08 Q1022 CWJI 191000Z AUTO 26004KT M07/M08 RMK AO1 SOG 01 3001 SLP154 T10701080 KAPA 190953Z 00000KT 7SM FEW080 FEW200 M05/M07 A3005 RMK AO2 SLP196 T10501067 PHBK 190956Z AUTO 15004KT 10SM OVC050 22/19 A3014 RMK AO2 SLP207 T02220189 402720206 CXBA 191000Z AUTO 15001KT M15/M16 RMK AO1 T11521155 CXAJ 191000Z AUTO 03002KT M19/M21 RMK AO1 SOG 16 T11941211 CWIS 191000Z AUTO 02003KT M10/M10 RMK AO1 SOG 49 3009 SLP101 T10951102 EEKA 190950Z 23008KT 9999 BKN004 OVC012 07/07 Q0985 CXAK 191000Z AUTO 20003KT M10/M11 RMK AO1 T11021113 KAPC 191010Z AUTO 14006KT 10SM BKN026 OVC033 13/10 A3014 RMK AO2 T01280100 TSNO KBFL 190954Z AUTO 11005KT 10SM CLR 09/06 A3020 RMK AO2 SLP226 T00940061 KBFM 190953Z 01010KT 10SM OVC035 12/09 A3013 RMK AO2 RAB25E36 SLP203 P0000 T01220089 KBGD 191013Z AUTO 00000KT 6SM HZ BKN014 OVC085 02/M01 A3013 RMK AO2 T00221006 CWKD 191000Z AUTO 27009KT M17/M20 RMK AO1 SLP179 T11691197 52006 KANW 191015Z AUTO 22004KT 10SM CLR M09/M10 A3005 RMK AO2 T10951105 KBGE 191015Z AUTO 02003KT 10SM CLR 08/04 A3011 RMK AO2 KBGF 191035Z AUTO 00000KT 6SM OVC006 00/M01 A3020 RMK CWIW 191000Z AUTO 31005KT M07/M08 RMK AO1 SOG 04 3004 SLP163 T10731079 KAPF 190953Z AUTO 05003KT 10SM CLR 12/11 A3008 RMK AO2 SLP184 T01220111 KAOO 190953Z AUTO 29012G20KT 10SM OVC018 M02/M05 A3007 RMK AO2 SLP199 T10221050 EEKE 190950Z 28009KT 250V320 9999 BKN004 OVC007 07/07 Q0986 R17/290095 DNJO 181300Z 02011KT CAVOK 29/02 Q1017 KAPG 190055Z 28006KT 7SM OVC040 03/M03 A3011 RMK LAST CWIX 191000Z AUTO 29004KT M12/M14 RMK AO1 T11151137 CWJO 191000Z AUTO 27008KT M09/M12 RMK AO1 SLP154 T10851116 52009 NZCH 191030Z AUTO 04006KT 9999 NCD 17/15 Q1011 NOSIG NZCI 190823Z 24007KT 30KM BKN014 17/14 Q1017 RMK NZPM VATSIM USE ONLY CWIY 191000Z AUTO 32006KT M05/M06 RMK AO1 SLP072 T10521060 51009 CWKG 191000Z AUTO 28004KT M01/M01 RMK AO1 SOG 02 3013 SLP032 T10091012 50004 CWKH 191000Z AUTO 06/04 RMK AO1 3021 SLP056 T00600042 50002 CWIZ 191000Z AUTO 27005KT M03/M05 RMK AO1 T10341046 CWJR 191000Z AUTO 14001KT 02/01 RMK AO1 2PAST HR SOG 01 6006 SLP165 P0001 T00150012 50002 CXBI 191000Z AUTO 33004KT M08/M10 RMK AO1 SLP215 T10831100 51007 CXCA 191000Z AUTO 19001KT M19/M21 RMK AO1 SLP282 T11911209 58001 KBHB 191035Z AUTO 31004KT 10SM OVC032 M01/M02 A2979 RMK AO1 NZCM 190855Z 10011KT 9999 FEW020 M05/M10 A2933 RMK SLP938 CWKK 190900Z AUTO 23002KT M08/M08 RMK AO1 SOG 10 6001 SLP263 T10771075 CXAT 191000Z AUTO 35003KT M28/M32 RMK AO1 SOG 00 3005 SLP184 T12821316 CWJT 191000Z AUTO 29001KT M08/M09 RMK AO1 SLP167 T10781091 51008 CWLB 191000Z AUTO 17001KT M12/M13 RMK AO1 SOG 21 5007 SLP147 T11221131 CXBK 191000Z AUTO 21002KT M05/M05 RMK AO1 SOG 17 5000 SLP141 T10491054 KBHC 191035Z AUTO 00000KT 10SM SCT065 SCT110 06/05 A3011 RMK AO2 EDTL 191020Z 20013KT 9999 FEW020 SCT039 12/07 Q1021 CWJU 191000Z AUTO 12009KT 04/04 RMK AO1 SLP917 T00440036 53003 CWLC 191000Z AUTO 12020KT 06/04 RMK AO1 PK WND 13022/0929 T00580036 KBGM 191008Z AUTO 34011KT 6SM -SN BR FEW007 BKN012 OVC019 M04/M06 A2996 RMK AO2 SNB0956 P0000 T10441061 $ CXCD 191000Z AUTO 00000KT M09/M10 RMK AO1 T10941095 CWJV 191000Z AUTO 10004KT 01/01 RMK AO1 2PAST HR 6008 SLP116 P0001 T00110008 50011 CWKM 191000Z AUTO 24004KT M17/ A2983 RMK SLP109 KAPN 190954Z AUTO 00000KT 10SM CLR M10/M12 A3023 RMK AO2 SLP249 I1000 T11001122 KBFW 191034Z AUTO 00000KT 10SM OVC017 M04/M07 A3020 RMK AO2 DNKN 191000Z 09013KT CAVOK 28/M02 Q1017 NOSIG CWLE 191000Z AUTO 34003KT M10/M11 RMK AO1 SLP165 T10981106 51006 CWJW 191000Z AUTO 23002KT M06/M06 RMK AO1 SOG 15 6017 SLP093 T10601062 VCRI 191010Z 05008KT 9999 SCT080 BKN080 28/24 Q1009 NOSIG CWJX 191000Z AUTO 00000KT M16/M18 RMK AO1 SOG 01 5001 SLP166 T11631184 CWKO 191000Z AUTO 00000KT M05/M06 RMK AO1 2PAST HR SOG 01 0000 SLP154 P0001 T10521058 50002 CXBO 191000Z AUTO 27004KT RMK AO1 UMII 191000Z 18005G08MPS 1300 RA BR OVC003 02/02 Q0996 R23/597026 TEMPO 1000 BKN002 RMK QBB100 UNAA 191030Z VRB01MPS 9999 SCT040 OVC100 M13/M15 Q1037 NOSIG RMK QFE755 52190055 CWKP 191000Z AUTO 11009KT M20/ A2962 RMK SLP078 KBGR 191018Z 30006KT 10SM OVC029 M02/M05 A2980 RMK AO2 T10171050 CXBR 191000Z AUTO 26012KT 03/M02 RMK AO1 PK WND 26023/0903 T00331015 CWLI 191000Z AUTO 24020KT M16/ A2973 RMK SLP084 KARA 190953Z AUTO 09008KT 4SM -RA BR OVC006 15/13 A3003 RMK AO2 LTG DSNT N AND NW SLP169 P0000 T01500133 KBHK 190951Z AUTO 25012KT 10SM CLR M02/M06 A2993 RMK AO2 SLP157 T10171056 KARB 191005Z AUTO 36006KT 7SM FEW008 OVC020 M02/M03 A3020 RMK AO2 T10221033 DNKT 181400Z 14005KT 9999 NSC 32/09 Q1014 NOSIG CXDB 191000Z AUTO 22013KT M03/M06 RMK AO1 T10321060 CXCK 191000Z AUTO 03001KT M19/M21 RMK AO1 SOG 17 8012 SLP066 T11941213 NZDN 191021Z 01008KT 30KM NSC 17/14 Q1011 RMK NZCH VATSIM USE ONLY KBHM 190953Z 00000KT 8SM FEW250 01/00 A3018 RMK AO2 SLP221 T00110000 KBID 191035Z AUTO 32013G19KT 10SM OVC050 02/M04 A2991 RMK AO1 CWLM 191000Z AUTO 21004KT 08/07 RMK AO1 2020 SLP069 T00830072 50002 KBIE 191015Z AUTO 19004KT 7SM SCT017 OVC027 M01/M02 A3021 RMK AO2 T10101024 EDVE 191020Z 24015G25KT 6000 RA SCT008 BKN017 OVC020 11/11 Q1006 CXBW 190900Z AUTO 22011KT M04/M06 RMK AO1 T10441062 CXDE 191000Z AUTO 33002KT M21/M23 RMK AO1 SOG 21 2005 SLP111 T12081230 CWME 191000Z AUTO 05018KT 04/02 RMK AO1 PK WND 05022/0903 SLP984 T00420023 53006 KBIF 190958Z AUTO VRB02KT 10SM CLR 05/02 A3013 RMK AO2 SLP180 T00530024 $ CWKW 191000Z AUTO ///// M15/ A2981 RMK SLP152 KAQO 191015Z AUTO 36007KT 7SM OVC010 09/08 A3012 RMK AO2 LTG DSNT ALQDS CWKX 191000Z AUTO 07008KT M15/M17 RMK AO1 SOG 22 8010 SLP034 T11471168 KAQP 191034Z AUTO 14003KT 7SM BKN018 OVC024 M03/M05 A3016 RMK AO2 KD95 191033Z AUTO 30003KT 10SM OVC014 M04/M06 A3022 RMK AO2 T10381057 KARG 191035Z AUTO 05010KT 5SM OVC042 03/01 A3022 RMK AO1 OPNH 191000Z 31502KT 2500M FU NSC 21/10 Q.1020 KAPY 191015Z AUTO 00000KT 1 1/4SM BR OVC003 16/16 A2995 RMK AO2 T01600160 EDTY 191020Z 24010KT 9999 BKN022 10/06 Q1018 CXCP 191000Z AUTO 07001KT M08/M09 RMK AO1 T10791087 CWLP 191000Z AUTO 17014KT 08/06 RMK AO1 3020 PK WND 16019/0944 SLP995 T00760063 50016 KBIH 190956Z AUTO 34003KT 10SM CLR M01/M04 A3021 RMK AO2 SLP224 T10111039 UNBB 191030Z 00000MPS CAVOK M19/M22 Q1036 NOSIG RMK QFE754/1006 24420357 KAQR 191015Z AUTO 03004KT 5SM BR OVC007 05/05 A3018 RMK AO2 CXDI 191000Z AUTO 35005KT M05/M07 RMK AO1 SLP212 T10481068 51007 OPMT 190954Z 36004KT 3000 FEW200 16/09 Q1022 NOSIG KBIJ 191015Z AUTO 00000KT 10SM OVC050 08/05 A3013 RMK AO2 CXCS 191000Z AUTO 00000KT M16/M18 RMK AO1 T11611178 CWLS 191000Z AUTO 35009KT M07/M08 RMK AO1 SOG 04 1004 SLP215 T10711080 CXEA 191000Z AUTO 18001KT M08/M09 RMK AO1 SOG 22 7006 SLP243 T10801089 CWMJ 191000Z AUTO 34004KT M11/M12 RMK AO1 SOG 21 1014 SLP188 T11071124 CWNB 190900Z AUTO RMK AO1 CXDK 191000Z AUTO 30001KT M31/M34 RMK AO1 SOG 14 8005 SLP130 T13071343 KBIL 190953Z 24016KT 10SM BKN100 00/M07 A2996 RMK AO2 SLP168 T00001072 KBJC 191035Z AUTO 29003KT 7SM CLR M02/M04 A3004 RMK AO2 EDVK 191020Z 21015KT 9999 -RA SCT021 BKN040 OVC051 10/08 Q1009 KE11 191015Z AUTO 00000KT 7SM OVC005 03/03 A3011 RMK AO2 T00300030 CXEC 191000Z AUTO M11/ RMK AO1 T1110 CWNC 191000Z AUTO 34006KT M06/M11 RMK AO1 SLP196 T10631112 51008 KASD 190953Z AUTO 05007KT 10SM OVC024 13/10 A3007 RMK AO2 SLP181 T01280100 KCAD 191035Z AUTO 00000KT 3/4SM BR OVC001 M10/M10 A3021 RMK AO2 T10971107 KAQV 191018Z AUTO 36005KT 2SM -RA BR OVC002 11/11 A3009 RMK AO2 P0001 T01110106 KARM 191015Z AUTO 04008KT 10SM VCTS OVC011 15/15 A3000 RMK AO2 LTG DSNT N AND W T01510146 DNMM 191000Z 20010KT 140V300 5000 HZ SCT014 31/26 Q1014 NOSIG CWND 191822Z M01/M01 RMK 1005 T10071007 CWMM 191000Z AUTO 14001KT 07/07 RMK AO1 7PAST HR 3019 SLP076 P0003 T00730070 50041 KAQW 190952Z AUTO 26011KT 10SM OVC027 M01/M06 A2992 RMK AO2 SLP138 T10111061 KASE 191018Z AUTO 20003KT 8SM BKN021 OVC031 M06/M07 A3012 RMK AO2 SNE0959 P0000 T10561072 KCAE 190956Z 00000KT 10SM CLR 02/01 A3008 RMK AO2 SLP186 T00220006 DNMN 191000Z 17004KT 3000 HZ NSC 33/01 Q1012 KAQX 191035Z AUTO 00000KT 6SM BR CLR 04/04 A3008 RMK AO2 CWNE 191000Z AUTO 36028G35KT M00/M01 RMK AO1 2025 PK WND 09037/0905 SLP993 T10031006 50008 KASG 190248Z 00000KT 3SM BR OVC005 04/03 A3021 RMK LAST CWLX 191000Z AUTO 06005KT M31/ A2993 RMK SLP164 KCAG 191033Z AUTO 21004KT 2 1/2SM BR M06/M08 A3020 RMK AO2 T10561078 $ CXEG 191000Z AUTO M10/M11 RMK AO1 SOG 02 T10951113 CXDP 191000Z AUTO 09002KT M17/M19 RMK AO1 T11741190 KASH 190951Z AUTO 31008KT 10SM SCT030 BKN050 01/M04 A2988 RMK AO2 T00051044 BKN V OVC SLP374 CWLY 191036Z AUTO 00000KT 2 1/2SM -RA BR OVC011 02/01 A2970 RMK SLP067 KE16 191035Z AUTO 15005KT 10SM SCT003 BKN045 OVC075 10/10 A3021 RMK AO2 UMKK 191030Z 27007G12MPS 240V310 9999 BKN012 BKN066 10/07 Q0998 R24/29//55 NOSIG RMK QFE748/0997 CWMQ 191000Z AUTO 14001KT M11/M12 RMK AO1 SOG 05 1001 SLP156 T11071121 CWNH 191000Z AUTO 35010G17KT M05/M08 RMK AO1 SOG 24 2007 PK WND 34019/0938 SLP111 T10491084 ZSHC 191030Z 03002MPS 360V060 7000 NSC 09/M04 Q1026 NOSIG KARR 190952Z AUTO 27004KT 9SM OVC029 M03/M07 A3028 RMK AO2 SLP265 T10331067 KBJI 191032Z AUTO 15007KT 5SM -SN SCT010 BKN027 OVC035 M07/M09 A3014 RMK AO2 T10751091 PFWS 190956Z AUTO 03012KT 10SM CLR M06/M07 A2911 RMK AO2 SLP865 T10561072 FZRANO KBIS 190952Z AUTO 11004KT 7SM BKN085 M07/M09 A2998 RMK AO2 SLP177 I1001 T10721094 VECC 191020Z 34007KT 3200 HZ NSC 25/13 Q1016 NOSIG KBJJ 190956Z AUTO 30009KT 6SM BR OVC007 M02/M04 A3017 RMK AO2 SLP231 T10221039 TSNO KASJ 191015Z AUTO 00000KT 10SM CLR M02/M03 A3011 RMK AO2 T10231029 KBKB 190954Z AUTO 00000KT 3SM RA BR OVC002 12/10 A3006 RMK AO2 SLP207 P0006 T01170100 $ KART 190956Z AUTO 31007KT 3SM HZ BKN006 BKN011 OVC023 M04/M07 A3006 RMK AO2 SLP184 I1001 T10391067 KCAK 190951Z 27007KT 4SM -SN BR OVC005 M02/M04 A3014 RMK AO2 SLP222 P0000 T10171039 CWNK 191000Z AUTO 15009KT M07/M08 RMK AO1 T10701076 CWMT 191000Z AUTO 13001KT M19/M21 RMK AO1 SLP112 T11881208 52002 CWOB 191000Z AUTO 06004KT M19/ A2981 RMK SLP153 KASL 191015Z AUTO 06003KT 4SM OVC003 11/09 A3014 RMK AO1 T01050091 CWNL 190900Z AUTO 02003KT M09/M10 RMK AO1 SLP243 T10861103 50003 CWOC 190900Z AUTO 29003KT M01/M04 RMK AO1 0PAST HR 1015 SLP026 P0004 T10141042 50010 KBIV 190953Z AUTO 00000KT 10SM CLR M04/M07 A3025 RMK AO2 SLP252 T10391072 KBKD 191015Z AUTO 00000KT 4SM BR OVC003 08/08 A3016 RMK AO2 LTG DSNT S T00790075 KARV 191015Z AUTO 00000KT 1 3/4SM -SN OVC001 M11/M13 A3022 RMK AO2 VIS 1V5 T11151132 KARW 191035Z AUTO 00000KT 10SM CLR 08/07 A3009 RMK AO2 CWOD 191000Z AUTO 30011KT M12/M16 RMK AO1 SOG 09 1010 SLP154 T11241158 CWNM 191000Z AUTO 10002KT 02/01 RMK AO1 2PAST HR 6011 SLP151 P0001 T00200012 50005 ZSFZ 191000Z 27003MPS 9999 OVC021 11/08 Q1023 NOSIG KCBE 191032Z AUTO 27006KT 10SM OVC028 00/M05 A3018 RMK AO1 KBKE 190853Z AUTO 09016G22KT 10SM FEW030 BKN060 OVC110 03/01 A2999 RMK AO2 SLP168 T00330006 $ KASN 191035Z AUTO 00000KT 7SM CLR 00/M01 A3017 RMK AO2 T10021011 CWOE 191000Z AUTO 00000KT M07/M08 RMK AO1 SOG 00 6002 SLP153 T10711079 CXDW 191000Z AUTO 15002KT M07/M08 RMK AO1 T10721076 KCAO 190955Z AUTO 00000KT 10SM SCT120 M02/M03 A3007 RMK AO2 SLP189 T10171033 KBIX 190958Z AUTO 05009KT 10SM OVC028 12/10 A3009 RMK AO2 SLP192 T01240100 KCBF 191015Z AUTO 19005KT 5SM BR BKN006 BKN010 OVC032 M01/M01 A3021 RMK AO2 KBKF 190958Z 23004KT 7SM FEW070 SCT220 M04/M05 A3005 RMK AO2A SLP185 T10391049 KCBG 191035Z AUTO 00000KT 5SM -SN OVC060 M05/M09 A3023 RMK AO2 CWNP 191000Z AUTO 00000KT M00/01 RMK AO1 5PAST HR SOG 01 6008 SLP142 P0002 T10010005 50010 CWMZ 190900Z AUTO 36015KT M08/M10 RMK AO1 PK WND 01020/0849 SLP221 T10781101 51005 CWNQ 191000Z AUTO 31006KT M05/M08 RMK AO1 SLP142 T10461079 52007 KCAR 190954Z AUTO 33011KT 10SM OVC013 M04/M07 A2973 RMK AO2 SLP078 T10441067 KCCA 191035Z AUTO 00000KT 5SM BR OVC008 04/03 A3025 RMK AO2 KAST 190955Z AUTO 13006KT 10SM CLR 08/06 A2981 RMK AO2 SLP094 T00780061 KCBK 191015Z AUTO 00000KT 10SM CLR M06/M06 A3010 RMK AO2 CXET 191000Z AUTO 35006KT M07/M09 RMK AO1 SLP211 T10721088 51010 KBKL 190953Z 32012KT 10SM OVC019 M01/M04 A3018 RMK AO2 SLP224 T10061039 EFET 191020Z 15005KT 110V210 9999 -SN OVC027 M07/M07 Q0984 R03/490194 KATL 190952Z 31007KT 10SM FEW200 SCT250 03/00 A3011 RMK AO2 SLP200 T00330000 CWPC 191000Z AUTO 30007KT M04/M07 RMK AO1 SLP210 T10361074 50002 KCBM 190958Z AUTO 00000KT 10SM OVC034 04/03 A3019 RMK AO2 SLP227 T00410032 $ KCAV 191015Z AUTO 16006KT 9SM OVC023 M04/M03 A3024 RMK AO2 CXFM 191000Z AUTO 19012KT M04/M06 RMK AO1 T10381059 CWPD 191000Z AUTO 02006KT M13/M13 RMK AO1 SLP120 T11251132 53011 UMMG 191030Z 24007G10MPS 9999 BKN010 OVC066 10/09 Q1000 R17/290060 NOSIG KBKN 191035Z AUTO 01007KT 6SM BR BKN008 OVC024 00/00 A3019 RMK AO2 KASW 191035Z AUTO 26005KT 7SM SCT009 SCT017 OVC025 M03/M05 A3024 RMK AO2 CWPE 191000Z AUTO 32011G18KT M02/M04 RMK AO1 20 0913Z 1009 SLP049 T10171041 KASX 191014Z AUTO 00000KT 10SM OVC014 M06/M07 A3027 RMK AO2 T10561072 KBLF 190952Z AUTO 27007KT 10SM BKN011 OVC046 M02/M06 A3009 RMK AO2 SLP203 T10171056 KAUG 190953Z AUTO 29004KT 10SM CLR M02/M07 A2980 RMK AO2 SLP095 T10221067 CWPF 191030Z AUTO 34003KT 08/07 RMK AO1 T00830066 KATP 191035Z AUTO 10009KT 1 3/4SM HZ FEW005 SCT017 BKN031 22/19 A3002 RMK A01 KBLH 190952Z AUTO 25005KT 10SM CLR 08/06 A3019 RMK AO2 SLP223 T00830056 $ PHHI 190958Z AUTO 06001KT 10SM FEW023 SCT039 21/18 A3015 RMK AO2 SLP202 T02120179 402360186 $ KAUH 191015Z AUTO 21004KT 10SM OVC011 M01/M02 A3016 RMK AO2 T10071019 NZGS 190823Z 24007KT 30KM BKN014 17/14 Q1017 RMK NZPM VATSIM USE ONLY CWNZ 191000Z AUTO 00000KT M20/M22 RMK AO1 SOG 47 0002 SLP268 T11961215 CXGH 191000Z AUTO 13011KT M08/M09 RMK AO1 T10801087 KBLI 190953Z AUTO 17010G18KT 10SM -RA BKN023 OVC036 10/06 A2975 RMK AO2 SLP081 P0002 T01000061 OPPS 191000Z 00000KT 1000 HZ SKC 15/07 Q1022.0 NZHK 191021Z 01008KT 30KM NSC 17/14 Q1011 RMK NZCH VATSIM USE ONLY CXFR 191000Z AUTO 07009KT M09/M10 RMK AO1 T10901098 KATS 191035Z AUTO 28007KT 10SM CLR 02/01 A3011 RMK AO2 ULWC 191030Z 22005G08MPS 9999 BKN013CB OVC/// M00/M02 Q1000 NOSIG RMK QFE740/0987 SC039 KBKS 191035Z AUTO 25003KT 4SM SCT005 BKN012 OVC017 20/19 A2994 RMK AO1 T01970187 KCDA 191035Z AUTO 27007KT 10SM UP BKN014 OVC027 M04/M07 A2988 RMK AO2 T10371066 KE38 191015Z AUTO 19003KT 10SM CLR 01/M02 A3018 RMK AO2 T00051021 CXHA 190800Z AUTO 01005KT M02/M04 RMK AO1 2PAST HR M P0001 T10211036 50002 UMMM 191030Z 23006G09MPS 3800 -DZ BR OVC005 06/06 Q0999 R30/290050 NOSIG RMK QFE730 QBB160 EFHA 191020Z 13004KT 2800 -SHRASN OVC003 00/00 Q0982 KATT 190951Z AUTO 01005KT 9SM -RA OVC008 09/09 A3007 RMK AO2 TSE10 SLP182 P0001 T00940089 PFYU 191036Z 04006KT 10SM OVC008 M15/M17 A2968 RMK AO1 KBKT 191015Z AUTO 00000KT 10SM CLR M03/M04 A3010 RMK AO1 T10281041 UNEE 191030Z 15003MPS 6000 OVC066 M12/M12 Q1035 NOSIG RMK QFE753 23451035 CWPK 191000Z AUTO 31003KT M17/M19 RMK AO1 SOG 16 2013 SLP189 T11711193 KCDC 190953Z AUTO 00000KT 10SM CLR M06/M08 A3019 RMK AO2 SLP232 T10561078 KAVC 191036Z AUTO 35003KT 10SM CLR M03/M04 A3017 RMK AO2 T10301045 KBMC 191015Z AUTO 00000KT 10SM OVC070 01/M02 A3019 RMK AO1 T00051017 NZHN 190929Z 05007KT 30KM SCT033 19/17 Q1019 RMK NZAA VATSIM USE ONLY KCDD 191029Z AUTO 00000KT 10SM OVC017 M06/M08 A3021 RMK AO2 KBKV 190953Z AUTO 00000KT 6SM BR CLR 07/07 A3011 RMK AO2 SLP195 T00720067 KBLM 191035Z AUTO 28005KT 10SM OVC037 01/M05 A2999 RMK AO1 KAUM 191036Z AUTO 19004KT 7SM SCT031 OVC036 M05/M07 A3024 RMK AO2 KBKW 190951Z AUTO 32007KT 10SM OVC010 M04/M07 A3010 RMK AO2 SLP228 T10391067 KATW 191015Z AUTO 00000KT 10SM CLR M08/M09 A3026 RMK AO2 KAUN 191015Z AUTO 15005KT 10SM BKN065 OVC070 09/06 A3017 RMK AO1 EDXW 191020Z 26015KT 9999 FEW021 SCT055 08/05 Q1000 KAUO 191035Z AUTO 01009KT 10SM CLR 04/M02 A3015 RMK AO1 KCCO 191035Z AUTO 36005KT 10SM CLR 05/02 A3013 RMK AO2 T00490020 DNPO 190900Z 26002KT 9999 SCT009 28/26 Q1013 NOSIG CWPO 191000Z AUTO 17004KT M06/M06 RMK AO1 SOG 02 6008 SLP193 T10571063 CXHF 191000Z AUTO M08/ RMK AO1 T1078 KBMG 190953Z AUTO 00000KT 7SM OVC014 M04/M06 A3026 RMK AO2 SLP257 I1000 T10441056 KATY 191033Z AUTO 18010KT 5SM BR OVC005 M03/M04 A3008 RMK AO2 T10331044 EFHF 191020Z 17006KT 140V210 3000 -RA BR BKN003 04/03 Q0983 CWOY 191000Z AUTO 27005KT M08/M09 RMK AO1 SLP158 T10781089 51005 UMMS 191030Z 21004G07MPS 180V260 5000 BR OVC004 06/06 Q1000 R13/290060 NOSIG RMK QBB120 KCDH 191035Z AUTO 5SM BR OVC005 07/04 A3018 RMK AO2 NZHS 190823Z 24007KT 30KM BKN014 17/14 Q1017 RMK NZPM VATSIM USE ONLY CWQH 191000Z AUTO 32006KT M05/M06 RMK AO1 SOG 16 T10451060 KCCR 190953Z 30003KT 10SM FEW046 BKN060 OVC070 12/09 A3015 RMK AO2 SLP196 T01220094 KBMI 190956Z AUTO 00000KT 7SM CLR M07/M08 A3029 RMK AO2 T10721083 SLP279 NZHT 191021Z 01008KT 30KM NSC 17/14 Q1011 RMK NZCH VATSIM USE ONLY CWPR 191000Z AUTO 31001KT M02/M02 RMK AO1 SOG 21 5002 SLP095 T10171018 KBNA 190953Z 04005KT 8SM OVC048 02/M02 A3023 RMK AO2 SLP241 T00171017 KAUS 191001Z 01011KT 4SM -RA BR BKN007 OVC011 09/09 A3005 RMK AO2 P0001 T00940094 KCDJ 190952Z AUTO 00000KT M01/M03 A3029 RMK AO1 SLP270 T10061028 CWPS 190900Z AUTO M03/M05 RMK AO1 SLP207 T10261047 51007 CWRA 191000Z AUTO 24021G27KT 05/ RMK AO1 3028 PK WND 23028/0903 SLP976 T0046 50015 KAVK 191035Z AUTO 00000KT 5SM BR OVC012 01/01 A3019 RMK AO2 CWQK 191000Z AUTO 31008KT 09/07 RMK AO1 SLP069 T00930068 51023 CXIB 191000Z AUTO 26004KT 03/01 RMK AO1 SLP951 T00310014 53004 KBML 190952Z AUTO VRB06KT 10SM OVC020 M03/M07 A2982 RMK AO2 SLP116 T10281067 $ KBLU 190952Z AUTO 14010KT 10SM FEW011 BKN055 BKN070 02/M01 A3016 RMK AO2 SLP205 T00221006 KCEC 191024Z AUTO 14006KT 10SM -RA SCT027 BKN047 OVC065 10/09 A3000 RMK AO2 RAE02B19 P0000 T01000094 $ EFHK 191020Z 16009KT 5000 -DZRA FEW002 BKN003 04/03 Q0983 TEMPO 3000 KCCU 191035Z AUTO OVC004 M10/M13 A3005 RMK AO2 PWINO KAVL 190954Z AUTO 32010KT 10SM CLR 02/M03 A3011 RMK AO2 SLP195 T00171033 EEPU 190950Z 19009KT 160V220 0700 -RA FG OVC003 05/05 Q0986 OPRN 191000Z 23008KT 2000 HZ SKC 18/07 Q1022.5/30.19 KBLV 190958Z AUTO 00000KT 10SM SCT032 M03/M03 A3028 RMK AO2 SLP262 T10281031 CXHM 191000Z AUTO 32004KT M04/M08 RMK AO1 SLP210 T10371075 51005 KCDN 191035Z AUTO 00000KT 10SM CLR 00/M01 A3010 RMK AO2 TSNO PGRO 190950Z 08017G23KT 7SM SCT025 27/23 A2997 RMK LAST KAUW 190954Z AUTO 34003KT 10SM CLR M09/M11 A3024 RMK AO2 SLP267 T10891106 KCEF 190958Z AUTO 29008KT 10SM FEW032 OVC043 01/M05 A2991 RMK AO2 SLP137 T00081050 PHJH 190350Z 06011G17KT 7SM -RA FEW020 BKN040 BKN100 22/19 A3008 RMK LAST CWQO 191000Z AUTO 01010G16KT M03/M08 RMK AO1 PK WND 30019/0919 T10261081 CWPX 191000Z AUTO 09020KT M24/ A2975 RMK SLP109 CWRF 191000Z AUTO ///// M21/ A2999 RMK SLP209 KAVP 190954Z AUTO 32011KT 8SM FEW015 BKN020 OVC028 00/M03 A2999 RMK AO2 UPB0855E0856B19E36SNE0855B0856E19B25E30B32E35B44E54 SLP161 P0000 T00001028 KCCY 191035Z AUTO 18003KT 10SM OVC034 M05/M06 A3026 RMK AO2 KAWG 191015Z AUTO 00000KT 10SM OVC060 M03/M03 A3028 RMK AO2 CXHP 191000Z AUTO 10005KT M13/M14 RMK AO1 T11331135 CWQP 191000Z AUTO 33010KT M07/M10 RMK AO1 SLP197 T10651101 51008 KBMQ 191028Z AUTO 02006KT 6SM BR OVC005 08/07 A3009 RMK AO2 LTG DSNT NW T00830072 KAVQ 191015Z AUTO 10005KT 10SM CLR 06/05 A3018 RMK AO2 T00590048 CWPZ 191000Z AUTO 00000KT M04/M04 RMK AO1 SOG 20 8009 SLP000 T10371042 50001 CWRH 191000Z AUTO ///// M15/ A2991 RMK SLP172 KCDR 190953Z AUTO 24005KT 10SM CLR M12/M13 A3004 RMK AO2 SLP221 T11171133 CXHR 191000Z AUTO 18009KT M07/M08 RMK AO1 T10651075 CWQR 191000Z AUTO 36015G20KT M02/ RMK AO1 PK WND 00022/0936 T1016 KCDS 191037Z AUTO 02005KT 9SM -RA FEW005 BKN010 OVC070 04/03 A3016 RMK AO2 RAB26 P0000 T00440033 OPSK 191000Z 05006KT 2500 HZ FEW100 SCT200 18/12 Q1020 RH66 PC KAXA 191015Z AUTO 17007KT 10SM BKN009 BKN015 OVC029 M03/M04 A3023 RMK AO2 CWQS 191000Z AUTO 17014G19KT 09/05 RMK AO1 PK WND 15020/0943 SLP915 T00860049 51001 CWRJ 191000Z AUTO 25001KT M09/M10 RMK AO1 SOG 12 0004 SLP160 T10881096 EGAA 191020Z 25008KT 9999 SCT020 SCT029 BKN035 04/03 Q1010 KBMT 191015Z AUTO 05007KT 4SM RA SCT006 BKN028 OVC050 15/15 A3007 RMK AO2 LTG DSNT E W AND NW T01500146 CWSA 191005Z AUTO 24026G32KT 7SM SCT024 BKN033 BKN040 05/02 A2952 RMK SLP997 CYAB 182300Z VRB03KT 10SM FEW210 M28/M32 A3003 RMK CI2 -25.7/-28.8/0.0/9 MEDIUM PACK LAST STFD OBS/NXT 191200Z SLP173 CWRK 191000Z AUTO 34003KT M10/M12 RMK AO1 SOG 09 2003 SLP191 T11011115 KBNL 191035Z AUTO 00000KT 02/02 A3009 RMK AO2 EGAC 191020Z 25015KT 9999 -SHRA FEW020 05/03 Q1009 UMOO 191030Z 20007G10MPS 3400 -RA BR OVC006 05/04 Q1000 R13/290066 NOSIG RMK QBB180 KAWM 190953Z AUTO 01007KT 10SM OVC024 05/04 A3021 RMK AO2 SLP232 T00500039 PGSN 190954Z 07021G33KT 10SM FEW026 SCT033 28/23 A2996 RMK AO2 PK WND 07033/0949 SLP168 T02780233 PNO $ KCFD 191015Z AUTO 35005KT 5SM VCTSRA OVC005 10/10 A3007 RMK AO2 LTG DSNT SE S AND NW P0018 T01030101 CYAD 182100Z 25002KT 15SM SKC M17/M21 A3008 RMK LAST OBS/NEXT 191200 UTC SLP218 CWSD 191000Z AUTO 35019G26KT 01/M02 RMK AO1 4PAST HR SOG 01 3023 PK WND 35026/0950 SLP990 P0005 T00061020 50026 CWQV 191000Z AUTO 28012G18KT M06/M09 RMK AO1 PK WND 29021/0901 T10591087 CWRM 191000Z AUTO 10003KT M12/M13 RMK AO1 SOG 14 7014 SLP112 T11181128 KCDW 190953Z AUTO 32007KT 10SM OVC035 02/M06 A2999 RMK AO2 SLP162 T00221056 TSNO KCFE 191035Z AUTO 11004KT 7SM -SN SCT034 BKN046 OVC055 M06/M08 A3024 RMK AO2 T10601080 EGAE 191020Z 24017KT 9999 FEW018 SCT039 05/03 Q1008 RESHRA CWRN 191000Z AUTO 25006KT 01/ RMK AO1 T0007 KBNO 191001Z AUTO 9SM -RA FEW020 BKN024 OVC050 02/M01 A3001 RMK AO2 P0000 T00221006 KAVX 191037Z AUTO 06004KT 1 3/4SM BR OVC002 11/10 A3020 RMK AO2 T01110100 KAWO 191035Z AUTO 14015KT 10SM FEW033 OVC100 08/05 A2980 RMK AO1 CWRO 191000Z AUTO 16012KT 07/06 RMK AO1 PK WND 16017/0943 SLP928 T00710059 51006 CWSF 191000Z AUTO 33013G24KT M02/M02 RMK AO1 SOG 14 8002 PK WND 32024/0950 SLP061 T10191020 50005 NZKI 190934Z 04014KT 15KM SCT005 OVC006 18/17 Q1016 RMK NZNS VATSIM USE ONLY CWSG 191000Z AUTO 03010KT M02/M04 RMK AO1 SLP083 T10151039 53009 PHJR 190953Z AUTO 00000KT 10SM CLR 21/18 A3015 RMK AO2 SLP215 T02110183 402780189 TSNO ORBI 191000Z 12010KT 9999 BKN040 16/09 Q1021 NOSIG KAXH 191015Z AUTO 07006KT 10SM VCTS OVC020 10/10 A3001 RMK AO2 LTG DSNT W THRU E T00980096 CYAH 191023Z AUTO 09003KT 020V110 9SM OVC005 M27/M30 A3010 RMK SLP233 KBOI 190953Z 11008KT 10SM FEW036 OVC080 06/01 A3006 RMK AO2 RAB11E52 SLP183 P0000 T00560011 PGUA 191033Z AUTO 06020G26KT 10SM SCT017 BKN060 26/23 A2996 RMK AO2 $ NZKK 190929Z 05007KT 30KM SCT033 19/17 Q1019 RMK NZAA VATSIM USE ONLY OPST 190530Z 05004KT 0600 R04/1300 FG VV/// 06/06 Q1025 BECMG 0800 RH100 CXKA 191000Z AUTO 26001KT M24/M26 RMK AO1 SOG 35 1007 SLP269 T12391263 KBOK 191034Z AUTO 00000KT 2 1/2SM RA BR FEW001 BKN018 OVC025 09/09 A3000 RMK AO2 RAB15 P0002 CYBB 190000Z 26010KT 15SM FEW020 M31/M36 A3019 RMK SC0 -28.0/-30.9/0.0/35/MUCH LOOSE/LAST OBS/NXT/191300Z SLP228 KCGC 191035Z AUTO 00000KT 10SM CLR 07/06 A3010 RMK AO2 CWRT 191000Z AUTO 30012G21KT 03/M02 RMK AO1 PK WND 29021/0958 T00251021 CWSK 191000Z AUTO 03001KT 04/04 RMK AO1 0PAST HR 3005 SLP057 P0004 T00400040 50060 EGBB 191020Z 25008KT 190V280 CAVOK 07/02 Q1013 KCEU 190954Z AUTO 00000KT 10SM CLR 04/01 A3009 RMK AO2 SLP189 T00440006 KBPC 191035Z AUTO 00000KT 7SM OVC014 02/02 A3013 RMK AO2 CWRU 191000Z AUTO 16018G26KT 07/05 RMK AO1 6PAST HR 2017 PK WND 18026/0957 SLP993 P0002 T00720054 50014 CWSL 191000Z AUTO 21002KT 02/01 RMK AO1 6PAST HR SOG 00 6008 SLP117 P0002 T00170013 50026 CYBC 191000Z AUTO 35007KT 9SM FEW042 SCT055 OVC072 M04/M10 A2983 RMK SLP103 CYBD 190100Z 07009KT 12SM VCSH OVC052 04/M03 A2955 RMK SC8 VIS W10 LAST OBS/NEXT 191500UTC/ SLP009 CYAM 191000Z 05003KT 15SM SKC M16/M17 A3025 RMK FROIN SLP261 VDPP 191030Z 01009KT 9999 SCT017 SCT120 27/20 Q1011 KCGE 191032Z AUTO 31007KT 10SM CLR 02/M03 A3010 RMK AO1 KCEW 191025Z AUTO VRB03KT 10SM BKN026 OVC037 11/04 A3013 RMK AO2 T01110039 KAXN 191021Z AUTO 14008KT 2 1/2SM BR OVC004 M06/M07 A3016 RMK AO2 T10611072 EFIV 191020Z 00000KT 8000 -SN OVC047 M09/M10 Q0988 PHKO 190953Z AUTO 09006KT 10SM CLR 24/17 A3008 RMK AO2 SLP187 T02390172 402720200 TSNO KBNW 191015Z AUTO 14004KT 6SM BR OVC007 M03/M03 A3023 RMK AO2 KCGF 190345Z 27010KT 1 1/2SM -SN VV006 00/M01 A3015 EGBE 191020Z 26015KT 9999 FEW045 08/03 Q1013 CXKE 191000Z AUTO 30006KT M06/M08 RMK AO1 SOG 05 1007 SLP175 T10621083 EFKE 191020Z 08007KT 050V110 9999 OVC008 M04/M05 Q0985 DNSO 181900Z 00000KT 8000 NSC 27/09 Q1013 CWRX 191000Z AUTO 30013KT M30/ A3003 EFJO 191020Z 15007KT 110V210 1000 BR VV002 00/00 Q0987 KCEY 191035Z AUTO 03007KT 8SM OVC046 00/M02 A3024 RMK AO1 KBPG 191015Z AUTO 05009KT 10SM OVC008 05/02 A3014 RMK AO2 T00500020 CWTG 191000Z AUTO 01004KT M04/M09 RMK AO1 SLP091 T10361089 53008 CWSP 191000Z AUTO 28012G19KT 10/06 RMK AO1 1020 PK WND 28019/0952 SLP069 T01040060 50002 CWRY 191000Z AUTO 23003KT M07/M07 RMK AO1 SOG 13 5006 SLP138 T10701073 CYBG 191000Z 27010KT 25SM SCT075 M09/M12 A2993 RMK AC4 SLP148 ZSNB 191000Z 33003MPS 4500 HZ SCT026 10/03 Q1024 NOSIG KCEZ 190953Z AUTO 00000KT 10SM CLR M07/M09 A3019 RMK AO2 SLP238 T10721089 PHLI 190953Z 06014KT 10SM OVC048 24/19 A3017 RMK AO2 SLP214 T02440189 402670217 CWRZ 191000Z AUTO 35013G19KT M03/ RMK AO1 PK WND 33027/0914 SLP014 T1027 52014 KCGI 190953Z AUTO 04009KT 8SM OVC037 01/M01 A3026 RMK AO2 SLP248 T00111006 TSNO KBPI 190953Z AUTO 00000KT 10SM OVC055 M11/M13 A3013 RMK AO2 SLP233 T11111133 CXKI 191000Z AUTO M16/M17 RMK AO1 SOG 28 1005 SLP245 T11561166 CWSR 191000Z AUTO 21002KT M12/M13 RMK AO1 SOG 02 3003 SLP152 T11181130 KCHA 190953Z AUTO 00000KT 10SM CLR 01/M01 A3018 RMK AO2 SLP223 T00061011 EFKI 191020Z AUTO 11007KT 080V140 5000 -SN OVC027 M02/M03 Q0985 KCFS 191035Z AUTO 31005KT 10SM OVC023 M04/M07 A3023 RMK AO2 T10361066 KBOS 190954Z 29011KT 10SM BKN035 BKN050 02/M04 A2988 RMK AO2 SLP117 T00171044 KAXS 191015Z AUTO 02009KT 5SM BR BKN009 OVC021 05/03 A3018 RMK AO2 T00530032 NZMC 191021Z 01008KT 30KM NSC 17/14 Q1011 RMK NZCH VATSIM USE ONLY CYAS 182200Z 32015KT 12SM -SN DRSN OVC025 M14/M17 A2984 RMK SC8 LAST OBS/NEXT 191300UTC SLP121 EGBJ 191020Z 25003KT 9999 FEW025 08/04 Q1016 KE80 191035Z AUTO 00000KT 10SM CLR M05/M05 A3018 RMK AO2 T10471055 CWSS 191000Z AUTO 31009G15KT M03/M05 RMK AO1 SOG 00 1008 PK WND 32017/0942 SLP061 T10291048 KBPK 191021Z AUTO 08003KT 6SM BR OVC007 03/02 A3019 RMK AO2 CIG 004V010 T00280022 CXLB 191000Z AUTO 30013G19KT 01/M01 RMK AO1 PK WND 31019/0959 SLP018 T00111012 53012 CWST 191000Z AUTO 35007KT M03/M08 RMK AO1 SOG 04 2010 SLP108 T10331082 CYCB 191010Z 09017KT 3SM -SN DRSN BKN010 OVC060 RMK SC4SC4 CYBK 191000Z 11018KT 5/8SM -SN DRSN OVC009 M17/M19 A2993 RMK SC8 SLP138 PGUM 190954Z 06013KT 10SM FEW022 SCT055 27/24 A2995 RMK AO2 SLP133 T02720239 EFKK 191020Z 14006KT 9000 -SNRA FEW002 SCT007 OVC014 00/00 Q0981 KAZC 191035Z AUTO 12003KT 10SM CLR M03/M04 A3025 RMK AO2 T10321036 KCHD 190347Z 00000KT 15SM SKC 10/07 A3017 RMK LAST CYBL 190500Z 15008KT 10SM -RA SCT009 OVC018 07/06 A2957 RMK SF4SC4 SLP015 EGCC 191020Z 27016KT 9999 4000SE VCSH SCT021TCU SCT031 07/03 Q1012 TEMPO SHRA KCFV 190952Z AUTO 35007KT 4SM BR OVC005 02/01 A3023 RMK AO2 SLP242 T00170006 KAXV 191032Z AUTO 00000KT 7SM BKN012 OVC025 M02/M03 A3024 RMK AO2 NZMF 191021Z 01008KT 30KM NSC 17/14 Q1011 RMK NZCH VATSIM USE ONLY CXKM 191000Z AUTO 13005KT M14/M16 RMK AO1 T11421159 50009 KBOW 191035Z AUTO 00000KT 10SM CLR 07/07 A3011 RMK AO2 CYCD 190500Z 12007KT 070V150 1 1/2SM -RA BR BKN005 OVC014 09/08 A2963 RMK SF6SC2 CIG RAG LAST OBS/NEXT 191400 UTC SLP036 KAZE 191015Z AUTO 00000KT 10SM SCT120 06/05 A3010 RMK AO2 T00600053 CWSW 190000Z 18006KT 150V250 9SM -SN SCT008 OVC025 01/M01 A2990 RMK ST4NS4 LAST OBS/NEXT 191400Z SLP165 CYAW 182100Z 22010KT 15SM -SHRA OVC025 03/00 A2942 RMK SC8 DA-594FT LAST OBS/NEXT 191200 UTC SLP965 CWTN 191000Z AUTO 36003KT M06/M08 RMK AO1 SLP121 T10581081 52012 CYBN 191000Z AUTO 36006KT 9SM OVC010 M07/M09 A3013 RMK SLP218 EETN 191020Z 17006KT 9999 SCT004 BKN033 OVC041 04/04 Q0984 R08/290195 BECMG 24010KT KAXX 191015Z AUTO 00000KT 10SM BKN019 M11/M12 A3010 RMK AO2 T11121122 ZSNJ 191000Z 20003MPS 8000 NSC 05/M00 Q1025 NOSIG CYCG 190100Z 15003KT 110V180 6SM BR FEW004 BKN026 OVC035 01/01 A2998 RMK SF2SC4SC2 LAST OBS/NEXT 191400 UTC SLP172 CYAY 191030Z AUTO 01025G41KT 3SM -FZRA BR OVC003 M00/M01 A2941 RMK ICG INTMT PRESRR SLP960 EFJY 191020Z 14007KT 1900 BR VV003 00/00 Q0983 CYAZ 190100Z 13017G26KT 3SM -RA BR SCT007 BKN013 OVC020 09/08 A2953 RMK SF3CF3SC2 LAST OBS/NEXT 191500UTC SLP000 CYBQ 191033Z AUTO 20004KT 9SM -SN OVC013 M12/M13 A2986 RMK SLP139 TVSC 181800Z 08010KT 9999 SCT018 20/22 Q1013 CYBR 191000Z 13004KT 6SM BR OVC010 M07/M08 A3000 RMK SC8 SLP192 KCGS 191030Z AUTO 29003KT 10SM OVC035 02/M04 A3011 RMK AO1 PHMK 190954Z AUTO 04012G18KT 10SM FEW032 22/19 A3014 RMK AO2 SLP207 T02170194 402560211 TSNO KAYS 191015Z AUTO 00000KT 10SM CLR 08/06 A3010 RMK AO2 T00760057 CYDA 190000Z 24003KT 2SM -SN BR OVC008 M13/M14 A2975 RMK FG7ST1 CLIMAT -12.5/-14.5/TR CM/TR MWE LAST OBS/NXT 191500 UTC SLP110 KBPT 191034Z AUTO 05007KT 2SM +RA BR FEW028 BKN045 OVC060 15/14 A3005 RMK AO2 P0023 T01500144 EFKS 191020Z AUTO 10003KT 9999 -SHSN OVC021 M12/M13 Q0987 EFMA 191020Z 24009KT 210V280 9999 BKN007 BKN019 OVC025 05/05 Q0983 KCHK 191015Z AUTO 03010KT 1 1/2SM BR OVC003 03/03 A3019 RMK AO2 KBQK 191015Z AUTO 00000KT 10SM CLR 07/05 A3010 RMK AO1 KCIC 190248Z 15004KT 10SM OVC044 12/10 A3015 CWTT 191000Z AUTO 33005KT M05/M06 RMK AO1 T10461055 CXKT 191000Z AUTO 29008KT M00/M02 RMK AO1 SOG 00 1021 SLP016 T10011015 50002 ZSOF 191000Z 28003MPS CAVOK 09/M02 Q1024 NOSIG CYCK 191000Z AUTO 31007KT 9SM OVC022 M02/M04 A3019 RMK SLP232 CYDB 191039Z AUTO 30004KT 2 1/4SM -SN BKN024 OVC029 M17/M19 A2939 RMK VIS VRB 1 3/4-3 SLP031 EFKT 191020Z 12003KT 9999 FEW027 BKN059 M08/M08 Q0986 R34/39//95 CYDC 190100Z VRB02KT 10SM SCT010 BKN030 00/M01 A2983 RMK ST4SC3 LAST OBS/NEXT 19 1500 UTC SLP124 CXLL 191000Z AUTO 00000KT M29/M32 RMK AO1 SOG 35 1001 SLP099 T12921321 CWTU 191000Z AUTO 31034KT M14/ A2958 RMK SLP066 KBRD 191017Z AUTO 14006KT 2 1/2SM -SN BR BKN041 OVC049 M07/M09 A3019 RMK AO2 P0000 T10721089 CYBU 191028Z AUTO 30006KT 6SM BR OVC005 M07/M07 A2994 RMK SLP164 EETU 190950Z 18007KT 9999 -RA SCT006 BKN013 03/01 Q0987 KCID 190952Z 00000KT 6SM BR OVC047 M04/M07 A3028 RMK AO2 SLP266 T10441067 $ EFKU 191020Z 13008KT 9999 -SN OVC003 00/00 Q0985 CYBV 182200Z 16007KT 15SM SCT220 M10/M13 A3013 RMK CS4 SN COV/MEDIUM PACK/LAST OBS/NEXT 191300Z SLP224 CXMD 191000Z AUTO 17007KT M07/M08 RMK AO1 SOG 04 7007 SLP197 T10691076 CWVD 191000Z AUTO 34010KT M25/ A2970 RMK SLP144 EGCN 191020Z 26021KT 9999 FEW031 08/03 Q1010 CYBW 191000Z AUTO 31005KT 260V330 9SM CLR M09/M12 A2974 RMK SLP125 KCHO 190953Z AUTO 00000KT 10SM CLR M01/M06 A3009 RMK AO2 SLP193 T10111056 KAZO 191024Z AUTO 31008KT 10SM SCT009 OVC016 M02/M04 A3022 RMK AO2 T10171039 PHNG 190957Z VRB06G17KT 10SM BKN022 24/19 A3015 RMK AO2 SLP205 T02390194 402610222 $ CWVF 191000Z AUTO 22013KT 09/05 RMK AO1 PK WND 20020/0936 T00930053 CYBX 191000Z 04030G40KT 15SM -RA OVC040 01/M02 A2939 RMK SC8 SLP954 CYCO 191000Z 24012KT 10SM IC FEW080 M17/M18 A2971 RMK AC2 SLP063 CYDF 191030Z 20002KT 1SM -SN BKN004 OVC014 00/M00 A2933 RMK SC6SC2 SLP932 KF05 191015Z AUTO 03006KT 7SM BKN008 OVC014 06/03 A3017 RMK AO1 T00610032 KBQP 191015Z AUTO 06003KT 10SM CLR 08/06 A3016 RMK AO2 LTG DSNT SE T00750064 CYCP 190000Z 00000KT 15SM -SHSN FEW004 FEW018 BKN050 OVC090 M02/M02 A2984 RMK ST1ST1SC6AS2 LAST OB/NEXT 191400 UTC SLP141 CXMG 181700Z AUTO 24004KT M19/M21 RMK AO1 T11921214 CWTY 191000Z AUTO 30007KT M05/M07 RMK AO1 SLP145 T10511074 52006 CWUP 191000Z AUTO ///// M22/ A2981 RMK SLP149 EFLP 191020Z AUTO 15005KT 090V200 3500 -RASN BR BKN004 00/M00 Q0986 KCGZ 191035Z AUTO 00000KT 10SM CLR 04/03 A3018 RMK AO1 CYCQ 190000Z 01002KT 10SM FEW030 FEW100 SCT220 M11/M12 A2975 RMK SC1AC1CI1 FU VLY W LAST OBS/NEXT 191400Z SLP121 CWVH 191000Z AUTO 26016KT M18/ A2972 RMK SLP097 CWVI 191000Z AUTO 21002KT M16/M17 RMK AO1 SLP153 T11561170 55008 CXMI 191000Z AUTO 29006KT 01/M01 RMK AO1 PK WND 29017/0928 SLP005 T00071010 53016 ZSPD 191030Z 31004MPS CAVOK 09/03 Q1025 NOSIG EFMI 191020Z AUTO 13006KT 100V170 7000 -RA OVC004 00/00 Q0985 KCHS 190956Z 00000KT 9SM FEW250 07/06 A3008 RMK AO2 SLP185 T00670061 KDAA 190958Z AUTO 30006KT 10SM OVC100 02/M05 A3013 RMK AO2 SLP207 T00161055 CYCS 182300Z 07007KT 6SM IC BKN020 M19/M22 A3012 RMK SC5 -16.1/-25.5/0/8 MED PACK LAST OB/NEXT 191300Z SLP200 CWWA 191000Z AUTO 06002KT 08/06 RMK AO1 3023 SLP074 T00770063 50028 CWUS 191000Z AUTO 02001KT 03/02 RMK AO1 2PAST HR 8007 SLP110 P0001 T00310015 50002 KDAB 190953Z 00000KT 10SM SCT150 SCT250 11/08 A3008 RMK AO2 SLP185 T01060083 PHNL 190953Z 06008KT 10SM FEW028 SCT047 SCT085 24/19 A3013 RMK AO2 SLP203 T02440189 402780228 CWWB 191000Z AUTO 29008KT M03/M08 RMK AO1 SLP213 T10311078 50004 KBRL 190953Z AUTO 03005KT 9SM OVC044 M02/M05 A3028 RMK AO2 UPE0859 SLP262 P0000 T10221050 EGEC 191020Z 28032G42KT 9999 SCT022CB 07/02 Q1005 CYDL 191000Z AUTO 06009KT 9SM BKN090 OVC110 M15/M16 A2944 RMK SLP017 CXMM 191000Z AUTO 10003KT M16/M18 RMK AO1 SOG 14 5003 SLP145 T11551177 EGDM 190950Z 29012KT 9999 FEW033 SCT300 08/03 Q1015 BLU TEMPO 30016G26KT BLU CYED 191000Z AUTO 05002KT 4SM CLR M15/M16 A2977 RMK SLP128 KCIN 191015Z AUTO 17005KT 4SM BR OVC006 M02/M02 A3022 RMK AO2 NZNP 190823Z 24007KT 30KM BKN014 17/14 Q1017 RMK NZPM VATSIM USE ONLY CWWE 191000Z AUTO 26008KT M00/M00 RMK AO1 3017 SLP035 T10021004 50006 CWVN 191000Z AUTO 00000KT M11/M12 RMK AO1 SLP166 T11111121 53001 CWUW 191037Z AUTO 10013KT 9SM -SN FEW057 FEW066 M27/ A2975 CYDN 191000Z AUTO 14005KT 8SM OVC016 M08/M09 A3001 RMK SLP186 KBRO 190953Z 17004KT 5SM BR CLR 20/19 A2994 RMK AO2 SLP136 T02000189 PHOG 190954Z AUTO 06017G26KT 10SM SCT055 23/19 A3012 RMK AO2 PK WND 04029/0918 SLP205 T02280189 402780211 TSNO $ NZOH 190823Z 24007KT 30KM BKN014 17/14 Q1017 RMK NZPM VATSIM USE ONLY CXMO 191000Z AUTO 00000KT M10/M11 RMK AO1 T11041113 CWWF 191000Z AUTO 24003KT M04/M04 RMK AO1 SOG 02 0001 SLP158 T10401042 CWUX 191000Z AUTO 26008KT M09/M11 RMK AO1 SLP144 T10901112 53009 CYCX 191026Z 29006KT 270V330 1 3/4SM -SN VV014 RMK SN8 VDSR 191030Z 03005KT 9999 FEW020 28/17 Q1012 KDAG 190950Z AUTO 00000KT 10SM CLR 03/01 A3022 RMK AO2 SLP231 T00330011 NZNR 190823Z 24007KT 30KM BKN014 17/14 Q1017 RMK NZPM VATSIM USE ONLY VEJS 190200Z 27003KT 1500 BR NSC 12/09 Q1022 CYDP 191000Z 31015KT 15SM BKN024 M09/M14 A2996 RMK SC6 SLP148 CWVP 191000Z AUTO 30004KT M03/M04 RMK AO1 SOG 05 6001 SLP127 T10261035 CYEG 191000Z 12006KT 15SM FEW220 M10/M12 A2975 RMK CI1 TR CI SLP122 ORER 191000Z 15008KT 9000 FEW040 SCT100 14/07 Q1020 CYCY 191000Z AUTO 30011KT 9SM SCT034 M28/M32 A3004 RMK SLP176 NZNS 190934Z 04014KT 15KM SCT005 OVC006 18/17 Q1016 RMK VATSIM USE ONLY CWVQ 191000Z AUTO 30007KT M04/M07 RMK AO1 SOG 16 3008 SLP158 T10401070 CYDQ 191040Z AUTO 00000KT 1/2SM FZFG VV003 M11/M11 A2964 RMK SLP083 KCIR 191015Z AUTO 03006KT 7SM OVC040 02/00 A3025 RMK AO2 P0001 T00230000 UNKL 191030Z 24005G10MPS 9999 SCT033CB OVC083 M06/M10 Q1031 NOSIG RMK QFE747 29////55 ZSQD 191000Z 32006MPS 6000 NSC 05/M08 Q1022 NOSIG EGDR 190950Z 29010KT 9999 HZ FEW024 BKN035 09/04 Q1020 BLU TEMPO SCT022 WHT KBTA 191035Z AUTO 17006KT 4SM BR OVC005 00/M02 A3020 RMK AO2 T10051016 PGWT 190950Z 08014KT 7SM SCT018 27/24 A2995 RMK LAST TVSV 191000Z 00000KT 9999 FEW016CB SCT018 25/22 Q1013 CB S-SW CWXA 191000Z AUTO 26006KT 01/M06 RMK AO1 PK WND 23018/0914 SLP094 T00121057 56006 KCKB 190953Z 30005KT 10SM OVC019 M03/M06 A3017 RMK AO2 SLP227 T10281061 NZNV 191021Z 01008KT 30KM NSC 17/14 Q1011 RMK NZCH VATSIM USE ONLY CWWK 191000Z AUTO 15006KT 09/08 RMK AO1 4PAST HR SOG 00 3021 SLP077 P0002 T00910075 50016 CWVT 191000Z AUTO 20002KT M16/M18 RMK AO1 SOG 14 2007 SLP169 T11631180 CYFB 191000Z 34020KT 15SM IC DRSN SKC M26/M30 A3009 RMK SLP193 CYEK 191036Z AUTO 26009KT 3SM BR BKN003 OVC008 M20/M22 A2991 RMK ICG INTMT SLP131 KDAL 190953Z 05005KT 6SM BR FEW003 OVC006 08/06 A3016 RMK AO2 SLP210 CIG LWR SE T00780061 KCIU 191035Z AUTO 00000KT 10SM CLR M12/M13 A3024 RMK AO1 KCKC 191034Z AUTO 00000KT 10SM OVC012 M08/M10 A3019 RMK AO2 CWXC 191000Z AUTO 01008KT M11/M14 RMK AO1 SLP135 T11111140 53014 CWWL 191000Z AUTO 14009G19KT 06/05 RMK AO1 8PAST HR 3014 PK WND 20021/0900 SLP944 P0011 T00580046 50034 CWVU 191000Z AUTO 30024KT 01/M01 RMK AO1 PK WND 30032/0923 SLP065 T00121006 53009 CYFC 191031Z AUTO 30009KT 3SM -SN OVC032 M03/M04 A2970 RMK SLP057 CXNM 191000Z AUTO 30005KT RMK AO1 KDAN 190953Z AUTO 30005KT 10SM FEW070 04/M07 A3012 RMK AO2 SLP194 T00391067 CYEN 191000Z 25004KT 4SM -SN BR OVC005 M05/M05 A2992 RMK SC8 SLP166 KCKF 191035Z AUTO 00000KT 10SM CLR 04/02 A3013 RMK AO2 T00400022 PHNY 190956Z AUTO 03008KT 10SM CLR 20/19 A3017 RMK AO2 TSNO T02000194 402660183 SLP195 $ EGEO 191020Z 28029G39KT 9999 VCSH FEW008 SCT018CB 05/01 Q1002 EGDX 190950Z 30015KT 9999 SCT044 08/03 Q1016 BLU EGFF 191020Z AUTO 29012KT 9999 BKN047 08/04 Q1017 CXMY 191000Z AUTO M00/M00 RMK AO1 T10031001 EGDY 190950Z 29014KT 9999 FEW012 SCT040 08/03 Q1017 BLU NOSIG CXNP 191000Z AUTO 31012KT M01/M01 RMK AO1 2PAST HR 1027 PK WND 31018/0949 SLP012 P0001 T10121012 50004 KCKI 191035Z AUTO 00000KT 10SM CLR 03/03 A3010 RMK AO2 KCJR 191015Z AUTO 00000KT 10SM SCT100 M02/M04 A3012 RMK AO2 CWXI 191000Z AUTO 05029G34KT M00/00 RMK AO1 6041 PK WND 04036/0936 SLP944 T10020000 50003 CYER 191000Z AUTO 24005KT 9SM CLR M17/M18 A3016 RMK SLP214 KDCA 190952Z 29006KT 10SM OVC036 03/M06 A3013 RMK AO2 SLP202 T00281061 CWWS 191000Z AUTO 17011KT M12/M14 RMK AO1 SOG 43 8005 SLP199 T11171135 CXPA 191000Z AUTO 28002KT M13/M14 RMK AO1 T11261136 NZPM 190823Z 24007KT 30KM BKN014 17/14 Q1017 RMK VATSIM USE ONLY CYET 191009Z AUTO 30003KT 9SM BKN003 M15/M17 A2967 RMK SLP106 KBTL 191008Z 29003KT 5SM BR FEW006 OVC014 M02/M03 A3021 RMK AO2 T10171033 CWWU 191000Z 21018G23KT 15SM SCT015 07/05 A2936 RMK SC3 SLP942 CXOL 191000Z AUTO 15006KT M05/M06 RMK AO1 T10521062 CXPC 191000Z AUTO M11/M13 RMK AO1 SLP218 T11081133 50000 CWXL 191000Z AUTO 21008KT M03/M06 RMK AO1 T10321061 KBTM 190953Z AUTO 00000KT 10SM FEW042 M10/M11 A2999 RMK AO2 SLP214 T11001111 KCKM 191035Z AUTO 36006KT 7SM OVC026 06/05 A3021 RMK AO1 CYEV 191000Z 23003KT 15SM -SN OVC025 M17/M19 A2981 RMK SC8 SLP102 EGGD 191020Z 27012KT 9999 FEW040 06/03 Q1017 KDAW 190951Z AUTO 30008KT 10SM FEW060 M01/M06 A2983 RMK AO2 SLP101 T10111056 KCLE 190951Z 34009KT 9SM -SN OVC010 M02/M03 A3020 RMK AO2 SLP236 P0004 T10171033 KCKN 191034Z AUTO 17011KT 7SM SCT012 M06/M07 A3012 RMK AO2 KDBN 191015Z AUTO 31003KT 10SM CLR 02/02 A3013 RMK AO2 NZPP 190832Z 35015KT 20KM FEW005 SCT007 BKN011 17/16 Q1016 RMK NZWN VATSIM USE O CYGE 190000Z 31002KT 20SM -SN FEW035 BKN070 OVC110 M04/M05 A2996 RMK ST1AS6AS1 /S01/ LAST OBS/NEXT 191400Z SLP184 KBUF 190954Z 33007KT 10SM OVC012 M03/M06 A3010 RMK AO2 SLP202 T10331061 CYFO 190000Z 18006KT 10SM -SN OVC015 M09/M11 A2995 RMK SC8 LAST OBS / NEXT191200UTC SNWCOV/MUCHLOOSE SLP166 CWWX 191000Z AUTO 06009KT M06/M07 RMK AO1 SLP230 T10581070 51003 KBTP 191035Z AUTO 25007KT 3SM OVC006 M02/M03 A3014 RMK AO1 KDAY 191003Z 33006KT 8SM OVC015 M03/M07 A3023 RMK AO2 T10281067 KCKP 191015Z AUTO 18004KT 7SM OVC010 M01/M02 A3020 RMK AO2 T10151020 KDBQ 191013Z AUTO 00000KT 10SM SCT017 OVC070 M05/M08 A3027 RMK AO2 T10501078 $ CYGH 190000Z 25007KT 10SM -SN OVC040 M18/M20 A2982 RMK SC8 -17.2/-19.0/0.4/49 MUCH LOOSE LAST OBS/NXT 191400Z SLP109 CWWZ 191000Z AUTO 33011KT M02/M05 RMK AO1 SOG 00 0003 PK WND 33018/0924 SLP208 T10211052 KBTR 191013Z AUTO 08012KT 5SM -RA BR SCT005 OVC019 12/11 A3003 RMK AO2 P0006 T01170106 TSNO KCLI 191035Z AUTO 00000KT 10SM CLR M09/M11 A3027 RMK AO2 CYFR 182300Z 21003KT 15SM FEW120 M20/M22 A2981 RMK AC1 /0/40 MUCH LOOSE LAST STFD OBS/NEXT191500Z SLP114 CWXR 191000Z AUTO 12007KT M20/ A2973 RMK SLP082 KCMA 190955Z 32003KT 10SM CLR 09/07 A3020 RMK AO2 SLP237 T00890072 NZRC 191021Z 01008KT 30KM NSC 17/14 Q1011 RMK NZCH VATSIM USE ONLY DNZA 181300Z 09013KT CAVOK 33/03 Q1013 CYHA 182000Z 33020G25KT 3SM -SN DRSN VCBLSN OVC015 M10/M12 A2980 RMK SC8 VIS SE 1 SLP095 CWYJ 191000Z AUTO 00000KT 08/06 RMK AO1 SLP071 T00760063 51021 CWZA 191000Z AUTO 23001KT 06/05 RMK AO1 6PAST HR 1016 SLP079 P0006 T00550052 50059 CYFS 191000Z 16002KT 15SM SCT003 M27/M31 A2980 RMK ST4 SLP116 KCLK 191035Z AUTO 04005KT 5SM BR OVC005 02/01 A3019 RMK AO2 CYGK 190400Z 34013KT 15SM FEW009 SCT013 OVC035 M04/M06 A3004 RMK SF1SC3SC4 LAST STFD OBS/NEXT 191100UTC SLP176 CYFT 191027Z 29013KT 1 1/4SM -SN OVC020 RMK SC8 CWYK 191000Z AUTO ///// M14/ A2964 RMK SLP102 KCLL 191031Z 34007KT 2 1/2SM +RA BR SCT006 BKN013 OVC025 11/11 A3006 RMK AO2 P0016 T01060106 KDDC 191016Z AUTO 20004KT 2SM BR OVC002 01/M01 A3015 RMK AO2 T00061006 NZQN 191021Z 01008KT 30KM NSC 17/14 Q1011 RMK NZCH VATSIM USE ONLY CXPL 190900Z AUTO 00000KT M13/M15 RMK AO1 T11341146 KDCM 191035Z AUTO 03003KT 10SM CLR 03/00 A3011 RMK AO2 CWYL 191000Z AUTO 25010G15KT M04/M04 RMK AO1 SOG 41 8003 PK WND 26021/0936 SLP130 T10411044 CYGL 191000Z 24004KT 7SM -SN OVC002 M16/M18 A3015 RMK SF8 SLP231 KCLM 190953Z AUTO 21003KT 10SM BKN065 08/06 A2972 RMK AO2 SLP066 T00780061 TSNO KCKV 190952Z AUTO 02006KT 6SM HZ OVC050 01/M02 A3024 RMK AO2 SLP243 T00111017 EFOU 191020Z AUTO 11008KT 3600 -SN SCT006/// OVC026/// M02/M03 Q0984 R12/49//95 KBTV 190954Z 33011KT 9SM -SN BKN017 BKN022 OVC033 M02/M06 A2997 RMK AO2 SLP153 P0000 T10221061 KCMD 191015Z AUTO 00000KT 2 1/2SM BR 00/00 A3019 RMK AO2 SKY OBSCURED T00011002 CWYM 191000Z AUTO 29008KT M21/ A2967 RMK SLP121 CYHD 191000Z AUTO 16006KT 9SM OVC012 M07/M08 A3016 RMK SLP245 KBVE 190951Z AUTO 34008KT 10SM OVC095 16/13 A3006 RMK AO2 SLP178 T01610133 EGHE 191020Z 30019KT 9999 BKN028 10/05 Q1022 CYHE 191000Z AUTO 08005KT 9SM -RA OVC050 05/04 A2976 RMK PCPN 1.2MM PAST HR SLP079 KF44 191015Z AUTO 35005KT 4SM -RA OVC003 08/07 A3011 RMK AO2 LTG DSNT S AND SW P0001 CXOX 191000Z AUTO 27002KT M09/M09 RMK AO1 SOG 28 1008 SLP162 T10861094 EFPO 191020Z AUTO 15006KT 8000 -RA OVC002/// 03/03 Q0981 R12/29//95 CWZG 191000Z AUTO 22007KT M03/M05 RMK AO1 SOG 13 8005 SLP131 T10311049 CYGP 191000Z 28009G17KT 15SM OVC018 M03/M05 A2964 RMK SC8 SLP039 EGGP 191020Z 27019KT 9999 VCSH SCT028 08/04 Q1012 KCMH 190951Z 30004KT 10SM OVC018 M02/M06 A3022 RMK AO2 SLP242 T10221061 KDDH 190954Z AUTO 28004KT 10SM OVC026 M02/M06 A2991 RMK AO2 SLP138 T10171056 KF46 191035Z AUTO 02004KT 5SM -RA OVC006 07/07 A3015 RMK AO2 T00740067 CYHH 182100Z 00000KT 15SM SKC M16/M20 A3009 RMK LAST OBS NXT 191200Z SLP216 KBVI 190147Z 25004KT 10SM OVC014 M02/M05 A3013 RMK LAST CYGQ 191000Z 27001KT 15SM SKC M25/M28 A3025 RMK SLP282 KCMI 190953Z AUTO 35003KT 6SM BR CLR M08/M10 A3028 RMK AO2 SLP266 I1000 T10781100 KBUR 190953Z AUTO 00000KT 10SM CLR 09/06 A3020 RMK AO2 SLP219 T00890056 TSNO EGHH 191020Z 31016KT 280V350 9999 FEW035 09/04 Q1017 CYGR 191030Z 35006KT 1/4SM FG VV002 02/02 A2945 RMK FG8 SLP972 EGHI 191020Z 29010KT 270V330 9999 FEW037 08/02 Q1016 KCLS 191035Z AUTO 19010KT 10SM BKN043 BKN049 OVC060 09/08 A2984 RMK AO2 KCLT 190952Z 36005KT 10SM CLR 02/M04 A3010 RMK AO2 SLP193 T00171044 KCNB 191033Z AUTO 14005KT 4SM BR OVC016 M03/M03 A3015 RMK AO2 T10271032 CYGT 182100Z 33010KT 15SM SKC M28/M31 A2996 RMK SLP155 CXRB 191000Z AUTO 04001KT M31/M34 RMK AO1 2PAST HR SOG 00 7006 SLP201 P0001 T13081340 50002 CYHK 191000Z AUTO 11009KT 9SM FEW150 M27/M29 A3004 RMK SLP181 KDCU 190953Z AUTO 00000KT 5SM BR OVC036 01/00 A3021 RMK AO2 SLP231 T00110000 $ KDEC 190954Z AUTO 00000KT 6SM BR SCT034 M06/M07 A3029 RMK AO2 SLP267 I1000 T10561072 TSNO KCNC 191015Z AUTO 00000KT 10SM FEW025 OVC044 M02/M03 A3026 RMK AO2 KBUU 191015Z AUTO 29005KT 10SM OVC014 M04/M06 A3027 RMK AO2 T10411065 CWZL 191000Z AUTO 18007KT 07/05 RMK AO1 SLP941 T00740054 53008 KBWD 191015Z AUTO 05009KT 4SM -RA BKN012 OVC070 08/07 A3010 RMK AO2 KDED 191015Z AUTO 00000KT 10SM CLR A3010 RMK AO1 NZRO 190929Z 05007KT 30KM SCT033 19/17 Q1019 RMK NZAA VATSIM USE ONLY CYHM 191000Z 34008KT 15SM OVC014 M05/M08 A3012 RMK SC8 SLP213 CYGV 191000Z AUTO 02017G25KT 9SM SCT060 OVC073 M02/M12 A2963 RMK SLP037 PHSF 190956Z AUTO 13011G23KT 10SM BKN210 12/07 A3040 RMK AO2 SLP178 T01180069 402340050 $ KBVN 191015Z AUTO 22008KT 10SM OVC009 M01/M03 A3015 RMK AO2 T10141035 KCLW 191015Z AUTO 00000KT 10SM CLR 09/08 A3009 RMK AO2 CWZN 190900Z AUTO 22004KT 05/05 RMK AO1 SLP903 T00530051 56026 CYGW 191000Z AUTO 14006KT 7SM -SN OVC014 M14/M16 A3019 RMK SLP223 KBVO 190953Z AUTO 00000KT 10SM OVC006 02/01 A3025 RMK AO2 SLP243 T00170006 EGGW 191020Z 27015KT CAVOK 07/02 Q1014 CWZO 191000Z AUTO 16006KT RMK AO1 CYGX 191000Z 21006KT 1 3/4SM -SN OVC014 M13/M15 A3002 RMK SN2ST6 SLP182 ZSSS 191030Z 32003MPS 200V360 6000 NSC 09/03 Q1025 NOSIG KBWG 190953Z AUTO 36004KT 8SM OVC060 01/M03 A3025 RMK AO2 SLP248 T00111028 KBUY 190954Z AUTO 33005KT 10SM OVC060 06/M06 A3010 RMK AO2 SLP192 T00561056 KDCY 191015Z AUTO 00000KT 7SM CLR M04/M06 A3029 RMK AO2 T10401057 CWYY 191000Z AUTO 14006KT 03/02 RMK AO1 3PAST HR 6013 SLP127 P0001 T00300023 50010 KDEH 191015Z AUTO 00000KT 10SM OVC070 M05/M07 A3025 RMK AO2 EGHQ 191020Z 29018KT 9999 BKN034 08/03 Q1020 CXRH 191000Z AUTO 00000KT 01/01 RMK AO1 9PAST HR SOG 04 M P0004 T00110006 50009 CWZQ 191020Z AUTO 27009KT 03/02 RMK AO1 T00280017 UNNT 191030Z 17005MPS CAVOK M12/M15 Q1037 16810160 25810160 NOSIG RMK QFE767/1023 KBWI 190954Z 29007KT 10SM BKN031 OVC095 01/M05 A3009 RMK AO2 SLP191 T00111050 KCNI 191015Z AUTO 30005KT 10SM CLR 02/00 A3012 RMK AO2 KBVS 191035Z AUTO 13010G17KT 10SM OVC019 09/07 A2978 RMK A01 P000 KBXA 191035Z AUTO 05003KT 10SM VCTS 12/10 A3010 RMK AO2 LTG DSNT W AND NW T01210101 EGJA 191020Z 29016KT 260V330 9999 SCT013 11/10 Q1018 CWZS 191000Z AUTO 33012G21KT M05/M06 RMK AO1 PK WND 32021/0959 SLP070 T10501059 50005 EFSA 191020Z AUTO 12006KT 1200 RASN OVC003 00/00 Q0987 KCNK 190955Z AUTO 20005KT 7SM OVC014 M02/M02 A3021 RMK AO2 SLP243 T10171022 CYIK 182200Z CCA 01012KT 10SM -SN FEW009 BKN016 M13/M17 A3002 RMK SF0SC7 SN TR LOOSE LAST OBS/NEXT 191300UTC SLP172 KBVU 191035Z AUTO 00000KT 10SM CLR 04/03 A3024 RMK AO2 EGJB 191020Z 28016KT 9999 FEW008 SCT028 11/10 Q1019 CXRL 182100Z AUTO M08/M09 RMK AO1 T10821087 UNOO 191030Z 17002MPS 6000 SCT020 M18/M20 Q1031 25820550 NOSIG RMK QFE765 CXSC 191000Z AUTO 19003KT M10/M11 RMK AO1 T10981108 CYHU 191000Z AUTO 32004KT 280V360 9SM OVC023 M03/M07 A2998 RMK SLP154 KCNM 190953Z AUTO 25009KT 10SM CLR 07/02 A3008 RMK AO2 SLP162 T00720017 KCOD 191035Z AUTO 19014G17KT 10SM SCT085 M01/M06 A2998 RMK AO1 CWZV 191000Z AUTO 17018KT 08/05 RMK AO1 1005 PK WND 18022/0928 SLP941 T00830053 50001 KDEN 190953Z 23006KT 4SM BR FEW080 SCT200 M04/M05 A3005 RMK AO2 SLP182 T10391050 KCOE 191035Z AUTO 08004KT 7SM SCT038 OVC050 03/01 A2991 RMK AO1 NZTG 190929Z 05007KT 30KM SCT033 19/17 Q1019 RMK NZAA VATSIM USE ONLY NZSP 190550Z 06012KT 4800 -SG FEW005 SCT040 BKN080 M26/ A2860 RMK CLN AIR 03011KT ALL WNDS GRID SDG/HDF CWZW 191000Z AUTO 09004KT M12/M13 RMK AO1 SOG 19 8017 SLP023 T11171129 CXSE 191000Z AUTO 00000KT M34/M37 RMK AO1 SLP221 T13381373 58003 CYIN 191006Z AUTO 13016G24KT 9SM OVC010 00/M01 A2958 RMK SLP047 KCNO 191024Z 00000KT 5SM BR CLR 07/07 A3023 RMK AO2 T00720067 KCMX 190953Z AUTO 29004KT 10SM OVC017 M11/M13 A3024 RMK AO2 SLP262 T11061128 KBVX 191035Z AUTO 00000KT 5SM OVC007 04/02 A3023 RMK AO1 KCOF 190958Z AUTO 31003KT 10SM CLR 14/11 A3009 RMK AO2 SLP194 T01380114 CYJF 182300Z 22007KT 15SM FEW100 M20/M23 A2978 RMK AC1 -18.8/-20.5/0/44 MEDIUM PACK LAST OB/NEXT191500UTC SLP107 CYIO 191000Z AUTO 15009KT 9SM CLR M31/M35 A3005 RMK SLP188 KBVY 190953Z AUTO 30008KT 10SM OVC049 01/M05 A2986 RMK AO2 SLP108 T00061050 EFRO 191020Z 07005KT 040V110 9999 -SN BKN020 BKN050 M07/M08 Q0986 KCMY 191015Z AUTO 00000KT 10SM OVC013 M04/M07 A3029 RMK AO2 T10421067 KBWP 191015Z AUTO 16007KT 7SM OVC007 M05/M06 A3014 RMK AO1 ZUCK 191000Z 05003MPS 5000 HZ NSC 09/02 Q1023 NOSIG CYHY 191000Z 16003KT 15SM FEW030 M20/M22 A2981 RMK SC1 SLP116 KDEQ 190953Z AUTO 09004KT 5SM BR OVC006 07/06 A3018 RMK AO2 SLP219 T00670061 CYHZ 191000Z 30013G22KT 4SM -SHSN OVC009 M01/M02 A2951 RMK SC8 SLP998 CXSH 191000Z AUTO 33005KT M06/M10 RMK AO1 SLP137 T10611101 53005 CWZZ 191000Z AUTO 34012KT M11/ A2984 RMK SLP149 KDFI 191013Z AUTO VRB04KT 8SM OVC014 M02/M04 A3023 RMK AO2 T10171044 TSNO EFSI 191020Z 13009KT 6000 FEW001 BKN003 01/01 Q0981 EGKA 191020Z 30012KT 9999 FEW007 SCT013 11/07 Q1015 CYKA 191000Z 11010KT 30SM SCT035 OVC075 04/01 A2976 RMK SC4AC4 SLP091 EGJJ 191020Z 30012KT 9999 FEW002 SCT011 BKN018 11/11 Q1019 RERA NOSIG KDET 190953Z 01010KT 10SM OVC022 M02/M07 A3022 RMK AO2 SLP240 T10171067 KBXK 191035Z AUTO 00000KT 10SM 05/05 A3020 RMK AO1 KF70 191015Z AUTO 00000KT 7SM CLR 06/05 A3021 RMK AO1 EGKB 191020Z 30010KT 260V320 9999 SCT020 08/04 Q1015 KCNU 191011Z AUTO 02007KT 3SM BR OVC002 01/01 A3022 RMK AO2 T00060006 EHAK 191025Z AUTO 25039KT 9999 FEW022/// 08/03 Q1000 KCPC 191015Z AUTO 00000KT 10SM CLR 01/00 A3010 RMK AO2 T00100001 CXSL 191000Z AUTO 14001KT M14/M16 RMK AO1 T11441157 KCOM 191015Z AUTO 05008KT 7SM SCT007 BKN021 OVC075 08/07 A3011 RMK AO2 LTG DSNT SE P0001 T00750073 CYKD 190000Z 22003KT 15SM IC OVC025 M17/M19 A2985 RMK SC8 -16.3/-17.2/0.8/34 MUCH LOOSE/LAST OBS/NXT 191400Z SLP110 CXTD 191000Z AUTO 24006KT M00/M00 RMK AO1 SLP984 T10011003 52013 CYIV 191000Z 14005KT 15SM SKC M16/M18 A3010 RMK SLP215 KCON 190951Z AUTO 31009KT 10SM OVC028 M01/M06 A2987 RMK AO2 SLP118 T10111056 KCNW 190455Z 35006KT 7SM OVC011 09/08 A3016 KDEW 190953Z AUTO 00000KT 10SM FEW039 FEW046 OVC060 02/02 A2991 RMK AO2 UPB07E17 SLP143 P0000 T00220017 EHAM 191025Z 28013KT 9999 FEW012 BKN037 09/06 Q1009 BECMG 29017G27KT PHTO 191031Z 24005KT 10SM BKN026 BKN042 OVC050 21/19 A3016 RMK AO2 T02110194 $ CZBF 191000Z 30006KT 7SM -SN OVC020 M02/M05 A2965 RMK SC8 SLP042 KBYG 190953Z AUTO 25007KT 10SM CLR M02/M12 A2998 RMK AO2 SLP166 T10221117 CYKF 191000Z AUTO 32012G17KT 9SM OVC012 M06/M08 A3011 RMK SLP214 KCNY 190953Z AUTO 00000KT 8SM OVC027 M01/M01 A3019 RMK AO2 SLP236 T10061011 KBYH 182150Z 06003KT 10SM SCT016 OVC035 06/02 A3020 CXSP 182000Z AUTO 23003KT M08/M09 RMK AO1 T10821087 KCOQ 191037Z AUTO 20004KT 10SM OVC004 M07/M08 A3021 RMK AO2 CXTH 190000Z AUTO M08/M09 RMK AO1 T10811087 VEPT 190950Z 31003KT 3000 HZ FEW100 23/09 Q1018 NOSIG KBYI 190953Z AUTO 20011KT 10SM OVC095 04/M03 A3010 RMK AO2 SLP192 T00391028 CXSR 191000Z AUTO 12012KT M01/M06 RMK AO1 SOG 30 8015 SLP038 T10081057 KCOS 190954Z 15003KT 10SM BKN016 M02/M05 A3008 RMK AO2 SLP203 T10171050 NZTU 191021Z 01008KT 30KM NSC 17/14 Q1011 RMK NZCH VATSIM USE ONLY CYLA 182200Z 28010G16KT 10SM -SN OVC035 M12/M16 A2989 RMK SC8 SNW CVR/TRACE LOOSE LAST OBS/NXT 191300Z SLP128 CYKJ 191017Z AUTO 26005KT 5SM BR OVC004 M08/M09 A2984 RMK SLP146 KCOT 191028Z AUTO 04009KT 5SM BR OVC006 14/13 A3000 RMK AO2 RAE09 CIG 003V008 P0001 T01440133 KCPK 191015Z AUTO 00000KT 10SM CLR M01/M01 A3011 RMK AO2 KCQB 191015Z AUTO 04006KT 4SM BR OVC004 04/04 A3019 RMK AO2 CYJT 191000Z 28006KT 6SM -RA FEW005 OVC012 02/02 A2933 RMK SF2SC6 SLP932 KCQC 190953Z AUTO 30018KT 10SM CLR M04/M06 A3005 RMK AO2 SLP180 T10391061 EGKK 191020Z 29014KT 9999 FEW025 SCT030 10/06 Q1015 KCOU 191028Z AUTO 08005KT 5SM BR OVC005 00/M01 A3025 RMK AO2 T00001011 EHBK 191025Z AUTO 23021KT 190V260 8000 -RA SCT008 BKN009 BKN011 BKN015CB 11/10 Q1011 TEMPO 5000 CYLC 182100Z 36010KT 15SM SKC M19/M23 A2986 RMK -12.7/-20.1/0.0/3 MUCH LOOSE LASTOB/NXTOB191200Z SLP117 CYKL 191021Z AUTO 35006KT 9SM -SN OVC009 M17/M18 A2994 RMK SLP197 EGLC 191020Z 29012KT 9999 FEW026 SCT040 10/04 Q1014 CYLD 190200Z 32003KT 15SM SKC M16/M18 A3018 RMK LAST OBS/NEXT 19 1000Z SLP264 KDFW 190953Z 00000KT 6SM BR OVC008 08/06 A3018 RMK AO2 PRESRR SLP218 T00780061 KCQF 191015Z AUTO 04007KT 10SM BKN035 BKN041 OVC060 11/07 A3010 RMK AO2 CYKO 182100Z 00000KT 8SM -SN OVC012 M12/M15 A2999 RMK SC8 LAST OB NEXT / 191300 REDUCED PROGRAM SLP159 EGLF 191020Z 32011KT 9999 FEW025 09/05 Q1015 CXTO 191000Z AUTO M04/M06 RMK AO1 SLP208 T10391061 51003 CXTP 191000Z AUTO 14008G18KT 06/06 RMK AO1 SOG 00 6068 PK WND 15018/0957 SLP886 T00630062 50010 CYKP 191000Z AUTO 28007KT 9SM CLR M17/M19 A3027 RMK SLP268 OSDI 191000Z 00000KT 3000 BR 11/08 Q1019 EFTP 191020Z 15004KT 1000 R06/1400U BR VV002 02/02 Q0983 CYKQ 182200Z 23006KT 15SM FEW025 M17/M20 A3022 RMK SC1 LAST OBS/NEXT 191400 UTC SLP235 CYLH 191000Z AUTO 25006KT 9SM CLR M21/M22 A3025 RMK SLP271 KCPR 190953Z AUTO 22012KT 10SM CLR M05/M09 A3004 RMK AO2 SLP208 T10501094 NZWB 190934Z 04014KT 15KM SCT005 OVC006 18/17 Q1016 RMK NZNS VATSIM USE ONLY KBYS 190955Z AUTO 36007KT 10SM CLR 05/02 A3019 RMK AO2 SLP242 T00510024 $ KCPS 190953Z AUTO 05003KT 9SM OVC030 01/M02 A3029 RMK AO2 SLP261 T00061022 TSNO CYLJ 190000Z 26007KT 3SM -SN OVC005 M09/M10 A2989 RMK ST8 SN COV/TRACE LOOSE/LAST OB/NXT191200 UTC SLP158 EFVA 191020Z AUTO 14006KT 5000 RA SCT004/// BKN006/// OVC015/// 01/01 Q0980 R16/29//95 CYMA 191000Z 08004KT 15SM BKN030 M11/M13 A2958 RMK SC7 SLP059 KCPT 191015Z AUTO 33011KT 6SM -RA OVC006 08/08 A3018 RMK AO2 CYLK 190100Z 22007KT 15SM OVC010 M11/M12 A2978 RMK ST8 -7.5/-11.0/0/17 MUCHLOOSE/LAST OBS/NXT 191500Z SLP104 CZDB 191000Z AUTO 29008KT M03/M04 RMK AO1 SOG 00 1021 SLP997 T10311042 50002 ORMM 191000Z 00000KT 7000 HZ NSC 18/09 Q1022 NOSIG NZWD 190955Z 11010KT 9999 FEW020 M09/M12 A2937 RMK SLP944 GRID28010KT SDG/HDG CYLL 191039Z AUTO 13005KT 2 1/4SM BR BKN002 M13/M15 A2985 RMK SLP159 EGMC 191020Z 29013KT 9999 FEW020 09/04 Q1013 EGLL 191020Z 29010KT 9999 FEW044 09/04 Q1015 NOSIG EFTU 191020Z AUTO 21003KT 170V260 1400 R26/1700 BR BKN002/// BKN006/// OVC014/// 04/04 Q0982 R08/29//95 KCQM 191034Z AUTO 19006KT 10SM OVC010 M06/M08 A3018 RMK AO2 EGMD 191020Z 30017KT 9999 FEW007 SCT013 12/10 Q1014 KCRE 190953Z AUTO 00000KT 8SM CLR 02/02 A3009 RMK AO1 SLP189 T00220017 KDGW 190953Z AUTO 01004KT 10SM CLR M09/M12 A3003 RMK AO2 SLP208 T10891122 KDHN 190953Z AUTO 02004KT 10SM OVC044 10/02 A3015 RMK AO2 SLP208 T01000022 $ KCPW 191037Z AUTO 10SM CLR M13/M14 A3007 RMK AO2 KBZN 190956Z AUTO 04007KT 10SM CLR M02/M06 A3000 RMK AO2 SLP192 T10221061 KCRG 190953Z AUTO 00000KT 10SM CLR 08/06 A3009 RMK AO2 SLP189 T00830061 KBYY 191015Z AUTO 04006KT 3SM BR 17/17 A2998 RMK AO2 T01740174 KCRH 182045Z AUTO 19005KT 3SM BR FEW048 SCT085 19/17 A3005 RMK A01 CYKY 191000Z 07004KT 1/8SM FZFG VV002 M13/M15 A2988 RMK FG8 SLP167 ORNI 191000Z 11012KT 8000 FEW040 BKN070 17/06 Q1020 NOSIG CZCP 191038Z AUTO 08022KT 2 3/4SM OVC013 M18/ A2972 CYKZ 191000Z 35010KT 15SM OVC013 M06/M09 A3012 RMK SC8 SLP212 CYMH 191032Z AUTO 01022G28KT 3SM -SN -FZRA BKN009 OVC150 M02/M03 A2959 RMK ICG PRESFR SLP022 NZWK 190929Z 05007KT 30KM SCT033 19/17 Q1019 RMK NZAA VATSIM USE ONLY CZCR 191000Z AUTO 26008KT M03/M04 RMK AO1 SOG 41 2006 SLP055 T10261043 KDIJ 190956Z AUTO 18009KT 6SM -SN BR FEW001 BKN034 OVC049 M02/M04 A3012 RMK AO2 T10161038 OVC V BKN SNE36B53 P0000 SLP198 CYMJ 181833Z 25006KT 12SM BKN008 RMK SC7 LAST OBS/NEXT 191100 UTC CYNA 191001Z AUTO 01018G25KT 6SM -SN OVC041 M03/M06 A2954 RMK SLP005 KCQT 190947Z AUTO 00000KT 10SM CLR 11/08 A3021 RMK AO2 SLP228 T01110078 KDHT 190953Z AUTO 03004KT 4SM BR OVC005 01/M01 A3011 RMK AO2 SLP199 T00061011 KDIK 190956Z AUTO 26007KT 10SM SCT110 M01/M04 A2989 RMK AO2 SLP149 T10111044 CYLT 182000Z 16002KT 10SM SKC M30/M35 A2993 RMK LAST OBS/NXT 191300 UTC SLP142 CXWB 191000Z AUTO 12003KT M23/M26 RMK AO1 T12311260 EFUT 191020Z AUTO 14006KT 3600 -RA VV002 00/00 Q0985 CYNC 182100Z 22003KT 15SM BKN020 BKN040 M13/M15 A3017 RMK SC5SC2 LAST OBS/NEXT 191400 UTC SLP220 EGNC 181920Z 24010KT 9999 VCSH FEW009 SCT016 SCT029 08/08 Q0999 NZWN 191030Z AUTO 36021KT 9999 BKN012/// 17/15 Q1016 NOSIG TXKF 190955Z 27008KT 9999 FEW023 SCT050 SCT300 19/15 Q1015  EHDL 191025Z AUTO 30010KT 6000 SHRA FEW015TCU OVC019 08/07 Q1009 REDZ WHT CYND 190200Z 30006KT 15SM -SN OVC019 M04/M06 A3000 RMK SC8 LAST OBS/NEXT 191200 UTC SLP162 CXVM 191000Z AUTO 13003KT M15/M16 RMK AO1 T11491163 KCQW 191035Z AUTO 00000KT 10SM CLR 00/00 A3012 RMK AO2 CYMM 191033Z AUTO 11003KT 3SM BR BKN002 BKN230 M15/M16 A2986 RMK SLP143 NZWP 190929Z 05007KT 30KM SCT033 19/17 Q1019 RMK NZAA VATSIM USE ONLY CXVN 191000Z AUTO 33006KT M02/M07 RMK AO1 SLP202 T10241073 50003 CYNE 191029Z AUTO 18005KT 9SM -SN OVC013 M13/M15 A3004 RMK SLP197 CYLW 191029Z AUTO 35004KT 4SM UP BR OVC015 01/01 A2984 RMK PCPN 0.5MM PAST HR SLP120 KCQX 191025Z AUTO 26005KT 10SM BKN029 OVC034 02/M02 A2987 RMK AO2 T00171022 CYMO 191000Z AUTO 29006KT 9SM CLR M21/M23 A3026 RMK SLP249 KCSG 190951Z AUTO 00000KT 10SM CLR 04/01 A3014 RMK AO2 SLP205 T00440011 KCRP 191029Z 14003KT 9SM FEW008 SCT025 OVC100 20/19 A2994 RMK AO2 LTG DSNT W CB DSNT W T02000189 NZWR 190929Z 05007KT 30KM SCT033 19/17 Q1019 RMK NZAA VATSIM USE ONLY KCRQ 190953Z AUTO 00000KT 10SM CLR 11/08 A3019 RMK AO2 SLP222 T01060078 TSNO NZWS 190934Z 04014KT 15KM SCT005 OVC006 18/17 Q1016 RMK NZNS VATSIM USE ONLY EGNH 191020Z 27024G34KT 9999 VCSH FEW044 08/03 Q1011 EHEH 191025Z AUTO 23018KT 7000 RA FEW007 SCT008 BKN010 11/10 Q1009 GRN 25019G30KT 4500 DZRA FEW007 SCT009 OVC011 TEMPO 3000 SCT006 BKN008 EFVR 191020Z AUTO 13007KT 2600 -RA BR OVC001 00/00 Q0986 KCRS 190953Z AUTO 01009KT 3SM -RA BR OVC006 09/07 A3013 RMK AO2 RAB03 SLP202 P0000 T00890072 NZWU 190823Z 24007KT 30KM BKN014 17/14 Q1017 RMK NZPM VATSIM USE ONLY CZFA 182300Z 17003KT 110V180 30SM FEW022 FEW060 FEW120 M21/M23 A2970 RMK SC1SC1AC1 SC TR SC TR AC TR ALL CLDS TR CLIMAT -20.2/-22.3/0.0 LAST STFD OBS/NEXT 191500UTC SLP133 CYOA 190000Z 16013KT 10SM -SN DRSN OVC004 M14/M16 A2965 RMK ST8 -14.3/-17.6/TR/48 TRACE LOOSE LAST OB/NEXT 191200Z SLP093 EGNJ 191020Z 25014KT 9999 SCT031 08/03 Q1009 KCTB 190956Z AUTO 26006KT 10SM CLR M03/M07 A2985 RMK AO2 SLP137 T10331067 KDKB 191015Z AUTO 32003KT 10SM OVC025 M04/M06 A3027 RMK AO2 T10411064 CYMT 190000Z 33009KT 15SM SKC M12/M14 A2995 RMK LAST OBS/NEXT 191100 UTC SLP172 CYMU 182200Z 24008KT 14SM -SN BKN025 M11/M13 A3007 RMK SC5 LAST OBS/ NEXT 191300Z SLP190 CYOC 190200Z 06007KT 15SM -SN BKN019 OVC030 M16/M20 A2975 RMK ST7SC1 CLIMAT -16.2/-20.8/TR CM/TR MWE/LAST OBS/NEXT 191400 UTC SLP104 CZEL 191000Z AUTO 35010KT M06/M08 RMK AO1 SLP211 T10551083 51004 KCSM 191030Z AUTO 03006KT 1/2SM FG OVC002 03/02 A3018 RMK AO2 T00330022 CZEM 182100Z 11002KT 12SM OVC015 M13/M16 A3019 RMK SC8 LAST OBS/NEXT 191400 UTC SLP225 CXWM 191000Z AUTO 22012KT M03/M06 RMK AO1 T10301063 CYOD 191000Z 17002KT 1/2SM R31R/1800FT/U FZFG OVC002 M11/M11 A2989 RMK ST8 FROIN SLP161 EGNM 191020Z 27019G29KT 230V310 9999 FEW018CB 05/02 Q1008 CYNM 191039Z AUTO 31003KT 2 1/2SM BR OVC003 M19/M21 A3016 RMK VIS VRB 1 1/2-3 ICG INTMT SLP244 KCRW 190954Z 00000KT 10SM SCT026 BKN060 M02/M06 A3021 RMK AO2 SLP239 T10221056 $ EHDV 191025Z AUTO 27025G36KT 220V360 9999 FEW029/// SCT035/// BKN046/// 08/04 Q1005 CXVW 190900Z AUTO 17012KT M07/M08 RMK AO1 T10711075 CXWN 191000Z AUTO 21002KT M06/M07 RMK AO1 SLP204 T10621073 58009 KCRX 191035Z AUTO 04004KT 10SM OVC038 05/02 A3019 RMK AO2 EGNO 191020Z 28020KT 9999 FEW020 08/03 Q1011 CYMX 191000Z 33005KT 25SM OVC020 M05/M08 A3000 RMK SC8 SLP162 KEBG 191035Z AUTO 25003KT 7SM OVC009 19/17 A2995 RMK AO2 T01850170 KCSQ 191015Z AUTO 18004KT 6SM BR SCT015 BKN031 OVC040 M02/M02 A3024 RMK AO2 UNTT 191030Z 22005MPS 9999 FEW040 OVC066 M09/M11 Q1033 NOSIG RMK QFE760 21420050 KEAR 191035Z 18008KT 5SM OVC005 M02/M03 A3013 RMK AO1 EGNR 191020Z 28015G28KT 260V320 9999 SCT046 08/03 Q1013 KCTJ 191015Z AUTO 35006KT 10SM CLR 02/01 A3016 RMK AO2 CYPA 191032Z 28005KT 270V330 15SM OVC004 M08/M08 A2993 RMK ST8 SLP167 CYOJ 191000Z AUTO 00000KT 9SM OVC035 M14/M15 A2977 RMK SLP114 EGPA 191020Z 29022KT 4500 -SHRAGS FEW008 SCT018CB SCT025 06/02 Q0989 EGNS 191020Z 27018G28KT 240V300 9999 FEW025 BKN030 08/03 Q1010 NOSIG KEAT 191006Z AUTO 00000KT 4SM -RA BR BKN004 OVC012 03/02 A2987 RMK AO2 CIG 003V008 P0000 T00280017 KCUB 190953Z AUTO 00000KT 10SM CLR 04/02 A3010 RMK AO2 SLP191 T00390022 KDKK 190953Z AUTO 31008KT 10SM OVC010 M02/M04 A3012 RMK AO2 SLP208 T10221044 EGNT 191020Z 26020KT 9999 VCSH FEW015 05/02 Q1004 EGPB 191020Z 28021KT 9999 VCSH FEW015 FEW018CB SCT026 05/01 Q0985 TEMPO SHRA KEAU 190956Z AUTO 26004KT 10SM OVC011 M04/M08 A3026 RMK AO2 SLP263 T10441078 CYPC 190000Z 26005KT 6SM -SN OVC032 M15/M18 A2971 RMK SC8 -11.5/-15.0/3.2/27 MUCH LOOSE LAST OB/NEXT 191400Z SLP062 ZUGY 191000Z 04001MPS CAVOK 06/01 Q1023 NOSIG EGPC 191020Z 27022G32KT 9999 -SHRA FEW012CB FEW028 03/M00 Q0992 KCSV 191021Z AUTO 02003KT 4SM BR SCT004 M01/M03 A3016 RMK AO2 T10061028 CZFM 190000Z 13003KT 15SM -SN OVC080 M18/M20 A2984 RMK AC8 -17.5/-19.9/TR/53 MUCH LOOSE LAST OBS/NXT 191400Z SLP111 EGNV 191020Z 26023KT 9999 FEW025 07/00 Q1006 CZEV 191000Z AUTO 24001KT M17/M19 RMK AO1 SOG 24 3001 SLP102 T11701189 EGOM 190950Z AUTO 25021G31KT 9999 UP FEW016/// SCT019/// 03/02 Q1004 CYPD 191000Z AUTO 27009KT 9SM OVC011 00/M01 A2943 RMK SLP971 EGPD 191020Z 26012KT CAVOK 04/M01 Q0997 NOSIG CZFN 190000Z 25005KT 25SM BKN030 M16/M19 A2980 RMK SC7 SLP105 EGPE 191020Z 25010KT 9999 6000N VCSH SCT010CB SCT030 03/01 Q0998 CYPE 191000Z 34003KT 15SM SKC M16/M18 A2969 RMK SLP102 KDLF 191033Z 12002KT 2 1/2SM R31/3500FT BR SCT003 OVC008 16/15 A3001 RMK AO2A CIG 003V008 $ CYOO 191000Z AUTO 34009KT 9SM OVC014 M06/M08 A3013 RMK SLP209 EGPF 191020Z AUTO 26014KT 9999 FEW033 05/01 Q1003 EGNX 191020Z 24021KT CAVOK 07/02 Q1012 KECG 190954Z AUTO 35006KT 10SM CLR 04/M01 A3010 RMK AO2 SLP192 T00441006 TSNO CYPG 182300Z 13010KT 15SM BKN057 OVC075 M08/M10 A3013 RMK SC6AC2 LAST OBS/NEXT 191200 UTC SLP228 EGOP 190950Z AUTO 29014KT 9999 // FEW033/// BKN042/// 08/04 Q1017 EHGG 191025Z AUTO 27014KT 230V300 9999 NSC 08/06 Q1006 NOSIG KDLH 190955Z 21007KT 6SM -SN BR OVC004 M07/M08 A3020 RMK AO2 SNB02 SLP256 P0000 T10671083 KCUH 191015Z AUTO 01004KT 5SM BR OVC006 02/02 A3020 RMK AO2 CXYH 191000Z AUTO 33003KT M18/M20 RMK AO1 SOG 34 8004 SLP076 T11841198 EGPH 191020Z 26010KT 9999 -SHRA FEW013TCU SCT021 04/02 Q1003 RESHRA CYPH 191000Z AUTO 09003KT 020V170 9SM -SN BKN017 M18/M20 A3013 RMK SLP205 KDKR 191015Z AUTO 04008KT -DZ 11/11 A3006 RMK AO2 LTG DSNT SW AND W P0001 KDMA 190958Z AUTO 15004KT 10SM CLR 04/03 A3016 RMK AO2 SLP205 T00370029 $ KEBS 191015Z AUTO 15005KT 9SM BKN012 OVC024 M03/M04 A3022 RMK AO2 EGPI 191020Z 29027G38KT 9000 VCSH FEW016 SCT030 05/02 Q1005 EGQA 190850Z 24018KT 9999 SCT008 SCT026CB 04/// Q0994 RESHRA RESN GRN CZFS 191000Z AUTO 13001KT M27/M30 RMK AO1 SOG 15 2004 SLP114 T12741302 EGOS 190950Z AUTO 26012KT 9999 FEW050/// 06/02 Q1013 CYQA 191034Z AUTO 30006KT 9SM -SN BKN050 OVC085 M10/M12 A3011 RMK SLP216 EHFS 191025Z AUTO 29008KT 270V330 9999 OVC031/// 09/07 Q1012 REDZ KCVB 191015Z AUTO 04004KT 10SM OVC009 13/12 A3004 RMK AO2 LTG DSNT NE AND E T01250115 CYQB 191000Z 32005KT 270V350 15SM FEW078 FEW240 M06/M10 A2988 RMK AC1CI1 CI TR SLP122 EGPK 191020Z 29029G40KT 9999 -RA FEW010 FEW012CB SCT021 06/02 Q1005 KCUL 191035Z AUTO 01006KT 10SM OVC046 00/M02 A3028 RMK AO2 T00031016 KCVC 191035Z AUTO 00000KT 10SM CLR 04/01 A3010 RMK AO2 KEDC 191015Z AUTO 01011KT 3SM -RA OVC006 09/09 A3006 RMK AO2 P0004 KDLL 191010Z AUTO 00000KT 10SM OVC013 M04/M07 A3027 RMK AO2 T10411066 CYPL 190200Z 21009KT 15SM FEW230 M14/M18 A3021 RMK CI1 LAST OBS/NEXT 191100Z SLP273 CXZC 191000Z AUTO 27003KT M20/M22 RMK AO1 SOG 47 1006 SLP247 T11951222 EGPL 191020Z 29029G39KT 9999 VCSH FEW012CB SCT028 04/02 Q0999 CYQD 191000Z 14007KT 12SM OVC012 M09/M10 A2997 RMK SC8 SLP171 EGPM 191020Z 27025G35KT 9999 VCSH SCT018 SCT027 05/01 Q0982 TEMPO SHRA VGEG 191050Z 36006KT 4000 HZ NSC 26/14 Q1014 NOSIG KDLN 190953Z AUTO 18005KT 10SM BKN050 OVC070 M03/M07 A3001 RMK AO2 SLP192 T10281067 EGOV 190950Z 27020KT 9999 FEW028 08/02 Q1014 BLU NOSIG KEDE 191035Z AUTO 36003KT 10SM M01/M01 A3010 RMK AO2 T10061015 EGOW 181250Z 24012KT 9999 FEW025 BKN220 07/04 Q0989 BLU NOSIG EGPN 191020Z 24018KT 9999 FEW032 04/02 Q1000 CYOW 191000Z 31011KT 15SM FEW015 OVC050 M06/M09 A3004 RMK SC1SC7 SLP179 KECP 190953Z AUTO 31003KT 10SM CLR 07/05 A3011 RMK AO2 SLP208 T00720050 $ KCVG 191012Z 33005KT 6SM HZ BKN015 M04/M07 A3024 RMK AO2 KCTY 190953Z AUTO 00000KT 07/06 A3010 RMK AO1 SLP191 T00670056 EGPO 191020Z 26017KT 9999 7000N -SHRA FEW010 SCT016CB 03/00 Q0996 RESHRA RESHSN CYQF 191000Z 17004KT 12SM FEW002 SCT240 M10/M11 A2974 RMK ST1CI3 SLP125 KDLP 191035Z AUTO 12017KT 10SM FEW041 OVC100 19/15 A3002 RMK A01 CYQG 191000Z 36007KT 15SM OVC026 M03/M06 A3021 RMK SC8 SLP238 CYOY 191000Z AUTO 35002KT 9SM CLR M07/M10 A2986 RMK SLP123 KCVH 191030Z AUTO 00000KT 10SM CLR 09/09 A3021 RMK AO1 KDMH 190954Z AUTO 02/M05 A3009 RMK AO1 SLP190 T00171050 KCTZ 191015Z AUTO 00000KT 10SM OVC075 03/03 A3012 RMK AO2 T00320027 CYPQ 191000Z AUTO 31005KT 9SM BKN020 M08/M10 A3010 RMK SLP207 CYQH 191000Z VRB02KT 20SM OVC014 M21/M23 A2963 RMK ST8 SLP106 EHFZ 191025Z AUTO 26025KT 9999 FEW028/// SCT037/// BKN044/// 09/03 Q1005 CYQI 191000Z 32012G20KT 3SM -SHSN OVC012 00/M01 A2969 RMK SF8 SLP055 CYPR 191037Z AUTO 14005KT 5SM RA BR OVC038 04/04 A2940 RMK SLP956 KDLS 190953Z AUTO 19003KT 7SM FEW060 FEW075 SCT120 04/03 A2992 RMK AO2 RAB17E34 SLP132 P0001 T00440033 KEDJ 191030Z AUTO 00000KT 8SM FEW011 OVC020 M04/M05 A3022 RMK AO1 EHGR 191025Z AUTO 30014KT 6000 -RA FEW005 BKN007 BKN009 FEW015TCU 10/09 Q1010 RERA GRN 23015G30KT 4500 -RA SCT007 OVC012 TEMPO 3000 SHRA SCT005 BKN008 SCT015CB KCWA 191035Z AUTO 00000KT 10SM CLR M08/M08 A3026 RMK AO2 KECS 191035Z AUTO 09005KT 10SM CLR M08/M08 A3002 RMK AO2 CYRA 190100Z 13003KT 10SM -SN FEW009 SCT025 M20/M23 A2975 RMK ST2SC1 -15.7/-20.3/0.4/23.0 MUCH LOOSE CIG LWR SE LAST OB/NXT 191500Z SLP103 KCUT 190953Z AUTO 33004KT 10SM CLR M07/M11 A2996 RMK AO2 SLP178 T10671106 EGQK 190950Z AUTO 24016KT 9999 FEW013/// SCT019/// 03/01 Q0996 RERA CYRB 191000Z 13006KT 070V160 15SM IC SKC M31/M35 A3011 RMK SLP208 CYQK 191000Z 17007KT 15SM BKN009 OVC085 M08/M10 A3014 RMK SC7AC1 SLP237 KECU 191010Z AUTO 05006KT 2 1/2SM BR OVC003 12/12 A3006 RMK AO2 KCWC 191035Z AUTO 09005KT 7SM OVC004 07/06 A3019 RMK AO2 LTG DSNT SE T00650063 CYQL 191000Z AUTO 22012KT 9SM CLR M02/M05 A2981 RMK SLP129 EGQL 190950Z 26016KT 9999 FEW040 03/00 Q1000 BLU KEED 190956Z AUTO 24004KT 10SM CLR 08/04 A3021 RMK AO2 SLP218 T00830044 EGPU 191020Z AUTO 28029KT 360V060 //// // ///////// 06/01 Q//// CYQM 191000Z 29009KT 4SM -SN BKN009 OVC012 M02/M03 A2958 RMK SF7SC1 /S01/ SLP019 KDMN 191029Z AUTO 21007KT 1SM BR VV001 M01/M01 A3017 RMK AO2 T10111011 KCVN 191035Z 14008KT 7SM OVC003 02/01 A3008 RMK AO1 EGQM 190950Z AUTO 25021KT 9999 NCD 05/00 Q1002 RERA KEDN 191035Z AUTO 00000KT 10SM SCT039 OVC049 10/02 A3013 RMK AO2 CYPW 190300Z 10013G22KT 8SM -RA FEW008 BKN018 OVC030 07/07 A2959 RMK SF2SC4SC2 LAST OBS/NEXT 191500 UTC PRESFR SLP022 KDMO 191024Z AUTO 08004KT 4SM BR OVC002 01/00 A3025 RMK AO2 T00060000 KCVO 191035Z AUTO 00000KT 10SM SCT035 BKN045 OVC110 08/06 A2994 RMK AO1 KCWF 190915Z AUTO 35009KT 10SM -RA OVC004 12/11 A3007 RMK AO2 P0002 T01200115 CYPX 191023Z AUTO 12010KT 9SM OVC014 M13/M15 A3016 RMK SLP215 CYPY 191002Z AUTO 05006KT 6SM BR CLR M19/M20 A2987 RMK SLP137 KDLZ 191041Z AUTO 28005KT 7SM OVC023 M03/M05 A3022 RMK AO2 CYQQ 191000Z 15015KT 20SM FEW010 BKN050 08/07 A2964 RMK SF2SC6 SLP039 KCWI 191035Z AUTO 36004KT 8SM CLR M10/M12 A3031 RMK AO1 CYQR 191000Z 25004KT 3/8SM R13/3500FT/D FZFG VV002 M05/M05 A2990 RMK FG8 FROIN SLP159 KCVS 190958Z 14006KT 4SM BR OVC003 02/01 A3009 RMK AO2A SLP178 T00200011 $ CYRJ 191000Z 31011KT 25SM BKN080 M11/M15 A2997 RMK AS5 SLP163 EGQS 190950Z AUTO 24017KT 9999 // NCD 02/01 Q0996 EHJA 191025Z AUTO 25036KT 9999 FEW027/// 09/03 Q1006 CYSB 191000Z 35006KT 15SM FEW120 M16/M18 A3015 RMK AC1 SLP240 OTBD 191030Z 35006KT 250V040 9999 FEW025 23/13 Q1022 NOSIG CYQT 191000Z 26004KT 15SM SKC M18/M20 A3032 RMK SLP286 KDNL 190953Z AUTO 33006KT 10SM CLR 08/02 A3008 RMK AO2 SLP184 T00780022 KEDU 191035Z AUTO 15006KT 1/2SM OVC036 10/09 A3016 RMK AO1 KEFD 190850Z 01007KT 3SM -RA BR OVC005 15/15 A3004 CYRL 191000Z 19005KT 12SM -SN OVC007 M10/M11 A3015 RMK ST8 FROIN SLP242 EGSC 191020Z 25010KT 9999 FEW024 08/03 Q1013 CXZU 191000Z AUTO M14/M16 RMK AO1 SLP109 T11411157 57016 CYQU 191000Z 30005KT 15SM FEW120 BKN210 M14/M16 A2963 RMK AC1CI4 SLP083 CYSC 191000Z AUTO 30011G18KT 9SM OVC014 M05/M07 A2989 RMK SLP135 CYSD 182300Z 00000KT 20SM FEW140 FEW250 M07/M08 A2984 RMK AC1CI0 SLP151 EGSD 191020Z 26013KT CAVOK 08/04 Q1011 CXZV 191000Z AUTO 01006KT M03/M20 RMK AO1 SOG 14 3008 PK WND 03018/0933 SLP080 T10331195 CYQV 191000Z AUTO 14004KT 4SM BR OVC007 M06/M07 A2992 RMK SLP166 KDMW 191030Z AUTO 29007KT 10SM OVC026 00/M05 A3006 RMK AO2 KCWN 190956Z AUTO 17004KT 10SM CLR M03/M04 A3004 RMK AO2 SLP196 T10311040 KEEN 191035Z AUTO 32005KT 10SM OVC023 00/M05 A2990 RMK AO1 KCVW 191035Z AUTO 03018KT 7SM BKN004 OVC010 13/12 A3008 RMK A01 KEDW 190958Z AUTO 22002KT 10SM CLR 02/02 A3022 RMK AO2 SLP238 T00240023 KCXE 191015Z AUTO 00000KT 10SM CLR M01/M02 A3010 RMK AO1 T10111018 KDNN 191015Z AUTO 00000KT 10SM CLR 01/01 A3016 RMK AO2 KEEO 191037Z AUTO 00000KT 1 1/4SM -SN BR SCT011 OVC026 M06/M08 A3018 RMK AO2 SNB01 P0001 T10611083 $ CYQW 191021Z AUTO VRB02KT 1/4SM FZFG VV002 M09/M10 A2992 RMK ICG PAST HR PRESFR SLP171 KCVX 191035Z AUTO 00000KT 10SM CLR M11/M12 A3027 RMK AO2 T11151123 CYQX 191010Z 07009KT 1 1/4SM -RA BR BKN003 OVC008 03/03 A2920 RMK FG4SF1SF3 PRESFR SLP893 CYSF 191000Z AUTO 26006KT 230V290 9SM OVC011 M07/M08 A2986 RMK SLP131 CZHY 191000Z AUTO 18001KT M21/M23 RMK AO1 SOG 21 1001 SLP105 T12051230 CYQY 191000Z 23007KT 15SM FEW010 FEW075 SCT170 00/M01 A2941 RMK SF1AC1AC1 SLP961 CYRQ 191000Z AUTO 32004KT 270V350 9SM FEW021 M07/M08 A2995 RMK SLP144 EGSH 191020Z 26011KT CAVOK 07/03 Q1011 NOSIG CYQZ 191000Z AUTO 19004KT 9SM BKN043 BKN120 OVC190 02/01 A2955 RMK SLP030 KDPA 190952Z 28004KT 10SM OVC028 M03/M06 A3027 RMK AO2 SLP260 T10281061 KDNS 191035Z AUTO 19005KT 4SM BR OVC007 M01/M01 A3019 RMK AO2 OSKL 181200Z 08006KT 6000 SCT026 OVC100 12/07 Q1021 CYSJ 191000Z 32018KT 20SM SCT015 OVC040 M03/M05 A2965 RMK SC3SC5 SLP044 KEET 190953Z AUTO 00000KT 6SM BR CLR 02/01 A3016 RMK AO2 SLP215 T00220011 KEFK 191015Z AUTO 31008KT 7SM OVC010 M04/M06 A2991 RMK AO2 T10451056 CYSK 182300Z 23009KT 8SM -SN OVC014 M13/M14 A3007 RMK SC8 -12.5/-16.5/M/M SNOW COVER/ONE LOOSE LAST OBS/NEXT 191300UTC SLP185 CYRT 191000Z 14014KT 10SM -SN DRSN OVC011 M14/M16 A2993 RMK SC8 SLP141 EGTC 191020Z 25009KT CAVOK 08/03 Q1013 KDNV 191035Z AUTO 31004KT 7SM CLR M07/M08 A3026 RMK AO2 T10731084 KCWV 191015Z AUTO 00000KT 7SM CLR 03/03 A3010 RMK AO2 CZKD 191000Z AUTO 21004KT M13/M14 RMK AO1 SOG 35 4000 SLP171 T11271141 CYSM 191000Z 15005KT 15SM FEW003 M18/M20 A2986 RMK SF2 SLP133 CYRV 191000Z AUTO VRB02KT 1 1/4SM -SN FEW004 OVC012 M01/M01 A2991 RMK PCPN 0.8MM PAST HR SLP147 KEGE 191035Z AUTO 00000KT 10SM SCT019 OVC065 M06/M06 A3020 RMK AO1 EHKD 191025Z AUTO 28016KT 9999 FEW027 SCT031 BKN037 09/05 Q1008 BLU 30018KT FEW020 SCT025 BECMG 29022G32KT CYSN 190200Z 32008G17KT 15SM OVC018 M01/M04 A3010 RMK SC8 LAST STFD OBS/NEXT 19 1200UTC SLP196 EGTE 191020Z 29009KT 9999 SCT036 09/05 Q1018 CYTE 191000Z AUTO 27004KT 9SM CLR M22/M25 A3013 RMK SLP209 KCXO 191034Z AUTO 08006KT 10SM VCTS -RA OVC006 12/12 A3002 RMK AO2 LTG DSNT SE-W CIG 003V008 P0009 T01220117 KCXP 191035Z AUTO 00000KT 10SM CLR M02/M04 A3012 RMK AO2 CYSP 182200Z 05002KT 15SM FEW250 M09/M12 A3025 RMK CI1 TR CI W LAST OBS/NEXT 191300UTC SLP273 CYTH 191000Z VRB02KT 8SM -SN OVC024 M13/M15 A2998 RMK SC8 SLP177 KEGI 191003Z AUTO 02005KT 10SM BKN028 OVC033 11/05 A3012 RMK AO2 $ EHJR 191025Z AUTO 26031G35KT //// ///////// 09/03 Q1008 W10/H24 OSLK 191000Z VRB03KT 9999 FEW026CB SCT030 18/14 Q1017 KEHA 191028Z AUTO 22003KT 00/M03 RMK AO1 PK WND 05 000 T00001027 CYUA 191000Z AUTO 29007KT 9SM OVC033 M17/ A2980 RMK SLP101 EGSS 191020Z 29009KT 250V310 CAVOK 08/03 Q1013 KEFT 191015Z AUTO 25003KT 10SM OVC010 M03/M05 A3026 RMK AO2 EGTK 191020Z 27012KT 9999 FEW047 08/04 Q1014 CYUB 190600Z CCA 31007KT 6SM -SN OVC040 M15/M19 A2977 RMK SC8 -13.8/-17.7/0.6/12 ONE LOOSE LAST OBS/NXT 191400UTC SLP083 EGUB 190950Z 27008KT 9999 FEW030 08/02 Q1015 BLU NOSIG KEHC 191035Z AUTO 19013KT 10SM CLR 25/19 A2998 RMK A01 KDPL 191035Z AUTO 00000KT 10SM OVC075 02/02 A3012 RMK AO2 T00170015 CYTL 191000Z AUTO 22005KT 9SM CLR M19/M20 A3017 RMK SLP243 KDOV 190958Z AUTO 27007KT 10SM OVC035 02/M03 A3005 RMK AO2 SLP179 T00181035 KCXY 190956Z AUTO 28010KT 10SM OVC028 01/M04 A3007 RMK AO2 SLP186 T00111044 CYSY 190000Z 10021KT 1SM BLSN OVC020 M19/M21 A2984 RMK ST8 0.2/7.4/ MED PACK 1 LOOSE LAST OBS/NEXT 191400Z SLP117 KDQH 191035Z AUTO 00000KT 10SM BKN065 OVC070 08/04 A3012 RMK AO2 VGHS 190950Z 00000KT 4000 HZ NSC 25/14 Q1015 NOSIG CYTQ 182200Z 27015KT 10SM BKN030 M13/M18 A2993 RMK SC6 LAST OBS/NXT 191300Z SLP139 KDRA 190752Z AUTO 00000KT 10SM CLR 02/01 A3022 RMK AO2 SLP226 T00220006 401170017 $ CYTR 191000Z 32010KT 15SM BKN021 M06/M09 A3011 RMK SC7 SLP201 KCYS 190953Z AUTO 21008KT 10SM CLR M06/M12 A3003 RMK AO2 SLP194 T10561117 EGVA 190958Z AUTO 26011KT 9999 CLR 07/04 A2996 RMK AO2 SLP150 T00720035 EHMA 191025Z AUTO 29018KT 9999 FEW027/// SCT036/// BKN044/// 09/04 Q1005 CYTS 191000Z 29004KT 6SM M19/M21 A3020 RMK SLP258 EICK 191030Z 26011KT 9999 FEW021 06/03 Q1019 NOSIG CYVC 191000Z 27003KT 220V290 15SM OVC008 M09/M09 A2993 RMK SC8 SLP164 CYUL 191000Z 29008KT 15SM FEW010 BKN027 M04/M07 A2999 RMK SF1SC7 SF TR SLP157 EGUL 190958Z AUTO 27013KT 9999 CLR 08/08 A2987 RMK AO2 SLP118 T00770077 KEGV 191015Z AUTO 00000KT 7SM CLR M17/M20 A3022 RMK AO2 T11711197 CZMD 191000Z AUTO 21003KT 9SM CLR M19/M21 A3015 RMK SLP241 EHKV 191025Z AUTO 28031KT 250V330 9999 NSC 09/03 Q1007 EGUN 190958Z AUTO 28012KT 9999 CLR 08/04 A2989 RMK AO2 SLP125 T00750041 $ KEHO 191015Z AUTO 01005KT 10SM CLR 02/M02 A3010 RMK AO2 T00201023 EGUO 190950Z 29010KT 9999 SCT020 07/04 Q1017 WHT EHMG 191025Z AUTO 27026KT 9999 FEW022/// SCT026/// BKN030/// 09/03 Q1005 CYTZ 191000Z AUTO 33009KT 9SM OVC015 M04/M06 A3015 RMK SLP213 KEHR 191035Z AUTO 02007KT 10SM OVC048 M01/M05 A3027 RMK AO1 KDRI 191035Z AUTO 00000KT 5SM RA OVC007 12/11 A3013 RMK AO2 LTG DSNT E AND SE P0010 T01150107 CZMJ 191000Z AUTO 30005KT M08/M09 RMK AO1 SOG 00 1005 SLP169 T10781089 CYUS 191000Z AUTO 12006KT 9SM CLR M29/ A3007 RMK SLP192 CYWA 191034Z AUTO 30006KT 9SM FEW017 M10/M12 A3011 KEIK 191035Z AUTO 00000KT 7SM M07/M08 A3005 RMK AO2 T10671076 KCZT 191035Z AUTO 06003KT 1 1/2SM DZ OVC002 14/14 A2999 RMK AO2 LTG DSNT NE P0001 CYUT 182300Z 31008KT 10SM IC FEW080 M28/M31 A3019 RMK AS2 FROIN -26.34/-28.2/0.2/4 MUCH LOOSE LAST OB/NEXT 191300Z SLP227 EIDL 191000Z 29017KT 9000 SCT029 07/03 Q1010 CYVL 191000Z AUTO 23004KT 9SM -SN OVC018 M19/M21 A2972 RMK SLP099 KDRM 191035Z AUTO 00000KT 10SM CLR M13/M14 A3023 RMK AO2 T11281137 CYVM 191000Z AUTO 00000KT 3SM -SN OVC030 M21/M24 A3000 RMK SLP161 EGUW 190950Z 29015KT 9999 FEW022 BKN250 08/04 Q1012 BLU NOSIG CYWE 191034Z AUTO 20003KT 1/2SM FZFG OVC004 M17/M19 A2974 RMK SLP112 KDRO 191026Z AUTO 07003KT 10SM BKN008 M07/M08 A3015 RMK AO2 T10671078 EGVN 190950Z 27005KT 9999 FEW040 08/02 Q1014 BLU NOSIG EHLW 191025Z AUTO 28014KT 9999 FEW026 08/05 Q1006 BLU KFAF 190958Z AUTO 01003KT 10SM CLR 01/M03 A3009 RMK AO2 SLP193 T00081026 $ CYVO 191008Z AUTO 33007KT 9SM SCT008 M19/M21 A3012 RMK SLP235 CYUX 191000Z AUTO 32011KT 9SM CLR M31/M34 A3012 RMK SLP202 EGVO 190950Z 28014KT 9999 BKN027 09/03 Q1014 BLU KEHY 191035Z AUTO 10SM CLR M04/M07 A3003 RMK AO2 EGUY 190950Z 26012KT CAVOK 07/01 Q1012 BLU CYWG 191000Z 17011KT 2SM -FZDZ BR OVC005 M07/M08 A3010 RMK ST8 CIG RAG SLP210 EGVP 190950Z 29015KT 9999 FEW015 08/04 Q1015 BLU CYUY 191000Z 33003KT 15SM OVC005 M18/M19 A3017 RMK SF8 FROIN SLP245 CYVP 191000Z 33006KT 15SM -SN OVC025 M12/M15 A3014 RMK SC8 SLP212 KCZZ 190952Z AUTO 07003KT 02/01 A3017 RMK AO1 SLP209 T00170006 CYVQ 191000Z 00000KT 20SM BKN030 OVC090 M16/M18 A2984 RMK SC5AC3 SLP113 CYWH 190500Z 15012G27KT 15SM -RA FEW010 SCT025 OVC060 10/07 A2963 RMK SF2SC2SC4 LAST OBS/NEXT 191400 UTC SLP034 KEIR 191035Z AUTO VRB04KT 10SM BKN120 20/19 A3002 RMK A01 CYVR 191000Z 11004KT 15SM BKN027 BKN050 OVC085 08/07 A2976 RMK SC5SC2AC1 SLP076 KDTA 191015Z AUTO 07003KT 10SM CLR M02/M05 A3020 RMK AO1 T10251046 CYWJ 190000Z 28006KT 5SM -SN FEW015 BKN035 BKN080 M16/M18 A2973 RMK SC2SC4AC1 -15.9/-19.9/0/33 MUCH LOOSE LAST OB/NXT191400UTC SLP094 KDRT 190953Z AUTO 30006KT 10SM OVC020 16/13 A3001 RMK AO2 SLP153 T01560133 CYVT 190400Z 20005KT 15SM SCT011 M12/M13 A2984 RMK SC3 SN COV/MEDIUM PACK LAST STFD OBS/NEXT 191200UTC SLP139 CZMT 190200Z 11003KT 090V160 15SM -RA FEW015 OVC020 06/05 A2926 RMK SC2SC6 LAST OBS/NEXT 191500 UTC SLP910 CYWK 191000Z VRB02KT 15SM SKC M26/M28 A2988 RMK FROIN SLP185 KH21 191015Z AUTO 00000KT 1 3/4SM BR OVC003 01/01 A3022 RMK AO2 CZMU 190300Z AUTO 17002KT M11/M13 RMK AO1 5PAST HR SOG 00 M P0002 T11141126 50005 CYXC 191000Z 00000KT 15SM VCSH FEW020 BKN048 OVC095 M01/M02 A2991 RMK SF1SC5AC2 SLP162 CYWL 191000Z 12014G21KT 15SM BKN090 03/M02 A2956 RMK AC6 SLP038 KDSM 190954Z 15003KT 6SM -SN OVC015 M02/M04 A3026 RMK AO2 FZDZE53 SLP258 P0000 I1000 T10171044 KFAM 191035Z AUTO 35006KT 2 1/2SM OVC004 01/M02 A3024 RMK AO1 EGXC 190950Z 24014KT 9999 FEW020 07/03 Q1010 BLU NOSIG EGXD 190950Z 27018G30KT 9999 FEW018CB 06/02 Q1006 BLU NOSIG CYVV 191015Z 34004KT 300V040 15SM BKN014 M06/M09 A3017 RMK SC6 SLP230 CYXD 191000Z AUTO 00000KT 4SM CLR M11/M13 A2977 RMK ICG PAST HR SLP124 EGXE 190950Z 27024G35KT 9999 -SHRA FEW018 06/03 Q1006 BLU NOSIG CYXE 191018Z 31005KT 1SM R09/P6000FT/U BR VV003 M08/M09 A2995 RMK FG8 SLP178 EIDW 191030Z 25019G30KT 9999 FEW016 06/02 Q1013 WS RWY28 NOSIG KFBG 191031Z AUTO 34003KT 10SM BKN070 04/00 A3012 RMK AO2 CYXH 191000Z AUTO 22007KT 9SM CLR M06/M07 A2984 RMK SLP144 KFAR 190953Z 15012KT 5SM BR OVC007 M05/M07 A3012 RMK AO2 SLP217 T10501067 KDUA 191035Z AUTO 02007KT 1/2SM FG OVC001 06/06 A3016 RMK AO2 KELA 191015Z AUTO 03007KT 10SM VCTS OVC004 14/14 A2999 RMK AO2 LTG DSNT SW THRU NE T01400137 CYXJ 191000Z 03005KT 1/4SM R29/2800FT/N FZFG VV002 M12/M14 A2963 RMK FG8 SLP089 KFAT 190953Z 07003KT 10SM FEW120 SCT150 OVC200 09/06 A3021 RMK AO2 SLP230 T00890061 KDUB 191015Z AUTO 33013KT 10SM OVC060 M03/M08 A3001 RMK AO2 CYYB 191000Z AUTO 36006KT 9SM CLR KFBL 191034Z AUTO 14003KT 7SM BKN033 OVC060 M04/M07 A3024 RMK AO2 KDTL 191035Z AUTO 15008KT 7SM UP OVC008 M06/M07 A3013 RMK AO2 KDUC 191015Z AUTO 08008KT OVC004 06/06 A3016 RMK AO2 PWINO KEKM 181850Z 26005KT 10SM OVC016 M02/M06 A3022 CZOL 191000Z AUTO 00000KT M17/M19 RMK AO1 T11681186 CYYC 191000Z 20005KT 15SM FEW240 M05/M08 A2974 RMK CI1 SLP117 CYXL 191000Z 00000KT 15SM -SN OVC014 M10/M12 A3019 RMK SC8 SLP256 CZPC 191000Z AUTO 26019G24KT 9SM BKN150 OVC170 04/M02 A2980 RMK SLP115 EGWU 190950Z 30009KT 9999 FEW020 09/04 Q1014 BLU NOSIG KELD 190953Z AUTO 02006KT 8SM OVC006 07/06 A3018 RMK AO2 SLP217 T00720061 KDSV 190954Z AUTO 30010G19KT 10SM OVC018 M02/M06 A3008 RMK AO2 UPB05E13 SLP202 P0000 T10221061 EGYD 190950Z 26021KT 9999 FEW035 06/01 Q1010 BLU NOSIG CYYD 191000Z AUTO 13005KT 9SM BKN033 OVC130 M02/M02 A2947 RMK SLP001 KDTN 190953Z AUTO 05006KT 8SM OVC005 09/08 A3015 RMK AO2 SLP209 T00940078 KEKN 190951Z AUTO 34005KT 10SM OVC014 M04/M06 A3013 RMK AO2 SLP232 T10391061 TSNO CYXN 182200Z 08014KT 15SM OVC008 M16/M18 A3003 RMK SC8 -12.5/-13.5/0.4MM/20.0CM/TRACE LOOSE/LAST OB/NEXT 191400Z SLP172 EGYE 190850Z 20016KT 9999 FEW040 ///// Q1009 BLU CYYE 191000Z 00000KT 3SM -SN BR SCT004 BKN007 OVC020 M20/M22 A2971 RMK SF3SF3SC2 SLP100 KDTO 190953Z AUTO 32007KT 7SM OVC006 07/06 A3019 RMK AO2 PRESRR SLP223 T00720061 KEKO 190956Z AUTO 11005KT 10SM CLR M04/M06 A3013 RMK AO2 SLP224 I1000 T10441056 CYYF 191000Z 17014G21KT 15SM -SHRA FEW020 BKN060 OVC100 04/02 A2983 RMK SC2SC3ACC3 SLP112 KFAY 190953Z AUTO 01004KT 10SM OVC070 04/02 A3010 RMK AO2 SLP187 T00390022 KDUG 191034Z AUTO 17003KT 1/4SM FZFG VV001 M03/M04 A3017 RMK AO2 T10281039 CYWY 182300Z 16003KT 15SM SKC M22/M25 A2977 RMK -19.1/-23.3/0/20 MED PACK/LAST OBS/NXT 191500Z SLP102 CYXP 182300Z 00000KT 15SM FEW070 M21/M26 A2984 RMK AC1 AC TR -15.3/-21.1/0.0/30 MUCH LOOSE LAST STFD OBS/NEXT 191200Z SLP106 CYYG 191000Z 26002KT 8SM -SN BKN005 OVC014 00/M00 A2947 RMK SF5SC3 SLP981 EGXP 190950Z AUTO 26020KT 9999 // FEW033/// 06/03 Q1009 KDUH 191034Z AUTO 28003KT 7SM OVC010 00/M02 A3022 RMK AO2 KEKQ 190956Z AUTO 00000KT 6SM BR OVC055 00/M02 A3024 RMK AO2 T00001016 SLP251 EHPG 191025Z AUTO 27026KT 200V340 9999 FEW023/// 10/03 Q1010 CYXQ 182300Z 00000KT 30SM FEW001 FEW120 M29/M33 A2959 RMK ST1AC1 ST TR CLIMATE -28.0/-31.5/0.0/LAST OBS/NEXT 191700UTC SLP107 EGYH 190850Z 26016KT CAVOK 06/03 Q1010 BLU CYYH 191000Z 36009KT 15SM FEW020 FEW080 M35/M39 A3013 RMK SC2AC0 AURBO SLP209 KFCI 190955Z AUTO 00000KT 10SM SCT110 M01/M09 A3012 RMK AO1 KFBR 191035Z AUTO 25011KT 10SM CLR M05/M07 A3017 RMK AO2 T10491073 CYXR 191000Z AUTO 31006KT 9SM OVC006 M16/M17 A3020 RMK SLP250 KDUJ 191029Z AUTO 27009KT 10SM SCT009 BKN015 OVC020 M03/M04 A3004 RMK AO2 I1000 T10281039 KDTS 190953Z AUTO 04004KT 10SM OVC040 13/04 A3012 RMK AO2 SLP199 T01280044 TSNO EGXS 190950Z AUTO 23013KT 9999 // NCD 06/03 Q1008 CYYJ 191000Z 10003KT 080V150 15SM SCT060 BKN081 BKN200 08/07 A2974 RMK SC3AC3CI1 SLP070 CYXS 191000Z AUTO 02004KT 9SM FEW038 SCT049 OVC060 M01/M01 A2953 RMK SLP029 KELK 191015Z AUTO 07004KT 5SM BR OVC004 51/51 A3022 RMK AO2 EGXT 190950Z AUTO 25014KT 9999 NCD 07/02 Q1011 CYXT 191000Z VRB02KT 2SM BR BKN003 OVC059 M01/M01 A2945 RMK SF5SC3 SLP981 CYXU 191012Z 35005KT 320V020 15SM FEW011 M06/M08 A3015 RMK SF1 SLP223 EGXU 190950Z 27017G32KT CAVOK 07/02 Q1007 BLU NOSIG CYYL 191000Z AUTO 25005KT 9SM -SN OVC009 M10/M10 A2989 RMK SLP153 KFCM 190953Z AUTO 10004KT 6SM -SN SCT040 OVC055 M06/M09 A3025 RMK AO2 SNB49 SLP257 P0000 T10561089 KELM 190953Z 31005KT 10SM OVC019 M01/M04 A3002 RMK AO2 SLP176 T10111044 EGYM 190950Z AUTO 25012KT 9999 NCD 06/03 Q1011 KDTW 190953Z 35006KT 10SM BKN018 OVC035 M02/M05 A3022 RMK AO2 SLP239 T10221050 KELN 190953Z AUTO 09004KT 5SM -RA BR SCT008 BKN021 OVC040 03/01 A2984 RMK AO2 SLP115 P0002 T00330011 EGXV 190950Z AUTO 27016KT 9999 NCD 07/01 Q1007 CYZE 191000Z AUTO 04006KT 9SM CLR M09/M11 A3022 RMK ICG SLP245 CYYN 191000Z AUTO 23009KT 8SM FEW001 M10/M11 A2985 RMK ICG INTMT SLP151 KELO 191033Z AUTO 18005KT 10SM OVC014 M06/M08 A3019 RMK AO2 EGXW 190950Z 27016KT 9999 FEW040 07/01 Q1009 BLU NOSIG EHQE 191025Z AUTO 29033KT 9999 FEW025/// 09/03 Q//// CYZF 191000Z 12003KT 1/2SM R34/4000FT/N -SN FZFG VV002 M16/M18 A2983 RMK FG8 FROIN SLP123 CYXX 191000Z 00000KT 2 1/2SM RA BR SCT005 OVC025 07/07 A2976 RMK SF3NS5 SLP080 KELP 190951Z 10005KT 10SM FEW080 05/02 A3013 RMK AO2 SLP177 T00500017 $ CYZG 182200Z 03012KT 6SM -SN OVC012 M13/M15 A2993 RMK SC8 SNW CVR MUCH LOOSE LAST OBS/NEXT 191300 UTC SLP162 CYXY 191000Z VRB02KT 8SM -SN FEW045 OVC100 M14/M17 A2945 RMK SC2AC6 SLP036 EGYP 190950Z 26021KT 6000 RA FEW012 OVC015 05/04 Q0973 WHT TEMPO SCT012 GRN CYXZ 190000Z VRB02KT 15SM SKC M13/M15 A3024 RMK LAST OBS/NEXT 191100UTC SLP268 EGXZ 190950Z 27014G25KT 9999 FEW030 07/02 Q1007 BLU CYYQ 191000Z 21003KT 15SM -SN OVC022 M14/M16 A2996 RMK SC8 SLP149 CYZH 191000Z AUTO 12010KT 4SM BR SCT210 M14/M15 A2978 RMK SLP130 CYYR 191000Z 32003KT 15SM FEW230 M14/M19 A2984 RMK CI0 SLP109 KFCS 190958Z AUTO 31005KT 10SM BKN020 M04/M06 A3006 RMK AO2 SLP221 T10371064 CZPS 191000Z AUTO 13005KT M09/M11 RMK AO1 T10931109 KFDK 191030Z AUTO 28009KT 10SM OVC031 02/M05 A3013 RMK AO2 KEMK 191035Z AUTO 19014KT FEW019 SCT110 23/19 A2997 RMK A01 KDVK 191035Z AUTO 35003KT 10SM SCT050 OVC065 M01/M03 A3024 RMK AO2 CYYT 191000Z 22018G28KT 15SM BKN016 07/05 A2936 RMK SC7 SLP945 KDVL 191035Z AUTO 16009KT 4SM BKN007 OVC011 M04/M08 A2998 RMK AO1 CYYU 191000Z 31004KT 15SM SKC M19/M21 A3025 RMK SLP266 KEND 190955Z 02009KT 9SM BKN006 OVC034 01/00 A3018 RMK AO2A SLP230 KEMM 190950Z AUTO 26004KT 10SM CLR M06/M07 A3014 RMK AO2 KDVN 190952Z AUTO 36004KT 8SM CLR M10/M12 A3030 RMK AO2 SLP274 T11001122 EHRD 191025Z AUTO 26006KT 230V300 9999 -SHRA BKN015CB BKN017 OVC021 09/08 Q1010 REDZ BECMG NSW KDUX 191015Z AUTO 00000KT 5SM BR OVC006 00/M01 A3011 RMK AO2 T00011010 KDVO 191015Z AUTO 15007KT 2 1/2SM BR FEW010 OVC017 12/12 A3014 RMK AO2 KEMP 191014Z AUTO 02004KT 5SM BR OVC004 M02/M02 A3023 RMK AO2 T10171022 KELY 190953Z AUTO 16010KT 10SM CLR M07/M09 A3019 RMK AO2 SLP234 T10721089 KDVP 191036Z AUTO 00000KT 3SM BR OVC006 M03/M03 A3015 RMK AO2 T10281028 CYYY 191000Z 36013KT 15SM -SN SCT006 OVC025 M04/M08 A2982 RMK SF3SC5 SLP100 CYZP 191000Z AUTO 18004KT 9SM CLR 04/03 A2933 RMK SLP933 KDWH 190626Z 03006KT 7SM VCTS -RA BKN007 BKN032 OVC055 15/14 A3004 RMK AO2 LTG DSNT ALQDS TSE0556B0558E03B06E11B14E23B26RAB0556 P0006 KELZ 191014Z AUTO 30010KT 10SM OVC009 M04/M07 A3000 RMK AO2 T10441067 CYYZ 191000Z 32014KT 15SM OVC013 M04/M07 A3013 RMK SC8 SLP211 KFDR 190953Z AUTO 02006KT 7SM OVC008 06/04 A3015 RMK AO2 CIG 006V011 SLP211 T00560039 $ CYZR 191000Z AUTO 30008G16KT 9SM OVC022 M02/M05 A3019 RMK SLP230 KFFA 191015Z AUTO 32003KT 10SM CLR 04/01 A3008 RMK AO2 T00420012 KEMT 190346Z 00000KT 10SM CLR 12/09 A3022 CYZS 191000Z 05005KT 15SM FEW210 M25/M29 A3013 RMK CI1 SLP216 EHSA 191025Z AUTO 30031G36KT 9999 ///////// 10/02 Q1011 W09/H21 KDVT 190953Z 02006KT 10SM CLR 08/04 A3017 RMK AO2 SLP210 T00780044 CYZT 191033Z 14005KT 12SM SHRA FEW024TCU OVC037 06/05 A2956 RMK TCU2SC6 SLP009 KFFC 190953Z AUTO 00000KT 5SM BR CLR 00/M01 A3013 RMK AO2 SLP208 T00001011 KENL 191015Z AUTO 00000KT 7SM OVC043 M01/M03 A3029 RMK AO2 T10061034 EHSC 191025Z AUTO 32029G33KT 9999 ///////// 10/04 Q1011 W09/H21 CYZU 190500Z 12004KT 5/8SM BR SKC M12/M14 A2978 RMK FU7 FROIN LAST OBS/NEXT 191300Z SLP144 KEMV 191015Z AUTO 32003KT 10SM CLR M02/M03 A3013 RMK AO2 CYZV 191000Z 02006KT 15SM SCT100 BKN240 M03/M20 A2977 RMK AC3CI2 SLP084 KEOE 191035Z AUTO 01006KT 10SM CLR 02/ A3011 RMK AO2 KFDW 191035Z AUTO 00000KT 10SM CLR 03/02 A3008 RMK AO1 CYZW 190100Z 28003KT 210V360 10SM -SN OVC030 M13/M14 A2960 RMK SC8 CLIMAT -12.7/-14.5/TRCM/TRMM MWE/44022/LAST OBS/NEXT OBS 191700 UTC SLP085 CYZX 191026Z 30007KT 10SM OVC021 RMK SC8 WNDY HILL 33012G20KT KFDY 191029Z AUTO 27008KT 7SM BKN012 BKN019 OVC025 M02/M04 A3021 RMK AO2 T10171044 KFEP 191015Z AUTO 00000KT 10SM OVC014 M04/M06 A3030 RMK AO2 T10401060 CZRP 191000Z AUTO 35008KT M28/M30 RMK AO1 SLP244 T12771304 51003 CYZY 191029Z AUTO 00000KT 1 1/2SM -SN BKN018 OVC028 M02/M02 A2956 RMK SLP043 KDYA 191015Z AUTO 01004KT 10SM OVC030 06/06 A3017 RMK AO2 T00580058 KDYB 182215Z AUTO 00000KT 10SM CLR 16/06 A3008 RMK AO1 CZSJ 191000Z AUTO 18003KT 140V200 9SM CLR M16/M17 A3013 RMK SLP233 KFET 191015Z AUTO 17004KT 5SM BR OVC019 00/M01 A3021 RMK AO2 T00001008 KEOK 191015Z AUTO 00000KT 8SM OVC045 M03/M04 A3028 RMK AO2 CZTB 191000Z AUTO 24004KT M18/M19 RMK AO1 SOG 08 0002 SLP282 T11761193 KDWU 191035Z AUTO 00000KT 10SM OVC023 M03/M07 A3023 RMK AO1 KFFL 191015Z AUTO 06003KT 10SM SCT028 OVC060 M03/M05 A3028 RMK AO2 KENV 191035Z AUTO 00000KT 10SM CLR M06/M09 A3018 RMK AO1 KFFM 191034Z AUTO 15009KT 5SM BR OVC007 M06/M07 A3017 RMK AO2 CZSM 191000Z AUTO 00000KT M19/M22 RMK AO1 SOG 23 3001 SLP126 T11941215 KENW 190953Z AUTO 30006KT 10SM OVC018 M03/M06 A3027 RMK AO2 SLP262 T10281061 KFEW 190956Z AUTO 25004KT 10SM CLR M06/M11 A2999 RMK AO2 SLP183 T10561109 $ KFFO 190958Z 31006KT 10SM OVC013 M03/M06 A3023 RMK AO2A SLP250 T10261061 KDWX 191015Z AUTO 00000KT 10SM OVC004 A3019 RMK AO2 VHHH 191030Z 02006KT 9000 -RA FEW020 SCT040 13/08 Q1023 NOSIG PLCH 190600Z 09014KT 9999 VCSH SCT018 BKN040 26/24 Q1008 -RESH CZSP 191000Z AUTO 27004KT 01/00 RMK AO1 2PAST HR 3015 SLP983 P0001 T00050000 50002 KEPH 191009Z AUTO 34004KT 5SM -RA BR BKN012 OVC045 04/03 A2986 RMK AO2 P0002 T00390028 ZUUU 191000Z VRB01MPS CAVOK 11/M03 Q1023 NOSIG KDXR 190953Z AUTO 29004KT 10SM OVC036 01/M05 A2995 RMK AO2 SLP144 T00111050 KH78 182121Z 08006KT 20SM FEW040 19/14 A3019 RMK SEAS 2-3 KEQA 191035Z AUTO 35004KT 3SM BR OVC002 00/00 A3020 RMK AO2 KFFT 190953Z AUTO 35004KT 10SM OVC065 M02/M06 A3024 RMK AO2 SLP247 T10171056 KDZB 191035Z AUTO 00000KT 4SM DZ OVC008 09/09 A3007 RMK AO2 LTG DSNT W THRU N P0001 T00900090 KFHB 191035Z AUTO 32004KT 10SM CLR 11/07 A3008 RMK AO1 CZST 190100Z 16003KT 6SM -RA BR SCT018 OVC025 01/M00 A2956 RMK SC4SC4 LAST OBS/NEXT 191500Z/ SLP012 KDYL 190954Z AUTO 31007KT 10SM OVC031 01/M04 A3000 RMK AO2 SLP165 T00111039 FABL 191000Z 34009KT 310V010 9999 FEW050 28/15 Q1017 NOSIG KFGN 191034Z AUTO 16012KT 10SM SCT015 BKN050 OVC075 M07/M09 A3013 RMK AO2 EIKN 191030Z 27015KT 9999 FEW020CB 04/02 Q1013 NOSIG KDXX 191033Z AUTO 15003KT 5SM BR CLR M02/M03 A3015 RMK AO2 KFFX 191033Z AUTO 34003KT 10SM CLR M08/M08 A3024 RMK AO2 T10761083 KFFZ 190147Z 25006KT 30SM SKC 12/05 A3012 PKMJ 190758Z 08008KT 15SM FEW015 SCT050 BKN120 OVC300 28/25 A2981 KDYR 191035Z 04006KT 10SM OVC040 03/M04 A3025 RMK AO1 KDYS 191028Z AUTO 02006KT 10SM OVC005 06/03 A3015 RMK AO2 KDYT 191034Z AUTO 00000KT 10SM OVC011 M04/M06 A3027 RMK AO2 CZUM 191027Z AUTO 27003KT 220V330 9SM BKN010 M21/M23 A2986 RMK SLP163 EIME 191030Z 23018KT 9999 FEW018 05/03 Q1014 KFGX 191015Z AUTO 00000KT 7SM OVC018 M04/M06 A3025 RMK AO2 T10451057 KFIG 190954Z AUTO 28006KT 10SM OVC015 M02/M04 A3005 RMK AO2 SLP194 T10221044 EIKY 191030Z 28009KT 250V310 9999 SCT028 07/03 Q1019 PKMR 190953Z 07008KT 15SM SCT015TCU SCT050 BKN300 27/25 A2984 RMK SHRAB10E30 TCU NW SLP105 T02740254 KFHR 191012Z AUTO 14006KT 10SM BKN012 BKN030 OVC037 09/07 A2976 RMK AO2 T00890072 KERI 190951Z AUTO 31008G14KT 10SM OVC018 M01/M05 A3014 RMK AO2 SLP214 T10061050 FACT 191000Z 20011KT 9999 FEW040 23/11 Q1016 NOSIG KFHU 190955Z 18004KT 10SM CLR 01/M01 A3016 RMK SLP214 KESC 191035Z AUTO 29003KT 10SM CLR M12/M15 A3026 RMK AO1 EHVK 191025Z AUTO 26012KT 3200 R24R/P3000 +RA SCT004 BKN006 BKN007 FEW015TCU 11/11 Q1009 RERA REDZ YLO 23018G28KT 6000 -RA SCT008 OVC010 TEMPO 3000 DZRA SCT005 OVC008 CZVL 191000Z AUTO 14004KT 4SM BR CLR M12/M13 A2977 RMK SLP125 KGAD 191035Z 00000KT 10SM CLR M01/M03 A3017 RMK AO1 EHVL 191025Z AUTO 29025KT 9999 NCD 09/03 Q1007 BLU KFIN 182350Z 00000KT 7SM SKC A3010 KESF 190953Z AUTO 06005KT 10SM -RA OVC003 11/10 A3008 RMK AO2 RAB50 SLP186 P0000 T01060100 VIAR 191000Z 00000KT 1500 R34/1600 BR VV/// 08/07 Q1022 KEQY 190953Z AUTO 05004KT 10SM CLR 03/M03 A3009 RMK AO2 SLP204 T00281028 KGAG 190953Z AUTO 05005KT 1/2SM FG VV002 02/02 A3016 RMK AO2 SLP221 T00220017 KI16 191015Z AUTO 10SM SCT017 OVC060 00/M02 A3020 RMK AO2 T00001020 KGAI 191035Z 30009KT 10SM OVC030 00/M06 A3013 RMK AO1 KFKA 191036Z AUTO 16003KT 10SM OVC070 M06/M08 A3024 RMK AO2 T10571080 KFIT 190952Z AUTO 31008KT 10SM OVC047 01/M05 A2988 RMK AO2 SLP123 T00061050 KETB 191010Z AUTO 00000KT 10SM CLR M08/M10 A3026 RMK AO2 VIBN 190930Z 26002KT 2500 HZ NSC 21/11 Q1020 KETC 191016Z AUTO 00000KT 1 1/2SM BR VV007 M01/M02 A3012 RMK AO2 FAEL 191000Z 12009KT 090V150 9999 FEW007 SCT016 OVC050 22/18 Q1013 KGBD 191035Z AUTO 19004KT 3SM OVC017 M01/M03 A3017 RMK AO1 KERV 191015Z AUTO 34003KT 5SM BR BKN009 OVC012 11/10 A3005 RMK AO2 LTG DSNT N THRU SE T01060095 KESN 191027Z AUTO 32007KT 10SM BKN034 BKN085 03/M03 A3013 RMK AO2 T00261026 KGAO 191015Z AUTO 10SM VCTS OVC026 15/14 A3005 RMK AO2 LTG DSNT N AND NW T01460141 EINN 191030Z 25013KT 9999 FEW015 FEW020CB 07/04 Q1018 NOSIG EHWO 191030Z AUTO 29008KT 9999 -SHRA FEW006 SCT009 BKN022 09/08 Q1011 REDZ GRN 30010G20KT 4500 RADZ SHRA SCT006 SCT008 SCT020CB BECMG 9999 NSW FEW008 BKN025 KERY 191035Z AUTO 00000KT 10SM CLR M11/M12 A3023 RMK AO2 T11151118 KGBG 191015Z AUTO 02004KT 7SM OVC048 M05/M06 A3028 RMK AO2 T10521065 KETH 191036Z AUTO 14011KT 5SM BR BKN007 OVC011 M06/M07 A3015 RMK AO2 KEST 191014Z AUTO 17008KT 7SM BKN008 OVC027 M04/M05 A3020 RMK AO2 CIG 007V011 T10391050 KGBK 191035Z AUTO 11008G18KT 10SM FEW019 FEW024 23/19 A2999 RMK A01 KGCC 190953Z AUTO 18005KT 10SM CLR M07/M12 A2998 RMK AO2 SLP185 T10721117 TSNO KFKL 191035Z AUTO 32005KT 4SM OVC008 M03/M05 A3011 RMK AO1 FAGC 181300Z AUTO 13009KT //// // ////// 19/11 Q1019 KFLD 190953Z AUTO 16003KT 10SM CLR M08/M11 A3027 RMK AO2 SLP265 I1000 T10831106 KGCD 191015Z AUTO 17021G26KT 10SM DZ SCT016 BKN065 OVC075 05/02 A2993 RMK AO2 T00520020 KFKN 191015Z AUTO 00000KT 10SM CLR M03/M03 A3011 RMK AO1 KEUF 190958Z AUTO 34003KT 10SM CLR 06/02 A3013 RMK AO2 SLP200 T00560022 KFLG 190957Z AUTO 00000KT 10SM CLR M11/M13 A3019 RMK AO2 SLP245 I1000 T11061133 TSNO KEUG 190954Z AUTO 18005KT 10SM FEW036 BKN050 BKN120 08/06 A2993 RMK AO2 SLP136 T00780061 KI35 191015Z AUTO 00000KT 10SM OVC050 01/M03 A3017 RMK AO1 FAGG 191000Z VRB02KT 9999 BKN020 19/15 Q1015 KFKR 191035Z AUTO 26003KT 7SM OVC028 M06/M06 A3027 RMK AO2 T10581058 KFKS 191033Z AUTO 00000KT 10SM OVC021 M11/M11 A3027 RMK AO2 T11071114 KEVB 190247Z 00000KT 10SM SKC 12/10 A3014 RMK LAST KGDB 191032Z AUTO 12006KT 7SM SCT012 OVC022 M04/M05 A3019 RMK AO2 T10401050 KGCK 190954Z AUTO 22005KT 4SM BR OVC090 00/M01 A3013 RMK AO2 SLP221 T00001011 KI39 191015Z AUTO 00000KT 10SM OVC014 M01/M04 A3022 RMK AO2 KFLL 190953Z 34003KT 10SM SCT039 16/13 A3006 RMK AO2 SLP179 T01560128 KEUL 191035Z AUTO 08011KT 10SM BKN070 OVC120 06/M02 A3006 RMK AO1 KGCM 191035Z AUTO 34003KT 1SM BR OVC001 02/02 A3024 RMK AO2 VIDP 191000Z 00000KT 0800 R28/1500 R29/0900 MIFG SCT030 BKN100 14/13 Q1021 NOSIG KFME 191030Z AUTO 28005KT 10SM OVC035 01/M04 A3013 RMK AO1 KGCN 191030Z 00000KT 3/4SM BR VV001 M07/M08 A3021 RMK AO2 T10671078 $ KFLO 190953Z AUTO 00000KT 10SM CLR 02/00 A3009 RMK AO2 SLP188 T00220000 KFLP 191035Z 11003KT 6SM OVC006 03/01 A3020 RMK AO1 KFMH 191035Z AUTO 30006KT 10SM SCT033 OVC050 01/M03 A2988 RMK AO2 KGDJ 191015Z AUTO 00000KT 5SM -RA SCT010 BKN021 OVC085 08/07 A3019 RMK AO2 LTG DSNT S P0002 T00820068 CZZJ 191000Z AUTO 26002KT M14/M16 RMK AO1 SOG 19 8011 SLP101 T11431158 KFNB 191004Z AUTO 22005KT 10SM BKN008 OVC011 M01/M03 A3025 RMK AO2 T10111028 KEWB 190953Z AUTO 28005KT 10SM BKN055 01/M03 A2988 RMK AO2 SLP118 T00061028 KFMM 191035Z AUTO 28007KT 1/2SM FZFG BKN001 M11/M12 A3007 RMK AO2 T11101120 URFF 191030Z 23004MPS 180V260 5000 BR OVC009 04/02 Q1020 19290355 TEMPO 1400 BR OVC003 KEVM 191031Z AUTO 18008KT 10SM OVC005 M06/M07 A3020 RMK AO2 KGED 190954Z AUTO 30006KT 10SM OVC110 02/M04 A3008 RMK AO2 SLP185 T00221039 KFMN 191012Z AUTO 34003KT 10SM BKN005 M04/M06 A3017 RMK AO2 T10441056 KGDP 190951Z AUTO 22013KT 1/4SM FG VV001 02/01 A3011 RMK AO2 SLP179 T00170011 KGEG 190953Z 12008KT 10SM -RA BKN038 OVC060 04/02 A2989 RMK AO2 RAE11B28 SLP131 P0000 T00440022 KFLY 191034Z AUTO 00000KT 10SM OVC008 M03/M04 A3006 RMK AO2 T10291038 KFOA 191015Z AUTO 01004KT 5SM BR CLR M03/M04 A3030 RMK AO2 T10281040 KGFA 190956Z AUTO 22010KT 10SM CLR M01/M03 A2991 RMK AO2 SLP158 T10081035 KEWK 191035Z AUTO 04003KT 4SM OVC003 M02/M05 A3021 RMK AO1 FAJB 181300Z AUTO 30001KT //// // ////// 24/15 Q1019 KFNL 191035Z AUTO 01003KT 9SM CLR M06/M08 A3007 RMK AO1 KEVV 190954Z AUTO 01005KT 10SM OVC050 00/M04 A3029 RMK AO2 SLP261 T00001039 KFOD 191035Z AUTO 00000KT 10SM OVC036 M03/M05 A3023 RMK AO1 KGDV 191035Z AUTO 18006KT 10SM CLR M03/M05 A2993 RMK AO1 DRRM 191000Z 08004KT CAVOK 30/M03 Q1016 KEVW 190953Z AUTO 21006KT 10SM CLR M07/M08 A3015 RMK AO2 SLP231 T10671078 KFOE 190953Z AUTO 00000KT 6SM BR OVC004 M01/M02 A3024 RMK AO2 SLP250 T10061022 KEWN 190954Z AUTO 00000KT 10SM CLR 03/01 A3010 RMK AO2 SLP194 T00330006 DRRN 191000Z 04016KT 6000 NSC 27/M07 Q1016 TEMPO 4500 BLDU KFMY 190953Z AUTO 05004KT 9SM CLR 11/10 A3008 RMK AO2 SLP189 T01110100 EISG 191000Z 24014KT 8000 SCT025 SCT037 BKN055 05/03 Q1013 KI67 191035Z AUTO 34005KT 10SM OVC018 M02/M05 A3027 RMK AO1 EKAH 191020Z AUTO 25010KT 210V280 9999NDV FEW025/// 07/03 Q0996 KEWR 190951Z 30008KT 10SM OVC035 03/M04 A2999 RMK AO2 SLP154 T00281039 KFNT 190953Z AUTO 02005KT 10SM OVC013 M03/M07 A3023 RMK AO2 SLP246 T10331067 KFOK 190953Z AUTO 29004KT 10SM BKN035 OVC050 01/M02 A2996 RMK AO2 SLP145 T00111022 TSNO KGFK 190953Z AUTO 16010KT 7SM OVC009 M06/M08 A3010 RMK AO2 SLP210 T10611078 TSNO KI69 191036Z AUTO 00000KT 7SM SCT018 M03/M04 A3025 RMK AO1 KGEU 190250Z 00000KT 20SM FEW070 11/07 A3016 RMK LAST DRRT 191000Z 08014KT CAVOK 27/M04 Q1016 KGFL 190953Z AUTO 34008KT 10SM OVC049 M01/M07 A2995 RMK AO2 SLP150 T10111067 KGEV 191035Z AUTO 26003KT 10SM OVC037 01/M09 A3006 RMK AO2 T00071092 KGGE 191035Z AUTO 00000KT 10SM CLR A3010 RMK AO2 KEYE 190953Z AUTO 31005KT 10SM CLR M05/M07 A3025 RMK AO2 SLP254 T10501072 KEYF 191015Z AUTO 00000KT 10SM SCT065 02/01 A3010 RMK AO2 T00240005 KGEY 190953Z AUTO 00000KT 10SM CLR M13/M15 A3007 RMK AO2 SLP240 T11281150 KGGG 191007Z 03005KT 3SM BR OVC002 09/08 A3011 RMK AO2 T00940083 KI75 191015Z AUTO 00000KT 10SM SCT018 OVC042 M01/M03 A3024 RMK AO2 T10151027 KGEZ 190953Z AUTO 34005KT 9SM CLR M06/M08 A3025 RMK AO2 SLP253 T10561078 KGGI 191035Z AUTO 08003KT 10SM OVC048 M03/M05 A3026 RMK AO2 T10331050 EKBI 191020Z 25012KT 9999 FEW025CB 07/04 Q0998 FALA 191000Z 34005KT 310V040 9999 SCT030 26/15 Q1020 NOSIG KFPK 191035Z AUTO 35004KT 10SM BKN007 OVC021 M03/M04 A3021 RMK AO2 T10311042 KGHB 191035Z AUTO 00000KT 10SM FEW110 22/20 A3000 RMK A01 KFOT 191035Z AUTO 00000KT 3SM BKN018 BKN023 OVC055 10/10 A3004 RMK AO1 P0004 KFQD 191015Z AUTO 34004KT 10SM CLR 02/M02 A3011 RMK AO2 T00171023 FAKM 181300Z 34005G16KT 9999 FEW050TCU 30/08 Q1014 FALE 191000Z 13009KT 090V180 9999 FEW025 26/19 Q1012 NOSIG FAKN 191000Z AUTO 07008KT //// // ////// 25/20 Q1017 KEZF 191015Z AUTO 32004KT 10SM OVC100 02/M04 A3012 RMK AO2 T00181040 KEXX 191015Z AUTO 00000KT 10SM OVC050 05/M01 A3011 RMK AO2 T00461007 KGGP 191015Z AUTO 30003KT 10SM OVC030 M03/M07 A3026 RMK AO2 KGHG 191015Z AUTO 29004KT 10SM OVC035 02/M03 A2989 RMK AO2 WAAA 191000Z 32007KT 9999 FEW019 29/24 Q1009 KFOZ 191033Z AUTO 17005KT 10SM OVC005 M06/M08 A3017 RMK AO2 EKCH 191020Z 25010KT 9999 FEW004 SCT008 BKN017 08/07 Q0997 NOSIG KFPR 190953Z AUTO 27003KT 9SM CLR 09/08 A3008 RMK AO2 SLP187 T00890078 PKWA 191020Z AUTO 05014KT 10SM SCT016 SCT025 BKN032 28/24 A2987 KGIC 191015Z AUTO 00000KT 10SM SCT060 BKN075 OVC085 04/00 A2998 RMK AO1 T00380000 KEZM 191015Z AUTO 00000KT 10SM CLR 03/03 A3015 RMK AO2 T00260026 KEYW 190953Z AUTO 02004KT 10SM CLR 18/17 A3006 RMK AO2 SLP178 T01830167 KGGW 190953Z AUTO 20003KT 9SM SCT001 M08/M09 A2991 RMK AO2 SLP163 I1000 T10781094 KGIF 190953Z AUTO 34003KT 10SM CLR 11/09 A3011 RMK AO2 SLP194 T01060089 KFRG 190953Z AUTO 29005KT 10SM BKN039 02/M04 A2997 RMK AO2 SLP149 T00221039 URKA 191030Z 35004MPS 9999 OVC008 07/05 Q1019 NOSIG RMK QFE760/1014 SC060 KFRI 190958Z AUTO 23005KT 10SM OVC007 M01/M01 A3025 RMK AO2 SLP253 T10091011 KEZS 191035Z AUTO 00000KT 10SM CLR M09/M10 A3027 RMK AO2 T10901105 EKEB 191020Z AUTO 25015KT 9999NDV FEW037/// 07/04 Q0998 KFSD 190956Z AUTO 19007KT 10SM OVC012 M02/M04 A3015 RMK AO2 SLP229 T10221039 KFRM 191035Z AUTO 17007KT 10SM BKN011 OVC027 M03/M08 A3020 RMK AO1 VIJP 190930Z VRB03KT 2500 HZ FEW035 SCT100 22/02 Q1021 NOSIG FAMM 191000Z 26004KT 9999 SCT030TCU 28/14 Q1018 NOSIG KGHW 191034Z AUTO 13008KT 1 3/4SM BR OVC004 M06/M06 A3016 RMK AO2 KFSE 191035Z AUTO 15008KT 4SM -SN SCT012 OVC019 M07/M08 A3012 RMK AO2 KHAE 191035Z AUTO 00000KT 10SM OVC030 00/M03 A3028 RMK AO2 FALW 191000Z 24015KT 9999 FEW025 22/10 Q1016 KHAF 191035Z AUTO 18013G19KT 5SM BR SCT008 BKN012 OVC019 13/13 A3015 RMK AO2 PMDY 190956Z AUTO 24016KT 10SM FEW033 24/21 A3003 RMK AO2 TSNO T02380211 SLP475 $ EIWF 191030Z 24008KT 190V300 9999 SCT030 08/04 Q1018 URKK 191030Z 24003G06MPS 9999 -SHRA BKN030CB BKN046 12/10 Q1018 NOSIG RMK QFE760 SC060 KHAI 191035Z AUTO 29003KT 7SM BKN015 OVC031 M02/M04 A3023 RMK AO2 T10221040 KFSI 191036Z AUTO 02010KT 3SM BR OVC002 05/05 A3017 RMK AO2 KFRR 191015Z AUTO 00000KT 10SM OVC033 00/M05 A3011 RMK AO1 USCC 191030Z 16004MPS 130V190 CAVOK M04/M10 Q1017 27390045 NOSIG RMK QFE742 FAOB 191000Z 19010KT 9999 SCT035 24/14 Q1014 KFSM 190953Z AUTO 06004KT 6SM BR OVC006 05/03 A3021 RMK AO2 SLP232 T00500033 WABP 190600Z 00000KT 0800 TSRA FEW010CB BKN005 24/23 Q1010 KHAO 190953Z AUTO 31006KT 9SM OVC018 M02/M06 A3026 RMK AO2 SLP254 T10221056 KFSO 191035Z AUTO 00000KT 10SM SCT011 OVC019 M04/M06 A2998 RMK AO2 T10401056 KHBG 190953Z AUTO 04004KT 10SM OVC019 11/09 A3013 RMK AO2 SLP202 T01060089 KFTG 191039Z AUTO 24006KT 5SM BR CLR M02/M03 A3006 RMK AO2 VILK 191000Z VRB02KT 2000 HZ FEW100 SCT200 19/12 Q1020 NOSIG KHBI 191015Z AUTO 00000KT 10SM OVC060 04/M01 A3013 RMK AO2 T00411006 KGKJ 191037Z AUTO 31007KT 3SM BR OVC007 M03/M04 A3010 RMK AO2 CIG 004V010 T10281044 TSNO WADD 191000Z 25004KT 190V280 9999 FEW015 28/25 Q1009 NOSIG USCM 191030Z 18006MPS 9999 OVC100 M06/M10 Q1018 NOSIG 19090060 RMK QFE726 KFST 190953Z AUTO 00000KT 10SM CLR 06/00 A3010 RMK AO2 SLP167 T00610000 KGJT 191027Z AUTO 13007KT 10SM SCT026 OVC050 M01/M02 A3019 RMK AO2 T10111022 KFTK 190958Z AUTO 34003KT 10SM OVC070 M01/M03 A3023 RMK AO2 SLP247 T10081034 KGLD 190953Z AUTO 27006KT 10SM CLR M04/M06 A3009 RMK AO2 SLP207 T10391061 KHCD 191033Z AUTO 12006KT 5SM BR BKN014 OVC032 M05/M06 A3022 RMK AO2 T10491060 KFTN 190130Z AUTO 05004KT 10SM OVC006 17/15 A3000 RMK AO1 KFSW 191015Z AUTO 00000KT 7SM BKN029 OVC045 M03/M03 A3029 RMK AO2 KGLE 191015Z AUTO 00000KT 1 1/2SM BR OVC002 06/06 A3022 RMK AO2 T00610060 FAPE 191000Z 23014KT CAVOK 24/16 Q1014 NOSIG KGLH 190953Z AUTO 04007KT 9SM OVC044 08/05 A3017 RMK AO2 SLP225 T00780050 KHBR 191011Z AUTO 04008KT 5SM BR BKN006 OVC013 04/03 A3018 RMK AO2 T00390028 URML 191030Z 02004MPS 9999 SCT018 BKN100 07/03 Q1018 NOSIG RMK QFE763/1018 SC070 FAOR 191000Z 30006KT 270V360 9999 SCT038 FEW040TCU 24/14 Q1022 NOSIG WADL 191000Z 00000KT 8000 FEW015CB SCT016 27/25 Q1010 TEMPO FM TL 0900 5000 TSRA FEW015CB SCT016 DRZA 191000Z 12006KT CAVOK 28/M02 Q1018 KGKT 191035Z AUTO 00000KT 10SM OVC039 01/M01 A3018 RMK URMM 191030Z 30003MPS 9999 BKN110 10/01 Q1018 R30/CLRD70 NOSIG RMK QFE735/0980 URMN 191030Z 05001MPS 9999 SCT033 OVC100 10/01 Q1017 NOSIG RMK QFE726 SC06 FBFT 191000Z 03005KT 9999 BKN025 FEW035CB 28/20 Q1015 KFUL 190953Z 00000KT 10SM CLR 10/08 A3020 RMK AO2 SLP227 T01000078 URMO 191030Z 00000MPS 9999 OVC120 05/02 Q1017 NOSIG RMK QFE719/0959 SC070 KHBV 191015Z AUTO 00000KT 3/4SM BKN001 BKN006 OVC021 17/17 A2995 RMK AO2 T01710167 PWINO ZWSH 191000Z 00000MPS 4000 FU SCT040 M04/M12 Q1023 NOSIG KFTW 190953Z 34006KT 4SM -RA BR OVC006 08/06 A3017 RMK AO2 RAB51 SLP215 P0000 T00780061 KFVE 190953Z AUTO 33017G23KT 10SM BKN011 OVC050 M06/M08 A2971 RMK AO2 PK WND 34026/0918 SLP074 T10611078 KHDE 191015Z AUTO 23004KT 5SM BR OVC006 M01/M02 A3013 RMK AO2 T10151024 FAPN 191000Z AUTO 20006KT //// // ////// 26/17 Q1016 KHCO 191035Z AUTO 16012KT 7SM OVC012 M06/M07 A3009 RMK AO2 KFTY 190953Z 31005KT 10SM CLR 03/M01 A3013 RMK AO2 SLP203 T00281006 KGKY 190953Z AUTO 35006KT 10SM OVC009 09/06 A3017 RMK AO2 SLP214 T00890056 FAPP 191000Z 05005KT 9999 SCT050 25/12 Q1018 NOSIG URMT 191030Z 31005G08MPS 9999 FEW033 BKN100 11/03 Q1017 NOSIG RMK QFE724 SC060 KGLR 190953Z AUTO 00000KT 10SM CLR M17/M18 A3019 RMK AO2 SLP253 T11671183 FAPR 181310Z 13004G16KT 9000 TSRA FEW030CB BKN050 21/13 Q1017 KGLS 191030Z AUTO 02018G23KT 10SM SCT007 OVC016 14/14 A3002 RMK AO1 T01440139 KFWA 190954Z 28007KT 8SM FEW018 OVC028 M03/M06 A3024 RMK AO2 SLP252 T10281061 KGNA 190956Z AUTO 04004KT M03/M08 A3026 RMK AO1 SLP263 T10331083 KGMJ 191015Z AUTO 00000KT 1/2SM FG OVC003 04/04 A3020 RMK AO2 KFWB 191015Z AUTO 09003KT 6SM BR OVC004 02/02 A3017 RMK AO2 KFWC 191015Z AUTO 00000KT 4SM BR OVC044 M01/M02 A3028 RMK AO1 T10111020 KGNC 191015Z AUTO 08005KT 7SM OVC004 03/02 A3011 RMK AO2 T00250018 KHDN 191035Z AUTO 26004KT 10SM OVC026 M09/M11 A3016 RMK AO1 KGLW 191015Z AUTO 01003KT 7SM SCT049 SCT065 M01/M03 A3023 RMK AO2 T10131030 KHDO 190951Z AUTO 03009KT 10SM OVC011 13/12 A3003 RMK AO2 SLP159 T01330117 KHEF 191035Z 33008KT 10SM FEW080 OVC100 01/M04 A3013 RMK AO1 KGNF 191035Z AUTO 00000KT 10SM OVC038 07/03 A3019 RMK AO2 LTG DSNT SW KGLY 191035Z AUTO 00000KT 2 1/2SM BR OVC003 01/01 A3025 RMK AO2 ZYCC 191000Z 26002MPS 240V310 6000 FEW026 M13/M17 Q1020 NOSIG KHEI 190953Z AUTO 25007KT 10SM BKN085 BKN110 M02/M05 A2994 RMK AO2 SLP166 T10221050 DRZR 191000Z 06008KT CAVOK 28/M06 Q1017 KGMU 190953Z AUTO 01012KT 10SM CLR 06/M02 A3009 RMK AO2 SLP190 T00611022 KHFD 190953Z 32009G20KT 10SM OVC037 02/M07 A2995 RMK AO2 SLP140 T00171067 KFWN 190953Z AUTO VRB05KT 10SM OVC030 02/M04 A2997 RMK AO2 SLP151 T00171044 KFXE 190953Z 00000KT 10SM CLR 16/12 A3007 RMK AO2 SLP184 T01560122 KHFF 190955Z 33001KT 10SM CLR 00/00 A3012 RMK AO2 SLP203 T00041002 KFVX 191015Z AUTO 00000KT 10SM CLR M03/M05 A3011 RMK AO2 T10301055 KGNR 190956Z AUTO 32013G28KT M05/M07 A2968 RMK AO1 PK WND 32028/0953 SLP073 T10501067 FASI 181300Z AUTO /////KT //// // ////// 19/14 Q1018 KFWS 191015Z AUTO 32009G15KT 5SM -DZ OVC008 08/07 A3022 RMK AO2 LTG DSNT S T00820068 KHFJ 191015Z AUTO 04004KT 1/2SM FG OVC002 02/02 A3016 RMK AO2 DTKA 191000Z 18004KT 9999 SCT020 SCT030 15/13 Q1027 NOSIG. EKKA 191020Z 24011KT 9999 FEW022 07/05 Q0996 TEMPO 7000 -SHRA SCT020CB KGOK 190953Z AUTO 02005KT 4SM BR OVC004 03/02 A3019 RMK AO2 SLP229 T00280022 KGNT 191035Z AUTO 30005KT 10SM BKN022 M06/M07 A3020 RMK AO2 T10571068 FCBB 191000Z 26003KT 200V330 7000 SCT018 27/22 Q1015 NOSIG KGNV 190953Z AUTO 00000KT 10SM CLR 08/07 A3009 RMK AO2 SLP190 T00830072 KGON 190956Z AUTO 31009KT 8SM OVC050 01/M03 A2992 RMK AO2 SLP130 T00111033 USHH 191030Z 17005MPS 9000 SCT020 OVC080 M07/M10 Q1012 TEMPO 2000 SN BKN005 RMK QFE755 24////42 FBKE 191000Z 02007KT 320V050 9999 SCT025 29/21 Q1016 KGOO 191040Z AUTO 15004KT 10SM FEW030 OVC050 06/03 A3017 RMK AO1 KHEY 190953Z AUTO 00000KT 10SM OVC042 10/03 A3012 RMK AO2 SLP187 T01000028 KGOP 191015Z AUTO 35010KT 5SM OVC004 08/08 A3014 RMK AO2 LTG DSNT SE-W PWINO KFYG 191015Z AUTO 00000KT 7SM OVC025 00/M02 A3028 RMK AO2 KGPH 191035Z AUTO 02003KT 3/4SM BR OVC002 00/00 A3025 RMK AO2 KHEZ 191035Z AUTO 03007KT 6SM OVC006 10/08 A3010 RMK AO1 KFWZ 191015Z AUTO 28006KT 10SM CLR M06/M12 RMK AO2 KGPI 191036Z AUTO 00000KT BKN004 OVC010 M01/M01 A2995 RMK AO2 UPB0959E06B15E20SNB06E15 P0000 T10061011 $ KFYJ 191015Z AUTO 00000KT 10SM SCT120 00/M03 A3013 RMK AO2 T00021029 KGOV 191035Z AUTO 00000KT 10SM CLR M13/M15 A3023 RMK AO2 T11331146 KFYM 191035Z AUTO 6SM OVC037 00/M01 A3019 RMK KGPM 191035Z AUTO 28006KT 7SM OVC009 08/08 A3023 RMK AO2 T00780078 KHHF 191015Z AUTO 00000KT 5SM BR BKN005 OVC010 04/03 A3015 RMK AO2 T00350031 KFXY 191015Z AUTO 17004KT 10SM OVC024 M03/M06 A3023 RMK AO2 KFZG 191015Z AUTO 33003KT 10SM SCT070 BKN110 09/00 A3013 RMK AO2 T00901002 KHHG 191015Z AUTO 29005KT 10SM OVC028 M03/M06 A3024 RMK AO2 T10351060 UTAA 191000Z 10003MPS 070V140 5000 BR FEW033 SCT100 BKN230 06/04 Q1018 R12/CLRD70 NOSIG KHGR 190953Z AUTO 29012KT 10SM OVC027 01/M06 A3008 RMK AO2 SLP203 T00061056 KGPT 190953Z AUTO 03007KT 10SM OVC029 12/09 A3009 RMK AO2 SLP188 T01220094 $ KGRB 190953Z AUTO 00000KT 9SM CLR M08/M09 A3028 RMK AO2 SLP265 T10781094 KHIB 191019Z AUTO 21006KT 10SM OVC004 M07/M09 A3019 RMK AO2 T10671089 DTMB 191030Z 31012KT 9999 FEW020 SCT026 18/13 Q1026 KFYV 191023Z AUTO 00000KT 5SM BR OVC004 04/04 A3019 RMK AO2 T00440039 KGRD 190956Z AUTO 36004KT 10SM CLR 02/01 A3009 RMK AO2 SLP191 T00170006 KHIE 190952Z AUTO 32007KT 10SM SCT008 OVC015 M03/M05 A2986 RMK AO2 SLP127 I1000 T10281050 KGRF 190958Z AUTO 14006KT 10SM DZ SCT035 BKN045 BKN055 08/08 A2981 RMK AO2 DZB0858 SLP099 P0000 T00790077 $ KHIF 190958Z AUTO 11011KT 10SM OVC060 00/M04 A3017 RMK AO2 SLP218 T10021042 URRR 191030Z VRB01MPS 9999 FEW008 SCT017 BKN100 08/06 Q1016 22290044 NOSIG FAUP 191000Z 19006KT CAVOK 32/00 Q1015 NOSIG KGPZ 191035Z AUTO 15005KT 5SM OVC008 M08/M09 A3018 RMK AO1 WAJJ 191000Z 27005KT 8000 FEW014 27/24 Q1008 RE TS UTAK 191000Z 32002MPS CAVOK 12/03 Q1017 NOSIG KGRI 190953Z AUTO 24006KT 8SM OVC008 M02/M03 A3017 RMK AO2 SLP242 T10171028 KHHR 190953Z AUTO 00000KT 10SM CLR 12/09 A3021 RMK AO2 SLP231 T01170089 KHII 191015Z AUTO 19003KT 10SM CLR 09/05 A3020 RMK AO2 ZWWW 191030Z 36001MPS 1200 R25/1500N BR NSC M15/M18 Q1031 NOSIG UTAM 191000Z 16003MPS CAVOK 15/04 Q1020 RMK SC 07 KGRK 191003Z AUTO 02007KT 4SM BR VCTS OVC005 08/08 A3008 RMK AO2 LTG DSNT W $ KIAB 191033Z AUTO 04004KT 7SM R01/5000FT OVC003 M01/M02 A3020 RMK AO2 KGSB 190958Z AUTO 00000KT 10SM OVC070 02/02 A3009 RMK AO2 SLP193 T00180015 $ FAWB 190000Z AUTO 06002KT 17/15 Q1018 FAUT 181300Z 18008KT 9999 SCT030 27/15 Q1013 KIAD 190952Z 31007KT 10SM SCT035 BKN060 OVC100 00/M06 A3012 RMK AO2 SLP200 T00001056 KHHV 191035Z AUTO 19012G17KT 10SM CLR 23/19 A2997 RMK A01 KHHW 191015Z AUTO 07003KT 4SM BR OVC003 08/07 A3016 RMK AO2 T00760065 FBMN 181900Z 19016KT 9999 -TSRA FEW030CB BKN070 24/18 Q1015 KHIO 190953Z AUTO 13006KT 10SM OVC040 08/07 A2988 RMK AO2 SLP117 T00780067 KFZY 191027Z AUTO 10SM OVC014 M03/M06 A3006 RMK AO2 T10281061 KIAG 190953Z AUTO 32008KT 10SM OVC016 M04/M07 A3011 RMK AO2 UPB18E43 SLP213 P0000 T10391067 URSS 191030Z 00000MPS 5000 -SHRA SCT010 OVC033CB 10/08 Q1021 NOSIG RMK R02/05002MPS MT OBSC QFE765 06290050 02////// ZYHB 191000Z 30002MPS 270V340 3000 BR SCT020 M16/M19 Q1020 NOSIG KIAH 190953Z 05008KT 7SM RA OVC009 14/13 A3002 RMK AO2 TSE27 SLP166 TS DISPTD P0021 T01390133 KGSH 190953Z AUTO 26005KT 6SM BR BKN015 OVC023 M03/M05 A3023 RMK AO2 SLP247 T10331050 KHJH 191015Z AUTO 18005KT 5SM BR OVC015 M01/M03 A3020 RMK AO2 T10131028 UTAT 191000Z 07004MPS CAVOK 03/04 Q1024 99CLRD70 NOSIG KGRR 190953Z AUTO 31004KT 10SM OVC019 M02/M07 A3023 RMK AO2 SLP247 T10221067 KHKA 190953Z AUTO 05010KT 8SM OVC039 03/02 A3024 RMK AO2 SLP240 T00330017 UTAV 190800Z 17005MPS CAVOK 10/02 Q1025 NOSIG KGTB 190958Z AUTO 35005KT 4SM -FZDZ BR OVC003 M05/M06 A3002 RMK AO2 SLP176 P0000 T10541065 FAWK 190000Z AUTO 03003KT 17/17 Q1021 FAVV 181300Z AUTO 21004KT //// // ////// 25/12 Q1021 EKOD 190950Z 24014KT 9999 FEW015 SCT060 08/08 Q0998 KGTF 190953Z 21010KT 10SM CLR M01/M04 A2989 RMK AO2 SLP155 T10061039 KHJO 190953Z AUTO 10003KT 6SM BR CLR 08/06 A3020 RMK AO2 SLP229 T00780061 KGSO 190954Z 04003KT 10SM OVC060 05/M04 A3009 RMK AO2 SLP190 T00501039 KGSP 190953Z AUTO 02005KT 10SM CLR 03/M02 A3008 RMK AO2 SLP185 T00331017 KGRY 191035Z AUTO 18010KT 10SM BKN055 OVC065 22/19 A3000 RMK A01 WALL 191000Z 24003KT 9000 -RA FEW017CB SCT018 25/24 Q1009RMK CB TO NW UTDD 191030Z 10002MPS 060V120 5000 FU SCT050 SCT150 08/01 Q1027 09CLRD70 NOSIG RMK QFE702/0936 KHLC 191025Z AUTO 00000KT 8SM OVC009 00/M01 A3015 RMK AO2 T00001011 KGUC 191035Z AUTO 00000KT 10SM OVC014 M08/M13 A3018 RMK AO1 KIBM 191015Z AUTO 26009KT 10SM CLR M06/M09 A3003 RMK AO2 T10641095 KHLG 191001Z AUTO 25006KT 6SM BR SCT008 OVC027 M03/M05 A3016 RMK AO2 T10281050 URWA 191030Z 17004MPS 9999 BKN010 OVC033 07/05 Q1018 NOSIG RMK QFE766/1021 SC055 KGTR 191035Z 05004KT 10SM OVC032 06/03 A3017 RMK AO1 UTDL 191030Z 06004MPS 6000 FEW100 FEW200 06/M03 Q1027 NOSIG RMK QFE731/0975 88CLRD70 KIDA 190953Z AUTO 20004KT 7SM BKN038 OVC048 00/M02 A3013 RMK AO2 SLP224 T00001017 KHKS 190953Z AUTO 06004KT 10SM OVC026 09/04 A3015 RMK AO2 SLP204 T00890039 WAMM 191030Z VRB02KT 270V360 9000 SCT018 27/24 Q1011 NOSIG KGTU 191035Z 36008KT 5SM BKN005 OVC014 09/08 A3005 RMK AO1 P0002 KGUL 191035Z AUTO 10SM FEW023 SCT029 23/18 A2998 RMK A01 KICL 191035Z AUTO 18004KT 5SM BR OVC006 M01/M01 A3026 RMK AO2 KHLN 190953Z AUTO 00000KT 10SM BKN060 OVC100 M04/M06 A2997 RMK AO2 SLP203 T10391056 KGVE 191015Z AUTO 00000KT 10SM CLR M03/M05 A3011 RMK AO1 T10261047 URWI 191030Z 23004MPS CAVOK 10/03 Q1016 NOSIG RMK SC060 KGUP 190953Z AUTO 09003KT 1/4SM HZ VV002 M05/M08 A3020 RMK AO2 SLP251 I1000 T10501083 $ KHKY 190953Z AUTO 34005KT 10SM CLR 03/M03 A3009 RMK AO2 SLP182 T00281033 UTFA 191000Z 05003KT 4000 BR NSC 05/M03 Q1029 R88/09//70 KIDI 191035Z AUTO 27007KT 240V300 4SM BR OVC008 M02/M03 A3014 RMK A01 KICR 190953Z AUTO 20004KT 10SM CLR M04/M08 A3004 RMK AO2 SLP197 T10441078 KHLR 191038Z AUTO 35011KT 5SM BR OVC004 08/08 A3008 RMK AO2 LTG DSNT NE AND SE-S AND W-NW KGUR 191015Z AUTO 00000KT 10SM CLR M09/M12 A3005 RMK AO2 T10931116 PWINO KGUS 190958Z AUTO 30006KT 10SM OVC029 M03/M04 A3024 RMK AO2 SLP255 T10351038 KICT 190953Z 36004KT 6SM BR OVC006 M01/M02 A3022 RMK AO2 SLP243 T10061022 $ KHNB 191035Z AUTO 02004KT 10SM OVC050 M02/M06 A3029 RMK AO1 KGWB 191015Z AUTO 26004KT 7SM SCT008 SCT014 OVC024 M02/M05 A3023 RMK AO2 USNN 191030Z 21006MPS 9999 DRSN BKN100 M06/M10 Q1017 NOSIG RMK QFE757 2139//39 KGVL 190953Z AUTO 29006KT 10SM CLR 03/01 A3010 RMK AO2 SLP193 T00280006 UTFF 191000Z 29002KT 230V320 8000 NSC 05/M03 Q1027 R18/CLRD70 KHND 190956Z 17005KT 10SM CLR 04/02 A3024 RMK AO2 SLP245 T00390017 KHMN 190958Z AUTO 36008KT 10SM OVC039 05/05 A3013 RMK AO2 SLP176 T00480046 $ KHLX 191015Z AUTO 35006KT 10SM OVC046 M01/M06 A3007 RMK AO2 T10071060 KGUY 190953Z AUTO 00000KT 8SM OVC010 02/02 A3013 RMK AO2 SLP206 T00220017 KIDP 191015Z AUTO 36004KT 5SM BR OVC006 01/00 A3022 RMK AO2 WBGB 191000Z 34005KT 290V030 9999 FEW015CB BKN300 29/25 Q1008 KGXA 190955Z AUTO VRB03KT 10SM CLR 01/00 A3021 RMK AO2 SLP260 T00111005 TSNO $ KIFA 191015Z AUTO 00000KT 10SM OVC023 M04/M05 A3026 RMK AO2 T10371055 KHOB 191035Z AUTO 00000KT 4SM BR CLR 02/02 A3010 RMK AO2 KGVT 191015Z AUTO 04008KT 4SM BR OVC005 07/06 A3011 RMK AO2 LTG DSNT SW URWW 191030Z 28003MPS 0450 R29/0750N FG VV002 03/03 Q1014 NOSIG RMK QBB070 OBST OBSC 29290253 EKSB 190950Z 25010KT 9999 FEW020 SCT160 BKN220 09/07 Q0999 EKRK 191020Z AUTO 25012KT 9999NDV FEW010/// SCT014/// BKN018/// BKN170/// 08/07 Q0997 WAOO 191000Z 00000KT 9000 SCT012 26/25 Q1008 RMK RERA WBGG 191030Z 28002KT 9999 -RA FEW015CB SCT020 BKN150 25/24 Q1009 NOSIG KIEN 190952Z AUTO 24006KT 10SM CLR M03/M08 A3003 RMK AO2 SLP194 T10281083 KHOE 191015Z AUTO 00000KT 10SM CLR 07/06 A3011 RMK AO2 EKRN 191020Z AUTO 25013KT 9999NDV BKN067/// 08/07 Q0998 KGWO 190953Z AUTO 07005KT 10SM OVC040 08/04 A3017 RMK AO2 SLP215 T00780039 KGXF 190956Z AUTO 18004KT 10SM CLR 07/06 A3019 RMK AO2 SLP221 T00710059 KGVX 191035Z AUTO 00000KT 10SM OVC110 21/20 A2999 RMK A01 KGWR 191035Z AUTO 7SM OVC010 M01/M01 A3009 RMK A01 P000 KIER 191035Z AUTO 07003KT 10SM DZ OVC014 11/09 A3011 RMK AO2 LTG DSNT SE AND W T01050088 KHNR 191015Z AUTO 20006KT 5SM BR OVC006 M01/M01 A3026 RMK AO2 DTTA 191030Z 27003KT 200V350 9999 SCT023 18/13 Q1027 NOSIG KGYB 191015Z AUTO 02006KT 5SM RA SCT003 BKN008 OVC017 10/10 A3007 RMK AO2 P0009 T01000095 DTTB 191000Z 24005KT 220V280 9999 SCT020TCU 17/14 Q1027 FBSK 191000Z 06007KT 340V140 9999 SCT030 FEW035TCU 29/16 Q1016 NOSIG FDBB 191000Z AUTO 00000KT //// // ////// 31/22 Q1012 DTTD 191000Z 28004KT 260V320 9999 SCT026 SCT030 14/06 Q1027 USPP 191030Z 20003MPS 9999 -SN BKN014 OVC070 M04/M06 Q1013 21420145 NOSIG RMK QFE749/0998 MOD ICE INC 1000-2150 KHON 190955Z AUTO 19011KT 7SM OVC007 M02/M04 A3010 RMK AO2 SLP209 T10221039 KGWW 191035Z AUTO 00000KT 10SM OVC075 03/02 A3011 RMK AO2 T00250020 EKSN 190950Z 26013KT 9999 FEW022 SCT028TCU 06/04 Q0992 WBGR 191000Z 01005KT 9999 FEW014 FEW015CB BKN300 29/25 Q1008 DTTF 191000Z 05010KT 9999 FEW026 15/09 Q1027 NOSIG KIFP 191035Z AUTO 00000KT 10SM CLR 09/05 A3023 RMK AO2 KHOP 190958Z AUTO 02005KT 10SM OVC049 01/M02 A3023 RMK AO2 SLP244 T00061019 WBGS 191000Z 27002KT 9999 SCT018 BKN300 31/25 Q1007 DTTG 191000Z 31004KT 270V350 8000 FEW020 SCT030 16/08 Q1027 NOSIG FBSP 191000Z 00000KT 9999 BKN030 30/21 Q1015 EKSP 191020Z 26013KT 9999 FEW020 SCT200 07/05 Q0999 NOSIG KGYH 191035Z AUTO 05006KT 10SM CLR 03/M03 A3009 RMK AO2 KHNZ 191015Z AUTO 36003KT 10SM BKN070 03/M05 A3010 RMK AO2 T00311049 KGYI 191035Z AUTO 01007KT 1/2SM FG OVC001 07/07 A3017 RMK AO2 LTG DSNT S T00670067 DTTJ 191030Z 34010KT 9999 SCT020TCU SCT026 17/13 Q1025 NOSIG KHOT 190953Z AUTO 09005KT 5SM BR OVC003 04/04 A3019 RMK AO2 SLP225 T00440039 DTTK 191000Z 34006KT 270V050 9999 FEW023 17/12 Q1027 KHOU 191033Z 08008KT 7SM BKN007 OVC027 15/14 A3000 RMK AO2 RAE12 $ KGYL 191034Z AUTO 11005KT 7SM SCT020 OVC029 M05/M06 A3022 RMK AO2 T10471057 DTTL 191000Z VRB04KT 9999 SCT020 18/14 Q1026 KIGM 190951Z AUTO 00000KT CLR 00/M02 A3021 RMK AO2 SLP206 T00001017 $ WBGY 191000Z 23001KT 9999 FEW015CB SCT022 BKN150 27/26 Q1007 KHPN 190956Z 31011KT 10SM BKN040 02/M04 A2994 RMK AO2 SLP144 T00171044 DTTN 191000Z 19005KT 9999 SCT020 SCT030 14/13 Q1028 KGXY 191035Z AUTO 00000KT 10SM CLR M09/M14 A3006 RMK AO1 KGZH 190953Z AUTO 36003KT 10SM OVC050 11/05 A3014 RMK AO2 SLP205 T01060050 KIGQ 191015Z AUTO 28005KT 10SM OVC023 M02/M05 A3027 RMK AO2 T10221050 KGYR 190347Z VRB03KT 10SM FEW200 11/06 A3017 KHQI 191035Z AUTO 17008G13KT 10SM FEW021 23/19 A2999 RMK A01 DTTR 191000Z 00000KT 9999 SCT030 14/08 Q1028 KIIB 191015Z AUTO 00000KT 10SM OVC034 M05/M06 A3027 RMK AO2 KGZL 190955Z AUTO 06004KT 5SM BR OVC016 05/03 A3021 RMK AO2 KHQM 191016Z AUTO 16012KT 6SM -RA BR SCT023 BKN030 OVC039 09/07 A2980 RMK AO2 P0013 T00890067 EKVD 190950Z 26012KT 9999 FEW026 07/04 Q0998 WARQ 191000Z 23005KT 4000 TSRA FEW015CB SCT015 25/24 Q1010 CB TO OVER THE FIELD KIGX 190956Z AUTO 31003KT 10SM OVC065 06/M07 A3010 RMK AO2 SLP193 T00611072 WARR 191000Z 02004KT 350V060 8000 FEW018CB 29/24 Q1008 USRR 191030Z 20006G09MPS 7000 BKN044 M07/M10 Q1014 NOSIG RMK QFE755 25////40 DTTX 191000Z 34011KT 9999 FEW020 SCT030 16/11 Q1026 NOSIG KGYY 190915Z AUTO 27005KT 10SM OVC022 M01/M06 A3027 RMK AO2 T10071062 WARS 191000Z 35005KT 8000 SCT019 BKN020 29/25 Q1009 NOSIG EKVG 191020Z AUTO 30020KT 9999NDV SCT027/// 03/M02 Q0981 DTTZ 191000Z 29002KT 8000 SCT026 14/08 Q1028 NOSIG KHRI 190953Z AUTO 28007KT 1 3/4SM -RA BR OVC070 04/03 A2985 RMK AO2 RAB0856 SLP112 P0001 T00390028 KHSA 190255Z 00000KT 10SM OVC026 14/09 A3014 KHRJ 191015Z AUTO 00000KT 10SM OVC070 04/03 A3012 RMK AO2 T00400027 EKVJ 190950Z 26016KT 9999 SCT030 08/07 Q0998 KHSB 191015Z AUTO 00000KT 7SM OVC044 00/M02 A3029 RMK AO2 T10031024 KHRL 191024Z 30003KT 4SM BR OVC006 19/18 A2993 RMK AO2 KJAC 191035Z AUTO 21010KT 10SM BKN043 OVC060 M02/M03 A3008 RMK AO1 KHQU 191035Z AUTO 00000KT 7SM CLR 02/02 A3014 RMK AO1 T00230023 KIJD 190952Z AUTO 30005KT 10SM OVC036 02/M05 A2992 RMK AO2 SLP133 T00171050 KHSE 190951Z AUTO 32004KT 10SM BKN070 06/04 A3008 RMK AO2 SLP187 T00560039 TSNO KHRO 191000Z AUTO 07004KT 7SM OVC004 03/02 A3017 RMK AO2 T00280022 ELLX 191020Z AUTO 23017G28KT 190V260 4100 NDV 09/09 Q1016 USSS 191030Z 21005MPS 9999 FEW033 OVC067 01/M04 Q1015 7629//37 NOSIG RMK QFE740 KHQZ 191015Z AUTO 03006KT 5SM OVC006 07/06 A3014 RMK AO1 T00740063 WBKK 191030Z 09007KT 9999 FEW014 SCT140 BKN260 28/25 Q1009 NOSIG KHSI 190953Z AUTO 23006KT 10SM OVC010 M01/M03 A3015 RMK AO2 SLP229 T10061033 WBKL 191000Z 02009KT 340V070 9999 FEW010 FEW012TCU BKN290 29/25 Q1008 KL18 191035Z AUTO 00000KT 10SM CLR 09/06 A3021 RMK AO2 KHRT 190958Z AUTO VRB04KT 10SM OVC041 12/03 A3011 RMK AO2 SLP198 T01190025 $ UUBP 191000Z 18006MPS 0900 R16/0900N -SN FG VV002 00/00 Q1005 NOSIG 16590840 RMK QBB070 QFE736 KJAN 190954Z AUTO 06004KT 10SM OVC024 09/04 A3015 RMK AO2 SLP207 T00890039 KHRX 191035Z AUTO 15007KT 5SM BR OVC003 03/03 A3010 RMK AO2 T00290025 USTR 191030Z 20006MPS CAVOK M06/M08 Q1017 NOSIG RMK QFE753/1005 21450160 30450350 KIIY 191015Z AUTO 31003KT 10SM CLR 05/05 A3008 RMK AO2 KHSP 191015Z AUTO 28009KT 7SM SCT006 M06/M06 A2996 RMK AO2 T10631063 WBKS 191000Z 05009KT 9999 FEW015 FEW017CB BKN260 28/26 Q1009 WATT 191000Z 24005KT 8000 SCT016 29/27 Q1009 NOSIG WBKT 191000Z 07008KT 9999 SCT013 SCT032 BKN270 28/24 Q1010 KHUA 190958Z AUTO 36003KT 7SM BKN035 00/M01 A3019 RMK AO2 SLP228 KJAS 191015Z AUTO 08004KT 5SM +RA BKN006 BKN022 OVC095 11/10 A3011 RMK AO2 P0007 T01070102 UUDD 191030Z 17005MPS 9999 OVC010 00/M01 Q1005 64290095 14290095 NOSIG KHST 190958Z AUTO 34003KT 10SM CLR 15/13 A3006 RMK AO2 SLP182 T01460127 $ KIKK 191015Z AUTO 26004KT 10SM OVC031 M04/M05 A3028 RMK AO2 T10401055 UUBW 191030Z 15003MPS 9999 OVC013 01/M02 Q1005 TEMPO 2000 SN OVC007 RMK SC0.40 WBKW 191000Z 05006KT 9999 FEW017 BKN140 28/25 Q1009 KHTL 191024Z AUTO 28004KT 10SM SCT002 M12/M13 A3022 RMK AO2 T11171128 KHSV 190953Z AUTO 00000KT 4SM BR BKN036 02/00 A3019 RMK AO2 SLP225 T00170000 KILE 191035Z AUTO 36013KT 5SM OVC005 08/05 A3006 RMK AO1 LTG DSNT NW KHTO 181850Z 30013KT 10SM FEW030 06/M01 A2989 KHUF 190953Z 33003KT 10SM FEW016 M03/M06 A3029 RMK AO2 SLP262 T10331061 KJAX 190956Z 00000KT 10SM BKN250 07/06 A3008 RMK AO2 SLP187 T00670061 KIJX 191015Z AUTO 00000KT 7SM OVC035 M01/M03 A3029 RMK AO2 T10081035 KILG 190951Z 30011KT 10SM OVC033 02/M04 A3006 RMK AO2 SLP180 T00221039 KL35 191015Z AUTO 26003KT 1 3/4SM -SN OVC001 M07/M08 A3023 RMK AO2 KJBR 191005Z AUTO 07008KT 7SM BKN008 OVC037 03/02 A3024 RMK AO2 T00330022 UUDL 191030Z 16002MPS 9999 -SN OVC010 00/M01 Q1004 NOSIG RMK QFE745 23390146 KHTS 190951Z 35003KT 10SM OVC022 M02/M05 A3022 RMK AO2 SLP241 T10221050 KL38 191015Z AUTO 09005KT 10SM -TSRA BKN015 OVC021 13/13 A3003 RMK AO2 LTG DSNT NW THRU E P0002 T01300130 KIKT 191035Z AUTO 11016KT 10SM SCT020 SCT034 22/17 A3003 RMK A01 UUEE 191030Z 16005MPS 4500 -SN BR OVC010 M00/M01 Q1003 75520245 25520245 NOSIG KHUL 190953Z AUTO 33011KT 10SM OVC015 M04/M07 A2972 RMK AO2 SLP073 T10391067 KILM 190953Z 00000KT 10SM CLR 02/01 A3009 RMK AO2 SLP189 T00170006 KJDD 191035Z AUTO 01004KT 2 1/2SM BR OVC004 08/08 A3013 RMK AO2 LTG DSNT S KHUM 191015Z AUTO 09006KT 5SM VCTS BR BKN004 OVC021 15/15 A3003 RMK AO2 LTG DSNT N T01500145 KIKV 191015Z AUTO 00000KT 10SM OVC014 M03/M04 A3026 RMK AO2 KIKW 191034Z AUTO 00000KT 10SM BKN021 M05/M07 A3025 RMK AO2 T10551073 KILN 190954Z AUTO 36007KT 8SM OVC016 M03/M07 A3021 RMK AO2 SLP259 T10331067 FCPP 191000Z 18010KT 9999 FEW016 SCT023 29/24 Q1013 NOSIG OYAA 191000Z 12015KT 9999 SCT018 28/21 Q1017 KHUT 190952Z AUTO 00000KT 4SM BR OVC003 M01/M02 A3021 RMK AO2 SLP236 T10061022 KJCT 191019Z AUTO 05003KT 6SM -RA BR OVC007 10/09 A3008 RMK AO2 LTG DSNT NE RAB0954 CIG 006V012 P0001 T01000089 UTNN 191000Z 14003KT 8000 NSC 00/M06 Q1024 R33/CLRD60 NOSIG EKYT 191020Z 24013KT 9999 FEW030 06/04 Q0993 KIML 190953Z AUTO 28003KT 6SM BR CLR M10/M12 A3009 RMK AO2 SLP230 T11001122 KIMM 191035Z AUTO 00000KT 2SM CLR 07/ A3010 RMK A01 P000 KHWD 191023Z AUTO 17006KT 10SM OVC028 14/10 A3016 RMK AO2 KIND 190954Z 29004KT 8SM FEW015 M07/M08 A3025 RMK AO2 SLP253 T10671083 KJDN 190948Z AUTO 30003KT M04/M06 A2992 RMK AO1 SLP158 T10391056 KHVN 190953Z AUTO 33006KT 10SM OVC043 04/M03 A2994 RMK AO2 SLP138 T00391033 KJEF 190953Z AUTO 09004KT 4SM BR BKN007 OVC013 01/M01 A3027 RMK AO2 SLP245 T00061006 KINF 191035Z AUTO 00000KT 10SM CLR 07/07 A3011 RMK AO2 ZYTL 191030Z 35009MPS 320V020 5000 BR NSC 01/M07 Q1020 NOSIG KHVR 190953Z AUTO 22009KT 10SM CLR M01/M04 A2989 RMK AO2 SLP146 T10111044 KHVS 191035Z AUTO 00000KT 10SM CLR 03/00 A3010 RMK AO2 UTNU 191000Z 10003KT CAVOK 05/M03 Q1023 R31/CLRD70 NOSIG KIMS 191033Z AUTO 00000KT 5SM OVC012 M03/M05 A3027 RMK AO1 KINJ 191015Z AUTO 35011KT 5SM -RA OVC006 08/07 A3013 RMK AO2 LTG DSNT SE AND SW T00800066 KIMT 190954Z AUTO 28004KT 10SM CLR M17/M19 A3024 RMK AO2 SLP268 T11671194 KINK 190953Z AUTO 28007KT 10SM CLR 06/02 A3008 RMK AO2 SLP166 T00610022 KIOB 191015Z AUTO 02003KT 10SM OVC070 M02/M04 A3025 RMK AO2 KINL 190955Z AUTO 19004KT 10SM OVC011 M06/M08 A3018 RMK AO2 SLP244 T10611078 KHXD 190935Z AUTO 00000KT 8SM CLR 07/07 A3009 RMK AO2 P0000 KHWO 190953Z AUTO 36003KT 10SM BKN040 16/13 A3008 RMK AO2 SLP186 T01560128 OYAR 190900Z 00000KT CAVOK 18/00 Q//// KJER 190953Z AUTO 07006KT 10SM FEW060 02/M03 A3011 RMK AO2 SLP205 T00171033 OYAT 191000Z 33012KT CAVOK 21/06 Q1024 KHYA 190956Z AUTO 28006KT 10SM BKN037 OVC055 02/M03 A2986 RMK AO2 SLP111 T00171028 KJES 191015Z AUTO 00000KT 10SM CLR 05/05 A3010 RMK AO2 KINS 190958Z AUTO 27004KT 10SM CLR 02/01 A3023 RMK AO2 SLP229 T00170006 KJFK 190951Z 31015KT 10SM FEW033 SCT055 SCT250 03/M04 A2999 RMK AO2 SLP155 T00331044 $ KINT 190954Z AUTO 34006KT 10SM OVC060 06/M05 A3011 RMK AO2 SLP196 T00561050 ZYTX 191030Z 01004MPS CAVOK M04/M13 Q1023 NOSIG ENAL 191020Z 18011KT 9999 SCT031 04/M00 Q0978 KHWV 190956Z AUTO 28004KT 10SM FEW033 OVC050 02/M03 A2996 RMK AO2 SLP145 T00221033 TSNO KINW 190956Z AUTO 21003KT 10SM CLR M04/M05 A3021 RMK AO2 SLP238 T10391050 ENAN 191020Z 16008KT 9999 FEW035 M03/M07 Q0981 NOSIG KJGG 191015Z AUTO 35003KT 10SM SCT090 00/M02 A3012 RMK AO1 KHWY 191015Z AUTO 00000KT 10SM BKN100 00/M02 A3011 RMK AO2 T00001021 KHYI 191035Z 02011KT 3SM SCT008 OVC014 10/08 A3004 RMK AO1 KIPJ 191015Z AUTO 00000KT 10SM CLR M01/M02 A3010 RMK AO2 T10151021 ENAT 190950Z 17008KT 140V220 9999 FEW015 SCT030 BKN048 M04/M09 Q0985 RMK WIND 700FT 19014KT KIPL 190953Z AUTO 30003KT 10SM CLR 08/06 A3019 RMK AO2 SLP222 T00780056 FDLB 191000Z AUTO 23003KT //// // ////// 28/18 Q1016 ENBL 191020Z 23007KT 170V300 9999 -SHSN FEW003 SCT010 BKN020 01/M00 Q0980 KIOW 190952Z AUTO 00000KT 10SM OVC049 M03/M07 A3031 RMK AO2 SLP271 T10331067 KHZE 191035Z AUTO 00000KT 6SM BR BKN110 M07/M08 A2994 RMK AO2 KIPN 191035Z AUTO 10014KT 10SM BKN024 BKN030 OVC038 22/17 A3004 RMK A01 KJFX 191035Z AUTO 00000KT 10SM OVC032 06/03 A3018 RMK A02 P-128 ENBN 191020Z VRB03KT 9999 FEW025 BKN050 02/M03 Q0978 ENBO 191020Z 07020KT CAVOK M01/M06 Q0979 NOSIG UTSA 191000Z 10010KT 5000 BR NSC 09/02 Q1024 R07/CLRD70 NOSIG KJFZ 191015Z AUTO 29004KT 10SM SCT014 OVC044 M01/M05 A3011 RMK AO2 T10151051 UTSB 191000Z 14010KT 9999 FEW033 11/02 Q1023 R01/CLRD70 NOSIG WBSB 191030Z 34005KT 9999 FEW015 FEW016CB BKN300 29/25 Q1009 NOSIG KHYR 190953Z AUTO 21007KT 10SM OVC008 M06/M08 A3025 RMK AO2 SLP264 T10611078 ENBR 191020Z 23011KT 9999 VCSH FEW015 SCT020TCU BKN032 04/02 Q0984 RMK WIND 1200FT /////KT KHYS 191035Z AUTO 00000KT 5SM OVC020 00/M04 A3016 RMK AO1 ENBS 190950Z 19006KT CAVOK M09/M16 Q0987 KIPT 190954Z AUTO 28006KT 10SM OVC032 01/M03 A3003 RMK AO2 SLP175 T00111033 OYDM 190900Z 15006KT CAVOK 18/M02 Q//// KHZL 191015Z AUTO 28007G14KT 7SM OVC004 M01/M02 A2998 RMK AO2 ENBV 190950Z 24009KT CAVOK M09/M12 Q0988 KHYW 191035Z AUTO 00000KT 7SM CLR 01/01 A3011 RMK AO2 ENCN 191020Z 24010KT 9999 VCSH FEW017CB SCT036 04/02 Q0990 RESHRA KHYX 191035Z AUTO 00000KT 10SM OVC020 M02/M06 A3024 RMK AO2 UTSK 191000Z 16006KT CAVOK 13/03 Q1024 R16/CLRD70 KHZR 191015Z AUTO 35009KT 1 3/4SM +VCTSRA BKN004 OVC007 12/12 A3006 RMK AO2 LTG DSNT ALQS P0017 T01170115 KIRK 191035Z AUTO 00000KT 7SM SCT026 OVC055 M02/M03 A3026 RMK AO2 T10171033 KJHW 191035Z 31011G15KT 7SM OVC005 M04/M06 A3006 RMK AO1 FDND 191000Z AUTO /////KT //// // ////// 30/19 Q1013 KHZX 191027Z AUTO 16004KT 10SM BKN008 OVC013 M06/M07 A3021 RMK AO2 KHZY 190953Z AUTO 32007KT 10SM OVC017 M01/M04 A3015 RMK AO2 SLP218 T10111044 UTSS 191000Z 14007KT 100V170 2500 BR FEW006 02/00 Q1025 R88/CLRD70 NOSIG RMK BASE660 UTST 191000Z 06014KT CAVOK 12/01 Q1027 R88/CLRD70 NOSIG ENDR 191020Z AUTO 21018KT 04/01 Q0976 KIRS 191034Z AUTO 27005KT 7SM SCT009 OVC028 M03/M04 A3021 RMK AO2 KJKA 191035Z AUTO 01004KT 10SM OVC035 12/07 A3010 RMK AO2 T01170073 FDMS 191000Z 07004KT 9999 SCT035 26/19 Q1016 NOSIG KM19 191007Z AUTO 05008KT 6SM BR FEW007 OVC040 04/03 A3024 RMK AO2 ENFB 191020Z AUTO 27023KT 9000NDV RA BKN017/// BKN180/// 03/00 Q0980 W///S6 ENEK 191020Z 26043KT 9999 VCSH SCT020CB SCT030 08/01 Q0996 W09/S6 KISM 190250Z 000000KT 10SM SKC 13/11 A3013 RMK LAST ENDU 191020Z 30002KT CAVOK M22/M24 Q0982 NOSIG FDMV 190900Z AUTO 31002KT //// // ////// 28/20 Q1020 KISN 191037Z AUTO 00000KT 1/4SM FZFG VV001 M05/M06 A2993 RMK AO2 I1001 T10501056 KISO 191015Z AUTO 00000KT 7SM BKN075 00/00 A3011 RMK AO2 T00001001 FEFF 191000Z VRB03KT 9999 FEW023 SCT300 31/22 Q1013 NOSIG KISP 190956Z AUTO 30007KT 10SM BKN038 OVC050 02/M03 A2994 RMK AO2 SLP139 T00221033 KM25 191055Z AUTO 00000KT 10SM OVC046 00/M01 A3026 RMK AO2 LBBG 191030Z 25005KT 210V270 0200 R22/0300N FG VV002 06/06 Q1022 R99/19//95 NOSIG FDMY 190900Z AUTO 05008KT //// // ////// ///// Q1022 ENFG 191020Z 19002KT 9999 FEW020 SCT060 M05/M06 Q0980 KISQ 191035Z AUTO 00000KT 10SM CLR M11/M12 A3026 RMK AO2 T11131121 KITH 191037Z AUTO 32012G15KT 10SM -SN BKN005 OVC011 M04/M04 A3003 RMK AO2 CIG 005V009 P0001 UTTT 191000Z 07003KT 020V150 7000 NSC 06/M00 Q1027 R88/19//60 NOSIG KJKJ 191032Z AUTO 16012KT 5SM BR OVC006 M04/M04 A3013 RMK AO2 KM30 191015Z AUTO 01004KT 5SM BR OVC046 01/00 A3025 RMK AO2 T00081005 OYHD 191000Z 20018KT 160V230 7000 NSC 29/23 Q1014 KJKL 190953Z AUTO 00000KT 10SM OVC055 M01/M04 A3019 RMK AO2 SLP234 T10111044 ENFL 191020Z 24014KT 9999 FEW010 SCT015CB BKN022 02/00 Q0980 ENGC 191020Z 27029KT 9999 5000S VCSH SCT020CB BKN050 05/00 Q0980 W07/S6 ENEV 190950Z 18005KT CAVOK M04/M10 Q0981 RMK WIND 1400FT 12010KT KISW 190954Z AUTO 00000KT 10SM OVC023 M06/M07 A3028 RMK AO2 SLP269 T10561072 FDNY 191000Z AUTO 12004KT //// // ////// 28/19 Q1024 OYHJ 191000Z 26008KT 9999 FEW020 20/13 Q//// KITR 190953Z AUTO 25007KT 10SM CLR M06/M08 A3009 RMK AO2 SLP203 T10611083 OYIB 190900Z 18005KT 9999 FEW025 22/08 Q1023 KM40 191035Z AUTO 00000KT 8SM OVC031 07/00 A3019 RMK AO2 FEFT 191000Z 16006KT 9999 FEW015 BKN150 28/22 Q1010 UUMO 191030Z 20003MPS 3100 -SN OVC010 00/M00 Q1004 NOSIG RMK QFE738/0984 26690242 ENHD 191020Z 25023G35KT 9999 SHRA SCT013CB BKN029 04/01 Q0987 ENGM 191020Z 19005KT 9999 FEW006 M02/M03 Q0984 NOSIG KJLN 190953Z AUTO 01005KT 1/4SM FG VV002 02/02 A3021 RMK AO2 SLP235 T00220017 ENHE 191020Z 23012KT 9999 VCSH SCT023CB 04/00 Q0974 W///S6 ENHF 190958Z 19009KT 110V240 9999 FEW035 M04/M08 Q0983 RMK WIND 1254FT 17019KT FDPP 190900Z AUTO 13003KT //// // ////// 19/M00 Q1022 UUOB 191030Z 21005MPS 4000 BR BKN013 BKN070 M02/M02 Q1013 11390055 NOSIG KIWA 191015Z AUTO 11006KT 10SM CLR 05/03 A3020 RMK AO2 ENHK 190550Z 15013KT 9999 FEW033 M02/M08 Q0984 KIWD 191035Z AUTO 09003KT 10SM BKN012 M16/M16 A3022 RMK AO1